Фактическая погода NOWCAST (расчётный прогноз на ближайшие 2 часа) AUTOTAF (расчётный прогноз на 9 часов) TAF (официальный синоптический прогноз)
Алматы
METAR UAAA 142300Z 22001MPS 3900 BR BKN100 08/06 Q1014 NOSIG


NOWCAST.SU UAAA 142300Z 07003MPS 9999 BKN270 10/08 Q1016 NOSIG
AUTOTAF.ME UAAA 141900Z 1420/1505 07003MPS CAVOK TX16/1505Z TN10/1423Z
TAF UAAA 141700Z 1418/1518 17003MPS 5000 BR FU SCT050CB OVC100 TX21/1510Z TN09/1503Z
TEMPO 1418/1502 22003G08MPS 2000
BECMG 1502/1504 01003MPS 9999 NSW
TEMPO 1508/1512 32005G10MPS
BECMG 1512/1513 16005MPS BKN050CB OVC100
TEMPO 1515/1518 21004G10MPS 3100 -SHRA BR BKN011CB OVC030=
Балхаш
METAR UAAH 141330Z 20003MPS CAVOK 14/M03 Q1013 NOSIG RMK QFE721/0961


NOWCAST.SU UAAH 142300Z VRB02MPS 9999 260 05/M01 Q1015 NOSIG
RMK TURB: MOD FL70/FL80
AUTOTAF.ME UAAH 141900Z 1420/1505 VRB02MPS 8000 HZ NSC TX15/1505Z TN05/1423Z
TAF UAAH 141112Z 1412/1421 22004MPS CAVOK=
Алматы (Боралдай)
SYNAR 36870 Алматы (Алма-Ата) 142100Z 00000MPS //// SKC 13/08 Q1016 RMK QFE687/0916 CLD:SKC
(160/14KM)


NOWCAST.SU UAAR 142300Z 07003MPS 9999 BKN270 10/08 Q1016 NOSIG
AUTOTAF.ME UAAR 141900Z 1420/1505 07003MPS CAVOK TX16/1505Z TN10/1422Z
BECMG 1500/1501 BR
BECMG 1501/1502 HZ
 
Талды-Корган
METAR UAAT 141230Z 22004MPS 9999 FEW050 BKN200 19/08 Q1013 NOSIG RMK QFE708/0945


NOWCAST.SU UAAT 142300Z VRB02MPS 9999 VCSH BKN080CB 08/05 Q1017 NOSIG
AUTOTAF.ME UAAT 141900Z 1420/1505 VRB02MPS 9999 VCSH BKN130CB TX20/1505Z TN08/1421Z
FM150000 VRB02MPS CAVOK
TAF AMD UAAT 141257Z 1412/1421 CNL=
Аягуз
SYNAR 36622 Аягоз 142100Z 24002MPS //// NSC 06/02 Q1016 RMK QFE704/0939 CLD:3AC


NOWCAST.SU UAAY 142300Z VRB02MPS 9999 OVC079 05/02 Q1017 NOSIG
AUTOTAF.ME UAAY 141900Z 1420/1505 20003MPS CAVOK TX15/1505Z TN05/1422Z
 
Нур-Султан
METAR UACC 142300Z 31003MPS 280V340 9999 SCT030 06/05 Q1012 NOSIG RMK QFE727/0970


NOWCAST.SU UACC 142300Z 33004MPS 9999 BKN047TCU 07/05 Q1015 NOSIG
RMK TURB: MOD SFC/FL40
AUTOTAF.ME UACC 141900Z 1420/1505 31005G12MPS 9999 BKN025TCU TX08/1420Z TN07/1421Z
BECMG 1423/1500 BKN015 BKN020TCU
BECMG 1500/1501 BKN008
BECMG 1501/1502 BKN015 BKN020TCU
TAF UACC 141708Z 1418/1518 31005MPS 9999 BKN020 BKN050 TX11/1510Z TN05/1501Z
TEMPO 1418/1503 35004MPS 2000 -SHRA BR BKN005 BKN015CB
BECMG 1503/1505 03005MPS
TEMPO 1503/1515 06005MPS SCT011 BKN020CB=
Кокшетау
METAR UACK 141100Z 29010G15MPS 8000 -SHRA BKN045CB 09/07 Q1003 NOSIG RMK QFE729/0972


NOWCAST.SU UACK 142300Z 30003MPS 9999 BKN013 02/00 Q1015 NOSIG
AUTOTAF.ME UACK 141900Z 1420/1505 32005G11MPS 9999 -RASN BKN025 TX04/1505Z TN02/1422Z
BECMG 1421/1422 BKN015
BECMG 1501/1502 BKN025
TAF AMD UACK 141411Z 1412/1421 CNL=
Петропавловск
METAR UACP 142300Z 35003MPS CAVOK M00/M04 Q1014 NOSIG RMK QFE748/0998


NOWCAST.SU UACP 142300Z 34003MPS 9999 SKC M01/M03 Q1016 NOSIG
AUTOTAF.ME UACP 141900Z 1420/1505 33003MPS 9999 BKN025 TX03/1505Z TNM01/1423Z
BECMG 1420/1421 NSC
BECMG 1501/1502 BKN025TCU
TAF UACP 142000Z 1421/1506 35004MPS 9999 FEW007 SCT030
TEMPO 1421/1502 VRB02MPS 5000 BR BKN004
TEMPO 1502/1506 3100 BR=
Тараз (Аулие-Ата)
METAR UADD 142300Z 22002MPS 8000 NSC 10/09 Q1012 NOSIG RMK QFE702/0937


NOWCAST.SU UADD 142300Z VRB02MPS 9999 VCSH BKN027CB 12/09 Q1014 NOSIG
AUTOTAF.ME UADD 141900Z 1420/1505 VRB02MPS 9999 VCSH BKN025CB TX17/1505Z TN11/1500Z
TEMPO 1424/1501 VCTS
BECMG 1500/1501 VCSH
TAF UADD 141702Z 1418/1518 35003G08MPS 9999 SCT050CB OVC100 TX17/1509Z TN08/1423Z
TEMPO 1418/1502 18003G08MPS 3100 BR
TEMPO 1505/1518 30005G10MPS -SHRA BKN030CB=
Толе-Би
SYNAR 38222 Толе Би 142100Z 00000MPS 9999 OVC020 12/09 Q1014 RMK QFE720/0960 CLD:8SC


NOWCAST.SU UADO 142300Z VRB02MPS 9999 VCSH BKN051CB 12/09 Q1014 NOSIG
AUTOTAF.ME UADO 141900Z 1420/1505 VRB02MPS 9999 VCSH BKN060CB TX21/1505Z TN12/1423Z
FM150000 VRB02MPS CAVOK
FM150500 04004MPS 9999 BKN060CB
 
 


NOSIG
 
Чимкент
METAR UAII 142300Z 09003MPS 060V130 6000 NSC 13/10 Q1010 NOSIG RMK QFE723/0964


NOWCAST.SU UAII 142300Z VRB02MPS 9999 BKN128 13/09 Q1012 NOSIG
AUTOTAF.ME UAII 141900Z 1420/1505 VRB02MPS 9999 VCSH BKN130CB TX18/1505Z TN12/1422Z
FM142100 VRB02MPS CAVOK
FM150100 VRB02MPS 9999 VCSH BKN110CB
TAF UAII 141714Z 1418/1518 12003G08MPS 6000 SCT040CB TX20/1509Z TN14/1502Z
TEMPO 1418/1504 06003G08MPS 1000 -TSRA BR SCT011 BKN030CB
FM150400 28004G09MPS 6000 -SHRA BKN033CB
TEMPO 1504/1514 22006G12MPS 1500 TSRA BR BKN003 BKN025CB
TEMPO 1514/1518 34003G08MPS 0500 TSRA FG BKN003 BKN020CB=
Туркестан
METAR UAIT 142300Z 06005MPS CAVOK 13/10 Q1011 NOSIG RMK QFE734/0978


NOWCAST.SU UAIT 142300Z 04004MPS 9999 BKN080 13/08 Q1014 NOSIG
RMK TURB: MOD FL50/FL60
AUTOTAF.ME UAIT 141900Z 1420/1505 04003MPS CAVOK TX19/1505Z TN13/1423Z
TAF UAIT 141700Z 1418/1518 03003G08MPS 9999 SCT040 TX22/1510Z TN13/1501Z
TEMPO 1418/1506 07005G10MPS BKN040CB
TEMPO 1506/1518 24007G12MPS 3100 -SHRA BKN020CB=
Жезказган
METAR UAKD 141730Z 23004MPS 9999 BKN030CB 12/07 Q1011 NOSIG RMK QFE725/0967


NOWCAST.SU UAKD 142300Z VRB02MPS 9999 OVC270 08/06 Q1015 NOSIG
RMK TURB: MOD FL50/FL70
AUTOTAF.ME UAKD 141900Z 1420/1505 VRB02MPS CAVOK TX15/1505Z TN08/1423Z
TAF UAKD 141404Z 1415/1424 25005MPS 9999 SCT040 BKN100
TEMPO 1415/1418 28005MPS -SHRA BKN030CB
TEMPO 1418/1424 34005MPS BKN030CB=
Караганда (Сары-Арка)
METAR UAKK 142300Z VRB01MPS 9999 SCT049CB 05/04 Q1011 NOSIG RMK QFE712/0949


NOWCAST.SU UAKK 142300Z 23004MPS 9999 BKN015 08/04 Q1014 NOSIG
AUTOTAF.ME UAKK 141900Z 1420/1505 21007MPS 9000 HZ BKN040 TX11/1505Z TN07/1500Z
BECMG 1422/1423 BKN015
BECMG 1500/1501 VRB02MPS
BECMG 1502/1503 BKN025TCU
TAF UAKK 141701Z 1418/1518 21003MPS 9999 SCT030 BKN100 TX15/1509Z TN07/1501Z
TEMPO 1418/1503 27005MPS 3100 -SHRA BR BKN020CB
BECMG 1503/1505 32005MPS
TEMPO 1507/1515 02005MPS SCT030=
Байконур (Крайний)
SYNAR 35952 Байконур (Акай) 142100Z 36002MPS //// //// 13/07 Q1014 RMK QFE751/1001 CLD:NO_OBSERVATIONS


NOWCAST.SU UAOL 142300Z 32003MPS 7000 BR FEW150 10/07 Q1015 NOSIG
AUTOTAF.ME UAOL 141900Z 1420/1505 29004MPS 7000 HZ NSC TX18/1505Z TN09/1500Z
BECMG 1420/1421 5000
BECMG 1421/1422 BR
FM150200 VRB02MPS 9000 HZ NSC
 
Байконур (Юбилейный)
SYNAR 35952 Байконур (Акай) 142100Z 36002MPS //// //// 13/07 Q1014 RMK QFE751/1001 CLD:NO_OBSERVATIONS
(180/49KM)


NOWCAST.SU UAON 142300Z 32003MPS 9000 BR FEW190 10/06 Q1015 NOSIG
RMK TURB: MOD FL70/FL80
AUTOTAF.ME UAON 141900Z 1420/1505 30004MPS 5000 HZ NSC TX17/1505Z TN09/1500Z
FM142300 32003MPS 9000 BR NSC
 
Кызылорда
METAR UAOO 142300Z 22001MPS CAVOK 10/M04 Q1012 NOSIG RMK QFE747/0997


NOWCAST.SU UAOO 142300Z 33004MPS 9999 FEW160 11/03 Q1014 NOSIG
RMK TURB: MOD FL50/FL60
AUTOTAF.ME UAOO 141900Z 1420/1505 30004MPS CAVOK TX20/1505Z TN11/1421Z
TAF UAOO 142000Z 1421/1506 24003MPS CAVOK
TEMPO 1503/1506 35003MPS=
Уральск (Ак-Жол)
METAR UARR 142300Z 15003MPS 9999 SCT046CB 05/02 Q1015 NOSIG RMK QFE758/1010


NOWCAST.SU UARR 142300Z VRB02MPS 9999 -RA OVC035 06/03 Q1015 NOSIG
AUTOTAF.ME UARR 141900Z 1420/1505 VRB02MPS CAVOK TX10/1505Z TN06/1423Z
BECMG 1420/1421 OVC040
BECMG 1422/1423 -RA
BECMG 1423/1500 -RA HZ
FM150100 16003MPS 9999 -RA OVC025
FM150200 15003MPS 9999 -DZ NSC
FM150300 15004MPS 9999 -RA OVC040
FM150400 14007MPS 9999 -RA BKN025
TAF UARR 142000Z 1421/1506 15006MPS 9999 BKN033CB
TEMPO 1423/1504 3100 -SHRA BR BKN011 BKN030CB
TEMPO 1504/1506 15007G12MPS=
Семипалатинск-2
SYNAR 36026 Новониколаевка 142100Z 14002MPS 9999 //// 10/03 Q1011 RMK QFE736/0981 CLD:NO_OBSERVATIONS
(10/54KM)


NOWCAST.SU UASD 142300Z 23005MPS 9999 BKN075 09/00 Q1012 NOSIG
AUTOTAF.ME UASD 141900Z 1420/1505 22005G13MPS CAVOK TX15/1504Z TN09/1422Z
BECMG 1502/1503 29006MPS
BECMG 1503/1504 BKN040TCU
 
Усть-Каменогорск
METAR UASK 142300Z 12003MPS 9999 NSC 05/M00 Q1014 NOSIG RMK QFE735/0981


NOWCAST.SU UASK 142300Z 12003MPS 9999 FEW200 04/M01 Q1016 NOSIG
AUTOTAF.ME UASK 141900Z 1420/1505 12003MPS CAVOK TX17/1505Z TN04/1422Z
TAF UASK 140801Z 1409/1418 21004MPS 9999 NSC
TEMPO 1409/1415 16004G09MPS=
Павлодар
METAR UASP 142200Z 28004MPS 9999 -SHRA SCT055CB 10/07 Q1008 NOSIG RMK QFE744/0993


NOWCAST.SU UASP 142300Z 28010G18MPS 9999 -RA BKN096 10/08 Q1011 NOSIG
AUTOTAF.ME UASP 141900Z 1420/1505 24005G13MPS CAVOK TX12/1420Z TN08/1502Z
BECMG 1421/1422 -RA BR
FM142300 28010G18MPS 9999 -RA NSC
FM150000 29011G18MPS 9999 BKN040TCU
FM150300 30011G16MPS 8000 BR BKN015 BKN020TCU
FM150400 30010G15MPS 9999 BKN040TCU
TAF UASP 142000Z 1421/1506 27005MPS 9999 BKN020CB
TEMPO 1421/1503 25010G15MPS 3100 -SHRA BKN011 BKN015CB
TEMPO 1503/1506 33010G17MPS=
Семей
METAR UASS 141400Z 15005MPS CAVOK 13/04 Q1010 NOSIG RMK QFE740/0986


NOWCAST.SU UASS 142300Z 20003MPS 9999 BKN085 08/01 Q1012 NOSIG
RMK TURB: MOD FL70/FL80
AUTOTAF.ME UASS 141900Z 1420/1505 21004MPS CAVOK TX15/1505Z TN08/1423Z
BECMG 1503/1504 OVC040
BECMG 1504/1505 31005MPS
TAF AMD UASS 141405Z 1415/1424 CNL=
Урджар
SYNAR 36639 Урджар 142100Z 00000MPS //// NSC 05/02 Q1017 RMK QFE718/0958 CLD:6AC


NOWCAST.SU UASU 142300Z VRB02MPS 9999 BKN067 08/04 Q1017 NOSIG
RMK TURB: MOD FL70/FL80
AUTOTAF.ME UASU 141900Z 1420/1505 VRB02MPS CAVOK TX17/1505Z TN08/1423Z
 
Аральск
SYNAR 35746 Аральск 142100Z 34003MPS //// SKC 10/08 Q1016 RMK QFE756/1008 CLD:SKC


NOWCAST.SU UATA 142300Z 02003MPS 9999 FEW250 10/05 Q1016 NOSIG
AUTOTAF.ME UATA 141900Z 1420/1505 36004MPS CAVOK TX13/1505Z TN09/1500Z
 
Актау
METAR UATE 142300Z 12002MPS CAVOK 08/05 Q1016 NOSIG RMK QFE760/1014


NOWCAST.SU UATE 142300Z VRB02MPS 9999 OVC240 11/08 Q1017 NOSIG
AUTOTAF.ME UATE 141900Z 1420/1505 VRB02MPS CAVOK TX13/1505Z TN09/1502Z
FM150100 VRB02MPS 0500 FG VV004
FM150500 24004MPS 9999 BKN008
TAF UATE 141701Z 1418/1518 24005MPS CAVOK TX20/1509Z TN08/1502Z
BECMG 1420/1422 VRB02MPS
TEMPO 1420/1503 2000 BR SCT003
BECMG 1505/1507 24006MPS=
Форт-Шевченко
SYNAR 38001 Форт-Шевченко 142100Z 14002MPS CAVOK 12/08 Q1017 RMK QFE765/1020 CLD:8AC


NOWCAST.SU UATF 142300Z 23003MPS 9000 BR BKN078 11/08 Q1017 NOSIG
AUTOTAF.ME UATF 141900Z 1420/1505 21004MPS 9999 BKN040 TX15/1505Z TN10/1502Z
BECMG 1420/1421 HZ
FM142200 23004MPS CAVOK
BECMG 1422/1423 BR
 
Атырау
METAR UATG 142300Z 15002MPS 5000 BR SCT007 BKN020CB 14/13 Q1014 NOSIG RMK QFE762/1017


NOWCAST.SU UATG 142300Z 20004MPS 9999 -RA BKN040 13/09 Q1015 NOSIG
AUTOTAF.ME UATG 141900Z 1420/1505 VRB02MPS 9999 -RA NSC TX14/1420Z TN12/1500Z
BECMG 1420/1421 BKN040
FM150100 20004MPS CAVOK
BECMG 1501/1502 BKN025
FM150300 20004MPS 9999 VCSH BKN004 BKN010CB
BECMG 1503/1504 BKN025CB
TAF UATG 141700Z 1418/1518 13005MPS 9999 BKN030CB TX18/1510Z TN10/1503Z
PROB40 TEMPO 1418/1424 TS
BECMG 1503/1505 20010MPS
TEMPO 1506/1512 -SHRA BKN011 BKN025CB=
Актобе
METAR UATT 142300Z 17002MPS CAVOK M01/M03 Q1016 NOSIG RMK QFE741/0989


NOWCAST.SU UATT 142300Z 16003MPS 9999 BKN132 05/01 Q1017 NOSIG
AUTOTAF.ME UATT 141900Z 1420/1505 VRB02MPS CAVOK TX08/1505Z TN04/1500Z
BECMG 1500/1501 BKN040
BECMG 1501/1502 NSC
BECMG 1502/1503 BKN040
FM150400 18004MPS CAVOK
TAF UATT 141700Z 1418/1518 04003MPS 9999 SCT033 TX12/1512Z TN03/1500Z
TEMPO 1422/1505 3100 BR BKN011=
Тенгиз
SYNAR 35715 Кульсары 142100Z 00000MPS 9999 BKN020 14/06 Q1019 RMK QFE762/1017 CLD:6SC
(30/67KM)


NOWCAST.SU UATZ 142300Z VRB02MPS 9999 -RA OVC045 13/10 Q1016 NOSIG
RMK TURB: MOD FL50/FL60
AUTOTAF.ME UATZ 141900Z 1420/1505 28006MPS 9999 VCSH OVC060CB TX14/1505Z TN12/1501Z
FM142100 29008MPS 5000 -SHRA BR OVC060CB
BECMG 1421/1422 2500
FM142300 VRB02MPS 9999 -RA OVC040
FM150100 VRB02MPS 2500 -RA BR NSC
BECMG 1503/1504 22005MPS
FM150500 19005MPS 9999 -RA BKN040
 
Аркалык (Северный)
SYNAR 35363 Аркалык 142100Z 03002MPS //// SKC 05/02 Q1011 RMK QFE728/0970 CLD:SKC
(220/14KM)


NOWCAST.SU UAUR 142300Z 05003MPS 9999 BKN030TCU 06/04 Q1016 NOSIG
AUTOTAF.ME UAUR 141900Z 1420/1505 02003MPS 9999 BKN025TCU TX08/1505Z TN05/1500Z
FM150100 06003MPS 7000 -RA BR BKN025
BECMG 1502/1503 NSC
BECMG 1503/1504 SCT040TCU
 
Костанай (Наримановка)
METAR UAUU 142300Z 15001MPS CAVOK 00/M00 Q1015 NOSIG RMK QFE745/0994


NOWCAST.SU UAUU 142300Z VRB02MPS 3000 BR BKN005 02/00 Q1017 NOSIG
AUTOTAF.ME UAUU 141900Z 1420/1505 VRB02MPS 9999 BKN025 TX07/1505Z TN02/1423Z
BECMG 1420/1421 BKN015
FM142300 VRB02MPS 2500 BR BKN004
FM150000 VRB02MPS 9999 BKN015
BECMG 1502/1503 NSC
BECMG 1503/1504 SCT040
TAF UAUU 142001Z 1421/1506 27005MPS 9999 SCT033
TEMPO 1421/1423 24003MPS 3100 BR BKN011
TEMPO 1423/1506 24003MPS 0300 FZFG VV002=
Baku Bine Arpt
METAR UBBB 142300Z 00000KT CAVOK 12/09 Q1017 NOSIG


NOWCAST.SU UBBB 142300Z 29008KT 9999 FEW230 12/09 Q1018 NOSIG
AUTOTAF.ME UBBB 141900Z 1420/1505 25008KT CAVOK TX12/1420Z TN11/1500Z
BECMG 1501/1502 31008KT
TAF UBBB 141659Z 1418/1518 25005KT CAVOK TX20/1510Z TN10/1502Z
BECMG 1422/1424 32005KT
TEMPO 1500/1504 VRB04KT 4000 BR SCT010
BECMG 1504/1506 35010KT FEW020
TEMPO 1508/1510 05005KT
BECMG 1515/1517 16005KT FEW012=
Gyandzha
METAR UBBG 142300Z 30012KT 9999 BKN100 14/08 Q1017 NOSIG


NOWCAST.SU UBBG 142300Z 33004KT 9999 -RA OVC035 14/08 Q1021 NOSIG
AUTOTAF.ME UBBG 141900Z 1420/1505 35004KT 9999 -SHRA OVC025CB TX15/1420Z TN12/1502Z
BECMG 1422/1423 -RA
FM150500 05004KT 5000 OVC025CB
TAF UBBG 141700Z 1418/1518 30010KT 9999 SCT040 BKN080 TX18/1512Z TN13/1502Z
TEMPO 1418/1421 VRB12KT SCT030CB BKN060=
Lenkoran
METAR UBBL 142300Z 00000KT 6000 SCT006 11/11 Q1018 NOSIG


NOWCAST.SU UBBL 142300Z 14008KT 9999 BKN260 12/06 Q1018 NOSIG
AUTOTAF.ME UBBL 141900Z 1420/1505 15010KT CAVOK TX14/1505Z TN12/1420Z
BECMG 1501/1502 13004KT
TAF UBBL 141701Z 1418/1518 VRB04KT 9999 SCT050 TX19/1510Z TN10/1502Z
TEMPO 1418/1420 16008KT 6000 SCT010
TEMPO 1420/1504 3000 BR SCT007
BECMG 1506/1508 06005KT
TEMPO 1508/1512 09008KT
BECMG 1512/1514 16008KT
TEMPO 1515/1518 VRB04KT BKN020=
Nakhchivan
METAR UBBN 142300Z 36006KT 9999 FEW046CB SCT100 10/08 Q1015 NOSIG RMK QFE686


NOWCAST.SU UBBN 142300Z 31004KT 9999 SCT020CB 09/06 Q1019 TEMPO VCSH TEMPO TL0000 VCSH
AUTOTAF.ME UBBN 141900Z 1420/1505 28004KT 9999 OVC080CB TX11/1420Z TN08/1502Z
TEMPO 1420/1421 VCTS
BECMG 1420/1421 -SHRA
TEMPO 1423/1502 VCTS
BECMG 1501/1502 VCSH
TAF UBBN 141655Z 1418/1518 VRB04KT 9999 FEW046CB BKN100 TX20/1512Z TN09/1502Z
PROB40 TEMPO 1418/1422 24012KT -TSRA SCT043CB BKN083
TEMPO 1422/1506 05008KT -SHRA
OSDI 141700Z 1418/1524 02004KT 9999 FEW030 SCT100
TEMPO 1509/1518 24015G25KT 6000 SHRA FEW025CB SCT030 BKN090
OSAP 141700Z 1418/1518 VRB03KT CAVOK
BECMG 1508/1510 32006KT 9999 FEW030
OSLK 141700Z 1418/1518 27012KT 7000 FEW026CB SCT030
BECMG 1508/1510 28015KT CAVOK=
METAR UCFL 142300Z VRB01MPS 9999 SCT030CB 08/06 Q1017


NOSIG
TAF UCFL 141649Z 1418/1518 35003G08MPS 9999 SCT030CB BKN100
TEMPO 1418/1502 25003G08MPS 4000 -SHRA BKN015CB
BECMG 1506/1508 14003G08MPS=
Bishkek Manas
METAR UCFM 142300Z 12001MPS 5000 BR FEW066CB 10/10 Q1012 NOSIG


NOWCAST.SU UCFM 142300Z VRB02MPS 9999 FEW310 12/09 Q1015 NOSIG
AUTOTAF.ME UCFM 141900Z 1420/1505 VRB02MPS CAVOK TX17/1505Z TN12/1423Z
FM150300 VRB02MPS 9999 VCSH BKN025CB
TAF UCFM 141700Z 1418/1518 13003G08MPS 9999 SCT040CB BKN100
TEMPO 1418/1421 24003G08MPS 2000 BR FU FEW004
TEMPO 1421/1504 VRB05G12MPS 1300 -TSRA BR FEW003 BKN020CB
BECMG 1504/1506 30003G08MPS
TEMPO 1504/1510 24003G08MPS 3000 FU FEW010
TEMPO 1510/1518 VRB12G17MPS 2000 TSRAGR BLDU BKN013CB=
Osh
METAR UCFO 142300Z 27002MPS 9999 FEW050 15/10 Q1011 NOSIG


NOWCAST.SU UCFO 142300Z VRB02MPS 9999 BKN035 11/08 Q1017 NOSIG
AUTOTAF.ME UCFO 141900Z 1420/1505 VRB02MPS CAVOK TX17/1505Z TN11/1422Z
BECMG 1422/1423 BKN040
FM150500 30003MPS 9999 VCSH BKN040CB
TAF UCFO 141641Z 1418/1518 18003G08MPS 6000 SCT030CB BKN100
TEMPO 1418/1424 27008G13MPS 2000 BR SCT003 BKN020CB
PROB40 TEMPO 1418/1424 -TSRA
BECMG 1500/1502 32003G08MPS
TEMPO 1500/1506 27007G12MPS 2000 SHRA BR SCT003 BKN015CB=
Shirak
METAR UDSG 142300Z 03010KT 9999 SCT049 07/00 Q1019 NOSIG


NOWCAST.SU UDSG 142300Z 01004KT 4000 -SHRA HZ OVC021CB 05/01 Q1027 NOSIG
AUTOTAF.ME UDSG 141900Z 1420/1505 02006KT 1200 BKN025CB TX06/1420Z TN03/1503Z
TEMPO 1420/1421 TSRA
FM142100 01004KT 0500 +SHRA BKN025CB
FM142200 01004KT 1200 SHRA BKN025CB
FM142300 01004KT 5000 -SHRA HZ OVC025CB
BECMG 1423/1500 VCSH HZ
FM150200 01004KT 9999 BR NSC
FM150300 01004KT 9999 VCSH BKN040CB
FM150400 VRB02KT CAVOK
TAF UDSG 141710Z 1418/1518 VRB06KT 9999 SCT040
TEMPO 1418/1422 34016KT -TSRA BKN030CB=
Zvartnots
METAR UDYZ 142300Z VRB03KT 9999 FEW043CB 11/07 Q1016 NOSIG


NOWCAST.SU UDYZ 142300Z VRB02KT 9999 BKN037CB 10/05 Q1018 TEMPO VCSH TEMPO TL0000 VCSH
AUTOTAF.ME UDYZ 141900Z 1420/1505 29004KT 9999 OVC080CB TX12/1505Z TN09/1502Z
TEMPO 1420/1421 TS
TEMPO 1421/1422 VCTS
BECMG 1421/1422 VCSH
TEMPO 1423/1424 VCTS
BECMG 1423/1500 VCSH
TEMPO 1501/1502 VCTS
BECMG 1501/1502 VCSH
FM150300 VRB02KT 9999 -SHRA OVC040CB
TEMPO 1504/1506 VCTS
TAF UDYZ 141700Z 1418/1518 04006KT 9999 SCT040
TEMPO 1418/1424 VRB16G26KT -SHRA BKN020CB=
Батагай
SYNAR 24263 Батагай 142100Z 12002MPS CAVOK M14/M24 Q1017 RMK QFE743/0991 CLD:8ACCS


NOWCAST.SU UEBB 142300Z VRB02MPS 9999 SCT105 M14/M18 Q1017 NOSIG
AUTOTAF.ME UEBB 141900Z 1420/1505 VRB02MPS CAVOK TXM05/1505Z TNM20/1420Z
BECMG 1500/1501 BKN025
 
Саккырыр
SYNAR 24261 Батагай-Алыта 142100Z 00000MPS CAVOK M14/M21 Q1013 RMK QFE716/0955 CLD:8ASCS


NOWCAST.SU UEBS 142300Z VRB02MPS 9999 OVC040 M14/M18 Q1011 NOSIG
AUTOTAF.ME UEBS 141900Z 1420/1505 VRB02MPS CAVOK TXM07/1504Z TNM18/1420Z
BECMG 1421/1422 OVC025
BECMG 1423/1500 NSC
 
Талакан
SYNAR 24928 Комака 142100Z 00000MPS CAVOK M18/M20 Q1011 RMK QFE731/0975 CLD:SKC
(40/56KM)


NOWCAST.SU UECT 142300Z 16003MPS 9999 OVC012 M06/M09 Q1010 NOSIG
AUTOTAF.ME UECT 141900Z 1420/1505 VRB02MPS CAVOK TXM00/1505Z TNM09/1420Z
BECMG 1422/1423 OVC015
BECMG 1423/1500 BKN025
FM150200 17005G13MPS 7000 DRSN BKN015
FM150300 17005G13MPS 0500 BLSN BKN015
FM150400 18005G13MPS 0500 SN BLSN OVC008
BECMG 1504/1505 NSC
 
Алдан
SYNAR 31004 Алдан 142100Z 00000MPS CAVOK M13/M17 Q1014 RMK QFE700/0934 CLD:8ACCS


NOWCAST.SU UEEA 142300Z VRB02MPS 9999 BKN010 M10/M13 Q1013 NOSIG
AUTOTAF.ME UEEA 141900Z 1420/1505 VRB02MPS 7000 BR NSC TXM03/1504Z TNM14/1420Z
FM142200 VRB02MPS 0500 FZFG VV002
FM142300 VRB02MPS 9999 BKN008
BECMG 1423/1500 NSC
BECMG 1500/1501 BKN040
 
Себян-Кюель
SYNAR 24462 Себян-Кюель 142100Z 27001MPS CAVOK M21/M26 Q1016 RMK QFE693/0924 CLD:8ACCI


NOWCAST.SU UEED 142300Z 25003MPS 9999 OVC107 M16/M21 Q1011 NOSIG
AUTOTAF.ME UEED 141900Z 1420/1505 26003MPS CAVOK TXM09/1505Z TNM22/1420Z
 
Якутск
METAR UEEE 142300Z 00000MPS CAVOK M13/M21 Q1022 R23/09//60 NOSIG RMK QFE758


NOWCAST.SU UEEE 142300Z VRB02MPS 8000 BR SKC M14/M17 Q1024 NOSIG
AUTOTAF.ME UEEE 141900Z 1420/1505 VRB02MPS 2500 BR NSC TXM03/1505Z TNM21/1420Z
BECMG 1421/1422 5000
FM150000 VRB02MPS 9999 BKN015
BECMG 1500/1501 NSC
BECMG 1501/1502 BKN025TCU
TAF UEEE 142000Z 1421/1603 32003MPS CAVOK=
Покровск
SYNAR 24856 Покровск 142100Z 24001MPS CAVOK M22/M26 Q1023 RMK QFE755/1007 CLD:SKC


NOWCAST.SU UEEP 142300Z VRB02MPS 6000 BR SKC M14/M17 Q1023 NOSIG
AUTOTAF.ME UEEP 141900Z 1420/1505 VRB02MPS 0200 FG IC BKN002 TXM03/1504Z TNM21/1420Z
FM142300 VRB02MPS 5000 BR NSC
FM150000 VRB02MPS 9000 HZ NSC
BECMG 1501/1502 BKN025TCU
BECMG 1503/1504 NSC
 
Чульман
SYNAR 30393 Нерюнгри 142100Z 34001MPS 9999 SCT020 M08/M11 Q1010 RMK QFE682/0910 CLD:8SCACCI


NOWCAST.SU UELD 142300Z VRB02MPS 9999 BKN028 M08/M11 Q1011 NOSIG
AUTOTAF.ME UELD 141900Z 1420/1505 VRB02MPS 9999 BKN025 TXM02/1504Z TNM10/1420Z
 
Нерюнгри (Чульман)
SYNAR 30393 Нерюнгри 142100Z 34001MPS 9999 SCT020 M08/M11 Q1010 RMK QFE682/0910 CLD:8SCACCI


NOWCAST.SU UELL 142300Z VRB02MPS 9999 BKN028 M08/M11 Q1011 NOSIG
AUTOTAF.ME UELL 141900Z 1420/1505 VRB02MPS 9999 BKN025 TXM02/1504Z TNM10/1420Z
 
Оймякон
SYNAR 24688 Оймякон 142100Z 07001MPS CAVOK M25/M29 Q1018 RMK QFE698/0931 CLD:SKC


NOWCAST.SU UEMJ 142300Z VRB02MPS 9999 FEW250 M17/M20 Q1016 NOSIG
AUTOTAF.ME UEMJ 141900Z 1420/1505 VRB02MPS 0200 FG IC BKN002 TXM08/1504Z TNM22/1420Z
FM142200 VRB02MPS 9999 BKN008
BECMG 1422/1423 NSC
BECMG 1502/1503 BKN025TCU
 
Маган
SYNAR 24959 Якутск 142100Z 00000MPS CAVOK M18/M22 Q1023 RMK QFE757/1010 CLD:SKC
(170/12KM)


NOWCAST.SU UEMM 142300Z VRB02MPS 6000 BR SKC M13/M15 Q1023 NOSIG
AUTOTAF.ME UEMM 141900Z 1420/1505 VRB02MPS 5000 BR NSC TXM04/1504Z TNM20/1420Z
BECMG 1423/1500 HZ
FM150100 VRB02MPS 9999 BKN015 BKN020TCU
BECMG 1502/1503 BKN025TCU
 
Олёкминск
SYNAR 24944 Олекминск 142100Z 07001MPS CAVOK M12/M16 Q1007 RMK QFE734/0979 CLD:3CI


NOWCAST.SU UEMO 142300Z VRB02MPS 9999 SCT210 M09/M12 Q1018 NOSIG
AUTOTAF.ME UEMO 141900Z 1420/1505 VRB02MPS 0200 FZFG NSC TX02/1505Z TNM13/1420Z
FM142200 VRB02MPS 7000 BR NSC
BECMG 1423/1500 BKN015
BECMG 1500/1501 NSC
BECMG 1501/1502 BKN025TCU
 
Усть-Мая
SYNAR 24966 Усть-Мая 142100Z 00000MPS CAVOK M15/M21 Q1020 RMK QFE749/0999 CLD:5ACCI


NOWCAST.SU UEMU 142300Z VRB02MPS 9999 BKN013 M10/M14 Q1021 NOSIG
AUTOTAF.ME UEMU 141900Z 1420/1505 VRB02MPS 1200 BR OVC004 TXM02/1504Z TNM17/1420Z
FM142200 VRB02MPS CAVOK
BECMG 1422/1423 BKN015
BECMG 1500/1501 BKN025TCU
 
Верхневилюйск
SYNAR 24644 Верхневилюйск 142100Z 17002MPS //// //// M13/M24 Q1017 RMK QFE752/1003 CLD:NO_OBSERVATIONS


NOWCAST.SU UENI 142300Z VRB02MPS 9999 BKN020 M10/M13 Q1018 NOSIG
AUTOTAF.ME UENI 141900Z 1420/1505 VRB02MPS 1200 BR OVC004 TX01/1505Z TNM16/1420Z
FM142200 VRB02MPS CAVOK
BECMG 1422/1423 BKN025
BECMG 1423/1500 BKN015
BECMG 1500/1501 BKN025
FM150200 17003MPS 9999 BKN015 BKN020TCU
 
Нюрба
SYNAR 24639 Нюрба 142100Z 00000MPS CAVOK M23/M26 Q1016 RMK QFE750/1001 CLD:3CI


NOWCAST.SU UENN 142300Z VRB02MPS 9999 BKN013 M11/M14 Q1016 NOSIG
AUTOTAF.ME UENN 141900Z 1420/1505 VRB02MPS 1200 BR OVC004 TX01/1505Z TNM17/1420Z
FM142100 VRB02MPS 7000 BR NSC
BECMG 1421/1422 BKN008
FM142300 VRB02MPS 9999 BKN015
BECMG 1502/1503 BKN025TCU
BECMG 1503/1504 BKN015 BKN020TCU
 
Айхал
SYNAR 24322 Полярный 142100Z 18004MPS CAVOK M05/M13 Q1004 RMK QFE708/0945 CLD:8ACCI
(20/94KM)


NOWCAST.SU UERA 142300Z 17005G13MPS 5000 BLSN BKN068 M08/M10 Q1002 NOSIG
RMK TURB: MOD SFC/FL50
AUTOTAF.ME UERA 141900Z 1420/1505 16004MPS 2500 BR NSC TXM03/1504Z TNM10/1420Z
FM142300 17005G13MPS 5000 BLSN NSC
FM150000 18009G17MPS 7000 DRSN NSC
BECMG 1500/1501 9999
FM150200 19012G20MPS 2500 BLSN NSC
BECMG 1502/1503 OVC040
FM150400 19014G20MPS 2500 BLSN NSC
 
Ленск
SYNAR 24923 Ленск 142100Z 33001MPS CAVOK M17/M19 Q1014 RMK QFE738/0985 CLD:2CI


NOWCAST.SU UERL 142300Z VRB02MPS 9999 FEW150 M10/M13 Q1013 NOSIG
AUTOTAF.ME UERL 141900Z 1420/1505 VRB02MPS 5000 BR NSC TX02/1505Z TNM15/1420Z
FM142200 VRB02MPS CAVOK
FM150000 VRB02MPS 7000 HZ NSC
BECMG 1504/1505 OVC015
 
Полярный
METAR UERP 142300Z 15004MPS 4000 -SHSN BKN007CB OVC100 M07/M09 Q1001 R17/820155 NOSIG RMK QFE707


NOWCAST.SU UERP 142300Z 15004MPS 9999 BKN026 M07/M09 Q1002 NOSIG
RMK TURB: MOD SFC/FL40
AUTOTAF.ME UERP 141900Z 1420/1505 16004MPS 9999 BKN040 TXM01/1504Z TNM09/1420Z
BECMG 1501/1502 18010G16MPS
FM150400 18012G17MPS 2500 BLSN BKN015 BKN020TCU
BECMG 1504/1505 SN BLSN
TAF AMD UERP 142140Z 1422/1521 18005G12MPS 6000 -SHSN DRSN BKN012CB OVC100
TEMPO 1422/1506 1000 SHSN BLSN VV004=
Мирный
METAR UERR 142300Z 18003MPS CAVOK M08/M15 Q1009 R25/810560 NOSIG RMK QFE726/0968


NOWCAST.SU UERR 142300Z 17003MPS 9999 SCT110 M10/M12 Q1012 NOSIG
AUTOTAF.ME UERR 141900Z 1420/1505 VRB02MPS 1200 BR OVC004 TX01/1505Z TNM14/1420Z
FM142300 17003MPS CAVOK
BECMG 1501/1502 BKN015 BKN020TCU
TAF UERR 142000Z 1421/1521 18003G08MPS 9999 SCT020=
Саскылах
SYNAR 21802 Саскылах 142100Z 01001MPS CAVOK M17/M19 Q1004 RMK QFE751/1002 CLD:8AC


NOWCAST.SU UERS 142300Z 10004MPS 0500 FZFG VV001 M10/M11 Q1002 NOSIG
AUTOTAF.ME UERS 141900Z 1420/1505 VRB02MPS 0500 FZFG VV002 TXM05/1505Z TNM11/1420Z
BECMG 1420/1421 OVC004
BECMG 1422/1423 OVC002
BECMG 1423/1500 OVC004
FM150300 12005MPS 0500 FZFG VV008
FM150400 11005MPS 0500 FZFG BKN004
 
Оленегорск
SYNAR 21946 Чокурдах 142100Z 26002MPS CAVOK M26/M29 Q1015 RMK QFE756/1008 CLD:6ACCI
(10/91KM)


NOWCAST.SU UESN 142300Z VRB02MPS 4000 BR BKN029 M17/M19 Q1018 NOSIG
AUTOTAF.ME UESN 141900Z 1420/1505 VRB02MPS 5000 BR BKN040 TXM10/1505Z TNM18/1420Z
BECMG 1423/1500 2500
BECMG 1503/1504 1200
FM150500 27003MPS 0500 FZFG BKN015
 
Чокурдах
SYNAR 21946 Чокурдах 142100Z 26002MPS CAVOK M26/M29 Q1015 RMK QFE756/1008 CLD:6ACCI


NOWCAST.SU UESO 142300Z 24003MPS 9999 SKC M22/M26 Q1018 NOSIG
AUTOTAF.ME UESO 141900Z 1420/1505 VRB02MPS CAVOK TXM16/1505Z TNM24/1420Z
BECMG 1502/1503 BKN025
FM150500 VRB02MPS 9999 HZ BKN015
 
Черский
SYNAR 25123 Черский 142100Z 12006MPS CAVOK M21/M26 Q1017 RMK QFE759/1013 CLD:SKC


NOWCAST.SU UESS 142300Z 19005MPS 0500 FZFG SKC M17/M20 Q1019 NOSIG
AUTOTAF.ME UESS 141900Z 1420/1505 16005MPS 1200 FG IC VV002 TXM12/1503Z TNM24/1420Z
FM142100 17005MPS 1200 BR OVC008
FM142300 19005MPS 0500 FZFG NSC
BECMG 1423/1500 OVC008
FM150100 23009G14MPS 0500 SN BLSN OVC015
BECMG 1501/1502 OVC025
BECMG 1504/1505 1200
 
Тикси
SYNAR 21824 Тикси 142100Z 23007MPS 9999 DRSN NSC M10/M13 Q1010 RMK QFE757/1009 CLD:8AC
(180/13KM)


NOWCAST.SU UEST 142300Z 23010G17MPS 9999 OVC020 M09/M12 Q1010 NOSIG
RMK TURB: MOD SFC/FL30
AUTOTAF.ME UEST 141900Z 1420/1505 23008G15MPS CAVOK TXM06/1505Z TNM11/1420Z
BECMG 1420/1421 OVC015
BECMG 1422/1423 OVC025
FM150500 24012G18MPS 2500 BLSN OVC040
 
Kopitnari
METAR UGKO 142300Z VRB02KT 9999 SCT015 BKN025 10/10 Q1021 NOSIG


NOWCAST.SU UGKO 142300Z VRB02KT 0500 RA FG BKN026 10/10 Q1023 NOSIG
AUTOTAF.ME UGKO 141900Z 1420/1505 VRB02KT 0500 RA FG BKN025 TX12/1505Z TN10/1423Z
FM150100 VRB02KT 2500 -RA BR OVC025
BECMG 1501/1502 5000
BECMG 1503/1504 9000
BECMG 1504/1505 BR
TAF UGKO 141700Z 1418/1518 26007KT 9999 BKN050 TX20/1511Z TN11/1503Z
TEMPO 1422/1504 3000 RA BR OVC030
BECMG 1508/1511 CAVOK=
Batumi
METAR UGSB 142300Z 14008KT 9999 BKN070 11/09 Q1022 NOSIG


NOWCAST.SU UGSB 142300Z 18004KT 9999 BKN049 12/10 Q1023 NOSIG
AUTOTAF.ME UGSB 141900Z 1420/1505 VRB02KT 9999 OVC025 TX13/1505Z TN11/1503Z
BECMG 1501/1502 NSC
BECMG 1504/1505 BKN025
TAF UGSB 141700Z 1418/1518 21010KT 9999 FEW030 BKN075 TX17/1512Z TN11/1503Z
BECMG 1419/1422 12008KT
PROB40 TEMPO 1500/1506 SCT010
BECMG 1505/1506 36007KT CAVOK=
Tbilisi Novo-al
METAR UGTB 142300Z 31018KT CAVOK 12/07 Q1018 NOSIG


NOWCAST.SU UGTB 142300Z 33016KT 9999 BKN050 12/07 Q1019 NOSIG
AUTOTAF.ME UGTB 141900Z 1420/1505 33016KT CAVOK TX13/1505Z TN11/1502Z
BECMG 1423/1500 33008KT
BECMG 1500/1501 BKN040
TAF UGTB 141700Z 1418/1518 31022KT 9999 SCT065 TX20/1512Z TN11/1503Z
BECMG 1508/1510 31012KT=
Благовещенск (Игнатьево)
METAR UHBB 142300Z VRB01MPS 5000 BR BKN033CB 09/08 Q1003 R36R/090063 NOSIG RMK QFE735/0980


NOWCAST.SU UHBB 142300Z VRB02MPS 9999 BKN026CB 13/11 Q1003 TEMPO -SHRA TEMPO TL0000 -SHRA
AUTOTAF.ME UHBB 141900Z 1420/1505 VRB02MPS 9999 BKN015CB TX17/1504Z TN11/1421Z
TEMPO 1420/1421 -TSRA
BECMG 1420/1421 -SHRA
FM142200 VRB02MPS 9999 SCT025CB
TEMPO 1422/1424 -TSRA
TEMPO 1424/1501 VRB14G19MPS -TSRA
TEMPO 1501/1504 VCTS
TEMPO 1504/1505 TS
BECMG 1504/1505 NSW
TAF UHBB 141943Z 1421/1521 18004G10MPS 9999 BKN030CB
TEMPO 1421/1515 3100 -SHRA SCT011 BKN020CB
BECMG 1513/1515 36005G12MPS=
Зея
SYNAR 31300 Зея 142100Z 09001MPS //// //// 04/01 Q1006 RMK QFE733/0978 CLD:NO_OBSERVATIONS


NOWCAST.SU UHBE 142300Z VRB02MPS 9999 BKN013 04/02 Q1006 NOSIG
AUTOTAF.ME UHBE 141900Z 1420/1505 VRB02MPS 9999 BKN015 TX07/1505Z TN02/1420Z
FM142100 VRB02MPS 5000 BR BKN015
FM142200 VRB02MPS 9999 BKN015
BECMG 1500/1501 -RA
BECMG 1501/1502 OVC025
BECMG 1503/1504 OVC002
FM150500 VRB02MPS 8000 -RA BR OVC002
 
Февральск
SYNAR 31388 Норск 142100Z 01001MPS 0500 FG OVC020CB 06/06 Q1005 RMK QFE735/0980 CLD:8CB
(260/71KM)


NOWCAST.SU UHBF 142300Z VRB02MPS 2200 VCSH BR BKN005 BKN010CB 10/10 Q1005 NOSIG
AUTOTAF.ME UHBF 141900Z 1420/1505 VRB02MPS 2500 VCSH BR BKN004 BKN010CB TX13/1504Z TN10/1420Z
FM150100 VRB02MPS 2500 -SHRA BR OVC025CB
 
Свободный
SYNAR 31442 Шимановск 142100Z 00000MPS 9999 -SHRA OVC020CB 05/04 Q1005 RMK QFE729/0972 CLD:8CB
(330/68KM)


NOWCAST.SU UHBS 142300Z 03003MPS 4000 BKN031CB 10/09 Q1004 TEMPO VRB11G16MPS -SHRA TEMPO TL0000 VRB11G16MPS -SHRA
AUTOTAF.ME UHBS 141900Z 1420/1505 35003MPS 2500 BKN025CB TX12/1502Z TN09/1421Z
TEMPO 1420/1422 -TSRA
TEMPO 1422/1424 VRB11G16MPS -TSRA
BECMG 1422/1423 5000
TEMPO 1424/1502 VRB14G19MPS -TSRA
BECMG 1500/1501 BKN004 BKN010CB
TEMPO 1502/1504 VRB11G16MPS -TSRA
FM150300 01003MPS 9999 OVC040CB
BECMG 1503/1504 -SHRA BR
FM150500 03003MPS 5000 -SHRA OVC025CB
 
Тында
SYNAR 30499 Тында 142100Z 00000MPS CAVOK M02/M05 Q1008 RMK QFE709/0946 CLD:8AC
(220/16KM)


NOWCAST.SU UHBW 142300Z 36003MPS 1900 BR BKN025TCU M02/M05 Q1009 NOSIG
AUTOTAF.ME UHBW 141900Z 1420/1505 36003MPS 2500 -SN BR OVC040 TX02/1505Z TNM03/1420Z
FM142100 35003MPS 5000 BR OVC040
BECMG 1421/1422 2500
FM150000 36003MPS 1200 FZFG BKN025TCU
BECMG 1500/1501 0500
BECMG 1501/1502 +SN FG
FM150300 36003MPS 1200 SN BR OVC025
FM150400 VRB02MPS 8000 -SN BR OVC025
 
Билибино (Купол-1)
 


NOWCAST.SU UHED 142300Z 32005MPS 9999 BKN028TCU M17/M20 Q1010 NOSIG
RMK TURB: MOD FL40/FL50
AUTOTAF.ME UHED 141900Z 1420/1505 34003MPS 0500 +SN FZFG VV025 TXM17/1421Z TNM18/1420Z
FM142100 33003MPS 2500 BR BKN025TCU
BECMG 1421/1422 8000
BECMG 1501/1502 32008MPS
 
Купол
 


NOWCAST.SU UHEK 142300Z 32005MPS 8000 BR BKN028TCU M17/M20 Q1010 NOSIG
RMK TURB: MOD FL40/FL50
AUTOTAF.ME UHEK 141900Z 1420/1505 34003MPS 0500 +SN FZFG VV025 TXM17/1421Z TNM18/1420Z
FM142100 33003MPS 2500 BR BKN025TCU
BECMG 1421/1422 5000
FM150000 32006MPS 9999 BKN025TCU
BECMG 1501/1502 32008MPS
 
Новая Кубака
SYNAR 25627 Лабазная 142100Z 18002MPS CAVOK M20/M23 Q1014 RMK QFE697/0930 CLD:SKC
(240/86KM)


NOWCAST.SU UHGK 142300Z 32003MPS 9999 SKC M16/M20 Q1012 NOSIG
AUTOTAF.ME UHGK 141900Z 1420/1505 30003MPS CAVOK TXM13/1504Z TNM20/1420Z
BECMG 1502/1503 BKN015 BKN020TCU
BECMG 1504/1505 BKN025TCU
 
Глухариное
SYNAR 25503 Коркодон 142100Z 25001MPS CAVOK M23/M29 Q1022 RMK QFE757/1010 CLD:SKC
(130/47KM)


NOWCAST.SU UHGL 142300Z VRB02MPS 9999 SKC M14/M19 Q1019 NOSIG
AUTOTAF.ME UHGL 141900Z 1420/1505 VRB02MPS CAVOK TXM09/1504Z TNM20/1420Z
 
Биробиджан (Желтый Яр)
SYNAR 31713 Биробиджан 142100Z 00000MPS 0500 FG FEW020CB 04/03 Q1010 RMK QFE750/1000 CLD:6CBACCI
(330/20KM)


NOWCAST.SU UHHB 142300Z VRB02MPS 9999 OVC300 17/07 Q1010 NOSIG
RMK TURB: MOD FL70/FL80
AUTOTAF.ME UHHB 141900Z 1420/1505 VRB02MPS CAVOK TX24/1503Z TN12/1420Z
 
Бриакан
SYNAR 31418 Веселая Горка 142100Z 00000MPS 9999 FEW020 07/M00 Q1008 RMK QFE738/0984 CLD:8SCACCI


NOWCAST.SU UHHE 142300Z 01003MPS 8000 HZ BKN021 10/04 Q1009 NOSIG
AUTOTAF.ME UHHE 141900Z 1420/1505 VRB02MPS 5000 HZ BKN015 TX14/1503Z TN07/1420Z
BECMG 1420/1421 BKN008
BECMG 1421/1422 BKN015
BECMG 1422/1423 BKN025
FM150000 01004MPS 9999 BKN025
FM150300 36004MPS 9999 VCSH BKN040CB
 
Хабаровск (Новый)
METAR UHHH 142300Z 21004MPS CAVOK 21/02 Q1011 R88/090060 NOSIG RMK QFE752/1002


NOWCAST.SU UHHH 142300Z 20003MPS 9999 HZ SCT300 18/05 Q1011 NOSIG
AUTOTAF.ME UHHH 141900Z 1420/1505 VRB02MPS 9000 HZ NSC TX24/1504Z TN15/1420Z
BECMG 1502/1503 20007MPS
TAF AMD UHHH 142154Z 1422/1603 27003MPS CAVOK
BECMG 1423/1501 20005G10MPS=
Чумикан
SYNAR 31286 Чумикан 142100Z 36011G14MPS 4000 RASN OVC010 00/M00 Q1013 RMK QFE759/1012 CLD:8NS


NOWCAST.SU UHHY 142300Z VRB02MPS 0900 +SN FZFG VV001 M01/M02 Q1014 NOSIG
RMK TURB: MOD FL90/FL100
AUTOTAF.ME UHHY 141900Z 1420/1505 04003MPS 0500 +SN FZFG VV004 TXM01/1420Z TNM01/1420Z
FM142300 VRB02MPS 1200 +SN FZFG VV002
BECMG 1423/1500 0200
 
Комсомольск-н/А (Дземги)
SYNAR 31561 Комсомольск-на-Амуре 142100Z 17001MPS 9999 //// 07/03 Q1009 RMK QFE754/1006 CLD:NO_OBSERVATIONS


NOWCAST.SU UHKD 142300Z 19004MPS 9999 FEW200 14/07 Q1010 NOSIG
AUTOTAF.ME UHKD 141900Z 1420/1505 18003MPS CAVOK TX22/1505Z TN10/1420Z
BECMG 1501/1502 19009G14MPS
 
Комсомольск-на-Амуре (Хурба)
SYNAR 31561 Комсомольск-на-Амуре 142100Z 17001MPS 9999 //// 07/03 Q1009 RMK QFE754/1006 CLD:NO_OBSERVATIONS
(20/14KM)


NOWCAST.SU UHKK 142300Z 19004MPS 9999 FEW200 13/06 Q1010 NOSIG
AUTOTAF.ME UHKK 141900Z 1420/1505 18003MPS CAVOK TX22/1505Z TN09/1420Z
BECMG 1501/1502 19009G14MPS
 
Советская Гавань (Май-Гатка)
SYNAR 31770 Советская Гавань 142100Z 05001MPS 9999 BKN006 M00/M01 Q1015 RMK QFE759/1012 CLD:8STAC
(70/21KM)


NOWCAST.SU UHKM 142300Z VRB02MPS 9999 BKN160 12/05 Q1013 NOSIG
AUTOTAF.ME UHKM 141900Z 1420/1505 VRB02MPS CAVOK TX23/1504Z TN05/1420Z
 
Анадырь (Угольный)
METAR UHMA 142300Z 17006MPS CAVOK M02/M07 Q1005 R20/CLRD60 NOSIG RMK MID 16006MPS END R20/16005MPS QFE748/0998


NOWCAST.SU UHMA 142300Z VRB02MPS 9999 BKN020 M03/M06 Q1007 NOSIG
AUTOTAF.ME UHMA 141900Z 1420/1505 VRB02MPS CAVOK TXM01/1502Z TNM06/1420Z
BECMG 1422/1423 BKN025
BECMG 1502/1503 -SN
FM150500 32005MPS 7000 -SN BR OVC004
TAF UHMA 141957Z 1421/1521 17005G10MPS 9999 SCT015 BKN030
TEMPO 1421/1423 13010G15MPS
FM142300 29008G13MPS 5000 -SN BR BKN020
TEMPO 1423/1504 23006G11MPS 1100 SHSN BLSN BKN005 BKN015CB
TEMPO 1504/1521 33013G18MPS 0400 SHSN BLSN BKN010CB=
Бухта Провидения
METAR UHMD 142300Z 20010MPS 8000 -SN BKN013 OVC026 M01/M02 Q1014 RMK QBB400 MT OBSC QFE760/1013


NOWCAST.SU UHMD 142300Z 20010G15MPS 2000 SN BLSN SKC M01/M02 Q1016 NOSIG
RMK TURB: MOD SFC/FL30
AUTOTAF.ME UHMD 141900Z 1420/1505 21010MPS 5000 -SN BLSN NSC TXM00/1502Z TNM02/1420Z
FM142300 20010G15MPS 2500 SN BLSN NSC
BECMG 1423/1500 BKN008
BECMG 1502/1503 1200
TAF UHMD 141959Z 1421/1503 19005G10MPS 4000 -SN BR SCT005 BKN020
TEMPO 1421/1503 17010G15MPS 0500 SHSN BLSN BKN002 BKN015CB=
Залив Креста
SYNAR 25378 Эгвекинот 142100Z 36002MPS 4000 -SHSN BKN020CB M06/M09 Q1009 RMK QFE755/1006 CLD:8CBAS


NOWCAST.SU UHME 142300Z 12003MPS 1500 SN BR OVC008 M04/M06 Q1009 NOSIG
RMK TURB: MOD SFC/FL20
AUTOTAF.ME UHME 141900Z 1420/1505 12003MPS 1200 SN BR OVC008 TXM04/1423Z TNM06/1420Z
BECMG 1500/1501 2500
BECMG 1501/1502 06005MPS
FM150300 05006MPS 0200 +SN FZFG VV008
FM150400 05006MPS 0200 SN FZFG VV015
BECMG 1504/1505 OVC025
 
Омсукчан
SYNAR 25715 Омсукчан 142100Z 22001MPS CAVOK M15/M20 Q1017 RMK QFE718/0957 CLD:SKC


NOWCAST.SU UHMF 142300Z VRB02MPS 9999 SKC M16/M19 Q1014 NOSIG
AUTOTAF.ME UHMF 141900Z 1420/1505 VRB02MPS 9999 BKN015 TXM12/1504Z TNM20/1420Z
BECMG 1420/1421 NSC
 
Мыс Шмидта
 


NOWCAST.SU UHMI 142300Z 02003MPS 2000 SN BR OVC023 M16/M18 Q1013 NOSIG
RMK TURB: MOD SFC/FL30
AUTOTAF.ME UHMI 141900Z 1420/1505 VRB02MPS 0200 +SN FZFG VV025 TXM16/1421Z TNM17/1420Z
FM142200 01003MPS 2500 SN BR OVC025
BECMG 1503/1504 1200
FM150500 VRB02MPS 0200 +SN FZFG VV025
 
Кепервеем
SYNAR 25147 Билибино 142100Z 00000MPS CAVOK M20/M28 Q1014 RMK QFE735/0981 CLD:SKC
(30/25KM)


NOWCAST.SU UHMK 142300Z VRB02MPS 9999 BKN026TCU M19/M23 Q1015 NOSIG
AUTOTAF.ME UHMK 141900Z 1420/1505 VRB02MPS 9999 BKN025 TXM14/1505Z TNM23/1420Z
FM150000 VRB02MPS 5000 HZ BKN025TCU
BECMG 1501/1502 2500
FM150300 VRB02MPS 1200 HZ BKN015 BKN020TCU
BECMG 1503/1504 0500
 
Залив Лаврентия
 


NOWCAST.SU UHML 142300Z 21013MPS 2000 BLSN BKN005 M02/M03 Q1015 NOSIG
RMK TURB: MOD SFC/FL20
AUTOTAF.ME UHML 141900Z 1420/1505 22009G14MPS 2500 BLSN OVC004 TXM00/1501Z TNM05/1420Z
BECMG 1423/1500 BKN008
BECMG 1500/1501 NSC
BECMG 1501/1502 OVC008
FM150300 20012G17MPS 2500 BLSN OVC004
FM150400 20011G17MPS 9999 DRSN NSC
FM150500 19012G17MPS 2500 SN BLSN NSC
 
Магадан (Сокол)
METAR UHMM 142300Z 03002MPS 320V130 9999 NSC M01/M16 Q1016 R10/82//65 NOSIG RMK QFE747 R28/21001MPS


NOWCAST.SU UHMM 142300Z 36004MPS 9999 SKC M05/M12 Q1014 NOSIG
AUTOTAF.ME UHMM 141900Z 1420/1505 36004MPS 9999 OVC040 TXM01/1505Z TNM08/1420Z
BECMG 1421/1422 NSC
TAF UHMM 141957Z 1421/1603 02003G08MPS 9999 SCT040
TEMPO 1500/1511 24005G10MPS=
Омолон
SYNAR 25428 Омолон 142100Z 29004MPS CAVOK M17/M25 Q1017 RMK QFE739/0986 CLD:SKC


NOWCAST.SU UHMN 142300Z VRB02MPS 9999 BKN030TCU M15/M20 Q1018 NOSIG
AUTOTAF.ME UHMN 141900Z 1420/1505 VRB02MPS 9999 BKN015 TXM11/1504Z TNM19/1420Z
BECMG 1420/1421 BKN025
 
Марково
SYNAR 25551 Марково 142100Z 01005MPS 4000 -SN BKN020 M11/M13 Q1010 RMK QFE754/1006 CLD:8SCAS


NOWCAST.SU UHMO 142300Z 01011G16MPS 0500 SN BLSN BKN019 M08/M11 Q1011 NOSIG
RMK TURB: MOD SFC/FL20
AUTOTAF.ME UHMO 141900Z 1420/1505 01010G15MPS 0200 SN BLSN OVC002 TXM07/1421Z TNM09/1500Z
BECMG 1420/1421 1200
FM142200 01011G16MPS 0500 SN BLSN OVC025
BECMG 1422/1423 BKN015
BECMG 1423/1500 BKN025
FM150200 36009G14MPS 0500 BLSN BKN025
FM150300 36008G13MPS 2500 BLSN BKN025TCU
FM150400 35005G12MPS 9999 DRSN BKN040TCU
 
Певек
SYNAR 25051 Певек 142100Z 26001MPS CAVOK M27/M31 Q1016 RMK QFE761/1015 CLD:SKC
(240/18KM)


NOWCAST.SU UHMP 142300Z 19005MPS 9999 SKC M18/M21 Q1017 NOSIG
AUTOTAF.ME UHMP 141900Z 1420/1505 17004MPS 9999 OVC025 TXM16/1502Z TNM22/1420Z
BECMG 1420/1421 NSC
BECMG 1501/1502 OVC040
FM150500 19007MPS 7000 HZ BKN025TCU
 
Беринговский
 


NOWCAST.SU UHMR 142300Z 20011G16MPS 8000 BR BKN023TCU 01/M02 Q1009 NOSIG
RMK TURB: MOD SFC/FL30
AUTOTAF.ME UHMR 141900Z 1420/1505 21010MPS 9999 DRSN NSC TX01/1422Z TNM01/1420Z
BECMG 1420/1421 BKN025TCU
BECMG 1421/1422 BR
BECMG 1502/1503 19005G11MPS
FM150400 18004MPS CAVOK
 
Сеймчан
SYNAR 25703 Сеймчан 142100Z 00000MPS CAVOK M21/M25 Q1022 RMK QFE747/0996 CLD:SKC


NOWCAST.SU UHMS 142300Z VRB02MPS 9999 SKC M18/M21 Q1021 NOSIG
AUTOTAF.ME UHMS 141900Z 1420/1505 VRB02MPS 0200 FG IC BKN015 TXM10/1505Z TNM24/1420Z
FM142100 VRB02MPS CAVOK
BECMG 1500/1501 BKN025TCU
 
Магадан-13
SYNAR 25913 Магадан 142100Z 08003MPS 9999 FEW033 M04/M14 Q1016 RMK QFE751/1002 CLD:2SCAC
(240/15KM)


NOWCAST.SU UHMT 142300Z 03005MPS 9000 HZ FEW120 M04/M10 Q1015 NOSIG
AUTOTAF.ME UHMT 141900Z 1420/1505 02005MPS 9999 BKN025 TXM01/1503Z TNM05/1420Z
BECMG 1421/1422 NSC
BECMG 1422/1423 HZ
BECMG 1423/1500 2500
FM150200 04007MPS 8000 HZ NSC
 
Усть-Омчуг
SYNAR 24898 Усть-Омчуг 142100Z 14001MPS CAVOK M16/M20 Q1017 RMK QFE712/0949 CLD:SKC


NOWCAST.SU UHMV 142300Z 02003MPS 9999 BKN032TCU M13/M16 Q1014 NOSIG
AUTOTAF.ME UHMV 141900Z 1420/1505 VRB02MPS 9000 BR BKN025 TXM07/1504Z TNM16/1420Z
BECMG 1501/1502 NSC
 
Северо-Эвенск
SYNAR 25820 Эвенск 142100Z 00000MPS CAVOK M07/M18 Q1017 RMK QFE761/1015 CLD:2CI


NOWCAST.SU UHMW 142300Z 34004MPS 9999 SKC M09/M16 Q1015 NOSIG
AUTOTAF.ME UHMW 141900Z 1420/1505 34005MPS CAVOK TXM06/1502Z TNM11/1420Z
 
Богородское
SYNAR 31439 Богородское 142100Z 12001MPS 9999 BKN020 05/01 Q1009 RMK QFE753/1004 CLD:8SCAS


NOWCAST.SU UHNB 142300Z VRB02MPS 9999 BKN015 08/04 Q1009 NOSIG
AUTOTAF.ME UHNB 141900Z 1420/1505 VRB02MPS 1200 DZ BR OVC004 TX16/1505Z TN04/1420Z
FM142200 VRB02MPS 9999 BKN008
BECMG 1422/1423 BKN015
BECMG 1500/1501 BKN025TCU
 
Херпучи
SYNAR 31439 Богородское 142100Z 12001MPS 9999 BKN020 05/01 Q1009 RMK QFE753/1004 CLD:8SCAS
(120/126KM)


NOWCAST.SU UHNH 142300Z VRB02MPS 6000 BR BKN008 08/05 Q1010 NOSIG
AUTOTAF.ME UHNH 141900Z 1420/1505 VRB02MPS 1200 DZ BR OVC004 TX10/1502Z TN05/1420Z
BECMG 1420/1421 OVC008
FM142200 VRB02MPS 5000 BR BKN002
BECMG 1422/1423 BKN008
BECMG 1423/1500 HZ
FM150100 VRB02MPS 8000 HZ BKN015 BKN020TCU
FM150200 VRB02MPS 9999 BKN015 BKN020TCU
FM150400 VRB02MPS 9999 BKN025TCU
FM150500 VRB02MPS 9000 HZ BKN025TCU
 
Николаевск-на-Амуре
SYNAR 31369 Николаевск-на-Амуре 142100Z 12004MPS 9999 OVC020 01/M00 Q1008 RMK QFE752/1002 CLD:8ST


NOWCAST.SU UHNN 142300Z VRB02MPS 8000 -DZ BR BKN007 05/03 Q1009 NOSIG
RMK TURB: MOD FL170/FL180
AUTOTAF.ME UHNN 141900Z 1420/1505 VRB02MPS 5000 -RA BR BKN025 TX10/1503Z TN02/1420Z
FM142100 VRB02MPS 5000 -SHRA BR BKN004 BKN010CB
FM142200 VRB02MPS 0200 RA FG BKN002
FM142300 VRB02MPS 8000 -DZ BR BKN008
BECMG 1500/1501 BKN015
 
Ургалан
SYNAR 31152 Нелькан 142100Z 02001MPS CAVOK M06/M12 Q1014 RMK QFE732/0976 CLD:8CS
(90/99KM)


NOWCAST.SU UHNU 142300Z VRB02MPS 9999 BKN086 M07/M13 Q1015 NOSIG
AUTOTAF.ME UHNU 141900Z 1420/1505 VRB02MPS CAVOK TXM01/1505Z TNM09/1420Z
BECMG 1501/1502 OVC025
 
Нелькан
SYNAR 31152 Нелькан 142100Z 02001MPS CAVOK M06/M12 Q1014 RMK QFE732/0976 CLD:8CS


NOWCAST.SU UHNX 142300Z VRB02MPS 9999 BKN017 BKN020TCU M06/M11 Q1017 NOSIG
AUTOTAF.ME UHNX 141900Z 1420/1505 VRB02MPS 9999 BKN015 TXM00/1505Z TNM08/1420Z
BECMG 1500/1501 BKN025TCU
 
Охотск
SYNAR 31088 Охотск 142100Z 35004MPS 9999 FEW020 M03/M09 Q1017 RMK QFE761/1015 CLD:8SCACCI


NOWCAST.SU UHOO 142300Z 34007MPS 9999 BKN027 M03/M08 Q1017 NOSIG
AUTOTAF.ME UHOO 141900Z 1420/1505 34006G13MPS CAVOK TX02/1505Z TNM06/1420Z
BECMG 1420/1421 BKN025
 
Оссора
 


NOWCAST.SU UHPD 142300Z VRB02MPS 9999 BKN220 M02/M04 Q1012 NOSIG
RMK TURB: MOD FL170/FL180
AUTOTAF.ME UHPD 141900Z 1420/1505 33003MPS CAVOK TXM00/1501Z TNM05/1420Z
BECMG 1423/1500 BKN040
BECMG 1500/1501 NSC
BECMG 1503/1504 BKN002
FM150500 06004MPS 9999 -SN BKN025
 
Тигиль
SYNAR 32252 Усть-Воямполка 142100Z 02007MPS 9999 OVC020 M02/M02 Q1016 RMK QFE761/1014 CLD:8SC
(20/83KM)


NOWCAST.SU UHPG 142300Z VRB02MPS 1100 BR BKN012 M01/M02 Q1014 NOSIG
RMK TURB: MOD FL170/FL180
AUTOTAF.ME UHPG 141900Z 1420/1505 VRB02MPS 2500 BR BKN004 TXM01/1420Z TNM02/1505Z
BECMG 1420/1421 BKN015
BECMG 1422/1423 1200
FM150000 VRB02MPS 0500 FZFG BKN015
BECMG 1500/1501 BKN004
FM150300 01003MPS 1200 BR BKN004
FM150400 01004MPS 8000 BR BKN015 BKN020TCU
FM150500 02005MPS 9999 BKN015 BKN020TCU
 
Халактырка
SYNAR 32583 Петропавловск-Камчатский 142100Z 33004MPS 9999 SCT020 05/01 Q1012 RMK QFE756/1008 CLD:3SC
(210/19KM)


NOWCAST.SU UHPH 142300Z 30005MPS 9999 FEW100 05/01 Q1011 NOSIG
AUTOTAF.ME UHPH 141900Z 1420/1505 31005MPS CAVOK TX06/1501Z TN03/1420Z
BECMG 1503/1504 OVC025
 
Палана
SYNAR 32252 Усть-Воямполка 142100Z 02007MPS 9999 OVC020 M02/M02 Q1016 RMK QFE761/1014 CLD:8SC
(220/79KM)


NOWCAST.SU UHPL 142300Z VRB02MPS 5000 BR OVC009 M03/M05 Q1014 NOSIG
RMK TURB: MOD FL170/FL180
AUTOTAF.ME UHPL 141900Z 1420/1505 VRB02MPS 0500 SN FZFG VV008 TXM03/1420Z TNM04/1503Z
BECMG 1420/1421 FZFG
FM142200 VRB02MPS 2500 BR OVC008
BECMG 1422/1423 5000
BECMG 1423/1500 9000
FM150300 35003MPS CAVOK
FM150400 36003MPS 9999 BKN015
FM150500 36003MPS 9999 BKN025
 
Мильково
SYNAR 32509 Семячик 142100Z 36002MPS 0200 FZFG VV/// M03/M03 Q1010 RMK QFE755/1007 CLD:OBSC
(130/107KM)


NOWCAST.SU UHPM 142300Z VRB02MPS 9999 BKN020 07/00 Q1010 NOSIG
AUTOTAF.ME UHPM 141900Z 1420/1505 VRB02MPS 9999 BKN015 TX09/1501Z TN02/1420Z
BECMG 1422/1423 BKN025
FM150500 VRB02MPS 9999 VCSH SCT025CB
 
Козыревск
SYNAR 32389 Ключи 142100Z 27001MPS CAVOK 01/M03 Q1011 RMK QFE755/1007 CLD:7ACCI
(70/63KM)


NOWCAST.SU UHPO 142300Z VRB02MPS 9999 SCT025 04/M01 Q1011 NOSIG
RMK TURB: MOD SFC/FL30
AUTOTAF.ME UHPO 141900Z 1420/1505 VRB02MPS 9999 BKN025 TX07/1503Z TNM00/1420Z
BECMG 1420/1421 BKN015
BECMG 1421/1422 SCT025
BECMG 1504/1505 NSC
 
Петропавловск-Камчатский (Елизово)
METAR UHPP 142300Z 33004MPS 9999 BKN042 09/01 Q1011 R34L/CLRD60 NOSIG RMK MT OBSC QFE754/1006


NOWCAST.SU UHPP 142300Z 30005MPS 9999 FEW100 05/00 Q1011 NOSIG
AUTOTAF.ME UHPP 141900Z 1420/1505 31005MPS CAVOK TX07/1501Z TN02/1420Z
BECMG 1503/1504 OVC025
TAF UHPP 141933Z 1421/1603 28005G12MPS 9999 SCT040
BECMG 1508/1510 34003G10MPS=
Соболево
SYNAR 32477 Соболево 142100Z 30003MPS 0500 FZFG VV/// M01/M01 Q1016 RMK QFE759/1013 CLD:OBSC


NOWCAST.SU UHPS 142300Z 26003MPS 5000 BR BKN009 M01/M02 Q1015 NOSIG
AUTOTAF.ME UHPS 141900Z 1420/1505 22003MPS 1200 FG VV004 TX00/1420Z TNM01/1422Z
BECMG 1420/1421 0500
FM142200 25003MPS 2500 BR BKN004
FM142300 26003MPS 5000 BR BKN008
BECMG 1423/1500 9000
BECMG 1501/1502 BKN015
 
Тиличики
SYNAR 25956 Апука 142100Z 19004MPS 9999 -SHSN OVC020CB M01/M01 Q1010 RMK QFE756/1009 CLD:8CB
(90/196KM)


NOWCAST.SU UHPT 142300Z VRB02MPS 9999 BKN020 00/M02 Q1009 NOSIG
AUTOTAF.ME UHPT 141900Z 1420/1505 VRB02MPS 9000 -SN BR OVC015 TX00/1423Z TNM03/1505Z
BECMG 1422/1423 BKN025
BECMG 1500/1501 NSC
BECMG 1504/1505 OVC040
 
Усть-Хайрюзово
SYNAR 32287 Усть-Хайрюзово 142100Z 33001MPS 9999 BKN020 M01/M01 Q1015 RMK QFE760/1013 CLD:8SCAC


NOWCAST.SU UHPU 142300Z 23003MPS 1000 BR BKN003 BKN020TCU M01/M02 Q1014 NOSIG
RMK TURB: MOD FL170/FL180
AUTOTAF.ME UHPU 141900Z 1420/1505 22003MPS 1200 BR OVC002 TXM01/1420Z TNM01/1420Z
BECMG 1420/1421 BKN004 BKN020TCU
FM150400 VRB02MPS 9999 BKN008 BKN020TCU
BECMG 1504/1505 BKN025
 
Авачинский
SYNAR 32583 Петропавловск-Камчатский 142100Z 33004MPS 9999 SCT020 05/01 Q1012 RMK QFE756/1008 CLD:3SC
(160/35KM)


NOWCAST.SU UHQA 142300Z 30005MPS 9999 FEW100 05/00 Q1011 NOSIG
AUTOTAF.ME UHQA 141900Z 1420/1505 31005MPS CAVOK TX07/1501Z TN02/1420Z
BECMG 1503/1504 OVC025
 
Запорожье (Озерная)
SYNAR 32594 Озерная 142100Z 27003MPS 0500 FG VV/// 01/00 Q1018 RMK QFE761/1015 CLD:OBSC


NOWCAST.SU UHQO 142300Z 22004MPS 0500 +SN FG VV009 00/00 Q1017 NOSIG
AUTOTAF.ME UHQO 141900Z 1420/1505 22004MPS 7000 -SN BR OVC008 TX01/1502Z TNM00/1420Z
FM142100 22004MPS 0500 SN FG VV008
BECMG 1421/1422 +SN FG
BECMG 1423/1500 +FZDZ FG
BECMG 1500/1501 FG
FM150400 VRB02MPS 1200 BR OVC004
FM150500 VRB02MPS 2500 BR OVC004
 
Буревестник
 


NOWCAST.SU UHSB 142300Z VRB02MPS 0800 FG VV003 03/02 Q1022 NOSIG
AUTOTAF.ME UHSB 141900Z 1420/1505 VRB02MPS 0200 FG VV002 TX05/1502Z TN02/1420Z
BECMG 1420/1421 OVC004
FM142200 VRB02MPS 1200 BR OVC004
FM142300 VRB02MPS 0500 FG VV004
BECMG 1423/1500 NSC
 
Оха (Новостройка)
SYNAR 32027 Погиби 142100Z 18008MPS 0500 FG VV/// 01/01 Q1009 RMK QFE756/1008 CLD:OBSC
(210/168KM)


NOWCAST.SU UHSH 142300Z 15003MPS 0600 RA FG VV003 01/01 Q1011 NOSIG
AUTOTAF.ME UHSH 141900Z 1420/1505 17004MPS 7000 -RA BR OVC008 TX02/1420Z TN01/1422Z
FM142100 17004MPS 1200 RA BR OVC004
FM142200 16003MPS 0500 RA FG VV004
FM150000 VRB02MPS 1200 RA BR OVC004
FM150100 VRB02MPS 0500 RA FG VV004
BECMG 1501/1502 DZ FG
FM150300 VRB02MPS 1200 BR OVC004
FM150400 36003MPS 1200 FG VV002
BECMG 1504/1505 0500
 
Итуруп
 


NOWCAST.SU UHSI 142300Z VRB02MPS 0500 FG VV002 02/02 Q1022 NOSIG
AUTOTAF.ME UHSI 141900Z 1420/1505 VRB02MPS 0200 FG NSC TX05/1505Z TN01/1420Z
FM142200 VRB02MPS 2500 BR NSC
FM142300 VRB02MPS 0500 FG VV004
 
Шахтерск
SYNAR 32098 Поронайск 142100Z 18004MPS 0500 FG VV/// 02/02 Q1017 RMK QFE762/1016 CLD:OBSC
(90/74KM)


NOWCAST.SU UHSK 142300Z 16005G11MPS 9999 FEW160 08/05 Q1016 NOSIG
RMK TURB: MOD FL20/FL30
AUTOTAF.ME UHSK 141900Z 1420/1505 16004MPS CAVOK TX11/1504Z TN06/1420Z
 
Южно-Курильск (Менделеево)
SYNAR 32165 Южно-Курильск 142100Z 00000MPS CAVOK 04/03 Q1022 RMK QFE762/1016 CLD:8CS
(50/11KM)


NOWCAST.SU UHSM 142300Z VRB02MPS 0500 FG FEW360 04/03 Q1023 NOSIG
AUTOTAF.ME UHSM 141900Z 1420/1505 06003MPS 0500 FG NSC TX06/1504Z TN03/1420Z
FM150300 21004MPS 1200 BR NSC
BECMG 1503/1504 21005MPS
 
Ноглики
SYNAR 32053 Ноглики 142100Z 14002MPS 9999 BKN020CB 01/01 Q1011 RMK QFE755/1006 CLD:7CB
(350/15KM)


NOWCAST.SU UHSN 142300Z 22009G17MPS 7000 VCSH BR BKN017CB 08/05 Q1010 NOSIG
RMK TURB: MOD SFC/FL90
AUTOTAF.ME UHSN 141900Z 1420/1505 17003MPS 0500 VCSH FG BKN002 OVC010CB TX14/1504Z TN03/1420Z
BECMG 1420/1421 SHRA FG
FM142200 20004MPS 5000 VCSH BR BKN008 BKN010CB
FM142300 22009G17MPS 7000 VCSH BR BKN015CB
FM150000 24010G18MPS 9000 VCSH HZ OVC040CB
BECMG 1501/1502 NSC
FM150500 27004MPS 9999 BKN040TCU
 
Зональное
SYNAR 32061 Александровск-Сахалинский 142100Z 22006G09MPS 9999 FEW010 06/02 Q1012 RMK QFE755/1007 CLD:7STCI
(300/53KM)


NOWCAST.SU UHSO 142300Z 18003MPS 9999 FEW170 09/04 Q1013 NOSIG
RMK TURB: MOD FL40/FL50
AUTOTAF.ME UHSO 141900Z 1420/1505 15003MPS 5000 BR NSC TX19/1505Z TN05/1420Z
FM142200 17003MPS 9999 SCT025
BECMG 1422/1423 NSC
BECMG 1500/1501 BKN040TCU
BECMG 1501/1502 NSC
FM150300 19003MPS 9999 SCT040TCU
FM150500 20003MPS CAVOK
 
Южно-Сахалинск (Хомутово)
METAR UHSS 142300Z 20004MPS 1800 1100S BR BKN002 03/03 Q1021 R19/CLRD70 BECMG 9999 NSW BKN007 RMK QBB070 MT OBSC QFE764/1019


NOWCAST.SU UHSS 142300Z 18003MPS 8000 HZ FEW190 08/04 Q1019 NOSIG
AUTOTAF.ME UHSS 141900Z 1420/1505 VRB02MPS 0200 FG VV002 TX15/1504Z TN03/1420Z
BECMG 1420/1421 OVC004
FM142200 VRB02MPS 2500 BR NSC
FM142300 18003MPS 8000 HZ NSC
TAF UHSS 141945Z 1421/1603 18002MPS 0400 FG VV002
TEMPO 1421/1424 0700 FG
FM150000 18007MPS 9999 NSC=
Одопту
SYNAR 32053 Ноглики 142100Z 14002MPS 9999 BKN020CB 01/01 Q1011 RMK QFE755/1006 CLD:7CB
(180/138KM)


NOWCAST.SU UHSU 142300Z 15005MPS 1500 SN BR BKN001 00/00 Q1011 NOSIG
AUTOTAF.ME UHSU 141900Z 1420/1505 16004MPS 2500 -FZDZ BR OVC004 TX01/1500Z TNM00/1420Z
FM142100 16004MPS 5000 -FZRA BR OVC004
FM142200 15005MPS 1200 SN BR BKN002
BECMG 1423/1500 BKN004
FM150100 14004MPS 5000 -RA BR OVC008
FM150200 14003MPS 0500 DZ FG VV004
BECMG 1502/1503 FG
FM150400 VRB02MPS 1200 BR OVC004
 
Порт Восточный
SYNAR 31987 Партизанск 142100Z 22001MPS CAVOK 08/02 Q1019 RMK QFE745/0994 CLD:7CI
(350/45KM)


NOWCAST.SU UHTK 142300Z VRB02MPS 9999 BKN330 12/03 Q1019 NOSIG
AUTOTAF.ME UHTK 141900Z 1420/1505 VRB02MPS CAVOK TX16/1503Z TN07/1420Z
 
Самарга
SYNAR 31825 Агзу 142100Z 00000MPS CAVOK M01/M01 Q1018 RMK QFE748/0997 CLD:8CC
(320/49KM)


NOWCAST.SU UHTS 142300Z VRB02MPS 9999 OVC250 10/05 Q1015 NOSIG
RMK TURB: MOD FL110/FL120
AUTOTAF.ME UHTS 141900Z 1420/1505 VRB02MPS 5000 BR OVC002 TX16/1504Z TN04/1420Z
BECMG 1420/1421 NSC
FM142300 VRB02MPS CAVOK
 
Арсеньев
SYNAR 31981 Анучино 142100Z 22001MPS CAVOK 07/01 Q1017 RMK QFE746/0994 CLD:8CC
(230/29KM)


NOWCAST.SU UHWA 142300Z 19004MPS 9999 SCT310 18/M01 Q1017 NOSIG
RMK TURB: MOD FL40/FL50
AUTOTAF.ME UHWA 141900Z 1420/1505 VRB02MPS CAVOK TX24/1503Z TN12/1420Z
BECMG 1501/1502 20009G17MPS
 
Остров Русский (Аякс)
SYNAR 31960 Владивосток 142100Z 14009MPS 9999 FEW020 09/05 Q1017 RMK QFE745/0994 CLD:8SCACCS


NOWCAST.SU UHWH 142300Z 15004MPS 9999 BKN310 06/04 Q1018 NOSIG
AUTOTAF.ME UHWH 141900Z 1420/1505 14004MPS 9999 OVC002 TX07/1500Z TN05/1420Z
BECMG 1420/1421 NSC
 
Кавалерово
SYNAR 31959 Рудная Пристань 142100Z 26001MPS CAVOK 01/01 Q1019 RMK QFE761/1015 CLD:7ACCI
(80/62KM)


NOWCAST.SU UHWK 142300Z VRB02MPS 9999 BKN350 15/02 Q1018 NOSIG
RMK TURB: MOD FL110/FL120
AUTOTAF.ME UHWK 141900Z 1420/1505 VRB02MPS CAVOK TX24/1503Z TN08/1420Z
BECMG 1504/1505 18009G14MPS
 
Озерные Ключи
SYNAR 31960 Владивосток 142100Z 14009MPS 9999 FEW020 09/05 Q1017 RMK QFE745/0994 CLD:8SCACCS
(220/34KM)


NOWCAST.SU UHWL 142300Z 19004MPS 9999 OVC320 12/04 Q1017 NOSIG
AUTOTAF.ME UHWL 141900Z 1420/1505 18003MPS CAVOK TX17/1503Z TN08/1420Z
BECMG 1501/1502 19009G16MPS
 
Уссурийск (Барановский)
SYNAR 31961 Тимирязевский 142100Z 19003MPS 9999 FEW020CB 08/06 Q1016 RMK QFE758/1011 CLD:8CBACCC
(330/17KM)


NOWCAST.SU UHWU 142300Z 19004MPS 9999 OVC320 12/04 Q1017 NOSIG
AUTOTAF.ME UHWU 141900Z 1420/1505 18003MPS CAVOK TX18/1504Z TN09/1420Z
BECMG 1501/1502 19009G16MPS
 
Владивосток (Кневичи)
METAR UHWW 142300Z VRB01MPS 7000 NSC 06/06 Q1017 R25L/0///70 NOSIG RMK QFE762


NOWCAST.SU UHWW 142300Z 19004MPS 9999 OVC320 12/04 Q1017 NOSIG
AUTOTAF.ME UHWW 141900Z 1420/1505 18003MPS CAVOK TX17/1503Z TN08/1420Z
BECMG 1501/1502 19009G16MPS
TAF AMD UHWW 142123Z 1422/1521 VRB01MPS 9999 FEW003 SCT020
TEMPO 1422/1423 0300 FG
BECMG 1423/1501 19003G08MPS SCT030
TEMPO 1501/1510 18009G14MPS
BECMG 1510/1512 6000 -SHRA BKN016CB=
Чита (Кадала)
METAR UIAA 142300Z 30003MPS 9999 FEW046 M02/M08 Q1012 R29/290145 NOSIG RMK QFE701/0935


NOWCAST.SU UIAA 142300Z VRB02MPS 9999 SKC M04/M07 Q1013 NOSIG
AUTOTAF.ME UIAA 141900Z 1420/1505 VRB02MPS CAVOK TX04/1505Z TNM06/1421Z
TAF UIAA 142000Z 1421/1521 26005G10MPS 9999 SCT030CB
TEMPO 1421/1521 20003G08MPS=
Красный Чикой
SYNAR 30935 Красный Чикой 142100Z 06001MPS CAVOK M09/M10 Q1019 RMK QFE696/0928 CLD:SKC


NOWCAST.SU UIAD 142300Z VRB02MPS 9999 FEW280 M09/M12 Q1019 NOSIG
AUTOTAF.ME UIAD 141900Z 1420/1505 VRB02MPS CAVOK TX06/1505Z TNM12/1420Z
 
Краснокаменск
SYNAR 30975 Приаргунск 142100Z 00000MPS 9999 OVC066 04/04 Q1000 RMK QFE704/0939 CLD:8AS
(60/78KM)


NOWCAST.SU UIAE 142300Z 36004MPS 9999 OVC023 04/02 Q1003 NOSIG
AUTOTAF.ME UIAE 141900Z 1420/1505 02003MPS 9999 VCSH OVC025CB TX07/1505Z TN04/1420Z
BECMG 1423/1500 HZ
BECMG 1501/1502 34008G13MPS
 
Кыра
SYNAR 30949 Кыра 142100Z 31005MPS //// SKC M02/M14 Q1014 RMK QFE681/0908 CLD:SKC


NOWCAST.SU UIAK 142300Z 29003MPS 9999 SKC M02/M13 Q1014 NOSIG
AUTOTAF.ME UIAK 141900Z 1420/1505 31004MPS CAVOK TX10/1505Z TNM04/1421Z
BECMG 1502/1503 32009MPS
 
Могоча
SYNAR 30673 Могоча 142100Z 33001MPS //// //// M03/M03 Q999 RMK QFE694/0926 CLD:NO_OBSERVATIONS


NOWCAST.SU UIAM 142300Z 36003MPS 9999 -SN BKN019 M02/M05 Q1008 NOSIG
AUTOTAF.ME UIAM 141900Z 1420/1505 36003MPS 9999 -SN BKN040 TX02/1505Z TNM03/1420Z
BECMG 1420/1421 NSC
BECMG 1421/1422 OVC040
BECMG 1422/1423 BKN015
FM150200 36003MPS 9999 -SN BKN040
 
Чара
SYNAR 30372 Чара 142100Z 00000MPS CAVOK M11/M12 Q1014 RMK QFE697/0930 CLD:8ACCI


NOWCAST.SU UIAR 142300Z VRB02MPS 9999 SKC M10/M14 Q1015 NOSIG
AUTOTAF.ME UIAR 141900Z 1420/1505 VRB02MPS 9999 BR NSC TXM02/1505Z TNM12/1420Z
 
Газимурский завод
SYNAR 30777 Сретенск 142100Z 34002MPS 9999 -SN BKN020 00/M00 Q1005 RMK QFE708/0944 CLD:8AS
(330/89KM)


NOWCAST.SU UIAS 142300Z 33003MPS 0200 +SN FG VV021 00/M01 Q1005 NOSIG
AUTOTAF.ME UIAS 141900Z 1420/1505 36003MPS 0200 +RASN FG VV025 TX03/1505Z TN00/1421Z
BECMG 1420/1421 +SN FG
FM150000 32003MPS 1200 SN BR OVC025
BECMG 1500/1501 2500
FM150200 33003MPS 0500 +SN FG VV025
FM150300 34004MPS 2500 RASN HZ OVC025
FM150400 34004MPS 9000 -RASN HZ OVC025
 
Братск
METAR UIBB 142300Z 23004MPS 9999 OVC019CB 05/03 Q1007 R30/290150 NOSIG RMK QFE713/0951


NOWCAST.SU UIBB 142300Z 24004MPS 9999 -RA OVC030 05/04 Q1009 NOSIG
AUTOTAF.ME UIBB 141900Z 1420/1505 23004MPS 9999 -RA OVC015 TX10/1505Z TN04/1420Z
BECMG 1422/1423 OVC025
FM150000 24004MPS 9999 OVC008
BECMG 1500/1501 NSC
BECMG 1501/1502 BKN015
FM150500 22004MPS 9999 BKN025TCU
TAF UIBB 142000Z 1421/1521 22003G08MPS 9999 -SHRA FEW002 BKN013CB
TEMPO 1421/1503 0300 FG VV001
BECMG 1503/1504 23008G13MPS
BECMG 1512/1514 24003G08MPS=
Усть-Илимск
 


NOWCAST.SU UIBS 142300Z 24003MPS 3000 -DZ BR OVC005 04/04 Q1006 NOSIG
AUTOTAF.ME UIBS 141900Z 1420/1505 21004MPS 2500 -RA BR OVC004 TX06/1505Z TN03/1420Z
BECMG 1420/1421 5000
FM142200 23003MPS 2500 DZ BR OVC004
BECMG 1422/1423 -DZ BR
FM150000 24003MPS 0500 +DZ FG VV008
BECMG 1500/1501 FG
FM150200 23003MPS 0500 FG NSC
FM150400 21003MPS 0500 +DZ FG NSC
FM150500 19003MPS 0500 RA FG VV008
 
Железногорск-Илимский
SYNAR 30323 Усть-Кут 142100Z 05001MPS //// -SHSN BKN020CB 00/M01 Q1011 RMK QFE728/0971 CLD:8CBAS
(70/109KM)


NOWCAST.SU UIBV 142300Z 21004MPS 3000 -DZ BR OVC005 02/00 Q1010 NOSIG
RMK TURB: MOD SFC/FL40
AUTOTAF.ME UIBV 141900Z 1420/1505 19003MPS 9999 -RA OVC015 TX07/1505Z TN01/1420Z
BECMG 1420/1421 OVC008
FM142300 21004MPS 2500 -DZ BR OVC004
FM150200 21003MPS 5000 -RA BR OVC008
BECMG 1503/1504 OVC015
FM150500 21004MPS 9000 BR BKN015 BKN020TCU
 
Хилок
SYNAR 30844 Хилок 142100Z 09001MPS CAVOK M14/M15 Q1017 RMK QFE692/0922 CLD:SKC


NOWCAST.SU UICH 142300Z VRB02MPS 9999 SKC M07/M11 Q1016 NOSIG
AUTOTAF.ME UICH 141900Z 1420/1505 VRB02MPS CAVOK TX07/1505Z TNM12/1420Z
BECMG 1420/1421 BR
BECMG 1502/1503 BKN025
BECMG 1503/1504 NSC
 
Белая
SYNAR 30710 Иркутск 142100Z 13004MPS 9999 FEW033 01/M07 Q1014 RMK QFE718/0958 CLD:8SCAC
(150/87KM)


NOWCAST.SU UIIB 142300Z VRB02MPS 9999 BKN065 00/M06 Q1015 NOSIG
AUTOTAF.ME UIIB 141900Z 1420/1505 VRB02MPS CAVOK TX13/1505Z TNM01/1420Z
 
Хужир
SYNAR 30731 Горячинск 142100Z 09001MPS //// FEW033 M05/M09 Q1016 RMK QFE718/0958 CLD:2SC
(120/59KM)


NOWCAST.SU UIIH 142300Z VRB02MPS 9999 FEW230 M04/M08 Q1017 NOSIG
AUTOTAF.ME UIIH 141900Z 1420/1505 VRB02MPS CAVOK TX03/1505Z TNM06/1420Z
BECMG 1501/1502 BKN025
 
Иркутск
METAR UIII 142300Z 14002MPS CAVOK 03/M07 Q1013 R12/CLRD60 NOSIG RMK QFE717/0956


NOWCAST.SU UIII 142300Z VRB02MPS 9999 FEW120 00/M05 Q1015 NOSIG
AUTOTAF.ME UIII 141900Z 1420/1505 VRB02MPS 9999 BKN040 TX13/1505Z TNM03/1420Z
BECMG 1421/1422 NSC
BECMG 1423/1500 BKN040
BECMG 1500/1501 NSC
TAF UIII 142000Z 1421/1521 14003MPS CAVOK=
Кырен
SYNAR 30802 Монды 142100Z 08001MPS CAVOK M04/M05 Q//// RMK CLD:SKC
(270/87KM)


NOWCAST.SU UIIN 142300Z 21003MPS 9999 FEW260 M01/M04 Q1020 NOSIG
AUTOTAF.ME UIIN 141900Z 1420/1505 20004MPS CAVOK TX10/1505Z TNM03/1420Z
 
Иркутск-2 (Восточный)
SYNAR 30710 Иркутск 142100Z 13004MPS 9999 FEW033 01/M07 Q1014 RMK QFE718/0958 CLD:8SCAC
(140/13KM)


NOWCAST.SU UIIR 142300Z VRB02MPS 9999 FEW120 M01/M05 Q1015 NOSIG
AUTOTAF.ME UIIR 141900Z 1420/1505 VRB02MPS CAVOK TX13/1505Z TNM03/1420Z
BECMG 1420/1421 BKN040
BECMG 1422/1423 NSC
 
Качуг
SYNAR 30622 Качуг 142100Z 00000MPS //// FEW033 M02/M06 Q1014 RMK QFE714/0953 CLD:8SCAS


NOWCAST.SU UIIX 142300Z VRB02MPS 9999 BKN040 M04/M09 Q1015 NOSIG
AUTOTAF.ME UIIX 141900Z 1420/1505 VRB02MPS 9999 OVC040 TX11/1505Z TNM05/1420Z
BECMG 1503/1504 NSC
BECMG 1504/1505 BKN040
 
Бодайбо
SYNAR 30252 Мамакан 142100Z 10001MPS CAVOK M10/M14 Q1019 RMK QFE741/0988 CLD:SKC
(250/15KM)


NOWCAST.SU UIKB 142300Z VRB02MPS 9999 SKC M11/M14 Q1014 NOSIG
AUTOTAF.ME UIKB 141900Z 1420/1505 VRB02MPS 9999 BKN025 TXM00/1505Z TNM15/1420Z
BECMG 1421/1422 NSC
BECMG 1423/1500 BKN015
BECMG 1504/1505 BKN025TCU
 
Таксимо
SYNAR 30455 Уакит 142100Z 00000MPS //// //// M15/M17 Q//// RMK CLD:NO_OBSERVATIONS
(220/128KM)


NOWCAST.SU UIKG 142300Z VRB02MPS 9999 SKC M08/M13 Q1014 NOSIG
AUTOTAF.ME UIKG 141900Z 1420/1505 VRB02MPS CAVOK TX02/1505Z TNM12/1420Z
 
Киренск
SYNAR 30230 Киренск 142100Z 00000MPS //// NSC M06/M08 Q1011 RMK QFE735/0980 CLD:6CB


NOWCAST.SU UIKK 142300Z 18004MPS 2000 SN BLSN OVC008 M02/M04 Q1009 NOSIG
AUTOTAF.ME UIKK 141900Z 1420/1505 16003MPS 8000 HZ OVC025 TX02/1504Z TNM05/1420Z
FM142100 17003MPS 1200 HZ OVC015
FM142200 17004MPS 0500 SN BLSN OVC008
BECMG 1422/1423 2500
FM150000 18004MPS 0500 SN BLSN OVC004
BECMG 1500/1501 1200
FM150300 20005G13MPS 0500 +SN FG VV008
FM150400 20004MPS 2500 SN BR OVC015
FM150500 20004MPS 0500 +RASN FG VV015
 
Мама
SYNAR 30157 Мама 142100Z 06001MPS CAVOK M13/M15 Q1016 RMK QFE742/0989 CLD:SKC


NOWCAST.SU UIKM 142300Z VRB02MPS 9999 SCT220 M10/M13 Q1012 NOSIG
AUTOTAF.ME UIKM 141900Z 1420/1505 VRB02MPS CAVOK TXM01/1505Z TNM15/1420Z
BECMG 1500/1501 OVC025
BECMG 1502/1503 NSC
FM150500 17003MPS 7000 HZ OVC040
 
Нижнеудинск
SYNAR 29698 Нижнеудинск 142100Z 09001MPS //// SCT020CB M02/M04 Q1011 RMK QFE721/0962 CLD:3CB


NOWCAST.SU UINN 142300Z VRB02MPS 9999 BKN050 01/M03 Q1012 NOSIG
AUTOTAF.ME UINN 141900Z 1420/1505 VRB02MPS CAVOK TX16/1505Z TN00/1420Z
 
Казачинск
SYNAR 30337 Казачинск 142100Z 13001MPS //// BKN020CB M03/M07 Q1013 RMK QFE728/0970 CLD:7CBCI


NOWCAST.SU UITK 142300Z 18004MPS 1300 SN BLSN OVC012 M03/M05 Q1012 NOSIG
AUTOTAF.ME UITK 141900Z 1420/1505 19003MPS 9999 OVC040 TX02/1505Z TNM05/1420Z
FM142100 18003MPS 5000 BR OVC040
FM142200 18004MPS 2500 -SN BLSN OVC040
FM142300 18004MPS 1200 SN BLSN OVC015
FM150000 17005G13MPS 2500 SN BLSN OVC004
BECMG 1500/1501 0500
BECMG 1502/1503 OVC015
BECMG 1503/1504 +SN FG
 
Усть-Кут
SYNAR 30323 Усть-Кут 142100Z 05001MPS //// -SHSN BKN020CB 00/M01 Q1011 RMK QFE728/0971 CLD:8CBAS


NOWCAST.SU UITT 142300Z 21004MPS 1500 SN BR OVC005 01/M01 Q1009 NOSIG
AUTOTAF.ME UITT 141900Z 1420/1505 19004MPS 2500 SN BLSN OVC004 TX05/1505Z TNM01/1420Z
BECMG 1420/1421 1200
BECMG 1422/1423 SN BR
FM150000 21004MPS 2500 SN BR OVC008
BECMG 1500/1501 RASN BR
FM150200 23004MPS 9999 -DZ OVC008
FM150500 21003MPS 8000 BR NSC
 
Бичура
SYNAR 30829 Новоселенгинск 142100Z 30001MPS //// SKC M07/M11 Q1018 RMK QFE713/0951 CLD:SKC
(310/84KM)


NOWCAST.SU UIUA 142300Z VRB02MPS 9999 FEW260 M04/M10 Q1018 NOSIG
AUTOTAF.ME UIUA 141900Z 1420/1505 18003MPS CAVOK TX10/1505Z TNM07/1420Z
 
Багдарин (Куликово Поле)
SYNAR 30554 Багдарин 142100Z 15001MPS //// SKC M08/M11 Q1013 RMK QFE680/0907 CLD:SKC


NOWCAST.SU UIUB 142300Z VRB02MPS 9999 SKC M05/M13 Q1012 NOSIG
AUTOTAF.ME UIUB 141900Z 1420/1505 VRB02MPS CAVOK TX06/1505Z TNM08/1420Z
 
Усть-Баргузин
SYNAR 30635 Усть-Баргузин 142100Z 10001MPS //// NSC M08/M10 Q1017 RMK QFE721/0962 CLD:1CI


NOWCAST.SU UIUI 142300Z VRB02MPS 9999 FEW260 M05/M09 Q1018 NOSIG
AUTOTAF.ME UIUI 141900Z 1420/1505 VRB02MPS CAVOK TX05/1505Z TNM08/1420Z
BECMG 1502/1503 BKN040
BECMG 1503/1504 NSC
 
Нижнеангарск
SYNAR 30433 Нижнеангарск 142100Z 15001MPS //// NSC M08/M12 Q1017 RMK QFE720/0960 CLD:2AC


NOWCAST.SU UIUN 142300Z 18003MPS 9999 BKN012 M09/M11 Q1014 NOSIG
AUTOTAF.ME UIUN 141900Z 1420/1505 VRB02MPS 9999 BKN025 TXM04/1504Z TNM11/1420Z
BECMG 1421/1422 BKN002
BECMG 1422/1423 BKN015
FM150200 17004MPS 5000 HZ OVC025
FM150300 17004MPS 0500 FZFG VV025
BECMG 1503/1504 +SN HZ
 
Улан-Удэ (Байкал)
METAR UIUU 142300Z VRB01MPS 9999 NSC M04/M07 Q1016 R26/CLRD60 NOSIG RMK QFE718/0958


NOWCAST.SU UIUU 142300Z VRB02MPS 9999 BKN012 M05/M09 Q1017 NOSIG
AUTOTAF.ME UIUU 141900Z 1420/1505 VRB02MPS CAVOK TX10/1505Z TNM08/1420Z
BECMG 1422/1423 BKN015
BECMG 1500/1501 BKN025
BECMG 1501/1502 NSC
TAF UIUU 142000Z 1421/1521 26003G08MPS 9999 NSC=
Кабанск
SYNAR 30823 Улан-Удэ 142100Z 00000MPS //// SKC M05/M08 Q1017 RMK QFE717/0956 CLD:SKC
(110/66KM)


NOWCAST.SU UIUX 142300Z VRB02MPS 9999 FEW270 M01/M07 Q1016 NOSIG
AUTOTAF.ME UIUX 141900Z 1420/1505 VRB02MPS CAVOK TX12/1505Z TNM05/1420Z
 
Александрия
SYNAR 33614 Светловодск 142100Z 22004MPS CAVOK 20/06 Q1009 RMK QFE749/0999 CLD:2CI
(10/41KM)


NOWCAST.SU UKBA 142300Z 25009G17MPS 9999 BKN060CB 17/09 Q1012 TEMPO TL0000 VCSH
RMK TURB: MOD FL70/FL80
AUTOTAF.ME UKBA 141900Z 1420/1505 22009G17MPS 9999 VCSH SCT060CB TX17/1420Z TN14/1502Z
TEMPO 1423/1501 VCTS
FM150100 28005G13MPS 9999 VCSH BKN080CB
FM150400 31004MPS CAVOK
 
Киев (Борисполь)
SYNAR 33345 Киев 142100Z 28003MPS CAVOK 14/12 Q1010 RMK QFE742/0990 CLD:7AC
(290/24KM)


NOWCAST.SU UKBB 142300Z 32009G14MPS 9999 -SHRA BKN021CB 13/11 Q1011 NOSIG
RMK TURB: MOD SFC/FL30
AUTOTAF.ME UKBB 141900Z 1420/1505 29010G17MPS 9999 -SHRA SCT040CB TX17/1420Z TN10/1502Z
BECMG 1420/1421 -SHRA DRDU
BECMG 1421/1422 -SHRA
BECMG 1500/1501 33005G10MPS
FM150400 28003MPS CAVOK
 
Белая Церковь
SYNAR 33466 Мироновка 142100Z 27005MPS 9999 RESHRA OVC025CB 15/12 Q1011 RMK QFE744/0992 CLD:8CB
(100/72KM)


NOWCAST.SU UKBC 142300Z 30005G13MPS 9999 -RA BKN018 14/11 Q1012 NOSIG
RMK TURB: MOD SFC/FL30
AUTOTAF.ME UKBC 141900Z 1420/1505 29009G17MPS 9999 -SHRA BKN060CB TX18/1420Z TN11/1503Z
FM142200 30009G15MPS CAVOK
FM142300 30005G13MPS 9999 -RA BKN015
FM150000 30005G13MPS 5000 -RA BR BKN025
FM150100 29004MPS CAVOK
 
Конотоп
SYNAR 33261 Конотоп 142100Z 26001MPS 4000 BR NSC 13/11 Q1007 RMK QFE742/0989 CLD:6AC


NOWCAST.SU UKBF 142300Z 30011G17MPS 9999 FEW110 12/09 Q1009 NOSIG
RMK TURB: MOD SFC/FL30
AUTOTAF.ME UKBF 141900Z 1420/1505 27010G17MPS 2500 BKN015CB TX15/1420Z TN07/1503Z
TEMPO 1420/1421 -TSRA
FM142100 28011G17MPS 5000 -SHRA BR BKN008CB
FM142200 29011G17MPS 9999 -SHRA BKN025CB
FM142300 30011G17MPS CAVOK
 
Кировоград (Фёдоровка)
SYNAR 33711 Кропивницкий 142100Z 22006MPS CAVOK 18/08 Q1010 RMK QFE742/0990 CLD:8CI
(0/17KM)


NOWCAST.SU UKBK 142300Z 27009G17MPS 9999 OVC157CB 16/09 Q1013 TEMPO VCSH TEMPO TL0000 VCSH
AUTOTAF.ME UKBK 141900Z 1420/1505 25009G17MPS 9999 VCSH BKN140CB TX17/1420Z TN14/1502Z
TEMPO 1421/1424 VCTS
BECMG 1423/1500 VCSH
BECMG 1501/1502 30004MPS
FM150400 31004MPS CAVOK
BECMG 1504/1505 BKN025TCU
 
Киев (Наливайковка)
SYNAR 33345 Киев 142100Z 28003MPS CAVOK 14/12 Q1010 RMK QFE742/0990 CLD:7AC
(100/60KM)


NOWCAST.SU UKBN 142300Z 31005G13MPS 9999 -SHRA BKN057CB 12/11 Q1013 NOSIG
RMK TURB: MOD SFC/FL30
AUTOTAF.ME UKBN 141900Z 1420/1505 29009G16MPS 5000 -SHRA BR BKN080CB TX15/1420Z TN10/1502Z
FM142100 30009G15MPS 9999 -SHRA BKN060CB
FM142200 31005G13MPS 9999 -RA NSC
FM142300 31005G13MPS 9999 -SHRA BKN060CB
FM150000 31004MPS 7000 -SHRA BR BKN040CB
FM150100 30004MPS 1200 BR OVC004
FM150400 26004MPS CAVOK
 
Донецк
SYNAR 34415 Изюм 142100Z 00000MPS CAVOK 15/05 Q1010 RMK QFE750/1000 CLD:5CI
(350/127KM)


NOWCAST.SU UKCC 142300Z 22005G13MPS 9999 BKN065 15/06 Q1013 NOSIG
RMK TURB: MOD FL40/FL50
AUTOTAF.ME UKCC 141900Z 1420/1505 23003MPS CAVOK TX15/1420Z TN14/1502Z
BECMG 1423/1500 23009G17MPS
FM150200 23010G18MPS 9999 VCSH BKN040CB
TEMPO 1503/1504 VCTS
FM150400 25010G18MPS 9999 VCSH BKN015CB
 
Новоайдар
SYNAR 34438 Миллерово 142100Z 18001MPS CAVOK 13/05 Q1012 RMK QFE744/0993 CLD:7AC
(90/93KM)


NOWCAST.SU UKCD 142300Z 22005G13MPS 9999 SCT043 14/05 Q1011 NOSIG
RMK TURB: MOD FL50/FL60
AUTOTAF.ME UKCD 141900Z 1420/1505 22003MPS CAVOK TX15/1420Z TN13/1422Z
BECMG 1421/1422 BKN040
BECMG 1423/1500 22009G17MPS
FM150100 23010G18MPS 9999 VCSH BKN040CB
BECMG 1501/1502 -SHRA
FM150300 24010G18MPS 9999 -SHRA BKN015CB
 
Краматорск
SYNAR 34415 Изюм 142100Z 00000MPS CAVOK 15/05 Q1010 RMK QFE750/1000 CLD:5CI
(340/58KM)


NOWCAST.SU UKCK 142300Z 22009G17MPS 9999 BKN058 14/07 Q1012 NOSIG
RMK TURB: MOD FL50/FL60
AUTOTAF.ME UKCK 141900Z 1420/1505 22004MPS 9999 BKN040 TX16/1505Z TN14/1421Z
FM142300 22009G17MPS CAVOK
FM150100 23011G19MPS 9999 -SHRA BKN060CB
BECMG 1504/1505 VCSH
 
Мариуполь
SYNAR 34727 Ейск 142100Z 21006MPS CAVOK 13/10 Q1013 RMK QFE759/1012 CLD:SKC
(120/69KM)


NOWCAST.SU UKCM 142300Z 24006MPS 9999 SCT047 14/08 Q1015 NOSIG
RMK TURB: MOD FL40/FL50
AUTOTAF.ME UKCM 141900Z 1420/1505 23005MPS CAVOK TX15/1505Z TN14/1420Z
BECMG 1422/1423 SCT040
BECMG 1423/1500 NSC
FM150200 25008G15MPS 9999 VCSH BKN060CB
BECMG 1503/1504 -SHRA
FM150500 23009G15MPS 9999 VCSH OVC060CB
 
Северодонецк
SYNAR 34415 Изюм 142100Z 00000MPS CAVOK 15/05 Q1010 RMK QFE750/1000 CLD:5CI
(290/96KM)


NOWCAST.SU UKCS 142300Z 22009G17MPS 9999 BKN062 14/06 Q1010 NOSIG
RMK TURB: MOD FL50/FL60
AUTOTAF.ME UKCS 141900Z 1420/1505 22003MPS 9999 BKN040 TX16/1505Z TN14/1420Z
FM142300 22009G17MPS CAVOK
BECMG 1423/1500 BKN040
FM150200 23010G18MPS 9999 BKN025CB
TEMPO 1502/1505 -TSRA
BECMG 1502/1503 BKN015CB
BECMG 1504/1505 -SHRA
 
Луганск
SYNAR 34535 Каменск-Шахтинский 142100Z 21003MPS CAVOK 13/06 Q1012 RMK QFE754/1005 CLD:SKC
(100/70KM)


NOWCAST.SU UKCW 142300Z 21005G13MPS 9999 BKN042 14/06 Q1012 NOSIG
RMK TURB: MOD FL40/FL50
AUTOTAF.ME UKCW 141900Z 1420/1505 21003MPS CAVOK TX16/1505Z TN14/1420Z
BECMG 1422/1423 BKN040
FM150100 22009G17MPS CAVOK
BECMG 1502/1503 BKN040
BECMG 1503/1504 -RA
FM150500 26012G17MPS 9999 -SHRA BKN025CB
 
Енакиево
SYNAR 34720 Таганрог 142100Z 24004MPS CAVOK 15/12 Q1015 RMK QFE758/1010 CLD:SKC
(150/121KM)


NOWCAST.SU UKCY 142300Z 23004MPS 9999 OVC250 14/06 Q1013 NOSIG
RMK TURB: MOD FL40/FL50
AUTOTAF.ME UKCY 141900Z 1420/1505 25003MPS CAVOK TX15/1504Z TN14/1420Z
FM150000 23005G13MPS 9999 VCSH SCT040CB
BECMG 1501/1502 23009G17MPS
FM150300 24009G17MPS 7000 -SHRA OVC040CB
TEMPO 1504/1505 VCTS
BECMG 1504/1505 VCSH
 
Бердянск
SYNAR 34727 Ейск 142100Z 21006MPS CAVOK 13/10 Q1013 RMK QFE759/1012 CLD:SKC
(90/115KM)


NOWCAST.SU UKDB 142300Z 24004MPS 9999 BKN250 14/09 Q1015 NOSIG
RMK TURB: MOD FL40/FL50
AUTOTAF.ME UKDB 141900Z 1420/1505 23003MPS CAVOK TX16/1505Z TN14/1420Z
BECMG 1420/1421 BKN040
BECMG 1422/1423 NSC
BECMG 1501/1502 25008G16MPS
FM150300 25008G16MPS 9999 VCSH OVC060CB
 
Днепр
SYNAR 34504 Днепропетровск 142100Z 23005MPS CAVOK 16/06 Q1012 RMK QFE745/0994 CLD:3CI
(340/29KM)


NOWCAST.SU UKDD 142300Z 24010G18MPS 9999 BKN043CB 16/09 Q1011 TEMPO TL0000 -SHRA
RMK TURB: MOD SFC/FL70
AUTOTAF.ME UKDD 141900Z 1420/1505 22005G12MPS CAVOK TX16/1420Z TN15/1500Z
FM142200 23008G16MPS 9999 VCSH BKN060CB
FM142300 24010G18MPS 9999 BKN040CB
TEMPO 1423/1502 -TSRA
FM150200 26005G13MPS 9999 BKN025CB
TEMPO 1502/1503 TS
FM150300 28005G13MPS 9999 VCSH BKN015CB
FM150500 30005G12MPS 9999 BKN025TCU
 
Запорожье (Мокрая)
SYNAR 34504 Днепропетровск 142100Z 23005MPS CAVOK 16/06 Q1012 RMK QFE745/0994 CLD:3CI
(340/85KM)


NOWCAST.SU UKDE 142300Z 24010G18MPS 9999 VCSH BKN061CB 15/09 Q1013 TEMPO FM0100 TS
RMK TURB: MOD FL50/FL60
AUTOTAF.ME UKDE 141900Z 1420/1505 22004MPS CAVOK TX16/1420Z TN14/1503Z
FM142100 22005G13MPS 9999 VCSH BKN190CB
BECMG 1421/1422 23009G17MPS
TEMPO 1501/1503 TS
BECMG 1502/1503 VCSH
 
Мелитополь
 


NOWCAST.SU UKDM 142300Z 23008G16MPS 9999 BKN064 15/09 Q1015 NOSIG
RMK TURB: MOD FL50/FL70
AUTOTAF.ME UKDM 141900Z 1420/1505 24003MPS 9999 BKN040 TX17/1420Z TN14/1502Z
BECMG 1420/1421 NSC
BECMG 1422/1423 23008G16MPS
FM150200 24009G17MPS 9999 VCSH BKN060CB
 
Кривой Рог (Лозоватка)
SYNAR 33791 Кривой Рог 142100Z 24004MPS CAVOK 16/10 Q1015 RMK QFE750/1000 CLD:8ACCI


NOWCAST.SU UKDR 142300Z 24008G15MPS 9999 VCSH OVC138CB 15/09 Q1013 NOSIG
RMK TURB: MOD FL70/FL90
AUTOTAF.ME UKDR 141900Z 1420/1505 22005G13MPS CAVOK TX16/1420Z TN14/1503Z
FM142100 22009G17MPS 9999 VCSH SCT060CB
BECMG 1501/1502 28004MPS
 
Днепропетровск (Майское)
SYNAR 34504 Днепропетровск 142100Z 23005MPS CAVOK 16/06 Q1012 RMK QFE745/0994 CLD:3CI
(280/50KM)


NOWCAST.SU UKEM 142300Z 23010G18MPS 9999 BKN044CB 15/09 Q1011 TEMPO TS TEMPO TL0000 TS
AUTOTAF.ME UKEM 141900Z 1420/1505 21005G13MPS CAVOK TX16/1420Z TN15/1423Z
FM142300 23010G18MPS 9999 BKN040CB
TEMPO 1423/1424 TS
BECMG 1423/1500 NSW
TEMPO 1424/1502 -TSRA
TEMPO 1502/1503 TS
BECMG 1502/1503 VCSH
FM150500 29009MPS 9999 BKN025TCU
 
Бахчисарай
SYNAR 33946 Симферополь 142100Z 19005MPS CAVOK 11/09 Q1019 RMK QFE747/0996 CLD:3CI
(20/34KM)


NOWCAST.SU UKFC 142300Z 34003MPS 9999 FEW190 11/07 Q1020 NOSIG
AUTOTAF.ME UKFC 141900Z 1420/1505 33003MPS CAVOK TX15/1505Z TN11/1420Z
FM150300 VRB02MPS 9999 VCSH BKN060CB
FM150400 VRB02MPS CAVOK
 
Simferopol'
SYNAR 33946 Симферополь 142100Z 19005MPS CAVOK 11/09 Q1019 RMK QFE747/0996 CLD:3CI
(180/30KM)


NOWCAST.SU UKFF 142300Z 22005G11MPS 9999 BKN240 13/09 Q1018 NOSIG
AUTOTAF.ME UKFF 141900Z 1420/1505 23005MPS CAVOK TX16/1505Z TN13/1420Z
 
 


NOSIG
 
Багерово
SYNAR 33983 Керчь 142100Z 00000MPS CAVOK 11/10 Q1017 RMK QFE758/1011 CLD:SKC
(110/15KM)


NOWCAST.SU UKFR 142300Z 25005MPS 9999 SCT260 14/10 Q1017 NOSIG
AUTOTAF.ME UKFR 141900Z 1420/1505 25005MPS 9999 SCT040 TX15/1505Z TN13/1502Z
BECMG 1421/1422 NSC
 
Севастополь (Бухта Круглая)
SYNAR 33998 Ай-Петри 142100Z 32008G12MPS CAVOK 09/02 Q//// RMK CLD:2CI
(110/52KM)


NOWCAST.SU UKFS 142300Z VRB02MPS 9999 SCT260 14/12 Q1019 NOSIG
AUTOTAF.ME UKFS 141900Z 1420/1505 VRB02MPS CAVOK TX14/1420Z TN14/1420Z
 
Харьков (Северный)
SYNAR 34300 Харьков 142100Z 20001MPS CAVOK 14/06 Q1010 RMK QFE743/0991 CLD:7AC
(240/12KM)


NOWCAST.SU UKHD 142300Z 23010G18MPS 9999 BKN023CB 15/08 Q1008 TEMPO TL0000 -SHRA
RMK TURB: MOD SFC/FL30
AUTOTAF.ME UKHD 141900Z 1420/1505 22005G13MPS CAVOK TX16/1420Z TN13/1502Z
BECMG 1420/1421 BKN040
FM142200 22009G17MPS 9999 VCSH BKN040CB
FM142300 23010G18MPS 9999 BKN025CB
TEMPO 1423/1502 -TSRA
BECMG 1423/1500 BKN015CB
FM150200 28010G17MPS 9999 VCSH DRDU BKN040CB
FM150300 30010G16MPS CAVOK
 
Харьков (Основа)
SYNAR 34300 Харьков 142100Z 20001MPS CAVOK 14/06 Q1010 RMK QFE743/0991 CLD:7AC
(290/12KM)


NOWCAST.SU UKHH 142300Z 23010G18MPS 9999 BKN023CB 15/08 Q1008 TEMPO TL0000 -SHRA
RMK TURB: MOD SFC/FL30
AUTOTAF.ME UKHH 141900Z 1420/1505 22005G13MPS CAVOK TX16/1420Z TN13/1503Z
BECMG 1420/1421 BKN040
FM142200 22009G17MPS 9999 VCSH BKN040CB
FM142300 23010G18MPS 9999 BKN025CB
TEMPO 1423/1502 -TSRA
FM150000 24010G18MPS 5000 BKN015CB
BECMG 1500/1501 9999
FM150200 28010G17MPS 9999 VCSH BKN040CB
FM150300 30010G16MPS CAVOK
 
Кременчуг (Большая Кахновка)
SYNAR 33614 Светловодск 142100Z 22004MPS CAVOK 20/06 Q1009 RMK QFE749/0999 CLD:2CI
(240/19KM)


NOWCAST.SU UKHK 142300Z 27009G17MPS 9999 -SHRA BKN025CB 16/10 Q1011 NOSIG
RMK TURB: MOD FL30/FL40
AUTOTAF.ME UKHK 141900Z 1420/1505 23009G17MPS 9999 VCSH SCT060CB TX17/1420Z TN13/1503Z
BECMG 1421/1422 -SHRA
BECMG 1423/1500 BKN015CB
BECMG 1500/1501 29009G15MPS
FM150200 29005G13MPS 9999 VCSH BKN008 BKN010CB
FM150300 30004MPS 9999 BKN008
FM150400 30004MPS 9999 BKN015
FM150500 30005G12MPS 9999 BKN025
 
Полтава-национальный (Супруновка)
SYNAR 33506 Полтава 142100Z 20003MPS CAVOK 17/07 Q1009 RMK QFE742/0989 CLD:8AC
(70/12KM)


NOWCAST.SU UKHP 142300Z 27009G17MPS 9999 SCT021CB 15/09 Q1010 TEMPO TL0000 -SHRA
RMK TURB: MOD FL30/FL40
AUTOTAF.ME UKHP 141900Z 1420/1505 24009G17MPS 9999 VCSH BKN040CB TX16/1420Z TN12/1503Z
TEMPO 1421/1422 TS
BECMG 1421/1422 NSW
TEMPO 1422/1424 -TSRA
FM150000 27009G17MPS 8000 -SHRA HZ BKN015CB
FM150100 28009G16MPS 9999 -SHRA BKN008CB
FM150200 29009G15MPS 9999 VCSH BKN015CB
FM150400 30009G14MPS CAVOK
 
Сумы
SYNAR 33275 Сумы 142100Z 23006MPS 9999 -SHRA BKN020CB 15/08 Q1006 RMK QFE738/0984 CLD:8CBAC


NOWCAST.SU UKHS 142300Z 28009G16MPS 9999 -SHRA BKN011CB 14/11 Q1006 NOSIG
RMK TURB: MOD SFC/FL30
AUTOTAF.ME UKHS 141900Z 1420/1505 23009G16MPS 9999 -SHRA BKN040CB TX15/1420Z TN09/1503Z
BECMG 1421/1422 BKN015CB
BECMG 1422/1423 BKN008CB
FM150000 29010G16MPS 9999 -SHRA BKN015CB
FM150100 30010G16MPS CAVOK
BECMG 1502/1503 30005G13MPS
 
Чугуев
SYNAR 34300 Харьков 142100Z 20001MPS CAVOK 14/06 Q1010 RMK QFE743/0991 CLD:7AC
(290/39KM)


NOWCAST.SU UKHW 142300Z 23010G18MPS 9999 BKN023CB 15/08 Q1008 TEMPO TL0000 -SHRA
RMK TURB: MOD SFC/FL30
AUTOTAF.ME UKHW 141900Z 1420/1505 22005G13MPS CAVOK TX15/1420Z TN13/1503Z
BECMG 1420/1421 BKN040
FM142200 22009G17MPS 9999 VCSH BKN040CB
FM142300 23010G18MPS 9999 BKN025CB
TEMPO 1423/1502 -TSRA
BECMG 1423/1500 BKN015CB
FM150200 28010G17MPS 9999 VCSH BKN040CB
FM150300 30010G16MPS 9999 DRDU BKN025
FM150400 30010G15MPS CAVOK
 
Черкассы
SYNAR 33466 Мироновка 142100Z 27005MPS 9999 RESHRA OVC025CB 15/12 Q1011 RMK QFE744/0992 CLD:8CB
(290/77KM)


NOWCAST.SU UKKE 142300Z 29009G16MPS 9999 VCSH SCT116CB 16/12 Q1011 NOSIG
RMK TURB: MOD SFC/FL30
AUTOTAF.ME UKKE 141900Z 1420/1505 25009G17MPS 9999 -SHRA BKN040CB TX17/1420Z TN12/1503Z
BECMG 1422/1423 VCSH
FM150000 30009G14MPS CAVOK
BECMG 1500/1501 31005G13MPS
BECMG 1502/1503 BKN025
FM150400 31004MPS CAVOK
 
Кировоград
SYNAR 33711 Кропивницкий 142100Z 22006MPS CAVOK 18/08 Q1010 RMK QFE742/0990 CLD:8CI


NOWCAST.SU UKKG 142300Z 26005G13MPS 9999 BKN060CB 17/09 Q1012 TEMPO TL0000 VCSH
RMK TURB: MOD FL70/FL80
AUTOTAF.ME UKKG 141900Z 1420/1505 23009G17MPS 9999 VCSH BKN060CB TX18/1420Z TN14/1503Z
TEMPO 1422/1424 VCTS
BECMG 1423/1500 VCSH
BECMG 1500/1501 29005G13MPS
FM150400 31004MPS CAVOK
BECMG 1504/1505 BKN025TCU
 
Киев (Жуляны им. И.И.Сикорского)
SYNAR 33345 Киев 142100Z 28003MPS CAVOK 14/12 Q1010 RMK QFE742/0990 CLD:7AC


NOWCAST.SU UKKK 142300Z 31005G13MPS 9999 VCSH BKN023CB 13/11 Q1012 NOSIG
RMK TURB: MOD SFC/FL30
AUTOTAF.ME UKKK 141900Z 1420/1505 29009G15MPS 2500 -SHRA SCT040CB TX16/1420Z TN11/1502Z
BECMG 1420/1421 9999
BECMG 1422/1423 VCSH
FM150100 31004MPS 9999 BKN025TCU
FM150200 VRB02MPS 2500 BR BKN004
FM150400 27003MPS CAVOK
 
Киев (Киев/Антонов Международный)
SYNAR 33345 Киев 142100Z 28003MPS CAVOK 14/12 Q1010 RMK QFE742/0990 CLD:7AC
(130/35KM)


NOWCAST.SU UKKM 142300Z 31005G13MPS 9999 -SHRA SCT059CB 12/11 Q1012 NOSIG
RMK TURB: MOD SFC/FL30
AUTOTAF.ME UKKM 141900Z 1420/1505 29009G17MPS 9999 -SHRA BKN040CB TX15/1420Z TN09/1503Z
BECMG 1423/1500 VCSH
FM150100 30004MPS 9999 SCT025
FM150200 28003MPS 2500 BR OVC004
FM150400 26003MPS CAVOK
 
Житомир (Смаковка)
SYNAR 33325 Житомир 142100Z 27001MPS 4000 BR FEW020CB 13/12 Q1013 RMK QFE739/0986 CLD:8CBAC


NOWCAST.SU UKKV 142300Z 30005G13MPS 9999 BKN049 13/11 Q1013 NOSIG
RMK TURB: MOD SFC/FL30
AUTOTAF.ME UKKV 141900Z 1420/1505 29009G15MPS 5000 -SHRA BR BKN060CB TX15/1420Z TN10/1502Z
FM142100 30005G13MPS 9999 -RA BKN040
BECMG 1421/1422 -RA BR
BECMG 1500/1501 29004MPS
BECMG 1501/1502 NSC
 
Самбор (Калинов)
SYNAR 33393 Львов 142100Z 31003MPS 9999 RESHRA NSC 14/11 Q1015 RMK QFE732/0976 CLD:6AC
(60/53KM)


NOWCAST.SU UKLA 142300Z 28003MPS 9999 BKN017 14/10 Q1016 NOSIG
AUTOTAF.ME UKLA 141900Z 1420/1505 29003MPS 9999 -SHRA BKN015CB TX16/1420Z TN12/1502Z
FM150200 VRB02MPS 9999 VCSH BKN015CB
FM150300 VRB02MPS 5000 VCSH BR BKN015CB
FM150400 VRB02MPS 9999 VCSH BKN015CB
BECMG 1504/1505 BKN025CB
 
Ивано-Франковск
SYNAR 33526 Ивано-Франковск 142100Z 29001MPS CAVOK 17/10 Q1015 RMK QFE736/0981 CLD:3AC


NOWCAST.SU UKLI 142300Z 32003MPS 9999 -SHRA BKN040CB 14/11 Q1017 NOSIG
AUTOTAF.ME UKLI 141900Z 1420/1505 29004MPS 9999 -SHRA BKN025CB TX17/1420Z TN12/1502Z
BECMG 1423/1500 VCSH
 
Львов (Международный)
SYNAR 33393 Львов 142100Z 31003MPS 9999 RESHRA NSC 14/11 Q1015 RMK QFE732/0976 CLD:6AC


NOWCAST.SU UKLL 142300Z 28003MPS 9999 -RA BKN054 13/10 Q1016 NOSIG
AUTOTAF.ME UKLL 141900Z 1420/1505 30003MPS 9999 VCSH BKN015CB TX15/1420Z TN12/1500Z
FM142100 VRB02MPS 9999 BKN040
BECMG 1421/1422 -RA
BECMG 1422/1423 NSC
BECMG 1423/1500 BKN040
FM150100 VRB02MPS 9999 -RA NSC
FM150200 VRB02MPS 9999 -RA BKN025
 
Черновцы
SYNAR 33658 Черновцы 142100Z 26003MPS CAVOK 20/09 Q1014 RMK QFE738/0984 CLD:3AC
(330/14KM)


NOWCAST.SU UKLN 142300Z 29003MPS 9999 BKN058CB 16/11 Q1016 TEMPO VCSH TEMPO TL0000 VCSH
AUTOTAF.ME UKLN 141900Z 1420/1505 28003MPS 9999 -SHRA BKN025CB TX18/1420Z TN13/1503Z
TEMPO 1420/1422 5000 SHRA
BECMG 1421/1422 NSW
TEMPO 1422/1423 -TSRA
TEMPO 1423/1424 VCTS
FM150000 VRB02MPS 9999 VCSH BKN015CB
BECMG 1500/1501 BKN060CB
TEMPO 1504/1505 VCTS
BECMG 1504/1505 BKN015CB
 
Ровно
SYNAR 33301 Ровно 142100Z 29003MPS CAVOK 13/13 Q1014 RMK QFE739/0986 CLD:5CI


NOWCAST.SU UKLR 142300Z 29003MPS 9999 -RA BKN019 11/10 Q1015 NOSIG
AUTOTAF.ME UKLR 141900Z 1420/1505 29004MPS 9999 VCSH BKN025CB TX14/1420Z TN09/1502Z
BECMG 1420/1421 -RA
BECMG 1421/1422 BKN015
BECMG 1501/1502 NSC
FM150300 26003MPS 9000 BR NSC
FM150500 27003MPS 9999 SCT040TCU
 
Староконстантинов
SYNAR 33429 Хмельницкий 142100Z 34008MPS 9999 -SHRA BKN025CB 15/10 Q1014 RMK QFE729/0972 CLD:8CBAC
(210/41KM)


NOWCAST.SU UKLS 142300Z 30004MPS 9999 -RA SCT033 13/12 Q1014 NOSIG
RMK TURB: MOD FL30/FL40
AUTOTAF.ME UKLS 141900Z 1420/1505 30009G15MPS 9999 VCSH BKN080CB TX17/1420Z TN11/1503Z
FM142200 30004MPS 9999 -RA BKN025
BECMG 1500/1501 NSC
 
Ужгород
SYNAR 33631 Ужгород 142100Z 00000MPS CAVOK 15/12 Q1016 RMK QFE750/1001 CLD:5ACCI


NOWCAST.SU UKLU 142300Z VRB02MPS 9999 FEW200 15/11 Q1016 TEMPO FM0100 3000 SHRA
AUTOTAF.ME UKLU 141900Z 1420/1505 VRB02MPS 9999 VCSH BKN170CB TX17/1420Z TN13/1502Z
TEMPO 1421/1422 5000 SHRA
FM142200 VRB02MPS CAVOK
FM150000 VRB02MPS 9999 VCSH BKN008CB
TEMPO 1424/1502 3000 SHRA
FM150200 VRB02MPS 9999 BKN015CB
TEMPO 1502/1503 3000 VCTS
FM150300 VRB02MPS 1200 SHRA BR BKN004 BKN010CB
FM150400 11003MPS 9999 BKN015CB
TEMPO 1504/1505 5000 -TSRA
 
Львовский аэропорт Ягеллон
SYNAR 33393 Львов 142100Z 31003MPS 9999 RESHRA NSC 14/11 Q1015 RMK QFE732/0976 CLD:6AC
(60/22KM)


NOWCAST.SU UKMC 142300Z 28003MPS 9999 -RA BKN017 13/11 Q1016 NOSIG
AUTOTAF.ME UKMC 141900Z 1420/1505 29003MPS 9999 -SHRA BKN015CB TX15/1420Z TN12/1500Z
BECMG 1420/1421 BKN008CB
FM142200 28003MPS 9999 -RA BKN015
FM150200 VRB02MPS 9999 -SHRA BKN015CB
FM150300 VRB02MPS 5000 VCSH BR BKN015CB
FM150400 VRB02MPS 9999 VCSH BKN015CB
BECMG 1504/1505 BKN025CB
 
Киев (Гоголев)
SYNAR 33345 Киев 142100Z 28003MPS CAVOK 14/12 Q1010 RMK QFE742/0990 CLD:7AC
(250/36KM)


NOWCAST.SU UKNG 142300Z 32009G14MPS 9999 -SHRA BKN021CB 13/11 Q1011 NOSIG
RMK TURB: MOD SFC/FL30
AUTOTAF.ME UKNG 141900Z 1420/1505 29010G17MPS 2500 -SHRA SCT040CB TX16/1420Z TN09/1503Z
BECMG 1420/1421 9999
BECMG 1423/1500 -RA
FM150100 33005G10MPS 9999 BKN040
BECMG 1503/1504 NSC
 
Арциз (Червоноглинская)
SYNAR 33886 Чадыр-Лунга 142100Z 23004MPS CAVOK 19/10 Q1027 RMK QFE754/1005 CLD:5CI
(300/41KM)


NOWCAST.SU UKOA 142300Z 28004MPS 9999 VCSH SCT187CB 17/07 Q1016 NOSIG
AUTOTAF.ME UKOA 141900Z 1420/1505 23004MPS CAVOK TX19/1420Z TN16/1501Z
FM142300 28004MPS 9999 VCSH SCT190CB
FM150000 29003MPS CAVOK
 
Одесса (Гидропорт)
SYNAR 33837 Одесса 142100Z 24004MPS CAVOK 20/11 Q1014 RMK QFE756/1008 CLD:8ACCS
(160/17KM)


NOWCAST.SU UKOE 142300Z 28004MPS 9999 VCSH BKN188CB 18/10 Q1015 NOSIG
RMK TURB: MOD FL70/FL80
AUTOTAF.ME UKOE 141900Z 1420/1505 21005G13MPS CAVOK TX19/1420Z TN17/1501Z
FM142300 28004MPS 9999 VCSH BKN190CB
FM150300 30003MPS CAVOK
FM150400 31003MPS 9999 VCSH BKN170CB
FM150500 31003MPS CAVOK
 
Херсон (Чернобаевка)
SYNAR 33902 Херсон 142100Z 22003MPS CAVOK 16/11 Q1015 RMK QFE756/1008 CLD:8CI


NOWCAST.SU UKOH 142300Z 22007G15MPS 9999 FEW210 16/11 Q1015 NOSIG
RMK TURB: MOD SFC/FL70
AUTOTAF.ME UKOH 141900Z 1420/1505 22007G15MPS CAVOK TX16/1420Z TN14/1503Z
FM150100 22005G10MPS 9999 VCSH BKN190CB
BECMG 1503/1504 VRB02MPS
 
Николаев (Международный)
SYNAR 33902 Херсон 142100Z 22003MPS CAVOK 16/11 Q1015 RMK QFE756/1008 CLD:8CI
(130/69KM)


NOWCAST.SU UKON 142300Z 22005G10MPS 9999 VCSH BKN163CB 16/10 Q1015 NOSIG
RMK TURB: MOD SFC/FL70
AUTOTAF.ME UKON 141900Z 1420/1505 22005G12MPS CAVOK TX17/1505Z TN15/1501Z
FM142100 22006G14MPS 9999 VCSH SCT060CB
FM142200 22005G12MPS CAVOK
FM142300 22005G10MPS 9999 VCSH BKN170CB
BECMG 1502/1503 VRB02MPS
 
Одесса (Центральный)
SYNAR 33837 Одесса 142100Z 24004MPS CAVOK 20/11 Q1014 RMK QFE756/1008 CLD:8ACCS


NOWCAST.SU UKOO 142300Z 28004MPS 9999 VCSH BKN188CB 18/10 Q1015 NOSIG
RMK TURB: MOD FL70/FL80
AUTOTAF.ME UKOO 141900Z 1420/1505 21005G13MPS CAVOK TX19/1420Z TN17/1501Z
FM142300 28004MPS 9999 VCSH BKN190CB
FM150300 30003MPS CAVOK
FM150400 31003MPS 9999 VCSH BKN170CB
FM150500 31003MPS CAVOK
 
Нежин
SYNAR 33135 Чернигов 142100Z 27004MPS //// SCT020CB 13/11 Q1012 RMK QFE746/0995 CLD:8CBACCS
(310/60KM)


NOWCAST.SU UKRN 142300Z 30010G17MPS 9999 FEW230 12/09 Q1010 NOSIG
RMK TURB: MOD SFC/FL30
AUTOTAF.ME UKRN 141900Z 1420/1505 28009G17MPS 9999 -SHRA SCT060CB TX15/1420Z TN07/1503Z
FM142300 30010G17MPS CAVOK
BECMG 1502/1503 28004MPS
 
Винница (Гавришовка)
SYNAR 33562 Винница 142100Z 34002MPS CAVOK 16/12 Q1020 RMK QFE738/0984 CLD:5ACCI


NOWCAST.SU UKWW 142300Z 30004MPS 9999 -SHRA SCT232CB 15/11 Q1014 NOSIG
AUTOTAF.ME UKWW 141900Z 1420/1505 28005G13MPS 9999 -SHRA BKN060CB TX17/1420Z TN12/1503Z
BECMG 1423/1500 VCSH
FM150100 31004MPS CAVOK
 
Архангельск (Талаги)
METAR ULAA 142300Z 16003MPS 130V200 1200 0750S R08/2000N PRFG OVC005 04/04 Q0994 R08/290060 NOSIG RMK QBB150 QFE744/0992


NOWCAST.SU ULAA 142300Z VRB02MPS 0200 DZ FG VV001 03/03 Q0994 NOSIG
RMK TURB: MOD FL50/FL60
AUTOTAF.ME ULAA 141900Z 1420/1505 VRB02MPS 0200 DZ FG VV002 TX03/1420Z TN02/1500Z
BECMG 1423/1500 FG
TAF ULAA 142000Z 1421/1521 16003MPS 5000 -SHRA BR BKN005 BKN011CB
TEMPO 1421/1503 0400 SHRA FG BKN002 BKN010CB
FM150600 09003MPS 6000 -RA OVC011
BECMG 1511/1514 04003MPS
TEMPO 1514/1518 BKN005=
Северодвинск
SYNAR 22546 Северодвинск 142100Z 16002MPS 2000 BR OVC003 04/04 Q995 RMK QFE745/0993 CLD:8ST


NOWCAST.SU ULAD 142300Z VRB02MPS 0200 DZ FG BKN001 03/03 Q0994 NOSIG
RMK TURB: MOD FL50/FL60
AUTOTAF.ME ULAD 141900Z 1420/1505 VRB02MPS 2500 BR BKN002 TX04/1505Z TN02/1502Z
FM142100 VRB02MPS 0200 FG BKN002
BECMG 1422/1423 DZ FG
BECMG 1501/1502 FG
BECMG 1503/1504 OVC004
 
Мезень
SYNAR 22471 Мезень 142100Z 15004MPS 9999 -RA OVC018 03/01 Q997 RMK QFE745/0994 CLD:8NS


NOWCAST.SU ULAE 142300Z 15003MPS 0500 +DZ FG VV003 02/02 Q0996 NOSIG
AUTOTAF.ME ULAE 141900Z 1420/1505 16004MPS 0500 RA FG VV004 TX02/1420Z TN02/1420Z
BECMG 1422/1423 +DZ FG
BECMG 1423/1500 DZ FG
BECMG 1501/1502 OVC002
FM150300 14003MPS 0500 RA FG VV002
FM150400 14003MPS 0500 +DZ FG VV004
FM150500 15003MPS 0500 +DZ FG VV008
 
Архангельск (Васьково)
SYNAR 22550 Архангельск 142100Z 12002MPS 1600 BR OVC004 03/03 Q995 RMK QFE745/0993 CLD:8ST
(70/16KM)


NOWCAST.SU ULAH 142300Z VRB02MPS 0200 DZ FG VV001 03/03 Q0994 NOSIG
RMK TURB: MOD FL50/FL60
AUTOTAF.ME ULAH 141900Z 1420/1505 VRB02MPS 0200 FG VV002 TX03/1420Z TN02/1501Z
BECMG 1422/1423 DZ FG
BECMG 1501/1502 FG
BECMG 1503/1504 OVC004
 
Лешуконское
SYNAR 22573 Лешуконское 142100Z 13004MPS 9999 -RA NSC 02/01 Q998 RMK QFE742/0989 CLD:8AC


NOWCAST.SU ULAL 142300Z 16004MPS 1300 DZ BR OVC003 03/02 Q0997 NOSIG
AUTOTAF.ME ULAL 141900Z 1420/1505 16003MPS 0500 DZ FG VV004 TX03/1420Z TN02/1500Z
FM142100 16003MPS 0500 RA FG VV025
FM142200 16003MPS 0500 DZ FG VV004
FM142300 16004MPS 1200 DZ BR OVC004
BECMG 1502/1503 OVC008
FM150400 15003MPS 0500 +DZ FG VV008
BECMG 1504/1505 OVC004
 
Нарьян-Мар
SYNAR 23205 Нарьян-Мар 142100Z 14003MPS CAVOK M05/M11 Q1004 RMK QFE751/1002 CLD:7AC


NOWCAST.SU ULAM 142300Z 15005G11MPS 2400 BR OVC005 M05/M06 Q1003 NOSIG
AUTOTAF.ME ULAM 141900Z 1420/1505 15005G11MPS 0500 SN FZFG VV004 TXM01/1505Z TNM05/1420Z
FM142200 15005G10MPS 1200 SN BR OVC004
FM142300 15005G11MPS 2500 BR OVC004
BECMG 1501/1502 1200
FM150300 15005MPS 0500 FZFG BKN002
BECMG 1503/1504 +SN FZFG
 
Шенкурск
SYNAR 22768 Шенкурск 142100Z 17003MPS 9999 OVC022 08/00 Q997 RMK QFE744/0992 CLD:8SC


NOWCAST.SU ULAN 142300Z 16004MPS 9999 -RA BKN040 06/04 Q0996 NOSIG
AUTOTAF.ME ULAN 141900Z 1420/1505 17005G13MPS 9999 -DZ NSC TX07/1420Z TN05/1500Z
FM142100 17005G13MPS 9999 -RA OVC025
FM150200 14004MPS 7000 BR BKN040
BECMG 1502/1503 5000
BECMG 1503/1504 OVC015
FM150500 14004MPS 9999 BKN015
 
Онега
SYNAR 22641 Онега 142100Z 00000MPS 9999 OVC005 04/04 Q994 RMK QFE744/0992 CLD:8ST


NOWCAST.SU ULAO 142300Z 11003MPS 0500 FG BKN001 02/02 Q0993 NOSIG
AUTOTAF.ME ULAO 141900Z 1420/1505 13003MPS 0500 FG BKN004 TX03/1420Z TN01/1500Z
BECMG 1421/1422 OVC002
BECMG 1503/1504 BKN004
BECMG 1504/1505 BKN040
 
Карпогоры
SYNAR 22671 Карпогоры 142100Z 15002MPS //// //// 04/M02 Q998 RMK QFE742/0990 CLD:NO_OBSERVATIONS


NOWCAST.SU ULAP 142300Z 16004MPS 3000 -DZ BR OVC005 03/02 Q0997 NOSIG
AUTOTAF.ME ULAP 141900Z 1420/1505 16004MPS 2500 DZ BR OVC004 TX04/1420Z TN03/1421Z
BECMG 1420/1421 -DZ BR
FM150300 15003MPS 1200 +DZ FG VV008
FM150400 15003MPS 0500 +DZ FG BKN002
FM150500 14004MPS 0500 FG BKN004
 
Каргополь
SYNAR 22845 Каргополь 142100Z 15003MPS 9999 BKN010 06/06 Q994 RMK QFE734/0979 CLD:8STAS


NOWCAST.SU ULAR 142300Z 13003MPS 3000 BR OVC006 06/05 Q0992 NOSIG
RMK TURB: MOD SFC/FL30
AUTOTAF.ME ULAR 141900Z 1420/1505 15003MPS 2500 BR OVC004 TX07/1505Z TN05/1421Z
BECMG 1422/1423 OVC008
BECMG 1423/1500 OVC004
BECMG 1500/1501 -DZ BR
FM150300 13004MPS 2500 -RA BR OVC004
FM150500 15004MPS 5000 -SHRA BR BKN004 OVC010CB
 
Соловки
SYNAR 22429 Соловки 142100Z 12001MPS 9999 OVC002 02/02 Q992 RMK QFE743/0991 CLD:8ST


NOWCAST.SU ULAS 142300Z 13003MPS 0200 FG VV001 00/00 Q0992 NOSIG
AUTOTAF.ME ULAS 141900Z 1420/1505 15003MPS 0500 FG VV002 TX01/1420Z TN00/1422Z
 
Нижняя Пеша
SYNAR 22383 Нижняя Пеша 142100Z 15005MPS 2000 -SHSN OVC006CB 00/00 Q1000 RMK QFE748/0997 CLD:8CB


NOWCAST.SU ULAV 142300Z 16005MPS 0200 SN FG VV001 00/00 Q0998 NOSIG
AUTOTAF.ME ULAV 141900Z 1420/1505 16005G11MPS 0500 SN FG VV002 TX02/1505Z TN00/1420Z
BECMG 1423/1500 RASN FG
BECMG 1500/1501 RA FG
FM150400 16005MPS 5000 -DZ BR OVC004
 
Долгощелье
SYNAR 22365 Абрамовский маяк 142100Z 14004MPS 4000 -RA NSC 01/00 Q996 RMK QFE745/0993 CLD:8AS
(350/37KM)


NOWCAST.SU ULBD 142300Z 15003MPS 0500 +DZ FG VV003 02/02 Q0996 NOSIG
AUTOTAF.ME ULBD 141900Z 1420/1505 16003MPS 0500 +DZ FG VV004 TX02/1420Z TN02/1420Z
BECMG 1501/1502 OVC002
BECMG 1502/1503 RA FG
FM150400 VRB02MPS 0500 +DZ FG VV004
BECMG 1504/1505 OVC008
 
Каменка
SYNAR 22471 Мезень 142100Z 15004MPS 9999 -RA OVC018 03/01 Q997 RMK QFE745/0994 CLD:8NS


NOWCAST.SU ULBK 142300Z 15003MPS 0500 +DZ FG VV003 02/02 Q0996 NOSIG
AUTOTAF.ME ULBK 141900Z 1420/1505 16004MPS 0500 RA FG VV004 TX02/1420Z TN02/1420Z
BECMG 1422/1423 +DZ FG
BECMG 1500/1501 DZ FG
BECMG 1502/1503 RA FG
FM150400 14003MPS 0500 +DZ FG VV008
 
Шойна
SYNAR 22271 Шойна 142100Z 13005MPS 9999 OVC020 00/M00 Q997 RMK QFE747/0996 CLD:8SC


NOWCAST.SU ULBO 142300Z 12004MPS 0500 SN FG VV001 00/M01 Q0997 NOSIG
AUTOTAF.ME ULBO 141900Z 1420/1505 13004MPS 0500 FG VV002 TX00/1420Z TN00/1420Z
BECMG 1420/1421 SN FG
 
Верхняя Золотица
SYNAR 22446 Зимнегорский Маяк 142100Z 14004MPS 2000 DZ OVC010 03/03 Q994 RMK QFE738/0984 CLD:8ST
(230/38KM)


NOWCAST.SU ULBW 142300Z VRB02MPS 0200 FG VV002 02/02 Q0994 NOSIG
AUTOTAF.ME ULBW 141900Z 1420/1505 VRB02MPS 0200 +DZ FG VV004 TX03/1505Z TN02/1420Z
BECMG 1421/1422 DZ FG
BECMG 1422/1423 FG
 
Рогачёво (Амдерма-2)
SYNAR 20744 Малые Кармакулы 142100Z 14008MPS 9999 FEW020 M17/M19 Q1009 RMK QFE755/1007 CLD:2SCACCI
(10/83KM)


NOWCAST.SU ULDA 142300Z 08004MPS 9999 OVC012 M16/M18 Q1007 NOSIG
RMK TURB: MOD SFC/FL20
AUTOTAF.ME ULDA 141900Z 1420/1505 08004MPS 0500 FG IC NSC TXM16/1420Z TNM16/1420Z
FM142100 08004MPS 2500 BR BKN008
FM142200 08004MPS 9000 BR BKN040
FM142300 08004MPS 9999 OVC015
BECMG 1500/1501 BKN025
 
Амдерма
SYNAR 23022 Амдерма 142100Z 19007MPS 9999 DRSN OVC029 M16/M18 Q1010 RMK QFE753/1004 CLD:8SC


NOWCAST.SU ULDD 142300Z VRB02MPS 1000 BR OVC003 M21/M23 Q1012 NOSIG
AUTOTAF.ME ULDD 141900Z 1420/1505 VRB02MPS 1200 BR OVC002 TXM15/1505Z TNM22/1420Z
BECMG 1420/1421 OVC004
FM150100 13003MPS 9999 BKN015
BECMG 1501/1502 BKN040
BECMG 1502/1503 NSC
 
МР Титова
SYNAR 23112 Варандей 142100Z 08004MPS CAVOK M18/M20 Q1009 RMK QFE756/1008 CLD:8AS
(340/60KM)


NOWCAST.SU ULDI 142300Z 15003MPS 9999 BKN055 M15/M16 Q1008 NOSIG
AUTOTAF.ME ULDI 141900Z 1420/1505 17003MPS 9999 BKN040 TXM09/1505Z TNM17/1420Z
BECMG 1421/1422 NSC
BECMG 1500/1501 OVC040
FM150200 14004MPS 7000 BR BKN025
FM150300 14004MPS 0500 FZFG NSC
FM150400 14005MPS 0500 +SN FZFG BKN004
BECMG 1504/1505 BKN015
 
МЛСП Приразломная
SYNAR 23112 Варандей 142100Z 08004MPS CAVOK M18/M20 Q1009 RMK QFE756/1008 CLD:8AS
(150/57KM)


NOWCAST.SU ULDP 142300Z 13005MPS 9999 BKN055 M14/M16 Q1009 NOSIG
AUTOTAF.ME ULDP 141900Z 1420/1505 14004MPS 9999 BKN025 TXM11/1505Z TNM14/1420Z
BECMG 1421/1422 NSC
FM150200 13005MPS 8000 BR OVC040
BECMG 1502/1503 1200
FM150400 13005MPS 0500 FZFG VV004
 
МР Требса
SYNAR 23112 Варандей 142100Z 08004MPS CAVOK M18/M20 Q1009 RMK QFE756/1008 CLD:8AS
(50/17KM)


NOWCAST.SU ULDR 142300Z 14004MPS 8000 BR BKN043 M14/M16 Q1008 NOSIG
RMK TURB: MOD SFC/FL20
AUTOTAF.ME ULDR 141900Z 1420/1505 15004MPS CAVOK TXM07/1505Z TNM16/1420Z
FM142300 14004MPS 8000 BR BKN040
FM150000 14005MPS 1200 FZFG NSC
BECMG 1500/1501 0500
FM150500 15004MPS 1200 SN BR BKN015
 
Каратайка
SYNAR 23022 Амдерма 142100Z 19007MPS 9999 DRSN OVC029 M16/M18 Q1010 RMK QFE753/1004 CLD:8SC
(10/112KM)


NOWCAST.SU ULDT 142300Z 12003MPS 9999 OVC035 M20/M22 Q1010 NOSIG
AUTOTAF.ME ULDT 141900Z 1420/1505 11003MPS CAVOK TXM13/1505Z TNM23/1420Z
BECMG 1421/1422 OVC015
BECMG 1422/1423 OVC040
BECMG 1423/1500 NSC
 
Варандей
SYNAR 23112 Варандей 142100Z 08004MPS CAVOK M18/M20 Q1009 RMK QFE756/1008 CLD:8AS


NOWCAST.SU ULDW 142300Z 13005MPS 9999 BKN065 M16/M18 Q1009 NOSIG
AUTOTAF.ME ULDW 141900Z 1420/1505 14004MPS 9999 SCT040 TXM10/1505Z TNM17/1420Z
BECMG 1420/1421 NSC
BECMG 1500/1501 BKN015
FM150200 12004MPS 7000 BR OVC025
FM150300 12004MPS 0500 FZFG VV004
BECMG 1503/1504 NSC
 
Харьягинский
SYNAR 23412 Усть-Уса 142100Z 14003MPS CAVOK M06/M14 Q1008 RMK QFE748/0998 CLD:8AC
(180/139KM)


NOWCAST.SU ULEG 142300Z 15005G11MPS 1500 BR OVC004 M09/M10 Q1006 NOSIG
AUTOTAF.ME ULEG 141900Z 1420/1505 15005MPS 9999 BKN002 TXM04/1505Z TNM11/1420Z
FM142100 15005MPS 5000 BR OVC015
FM142200 15005G10MPS 2500 BR OVC004
BECMG 1422/1423 1200
FM150000 16005G11MPS 0500 FZFG BKN008
BECMG 1500/1501 BKN004
BECMG 1502/1503 BLSN
FM150400 17006G11MPS 0500 FZFG BKN004
 
Хорей-Вер
SYNAR 23112 Варандей 142100Z 08004MPS CAVOK M18/M20 Q1009 RMK QFE756/1008 CLD:8AS
(360/153KM)


NOWCAST.SU ULEH 142300Z 14005MPS 3000 BR BKN001 M12/M14 Q1008 NOSIG
AUTOTAF.ME ULEH 141900Z 1420/1505 14004MPS 9999 BKN015 TXM06/1505Z TNM15/1420Z
FM142200 14004MPS 7000 BR BKN002
BECMG 1422/1423 2500
FM150000 14005MPS 0500 FZFG VV004
BECMG 1500/1501 +SN FZFG
BECMG 1501/1502 BKN002
FM150300 14005G10MPS 0500 +SN FZFG VV004
FM150400 15005G10MPS 0500 +SN FZFG VV015
FM150500 15006G11MPS 0500 FZFG BKN004
 
Индига
SYNAR 22292 Индига 142100Z 13007MPS 5000 -SN OVC010 M02/M03 Q1000 RMK QFE749/0999 CLD:8NS
(280/16KM)


NOWCAST.SU ULEI 142300Z 14004MPS 1100 SN BR OVC001 M02/M02 Q0999 NOSIG
AUTOTAF.ME ULEI 141900Z 1420/1505 15004MPS 2500 -SN BR OVC002 TXM00/1504Z TNM02/1420Z
BECMG 1420/1421 BR
FM142300 14004MPS 1200 SN BR OVC002
FM150000 14004MPS 0500 SN FZFG VV002
FM150200 14004MPS 1200 SN BR OVC002
FM150400 14004MPS 0500 SN FG VV002
 
Коткино
SYNAR 23205 Нарьян-Мар 142100Z 14003MPS CAVOK M05/M11 Q1004 RMK QFE751/1002 CLD:7AC
(50/106KM)


NOWCAST.SU ULEK 142300Z 16004MPS 0500 SN FZFG BKN002 M02/M02 Q1001 NOSIG
AUTOTAF.ME ULEK 141900Z 1420/1505 16005G10MPS 0500 SN FZFG VV008 TXM00/1504Z TNM02/1420Z
BECMG 1420/1421 OVC004
BECMG 1423/1500 BKN002
BECMG 1503/1504 SN FG
 
Южное Шапкино
SYNAR 23114 Мыс Константиновский 142100Z 14006MPS 9999 OVC033 M10/M14 Q1007 RMK QFE754/1006 CLD:8SC
(10/151KM)


NOWCAST.SU ULEU 142300Z 15005G10MPS 0500 SN FZFG VV002 M06/M07 Q1003 NOSIG
AUTOTAF.ME ULEU 141900Z 1420/1505 15005G11MPS 0500 FZFG NSC TXM02/1505Z TNM07/1420Z
BECMG 1420/1421 OVC004
BECMG 1422/1423 SN FZFG
BECMG 1500/1501 +SN FZFG
FM150400 16005G10MPS 0500 +SN FZFG BKN008
FM150500 16005G10MPS 0500 +SN FZFG BKN004
 
Красноборск
SYNAR 22876 Красноборск 142100Z 13002MPS CAVOK 04/M02 Q1002 RMK QFE746/0994 CLD:2AC


NOWCAST.SU ULKB 142300Z 16004MPS 9999 OVC065 04/M01 Q1000 NOSIG
AUTOTAF.ME ULKB 141900Z 1420/1505 17004MPS CAVOK TX05/1505Z TN03/1501Z
BECMG 1500/1501 OVC040
 
Котлас
SYNAR 22887 Котлас 142100Z 13003MPS CAVOK 03/M02 Q1003 RMK QFE747/0996 CLD:5ACCI


NOWCAST.SU ULKK 142300Z 16004MPS 9999 BKN042 03/00 Q1001 NOSIG
AUTOTAF.ME ULKK 141900Z 1420/1505 17004MPS CAVOK TX05/1505Z TN02/1501Z
BECMG 1421/1422 BKN040
BECMG 1423/1500 BKN015
BECMG 1503/1504 BKN040
 
Котлас (Савватия)
SYNAR 22887 Котлас 142100Z 13003MPS CAVOK 03/M02 Q1003 RMK QFE747/0996 CLD:5ACCI
(340/27KM)


NOWCAST.SU ULKS 142300Z 16005G13MPS 9999 BKN140 02/M01 Q1002 NOSIG
RMK TURB: MOD SFC/FL30
AUTOTAF.ME ULKS 141900Z 1420/1505 17004MPS CAVOK TX05/1505Z TN02/1421Z
 
Верхняя Тойма
SYNAR 22778 Верхняя Тойма 142100Z 12003MPS 4000 -SHRA BKN024CB 03/M00 Q1001 RMK QFE745/0993 CLD:8CBAC


NOWCAST.SU ULKT 142300Z 15004MPS 9999 -RA OVC011 04/02 Q0999 NOSIG
AUTOTAF.ME ULKT 141900Z 1420/1505 16004MPS 9999 OVC025 TX05/1505Z TN03/1502Z
BECMG 1420/1421 -RA
BECMG 1421/1422 OVC015
BECMG 1422/1423 OVC008
FM150000 15004MPS 9999 -RA OVC015
FM150100 14004MPS 9999 -RA OVC008
FM150400 13005G13MPS CAVOK
FM150500 13005G13MPS 9999 BKN015
 
Вельск
SYNAR 22869 Шангалы 142100Z 16003MPS 9999 OVC046 08/M00 Q998 RMK QFE738/0984 CLD:8SC
(80/68KM)


NOWCAST.SU ULKW 142300Z 16004MPS 9999 -SHRA BKN014CB 07/05 Q0995 NOSIG
RMK TURB: MOD SFC/FL30
AUTOTAF.ME ULKW 141900Z 1420/1505 16004MPS 2500 -RA BR BKN040 TX07/1420Z TN06/1500Z
BECMG 1420/1421 BKN004
FM142200 16004MPS 7000 -RA BR BKN008
FM142300 16004MPS 9999 -SHRA BKN015CB
BECMG 1501/1502 -RA
FM150300 14004MPS 5000 BR OVC015
BECMG 1503/1504 -RA BR
FM150500 14005G13MPS 2500 -RA BR OVC015
 
Санкт-Петербург (НИИ НМП)
SYNAR 26063 Санкт-Петербург 142100Z 26002MPS 9999 RERA BKN016 05/04 Q992 RMK QFE743/0991 CLD:7SCAC
(340/11KM)


NOWCAST.SU ULLE 142300Z 24004MPS 9999 -RA BKN021 06/03 Q0990 NOSIG
RMK TURB: MOD SFC/FL30
AUTOTAF.ME ULLE 141900Z 1420/1505 26005G13MPS 9999 -RA OVC025 TX06/1420Z TN05/1500Z
BECMG 1501/1502 BKN015 BKN020TCU
FM150300 21003MPS 5000 -RA BR OVC015
BECMG 1504/1505 VRB02MPS
 
Морской Фасад
SYNAR 26063 Санкт-Петербург 142100Z 26002MPS 9999 RERA BKN016 05/04 Q992 RMK QFE743/0991 CLD:7SCAC


NOWCAST.SU ULLF 142300Z 24004MPS 9999 -RA BKN021 05/03 Q0990 NOSIG
RMK TURB: MOD SFC/FL30
AUTOTAF.ME ULLF 141900Z 1420/1505 26005G13MPS 9999 -RA BKN040 TX05/1420Z TN04/1502Z
BECMG 1500/1501 OVC015
FM150200 21003MPS 2500 BR BKN004
FM150300 20003MPS 9999 -RA OVC015
FM150400 VRB02MPS 2500 -DZ BR OVC004
BECMG 1504/1505 -RA BR
 
ГПН-5
SYNAR 26063 Санкт-Петербург 142100Z 26002MPS 9999 RERA BKN016 05/04 Q992 RMK QFE743/0991 CLD:7SCAC


NOWCAST.SU ULLG 142300Z 24004MPS 9999 -RA BKN022 05/04 Q0990 NOSIG
RMK TURB: MOD SFC/FL30
AUTOTAF.ME ULLG 141900Z 1420/1505 26005G13MPS 9999 -RA BKN025 TX06/1420Z TN05/1422Z
BECMG 1420/1421 OVC015
BECMG 1421/1422 OVC025
BECMG 1501/1502 BKN015 BKN020TCU
FM150300 21003MPS 5000 BR BKN015
FM150400 21003MPS 5000 -RA BR OVC015
FM150500 VRB02MPS 5000 -RA BR OVC015
 
Санкт-Петербург (Пулково)
METAR ULLI 142300Z 22003MPS 150V290 9999 FEW028CB BKN043 05/03 Q0990 R28L/290050 NOSIG


NOWCAST.SU ULLI 142300Z 24004MPS 9999 -RA BKN021 05/04 Q0990 NOSIG
RMK TURB: MOD SFC/FL30
AUTOTAF.ME ULLI 141900Z 1420/1505 26005G13MPS 9999 -RA OVC025 TX06/1420Z TN05/1423Z
BECMG 1500/1501 BKN015 BKN020TCU
FM150200 22004MPS 7000 BR BKN015
FM150300 21003MPS 5000 -RA BR OVC015
BECMG 1504/1505 VRB02MPS
TAF ULLI 141950Z 1421/1521 25005G10MPS 6000 BKN016
TEMPO 1421/1518 3100 -SHRA BKN011 BKN016CB
BECMG 1507/1509 29006G11MPS=
Великий Новгород (Кречевицы)
SYNAR 26179 Великий Новгород 142100Z 24002MPS 9999 FEW010 05/03 Q995 RMK QFE743/0991 CLD:5SCAC
(210/14KM)


NOWCAST.SU ULLK 142300Z 23005G13MPS 9999 BKN033 05/03 Q0994 NOSIG
RMK TURB: MOD SFC/FL40
AUTOTAF.ME ULLK 141900Z 1420/1505 27009G16MPS 9999 -RA BKN025 TX06/1420Z TN05/1423Z
BECMG 1500/1501 21005G13MPS
FM150300 21009G16MPS 9999 -RA OVC015
FM150400 20009G16MPS 5000 -RA BR OVC015
FM150500 20005G13MPS 2500 -RA BR OVC004
 
Петродворец (Марли)
SYNAR 26063 Санкт-Петербург 142100Z 26002MPS 9999 RERA BKN016 05/04 Q992 RMK QFE743/0991 CLD:7SCAC
(70/24KM)


NOWCAST.SU ULLN 142300Z 24004MPS 5000 BR BKN020 05/03 Q0990 NOSIG
RMK TURB: MOD SFC/FL30
AUTOTAF.ME ULLN 141900Z 1420/1505 26005G13MPS 9999 -RA BKN040 TX05/1420Z TN04/1502Z
FM142300 24004MPS 5000 BR BKN025
BECMG 1500/1501 OVC015
BECMG 1501/1502 -RA BR
BECMG 1502/1503 20003MPS
 
Санкт-Петербург (Хелидрайв)
SYNAR 26063 Санкт-Петербург 142100Z 26002MPS 9999 RERA BKN016 05/04 Q992 RMK QFE743/0991 CLD:7SCAC
(10/16KM)


NOWCAST.SU ULLO 142300Z 24004MPS 9999 -RA BKN021 06/03 Q0990 NOSIG
RMK TURB: MOD SFC/FL30
AUTOTAF.ME ULLO 141900Z 1420/1505 26005G13MPS 9999 -RA OVC025 TX06/1420Z TN05/1500Z
BECMG 1501/1502 BKN015 BKN020TCU
FM150300 21003MPS 5000 -RA BR OVC015
BECMG 1504/1505 VRB02MPS
 
Пушкин
SYNAR 26063 Санкт-Петербург 142100Z 26002MPS 9999 RERA BKN016 05/04 Q992 RMK QFE743/0991 CLD:7SCAC
(360/32KM)


NOWCAST.SU ULLP 142300Z 23004MPS 9999 BKN018 05/03 Q0991 NOSIG
RMK TURB: MOD SFC/FL40
AUTOTAF.ME ULLP 141900Z 1420/1505 26004MPS 9999 -RA BKN025 TX06/1420Z TN04/1501Z
FM142300 23004MPS 9999 BKN015
BECMG 1423/1500 BKN040
FM150100 21004MPS 5000 -RA BR BKN015
FM150300 19003MPS 0500 RA FG VV015
FM150500 20003MPS 2500 RA BR OVC025
 
КАД-52
SYNAR 26063 Санкт-Петербург 142100Z 26002MPS 9999 RERA BKN016 05/04 Q992 RMK QFE743/0991 CLD:7SCAC
(310/16KM)


NOWCAST.SU ULLR 142300Z 24004MPS 9999 -RA BKN022 06/04 Q0990 NOSIG
RMK TURB: MOD SFC/FL30
AUTOTAF.ME ULLR 141900Z 1420/1505 26005G13MPS 9999 -RA OVC025 TX06/1420Z TN05/1500Z
BECMG 1501/1502 BKN015 BKN020TCU
FM150300 21003MPS 5000 -RA BR OVC015
BECMG 1504/1505 VRB02MPS
 
Сиверский
SYNAR 26069 Белогорка 142100Z 21005MPS 9999 BKN015CB 05/05 Q992 RMK QFE736/0981 CLD:7CB


NOWCAST.SU ULLS 142300Z 23005G13MPS 9999 BKN018 05/03 Q0990 NOSIG
RMK TURB: MOD SFC/FL30
AUTOTAF.ME ULLS 141900Z 1420/1505 24004MPS 9999 -RA BKN025 TX05/1420Z TN04/1500Z
BECMG 1422/1423 BKN015
FM150000 22005G13MPS 5000 -RA BR OVC025
BECMG 1501/1502 OVC015
FM150300 19003MPS 0500 RA FG VV015
FM150500 VRB02MPS 0500 +SHRA FG VV015CB
 
Бычье Поле
SYNAR 26063 Санкт-Петербург 142100Z 26002MPS 9999 RERA BKN016 05/04 Q992 RMK QFE743/0991 CLD:7SCAC
(100/34KM)


NOWCAST.SU ULLY 142300Z 23005G12MPS 7000 -RA BR OVC021 04/03 Q0990 NOSIG
RMK TURB: MOD SFC/FL30
AUTOTAF.ME ULLY 141900Z 1420/1505 25010MPS 9999 -RA BKN025 TX05/1421Z TN04/1420Z
BECMG 1420/1421 25005G13MPS
FM142200 24005G12MPS 8000 BR OVC015
FM142300 23005G12MPS 7000 -RA BR OVC025
BECMG 1501/1502 OVC015
BECMG 1502/1503 -RA
FM150400 VRB02MPS 2500 DZ BR OVC004
FM150500 VRB02MPS 2500 DZ BR OVC004
 
Яхт-клуб
SYNAR 26063 Санкт-Петербург 142100Z 26002MPS 9999 RERA BKN016 05/04 Q992 RMK QFE743/0991 CLD:7SCAC


NOWCAST.SU ULLZ 142300Z 24004MPS 9999 -RA BKN022 05/03 Q0990 NOSIG
RMK TURB: MOD SFC/FL30
AUTOTAF.ME ULLZ 141900Z 1420/1505 26005G13MPS 9999 -RA BKN025 TX05/1420Z TN04/1503Z
BECMG 1500/1501 BKN015 BKN020TCU
FM150200 21003MPS 5000 BR BKN015
FM150300 20003MPS 7000 -RA BR OVC015
 
Ковдор
SYNAR 22217 Кандалакша 142100Z 00000MPS 3900 -RA OVC010 01/01 Q994 RMK QFE743/0991 CLD:8NS
(120/86KM)


NOWCAST.SU ULMD 142300Z 36003MPS 0500 +SN FG VV002 00/00 Q0993 NOSIG
AUTOTAF.ME ULMD 141900Z 1420/1505 VRB02MPS 0500 +RASN FG VV004 TX01/1420Z TN00/1422Z
BECMG 1420/1421 +SN FG
BECMG 1423/1500 OVC002
BECMG 1500/1501 SN BLSN
FM150400 36005G13MPS 0500 SN BLSN OVC004
FM150500 36005G13MPS 2500 SN BLSN OVC004
 
Апатиты (Хибины)
SYNAR 22213 Апатиты 142100Z 00000MPS 9999 -SHRA BKN020CB 01/01 Q994 RMK QFE733/0978 CLD:7CBAC
(310/14KM)


NOWCAST.SU ULMK 142300Z VRB02MPS 2000 RASN BR OVC006 01/01 Q0993 NOSIG
AUTOTAF.ME ULMK 141900Z 1420/1505 VRB02MPS 0500 +RASN FG VV015 TX01/1420Z TN00/1503Z
BECMG 1420/1421 RASN FG
FM142300 VRB02MPS 2500 RASN BR OVC008
BECMG 1423/1500 OVC004
BECMG 1500/1501 OVC008
FM150200 VRB02MPS 2500 RASN BR OVC015
FM150300 VRB02MPS 0500 SN FG VV015
FM150400 VRB02MPS 0500 RASN FG VV015
FM150500 VRB02MPS 0500 +RASN FG VV015
 
Ловозеро
SYNAR 22127 Ловозеро 142100Z 35001MPS 9999 BKN031CB 01/M00 Q994 RMK QFE731/0974 CLD:8CBAC


NOWCAST.SU ULML 142300Z VRB02MPS 0500 SN FG VV006 00/00 Q0993 NOSIG
AUTOTAF.ME ULML 141900Z 1420/1505 VRB02MPS 0500 RA FG VV004 TX01/1420Z TN00/1422Z
FM142100 VRB02MPS 1200 RASN BR OVC004
FM142200 VRB02MPS 0500 SN FG VV008
BECMG 1503/1504 OVC004
BECMG 1504/1505 +SN FG
 
Мурманск
METAR ULMM 142300Z 28001MPS 9999 -SHRA BKN024CB 01/01 Q0994 R31/290060 NOSIG RMK QFE738


NOWCAST.SU ULMM 142300Z VRB02MPS 0200 RA FG VV002 02/02 Q0994 NOSIG
AUTOTAF.ME ULMM 141900Z 1420/1505 VRB02MPS 0200 DZ FG VV004 TX02/1420Z TN01/1500Z
BECMG 1421/1422 RA FG
BECMG 1423/1500 RASN FG
BECMG 1501/1502 +RASN FG
FM150400 VRB02MPS 1200 SN BR OVC004
TAF ULMM 141958Z 1421/1521 VRB01MPS 6000 BKN016CB
BECMG 1423/1501 BKN011CB
TEMPO 1501/1505 4900 -SHRA BKN007 BKN011CB
BECMG 1505/1506 03003G08MPS BKN016CB
TEMPO 1506/1512 3100 -SHSNRA BKN011CB
BECMG 1512/1513 04006G12MPS=
Мурманск (Килпъявр)
SYNAR 22113 Мурманск 142100Z 01002MPS 9999 -RA BKN028 02/00 Q995 RMK QFE741/0988 CLD:8SCAC
(120/29KM)


NOWCAST.SU ULMW 142300Z VRB02MPS 2000 RASN BR OVC004 01/01 Q0994 NOSIG
AUTOTAF.ME ULMW 141900Z 1420/1505 VRB02MPS 0500 RA FG VV008 TX02/1420Z TN01/1423Z
BECMG 1420/1421 OVC004
FM142300 VRB02MPS 2500 RASN BR OVC004
FM150200 33003MPS 1200 +SN FG VV004
BECMG 1502/1503 0200
FM150500 VRB02MPS 1200 SN BR OVC004
 
Краснощелье
SYNAR 22235 Краснощелье 142100Z 06001MPS 9999 -SHSN OVC010CB 00/M00 Q994 RMK QFE731/0975 CLD:8CB


NOWCAST.SU ULMX 142300Z 09003MPS 0200 SN FG VV005 00/00 Q0993 NOSIG
AUTOTAF.ME ULMX 141900Z 1420/1505 11003MPS 0500 FG VV008 TX01/1420Z TN00/1421Z
BECMG 1420/1421 OVC004
BECMG 1421/1422 SN FG
FM150300 08003MPS 2500 SN BR OVC004
FM150400 VRB02MPS 0500 +SN FG VV004
BECMG 1504/1505 +RASN FG
 
Валдай-Авиа
SYNAR 26298 Бологое 142100Z 27002MPS 9999 OVC010 06/04 Q995 RMK QFE729/0973 CLD:8ST
(100/48KM)


NOWCAST.SU ULNA 142300Z 26005G13MPS 9999 -RA BKN027 05/03 Q0995 NOSIG
RMK TURB: MOD FL30/FL40
AUTOTAF.ME ULNA 141900Z 1420/1505 26010G15MPS 9999 -SHRA BKN015CB TX06/1420Z TN04/1503Z
FM142100 27009G15MPS 9999 -RA BKN025
BECMG 1422/1423 26005G13MPS
FM150200 23005G13MPS 9999 -SHRA BKN025CB
BECMG 1502/1503 OVC015CB
BECMG 1503/1504 -SHRASN
FM150500 21005G13MPS 5000 -RASN BR OVC008
 
Боровичи
SYNAR 26291 Боровичи 142100Z 28003MPS 9999 OVC019 06/05 Q994 RMK QFE737/0983 CLD:8SC


NOWCAST.SU ULNB 142300Z 27010G15MPS 9999 -RA BKN028 05/03 Q0993 NOSIG
RMK TURB: MOD SFC/FL40
AUTOTAF.ME ULNB 141900Z 1420/1505 25008MPS 9999 -SHRA BKN015CB TX07/1420Z TN05/1423Z
BECMG 1420/1421 BKN025CB
BECMG 1422/1423 -RA
FM150100 26009G14MPS 7000 BR BKN040
 
Новгород
SYNAR 26179 Великий Новгород 142100Z 24002MPS 9999 FEW010 05/03 Q995 RMK QFE743/0991 CLD:5SCAC


NOWCAST.SU ULNN 142300Z 23005G13MPS 9999 FEW095 06/03 Q0993 NOSIG
RMK TURB: MOD SFC/FL150
AUTOTAF.ME ULNN 141900Z 1420/1505 27009G16MPS 9999 -RA BKN025 TX06/1420Z TN05/1503Z
BECMG 1421/1422 NSC
BECMG 1423/1500 BKN040
BECMG 1500/1501 21009G15MPS
FM150200 21009G17MPS 9999 BKN015 BKN020TCU
FM150400 20009G17MPS 5000 -RA BR OVC015
 
Старая Русса
SYNAR 26275 Старая Русса 142100Z 21002MPS CAVOK 05/02 Q996 RMK QFE744/0992 CLD:SKC


NOWCAST.SU ULNR 142300Z 24005G13MPS 9999 BKN023TCU 06/03 Q0995 NOSIG
RMK TURB: MOD SFC/FL30
AUTOTAF.ME ULNR 141900Z 1420/1505 27009G16MPS 9999 VCSH BKN025CB TX07/1420Z TN05/1502Z
BECMG 1502/1503 21009G17MPS
FM150400 21010G17MPS 2500 -RA BR OVC025
BECMG 1504/1505 OVC015
 
Валдай
SYNAR 26298 Бологое 142100Z 27002MPS 9999 OVC010 06/04 Q995 RMK QFE729/0973 CLD:8ST
(110/45KM)


NOWCAST.SU ULNW 142300Z 26005G13MPS 9999 -RA BKN026 05/03 Q0994 NOSIG
RMK TURB: MOD SFC/FL40
AUTOTAF.ME ULNW 141900Z 1420/1505 26009G15MPS 9999 -SHRA BKN025CB TX06/1420Z TN04/1503Z
BECMG 1422/1423 -RA
BECMG 1501/1502 -RA
BECMG 1503/1504 OVC015
FM150500 22005G13MPS 8000 -RA BR OVC015
 
Великие Луки
SYNAR 26477 Великие Луки 142100Z 23003MPS CAVOK 07/01 Q1001 RMK QFE741/0988 CLD:SKC


NOWCAST.SU ULOL 142300Z 25010G17MPS 9999 BKN027TCU 06/02 Q0999 NOSIG
RMK TURB: MOD SFC/FL40
AUTOTAF.ME ULOL 141900Z 1420/1505 26009G15MPS 9999 BKN025 TX07/1420Z TN05/1503Z
BECMG 1504/1505 BKN015
 
Псков (Кресты)
METAR ULOO 142300Z 19005MPS 9999 BKN034 06/03 Q0993 NOSIG RMK QFE740


NOWCAST.SU ULOO 142300Z 22009G17MPS 9999 BKN021TCU 06/02 Q0993 NOSIG
RMK TURB: MOD SFC/FL30
AUTOTAF.ME ULOO 141900Z 1420/1505 24005G13MPS 9999 BKN025TCU TX07/1421Z TN04/1502Z
FM150000 21009G17MPS 9999 -RA OVC015
FM150100 22009G17MPS 5000 -RA BR OVC015
BECMG 1501/1502 2500
FM150300 23009G17MPS 0500 RA FG VV004
FM150500 24009G16MPS 1200 RASN BR OVC015
TAF ULOO 141955Z 1421/1506 22005G11MPS 6000 BKN016
TEMPO 1421/1503 24008G15MPS 3100 -SHRA BKN006 BKN016CB
BECMG 1503/1504 29008G13MPS
TEMPO 1504/1506 3100 -SHRA BKN006 BKN016CB=
Середка
SYNAR 26258 Псков 142100Z 21002MPS 9999 OVC020CB 06/03 Q996 RMK QFE743/0990 CLD:8CB
(170/37KM)


NOWCAST.SU ULOR 142300Z 21013MPS 9999 -RA BKN018 05/02 Q0992 NOSIG
RMK TURB: MOD SFC/FL30
AUTOTAF.ME ULOR 141900Z 1420/1505 23010MPS 9999 BKN025 TX05/1420Z TN03/1503Z
BECMG 1420/1421 -RA
BECMG 1422/1423 BKN015
FM150000 21013G18MPS 7000 -RA BR BKN015
FM150100 21013G18MPS 2500 -RA BR OVC008
FM150200 22012MPS 5000 -RA BR OVC004
FM150300 22011MPS 0500 RA FG VV004
BECMG 1503/1504 RA FG
FM150500 25010G16MPS 0500 +RASN FG VV008
 
Петрозаводск (Бесовец)
METAR ULPB 142300Z AUTO 05002MPS 020V090 9999 -DZ ///040/// 04/03 Q0990 RMK QFE739/0985


NOWCAST.SU ULPB 142300Z 07003MPS 2800 -RA BR OVC005 01/01 Q0987 NOSIG
RMK TURB: MOD SFC/FL30
AUTOTAF.ME ULPB 141900Z 1420/1505 VRB02MPS 1200 BR BKN004 TX02/1420Z TN01/1423Z
FM142200 VRB02MPS 2500 -DZ BR OVC004
BECMG 1422/1423 -RA BR
FM150000 07003MPS 0500 RA FG VV004
BECMG 1500/1501 OVC002
BECMG 1501/1502 OVC004
FM150500 VRB02MPS 0500 RA FG VV004
TAF ULPB 141954Z 1421/1506 09003MPS 4000 -RA BR OVC011
TEMPO 1421/1506 1200 -SHRA BR BKN004 BKN016CB=
Кемь
SYNAR 22520 Кемь-Порт 142100Z 14001MPS 4000 -RA OVC014 01/01 Q992 RMK QFE743/0990 CLD:8NS


NOWCAST.SU ULPE 142300Z VRB02MPS 0200 FG VV001 02/02 Q0991 NOSIG
AUTOTAF.ME ULPE 141900Z 1420/1505 VRB02MPS 0200 FG VV002 TX03/1420Z TN01/1502Z
BECMG 1501/1502 +RASN FG
BECMG 1502/1503 +SN FG
 
Калевала
SYNAR 22408 Калевала 142100Z 01001MPS 4000 BR OVC004 03/03 Q992 RMK QFE733/0978 CLD:8ST


NOWCAST.SU ULPK 142300Z VRB02MPS 0500 FG VV003 01/01 Q0990 NOSIG
AUTOTAF.ME ULPK 141900Z 1420/1505 VRB02MPS 0500 FG VV004 TX01/1420Z TN01/1420Z
BECMG 1423/1500 OVC008
FM150200 VRB02MPS 0500 RASN FG VV004
BECMG 1503/1504 DZ FG
 
Валаам
SYNAR 22805 Валаам Остров 142100Z 06003MPS //// -RA SCT010 05/05 Q989 RMK QFE740/0987 CLD:8STAS


NOWCAST.SU ULPL 142300Z VRB02MPS 0200 RA FG VV001 01/01 Q0987 NOSIG
AUTOTAF.ME ULPL 141900Z 1420/1505 09003MPS 0200 DZ FG VV002 TX02/1420Z TN01/1422Z
BECMG 1420/1421 RA FG
BECMG 1502/1503 25005MPS
 
Костомукша
SYNAR 22408 Калевала 142100Z 01001MPS 4000 BR OVC004 03/03 Q992 RMK QFE733/0978 CLD:8ST
(20/70KM)


NOWCAST.SU ULPM 142300Z VRB02MPS 0200 FG VV001 00/00 Q0989 NOSIG
AUTOTAF.ME ULPM 141900Z 1420/1505 VRB02MPS 0500 FG VV008 TX01/1420Z TN00/1421Z
BECMG 1420/1421 OVC002
BECMG 1503/1504 OVC004
 
Петрозаводск (Пески)
SYNAR 22820 Петрозаводск 142100Z 09002MPS 9999 -RA BKN046 04/03 Q992 RMK QFE733/0978 CLD:8SCAS


NOWCAST.SU ULPP 142300Z VRB02MPS 0500 RA FG BKN005 01/01 Q0988 NOSIG
AUTOTAF.ME ULPP 141900Z 1420/1505 VRB02MPS 1200 BR BKN008 TX02/1420Z TN01/1421Z
FM142100 VRB02MPS 2500 BR OVC004
FM142200 VRB02MPS 0500 DZ FG BKN004
BECMG 1422/1423 RA FG
BECMG 1423/1500 OVC008
BECMG 1500/1501 OVC004
FM150500 23003MPS 0500 RA FG VV004
 
Сегежа
SYNAR 22621 Сегежа 142100Z 00000MPS 9999 ///010 02/02 Q992 RMK QFE734/0978 CLD:


NOWCAST.SU ULPS 142300Z VRB02MPS 1500 BR BKN002 M01/M01 Q0991 NOSIG
AUTOTAF.ME ULPS 141900Z 1420/1505 15003MPS 5000 BR OVC002 TX01/1420Z TNM01/1423Z
BECMG 1420/1421 OVC008
FM142200 VRB02MPS 2500 BR OVC004
BECMG 1422/1423 1200
FM150000 VRB02MPS 0200 FZFG BKN004
BECMG 1501/1502 FG
FM150300 VRB02MPS 2500 BR OVC004
FM150400 05003MPS 1200 BR BKN004
 
Сортавала
SYNAR 22802 Сортавала 142100Z 02001MPS 4000 BR OVC020 05/04 Q990 RMK QFE741/0988 CLD:8SC


NOWCAST.SU ULPW 142300Z VRB02MPS 0200 RA FG VV001 03/03 Q0987 NOSIG
AUTOTAF.ME ULPW 141900Z 1420/1505 06003MPS 0200 RA FG BKN002 TX03/1420Z TN03/1420Z
BECMG 1500/1501 RA FG
BECMG 1501/1502 25005MPS
BECMG 1502/1503 OVC004
FM150400 25004MPS 0500 RA FG VV015
 
Старая Слобода
SYNAR 22913 Лодейное Поле 142100Z 05001MPS 4000 -SHRA BKN010CB 07/06 Q989 RMK QFE740/0986 CLD:8CBAC
(120/14KM)


NOWCAST.SU ULSB 142300Z 26004MPS 2400 -RA BR OVC005 06/06 Q0988 NOSIG
RMK TURB: MOD SFC/FL30
AUTOTAF.ME ULSB 141900Z 1420/1505 VRB02MPS 2500 -SHRA BR BKN004 OVC010CB TX07/1420Z TN04/1500Z
BECMG 1421/1422 OVC015CB
FM142300 26004MPS 2500 -RA BR OVC004
FM150000 25005G13MPS 0500 RA FG VV004
FM150100 25005G13MPS 2500 -RA BR OVC015
FM150200 25005G13MPS 5000 -RA BR BKN004
 
Сельцо
SYNAR 26069 Белогорка 142100Z 21005MPS 9999 BKN015CB 05/05 Q992 RMK QFE736/0981 CLD:7CB
(130/45KM)


NOWCAST.SU ULSC 142300Z 22005G13MPS 9000 BR BKN024TCU 04/03 Q0990 NOSIG
RMK TURB: MOD FL30/FL40
AUTOTAF.ME ULSC 141900Z 1420/1505 24004MPS 9999 -RA BKN025 TX05/1420Z TN04/1422Z
FM142100 23005G13MPS 5000 -RA BR BKN025
FM142200 23005G13MPS 8000 BR NSC
FM142300 22005G13MPS 9000 BR BKN025TCU
FM150000 22005G13MPS 5000 -RA BR OVC025
BECMG 1500/1501 OVC015
FM150300 18003MPS 2500 RASN BR OVC015
 
Местаново
SYNAR 26059 Кингисепп 142100Z 23003MPS 9999 OVC025 06/03 Q992 RMK QFE742/0989 CLD:8SC
(240/46KM)


NOWCAST.SU ULSF 142300Z 22005G13MPS 7000 BR BKN024TCU 04/03 Q0990 NOSIG
RMK TURB: MOD FL30/FL40
AUTOTAF.ME ULSF 141900Z 1420/1505 24004MPS 9999 -RA BKN025 TX05/1420Z TN04/1422Z
FM142100 23005G13MPS 5000 -RA BR BKN025
BECMG 1422/1423 BR
BECMG 1423/1500 -RA BR
BECMG 1500/1501 OVC015
FM150300 18003MPS 0500 RA FG VV015
FM150400 VRB02MPS 2500 RASN BR OVC015
 
Гостилицы
SYNAR 26063 Санкт-Петербург 142100Z 26002MPS 9999 RERA BKN016 05/04 Q992 RMK QFE743/0991 CLD:7SCAC
(50/46KM)


NOWCAST.SU ULSG 142300Z 22005G13MPS 9000 BR BKN027TCU 05/03 Q0990 NOSIG
RMK TURB: MOD FL30/FL40
AUTOTAF.ME ULSG 141900Z 1420/1505 24004MPS 9999 -RA BKN025 TX05/1420Z TN04/1500Z
BECMG 1422/1423 BR
FM150100 21005G13MPS 8000 -RA BR OVC015
BECMG 1501/1502 5000
FM150300 18003MPS 0500 RA FG VV015
FM150400 VRB02MPS 2500 RASN BR OVC015
FM150500 VRB02MPS 9000 -RASN BR OVC025
 
Санкт-Петербург (Геркулес гидро)
SYNAR 26063 Санкт-Петербург 142100Z 26002MPS 9999 RERA BKN016 05/04 Q992 RMK QFE743/0991 CLD:7SCAC


NOWCAST.SU ULSH 142300Z 24004MPS 9999 -RA BKN021 05/03 Q0990 NOSIG
RMK TURB: MOD SFC/FL30
AUTOTAF.ME ULSH 141900Z 1420/1505 26005G13MPS 9999 -RA BKN040 TX05/1420Z TN04/1502Z
BECMG 1500/1501 OVC015
FM150200 21003MPS 2500 BR BKN004
FM150300 20003MPS 9999 -RA OVC015
FM150400 VRB02MPS 2500 -DZ BR OVC004
BECMG 1504/1505 -RA BR
 
Кусино
SYNAR 26080 Кириши 142100Z 24003MPS 9999 OVC038 07/05 Q992 RMK QFE741/0988 CLD:8SC
(70/13KM)


NOWCAST.SU ULSI 142300Z 23004MPS 9999 -RA BKN040 05/03 Q0991 NOSIG
RMK TURB: MOD SFC/FL50
AUTOTAF.ME ULSI 141900Z 1420/1505 24005G13MPS 9999 -SHRA BKN015CB TX07/1420Z TN05/1423Z
BECMG 1420/1421 BKN025CB
BECMG 1422/1423 -RA
BECMG 1500/1501 BR
FM150200 22004MPS 5000 -RA BR BKN025
FM150400 21004MPS 9999 -RA BKN025
FM150500 20004MPS 5000 -RA BR OVC025
 
Корпикюля
SYNAR 26069 Белогорка 142100Z 21005MPS 9999 BKN015CB 05/05 Q992 RMK QFE736/0981 CLD:7CB
(200/29KM)


NOWCAST.SU ULSK 142300Z 23004MPS 9999 BKN018 05/03 Q0991 NOSIG
RMK TURB: MOD SFC/FL40
AUTOTAF.ME ULSK 141900Z 1420/1505 26004MPS 9999 -RA BKN025 TX06/1420Z TN04/1500Z
BECMG 1422/1423 BKN015
FM150000 23004MPS 7000 BR BKN040
FM150100 21004MPS 5000 -RA BR BKN025
BECMG 1501/1502 BKN015
FM150300 19003MPS 0500 RA FG VV015
FM150500 20003MPS 2500 RA BR OVC025
 
Манушкино
SYNAR 26072 Шлиссельбург 142100Z 26003MPS 9999 OVC021 05/04 Q991 RMK QFE741/0989 CLD:8SC
(60/13KM)


NOWCAST.SU ULSM 142300Z 24004MPS 9999 -RA OVC022 05/04 Q0990 NOSIG
RMK TURB: MOD SFC/FL30
AUTOTAF.ME ULSM 141900Z 1420/1505 26005G13MPS 9999 -RA BKN015 TX06/1420Z TN05/1422Z
BECMG 1420/1421 OVC025
FM150300 21003MPS 7000 BR BKN015
FM150400 20003MPS 5000 -RA BR OVC015
 
Аэродром Тихвин
SYNAR 26094 Тихвин 142100Z 25003MPS 9999 RERA OVC022 06/04 Q991 RMK QFE738/0984 CLD:8SC


NOWCAST.SU ULST 142300Z 27009G14MPS 9999 -SHRA OVC029CB 06/05 Q0991 NOSIG
RMK TURB: MOD SFC/FL30
AUTOTAF.ME ULST 141900Z 1420/1505 28005G13MPS 2500 -SHRA OVC025CB TX08/1420Z TN05/1500Z
BECMG 1420/1421 28010G15MPS
BECMG 1421/1422 9999
BECMG 1423/1500 25005G13MPS
FM150100 24004MPS CAVOK
FM150300 21004MPS 9999 -RA BKN040
FM150400 21004MPS 5000 -RA BR BKN025
 
Куммолово
SYNAR 26059 Кингисепп 142100Z 23003MPS 9999 OVC025 06/03 Q992 RMK QFE742/0989 CLD:8SC
(220/39KM)


NOWCAST.SU ULSU 142300Z 22009G14MPS 9999 BKN021 04/03 Q0990 NOSIG
RMK TURB: MOD SFC/FL30
AUTOTAF.ME ULSU 141900Z 1420/1505 23004MPS 9999 -RA BKN025 TX05/1420Z TN04/1423Z
FM142100 23005G13MPS 5000 BR BKN025
FM142200 22005G13MPS 9999 BKN025
BECMG 1422/1423 22009G14MPS
FM150000 21005G13MPS 5000 -RA BR OVC015
FM150200 20003MPS 0500 RA FG VV004
BECMG 1502/1503 OVC015
FM150400 VRB02MPS 5000 -RA BR OVC015
FM150500 VRB02MPS 2500 RASN BR OVC025
 
Северный ветер
SYNAR 26072 Шлиссельбург 142100Z 26003MPS 9999 OVC021 05/04 Q991 RMK QFE741/0989 CLD:8SC
(290/29KM)


NOWCAST.SU ULSW 142300Z 23009G14MPS 9999 -RA OVC025 05/04 Q0990 NOSIG
RMK TURB: MOD SFC/FL30
AUTOTAF.ME ULSW 141900Z 1420/1505 26005G12MPS 9999 -RA BKN015 TX06/1420Z TN04/1503Z
BECMG 1420/1421 BKN025
FM150400 20004MPS 5000 -RA BR BKN025
BECMG 1504/1505 OVC015
 
ТосноСпас
SYNAR 26078 Любань 142100Z 22002MPS //// //// 06/05 Q992 RMK QFE740/0987 CLD:NO_OBSERVATIONS
(130/29KM)


NOWCAST.SU ULSX 142300Z 24004MPS 9999 -RA BKN036 05/03 Q0991 NOSIG
RMK TURB: MOD SFC/FL30
AUTOTAF.ME ULSX 141900Z 1420/1505 26009G15MPS 9999 -RA BKN025 TX06/1420Z TN04/1502Z
FM142200 24004MPS CAVOK
FM142300 24004MPS 9999 -RA BKN040
FM150100 22003MPS 5000 -RA BR BKN025
FM150300 19003MPS 0500 RA FG VV015
FM150400 19003MPS 2500 -RA BR OVC015
FM150500 20003MPS 9999 -RA OVC015
 
Сиворицы-2
SYNAR 26069 Белогорка 142100Z 21005MPS 9999 BKN015CB 05/05 Q992 RMK QFE736/0981 CLD:7CB
(150/17KM)


NOWCAST.SU ULSY 142300Z 23005G13MPS 9999 BKN018 05/03 Q0990 NOSIG
RMK TURB: MOD SFC/FL30
AUTOTAF.ME ULSY 141900Z 1420/1505 24004MPS 9999 -RA BKN025 TX05/1420Z TN04/1501Z
BECMG 1422/1423 BKN015
FM150000 22005G13MPS 5000 -RA BR OVC025
BECMG 1501/1502 OVC015
FM150300 19003MPS 0500 RA FG VV015
FM150500 VRB02MPS 0500 +SHRA FG BKN004 OVC010CB
 
Озеро Красногвардейское
SYNAR 22892 Выборг 142100Z 22004MPS 9999 -SHRA OVC026CB 03/03 Q990 RMK QFE741/0988 CLD:8CB
(330/57KM)


NOWCAST.SU ULSZ 142300Z 23004MPS 4000 -DZ BR BKN002 03/03 Q0989 NOSIG
AUTOTAF.ME ULSZ 141900Z 1420/1505 26009G16MPS 5000 -RA BR BKN008 TX03/1420Z TN03/1420Z
FM142200 25004MPS 8000 -DZ BR NSC
BECMG 1422/1423 BKN004
BECMG 1423/1500 -RA BR
FM150100 22003MPS 5000 -DZ BR OVC008
BECMG 1501/1502 OVC004
FM150400 VRB02MPS 5000 BR OVC004
FM150500 VRB02MPS 2500 BR OVC004
 
Череповец
METAR ULWC 142030Z 18003MPS 9999 BKN025CB 08/06 Q0993 R21/190060 NOSIG RMK QFE735/0980


NOWCAST.SU ULWC 142300Z 15003MPS 3000 -RA BR OVC014 07/07 Q0989 NOSIG
AUTOTAF.ME ULWC 141900Z 1420/1505 14004MPS 9999 -SHRA BKN008 BKN010CB TX07/1420Z TN05/1503Z
FM142100 14004MPS 5000 -SHRA BR BKN008 OVC010CB
FM142200 15003MPS 2500 SHRA BR BKN004 OVC010CB
FM142300 15003MPS 2500 -RA BR OVC015
FM150200 26004MPS 0200 RA FG VV004
FM150300 27005G13MPS 9999 -RA OVC025
TAF AMD ULWC 142102Z 1421/1506 CNL=
Великий Устюг
SYNAR 22981 Великий Устюг 142100Z 16002MPS CAVOK 03/M03 Q1002 RMK QFE742/0990 CLD:8AC


NOWCAST.SU ULWU 142300Z 16004MPS 9999 BKN040 02/M01 Q1001 NOSIG
AUTOTAF.ME ULWU 141900Z 1420/1505 17004MPS CAVOK TX05/1505Z TN02/1422Z
BECMG 1421/1422 BKN040
BECMG 1423/1500 BKN015
BECMG 1503/1504 BKN040
 
Вологда
SYNAR 27037 Вологда 142100Z 14003MPS //// //// 07/05 Q996 RMK QFE735/0980 CLD:NO_OBSERVATIONS


NOWCAST.SU ULWW 142300Z 16005G13MPS 5000 -SHRA BR BKN008 BKN010CB 08/07 Q0992 NOSIG
RMK TURB: MOD SFC/FL30
AUTOTAF.ME ULWW 141900Z 1420/1505 16005G13MPS 9999 -SHRA BKN015CB TX08/1420Z TN07/1504Z
FM142300 16005G13MPS 5000 -SHRA BR BKN008 BKN010CB
FM150000 16005G13MPS 2500 -RA BR OVC008
BECMG 1500/1501 OVC004
FM150200 16009G14MPS 2500 -SHRA BR BKN004 OVC010CB
FM150300 17005G13MPS 5000 -SHRA OVC015CB
BECMG 1503/1504 -SHRA BR
FM150500 25006MPS 5000 -SHRA BR OVC025CB
 
Брест
METAR UMBB 141307Z 29006G09MPS 7000 SCT033CB SCT100 16/13 Q1009 NOSIG


NOWCAST.SU UMBB 142300Z 25003MPS 9999 FEW180 07/00 Q1013 NOSIG
RMK TURB: MOD FL40/FL50
AUTOTAF.ME UMBB 141900Z 1420/1505 29005G13MPS CAVOK TX10/1420Z TN06/1500Z
TAF UMBB 141335Z 1412/1421 CNL=
 


NOSIG
 
Лида
SYNAR 26832 Лида 142100Z 28003MPS CAVOK 07/M00 Q1010 RMK QFE743/0991 CLD:SKC


NOWCAST.SU UMDD 142300Z 26011G18MPS 9999 SKC 06/00 Q1008 NOSIG
RMK TURB: MOD SFC/FL40
AUTOTAF.ME UMDD 141900Z 1420/1505 27010G18MPS CAVOK TX07/1420Z TN05/1501Z
BECMG 1420/1421 BKN040
BECMG 1421/1422 NSC
BECMG 1423/1500 BKN025
 
Гомель
METAR UMGG 142300Z 28006G09MPS CAVOK 11/07 Q1009 NOSIG


NOWCAST.SU UMGG 142300Z 29009G16MPS 9999 FEW250 07/03 Q1009 NOSIG
RMK TURB: MOD SFC/FL30
AUTOTAF.ME UMGG 141900Z 1420/1505 31011G18MPS CAVOK TX11/1420Z TN05/1502Z
BECMG 1500/1501 26005G13MPS
BECMG 1504/1505 26010G17MPS
TAF UMGG 141654Z 1418/1518 26005G10MPS 9999 BKN025
TEMPO 1418/1420 29006G11MPS 3000 -SHRA BKN010 BKN030CB
TEMPO 1420/1505 29006G11MPS
TEMPO 1505/1516 26011G16MPS
BECMG 1516/1518 24005MPS=
Витебск (Восточный)
METAR UMII 141600Z 25007G11MPS 9999 SCT010 BKN025CB 12/11 Q1000 TEMPO 2000 SHRA BKN005


NOWCAST.SU UMII 142300Z 26009G17MPS 9999 BKN017 BKN020TCU 05/01 Q1003 NOSIG
RMK TURB: MOD SFC/FL40
AUTOTAF.ME UMII 141900Z 1420/1505 27010G16MPS 9999 BKN015 TX07/1420Z TN05/1423Z
BECMG 1500/1501 BKN025TCU
TAF UMII 141637Z 1415/1424 CNL=
Орша
METAR UMIO 142300Z 27005G09MPS CAVOK 05/M01 Q1004 NOSIG RMK QFE736/0982


NOWCAST.SU UMIO 142300Z 26010G18MPS 9999 BKN045 06/00 Q1004 NOSIG
RMK TURB: MOD SFC/FL30
AUTOTAF.ME UMIO 141900Z 1420/1505 28011G18MPS CAVOK TX07/1420Z TN05/1500Z
BECMG 1420/1421 BKN040
BECMG 1501/1502 BKN015 BKN020TCU
BECMG 1502/1503 BKN025TCU
TAF UMIO 130808Z 1306/1315 CNL=
Калининград (Храброво)
METAR UMKK 142300Z 27010MPS CAVOK 07/04 Q1009 R24/CLRD95 NOSIG RMK QFE755/1007


NOWCAST.SU UMKK 142300Z 26018G24MPS 9999 BKN015 06/03 Q1007 NOSIG
RMK TURB: MOD SFC/FL20
AUTOTAF.ME UMKK 141900Z 1420/1505 26018G25MPS CAVOK TX07/1420Z TN05/1503Z
BECMG 1421/1422 BKN025
BECMG 1422/1423 BKN015
BECMG 1501/1502 BKN025
FM150300 27016G21MPS 9999 BKN015
TAF UMKK 141958Z 1421/1521 26010G16MPS 9999 SCT020
TEMPO 1421/1501 27013G20MPS
BECMG 1501/1502 27009G15MPS
BECMG 1510/1513 29008G13MPS
BECMG 1515/1517 VRB01MPS=
МЛСП Д-6
SYNAR 26603 Нида 142100Z 23005G13MPS CAVOK 07/04 Q1008 RMK QFE755/1007 CLD:SKC
(80/23KM)


NOWCAST.SU UMKM 142300Z 27018G24MPS 9999 BKN020 06/03 Q1005 NOSIG
RMK TURB: MOD SFC/FL20
AUTOTAF.ME UMKM 141900Z 1420/1505 26020G28MPS 9999 BKN025 TX06/1420Z TN05/1503Z
BECMG 1420/1421 BKN015
BECMG 1421/1422 BKN025
BECMG 1501/1502 NSC
FM150400 27014MPS 9999 BKN015
 
Минск (Мачулищи)
SYNAR 26850 Минск 142100Z 28003MPS 9999 BKN038 07/01 Q1008 RMK QFE735/0980 CLD:5SC
(20/22KM)


NOWCAST.SU UMLI 142300Z 26011G19MPS 9999 BKN052 05/00 Q1007 NOSIG
RMK TURB: MOD SFC/FL30
AUTOTAF.ME UMLI 141900Z 1420/1505 27011G19MPS CAVOK TX06/1420Z TN05/1422Z
BECMG 1423/1500 BKN040
 
Барановичи
SYNAR 26941 Барановичи 142100Z 26002MPS CAVOK 07/M01 Q1011 RMK QFE740/0987 CLD:SKC


NOWCAST.SU UMMA 142300Z 26009G17MPS 9999 SKC 06/01 Q1011 NOSIG
RMK TURB: MOD FL50/FL60
AUTOTAF.ME UMMA 141900Z 1420/1505 28005G13MPS CAVOK TX08/1420Z TN05/1502Z
BECMG 1500/1501 26010G18MPS
BECMG 1503/1504 BKN025
 
Гродно (Обухово)
METAR UMMG 141300Z 29012G16MPS 9999 BKN030 BKN066 14/11 Q1008 NOSIG


NOWCAST.SU UMMG 142300Z 27010G18MPS 9999 SKC 06/M01 Q1010 NOSIG
RMK TURB: MOD SFC/FL40
AUTOTAF.ME UMMG 141900Z 1420/1505 28010G17MPS CAVOK TX07/1420Z TN05/1502Z
BECMG 1501/1502 BKN015
TAF UMMG 141359Z 1412/1421 CNL=
Минск (Липки)
SYNAR 26850 Минск 142100Z 28003MPS 9999 BKN038 07/01 Q1008 RMK QFE735/0980 CLD:5SC


NOWCAST.SU UMMI 142300Z 26011G19MPS 9999 BKN053 06/00 Q1007 NOSIG
RMK TURB: MOD SFC/FL30
AUTOTAF.ME UMMI 141900Z 1420/1505 27011G19MPS CAVOK TX06/1420Z TN05/1500Z
BECMG 1420/1421 BKN040
BECMG 1422/1423 NSC
BECMG 1500/1501 BKN040
 
Поставы (Озерки)
SYNAR 26645 Лынтупы 142100Z 27006G12MPS 9999 BKN039 07/01 Q1005 RMK QFE735/0980 CLD:6SC
(250/35KM)


NOWCAST.SU UMMK 142300Z 26012G20MPS 9999 BKN028TCU 06/01 Q1004 NOSIG
RMK TURB: MOD SFC/FL40
AUTOTAF.ME UMMK 141900Z 1420/1505 26011G19MPS 9999 BKN025TCU TX07/1420Z TN06/1421Z
 
Минск-1
SYNAR 26850 Минск 142100Z 28003MPS 9999 BKN038 07/01 Q1008 RMK QFE735/0980 CLD:5SC
(40/15KM)


NOWCAST.SU UMMM 142300Z 26011G19MPS 9999 BKN052 05/00 Q1007 NOSIG
RMK TURB: MOD SFC/FL30
AUTOTAF.ME UMMM 141900Z 1420/1505 27011G19MPS 9999 BKN040 TX06/1420Z TN05/1423Z
BECMG 1421/1422 NSC
BECMG 1423/1500 BKN040
 
Минск-2
METAR UMMS 142300Z 27006G09MPS 9999 SCT039 06/M01 Q1007 NOSIG


NOWCAST.SU UMMS 142300Z 26011G18MPS 9999 BKN052 06/00 Q1007 NOSIG
RMK TURB: MOD SFC/FL40
AUTOTAF.ME UMMS 141900Z 1420/1505 27010G17MPS 9999 BKN040 TX07/1420Z TN05/1500Z
BECMG 1422/1423 NSC
BECMG 1423/1500 BKN040
TAF UMMS 141704Z 1418/1518 27009G14MPS 9999 SCT020
TEMPO 1418/1512 25015G20MPS 4000 -SHRA SCT015CB
BECMG 1512/1514 27007G12MPS=
Бобруйск (Носовка)
SYNAR 26961 Бобруйск 142100Z 30004MPS CAVOK 08/M00 Q1009 RMK QFE742/0990 CLD:SKC
(340/13KM)


NOWCAST.SU UMNB 142300Z 27005G13MPS 9999 FEW220 06/01 Q1009 NOSIG
AUTOTAF.ME UMNB 141900Z 1420/1505 29009G16MPS CAVOK TX09/1420Z TN05/1501Z
 
Гродно (Каролино)
SYNAR 26737 Варена 142100Z 25003G06MPS CAVOK 08/M00 Q1010 RMK QFE747/0996 CLD:SKC
(40/87KM)


NOWCAST.SU UMNG 142300Z 27010G18MPS 9999 SKC 06/M01 Q1011 NOSIG
RMK TURB: MOD SFC/FL40
AUTOTAF.ME UMNG 141900Z 1420/1505 28010G18MPS CAVOK TX07/1420Z TN05/1501Z
BECMG 1502/1503 BKN015
BECMG 1503/1504 NSC
 
Витебск (Куковячино)
SYNAR 26666 Витебск 142100Z 25004G10MPS CAVOK 08/00 Q1003 RMK QFE736/0982 CLD:SKC
(80/18KM)


NOWCAST.SU UMNI 142300Z 26010G17MPS 9999 BKN017 BKN020TCU 05/01 Q1003 NOSIG
RMK TURB: MOD SFC/FL40
AUTOTAF.ME UMNI 141900Z 1420/1505 27010G17MPS CAVOK TX07/1420Z TN05/1423Z
BECMG 1420/1421 BKN015 BKN020TCU
BECMG 1423/1500 BKN025TCU
 
Лунинец
SYNAR 33019 Пинск 142100Z 31001MPS 3900 BR SKC 08/07 Q1012 RMK QFE746/0995 CLD:SKC
(250/52KM)


NOWCAST.SU UMNL 142300Z 27004MPS 9999 FEW260 07/02 Q1011 NOSIG
AUTOTAF.ME UMNL 141900Z 1420/1505 29003MPS CAVOK TX09/1420Z TN06/1501Z
BECMG 1504/1505 26009G16MPS
 
Могилев
METAR UMOO 141300Z 23005G08MPS 3300 -SHRA BKN015CB OVC/// 14/09 Q1006 NOSIG


NOWCAST.SU UMOO 142300Z 26010G18MPS 9999 BKN045 06/00 Q1006 NOSIG
RMK TURB: MOD SFC/FL170
AUTOTAF.ME UMOO 141900Z 1420/1505 28011G18MPS CAVOK TX08/1420Z TN05/1501Z
BECMG 1420/1421 BKN040
BECMG 1500/1501 NSC
BECMG 1502/1503 BKN040
TAF UMOO 141330Z 1412/1421 CNL=
Хожево
SYNAR 26850 Минск 142100Z 28003MPS 9999 BKN038 07/01 Q1008 RMK QFE735/0980 CLD:5SC
(120/63KM)


NOWCAST.SU UMOV 142300Z 26010G18MPS 9999 BKN025TCU 06/01 Q1006 NOSIG
RMK TURB: MOD SFC/FL40
AUTOTAF.ME UMOV 141900Z 1420/1505 26010G18MPS 9999 BKN025TCU TX07/1420Z TN05/1500Z
 
Абакан
METAR UNAA 142300Z 18003MPS CAVOK 07/M02 Q1010 R20/CLRD65 NOSIG RMK QFE735


NOWCAST.SU UNAA 142300Z 17003MPS 9999 BKN060 06/01 Q1013 NOSIG
AUTOTAF.ME UNAA 141900Z 1420/1505 20003MPS CAVOK TX17/1505Z TN06/1421Z
BECMG 1504/1505 24009G14MPS
TAF UNAA 141948Z 1421/1521 18003G08MPS 9999 SCT025CB
BECMG 1506/1510 26008G16MPS=
Краснотуранск
SYNAR 29768 Лебяжье 142100Z 35002MPS //// //// 07/02 Q1010 RMK QFE735/0980 CLD:NO_OBSERVATIONS
(160/13KM)


NOWCAST.SU UNAT 142300Z VRB02MPS 9999 BKN045 06/00 Q1011 NOSIG
RMK TURB: MOD FL50/FL60
AUTOTAF.ME UNAT 141900Z 1420/1505 VRB02MPS CAVOK TX11/1505Z TN06/1420Z
BECMG 1420/1421 OVC040
BECMG 1501/1502 NSC
BECMG 1504/1505 -RA
 
Шушенское (Казанцево)
SYNAR 29869 Ермаковское 142100Z 24001MPS //// BKN033 03/M01 Q1011 RMK QFE732/0976 CLD:8SCAC
(110/27KM)


NOWCAST.SU UNAU 142300Z VRB02MPS 9999 SCT065 04/01 Q1013 NOSIG
AUTOTAF.ME UNAU 141900Z 1420/1505 VRB02MPS 9000 BR NSC TX15/1505Z TN04/1423Z
 
Барнаул (Имени Германа Титова)
METAR UNBB 142300Z 21008MPS 9000 -SHRA BKN040CB 09/02 Q1008 R24/290150 NOSIG RMK QFE734


NOWCAST.SU UNBB 142300Z 21009G17MPS 9999 VCSH BKN049CB 11/05 Q1008 NOSIG
RMK TURB: MOD FL70/FL80
AUTOTAF.ME UNBB 141900Z 1420/1505 20009G17MPS 9999 VCSH OVC040CB TX14/1505Z TN11/1423Z
FM150500 24011G19MPS 7000 VCSH HZ BKN025CB
TAF UNBB 142000Z 1421/1521 21006G12MPS 8000 BKN016CB
TEMPO 1421/1506 22011G17MPS
BECMG 1506/1507 26008G16MPS
TEMPO 1507/1515 30013G21MPS 3000 -SHRA BKN010CB
BECMG 1515/1516 32003G08MPS=
Аккем
SYNAR 36229 Усть-Кокса 142100Z 00000MPS CAVOK 01/M03 Q1018 RMK QFE678/0904 CLD:SKC
(300/77KM)


NOWCAST.SU UNBC 142300Z 19005MPS 9999 BKN095 M02/M07 Q1024 NOSIG
AUTOTAF.ME UNBC 141900Z 1420/1505 19004MPS CAVOK TX03/1504Z TNM02/1421Z
 
Горно-Алтайск
SYNAR 36058 Чемал 142100Z 16001MPS CAVOK 06/M02 Q1014 RMK QFE723/0964 CLD:8CI
(170/67KM)


NOWCAST.SU UNBG 142300Z 18003MPS 9999 BKN072 07/M01 Q1012 NOSIG
RMK TURB: MOD FL50/FL90
AUTOTAF.ME UNBG 141900Z 1420/1505 17003MPS CAVOK TX18/1505Z TN07/1422Z
BECMG 1420/1421 HZ
 
Бия
SYNAR 29939 Бийск 142100Z 19002MPS CAVOK 12/M04 Q1010 RMK QFE737/0983 CLD:SKC
(310/35KM)


NOWCAST.SU UNBI 142300Z 16003MPS 9999 OVC070 08/00 Q1011 NOSIG
RMK TURB: MOD SFC/FL90
AUTOTAF.ME UNBI 141900Z 1420/1505 17003MPS CAVOK TX17/1505Z TN08/1422Z
BECMG 1504/1505 26010G16MPS
 
Волчиха
SYNAR 36022 Волчиха 142100Z 20002MPS 9999 FEW020CB 10/05 Q1010 RMK QFE738/0984 CLD:8CBAC


NOWCAST.SU UNBM 142300Z 19004MPS 9999 OVC050 10/05 Q1010 NOSIG
RMK TURB: MOD SFC/FL70
AUTOTAF.ME UNBM 141900Z 1420/1505 19003MPS CAVOK TX12/1503Z TN10/1422Z
BECMG 1500/1501 OVC040
FM150200 26005G13MPS 9999 DRDU BKN025
FM150400 28010G15MPS 2500 -RA BLDU BKN040
FM150500 28010G15MPS 5000 -RA BR BKN008
 
Онгудай
SYNAR 36229 Усть-Кокса 142100Z 00000MPS CAVOK 01/M03 Q1018 RMK QFE678/0904 CLD:SKC
(220/65KM)


NOWCAST.SU UNBN 142300Z 19003MPS 5000 BR SCT140 M03/M05 Q1022 NOSIG
AUTOTAF.ME UNBN 141900Z 1420/1505 19003MPS CAVOK TX06/1505Z TNM03/1423Z
BECMG 1421/1422 BR
BECMG 1422/1423 5000
BECMG 1500/1501 HZ
FM150200 20003MPS CAVOK
 
Усть-Кокса
SYNAR 36229 Усть-Кокса 142100Z 00000MPS CAVOK 01/M03 Q1018 RMK QFE678/0904 CLD:SKC


NOWCAST.SU UNBU 142300Z 17003MPS 9999 BKN154 M03/M05 Q1021 NOSIG
AUTOTAF.ME UNBU 141900Z 1420/1505 17003MPS CAVOK TX08/1505Z TNM03/1423Z
BECMG 1420/1421 BKN025
BECMG 1421/1422 NSC
BECMG 1423/1500 BKN025
FM150100 17003MPS CAVOK
 
ТурСиб
SYNAR 36058 Чемал 142100Z 16001MPS CAVOK 06/M02 Q1014 RMK QFE723/0964 CLD:8CI
(160/21KM)


NOWCAST.SU UNBY 142300Z 15003MPS 9999 BKN088 03/M02 Q1015 NOSIG
AUTOTAF.ME UNBY 141900Z 1420/1505 16003MPS CAVOK TX15/1505Z TN03/1422Z
 
Новосибирск (Северный)
SYNAR 29638 Новосибирск 142100Z 21003MPS 9999 SCT020CB 08/07 Q1004 RMK QFE741/0988 CLD:6CBCI
(170/22KM)


NOWCAST.SU UNCC 142300Z 20004MPS 6000 -SHRA BR BKN014CB 08/07 Q1005 NOSIG
RMK TURB: MOD SFC/FL30
AUTOTAF.ME UNCC 141900Z 1420/1505 20004MPS 9000 -SHRA BR BKN002 OVC010CB TX11/1505Z TN08/1421Z
FM142100 19004MPS 9999 -SHRA OVC015CB
BECMG 1421/1422 -SHRA BR
BECMG 1422/1423 5000
FM150100 21009G17MPS 7000 -SHRA BR BKN002 BKN010CB
FM150200 22010G17MPS 9999 -SHRA BKN002 BKN010CB
BECMG 1502/1503 BKN015CB
FM150400 23012G17MPS 9999 -SHRA BKN025CB
 
Краснозерское
SYNAR 29724 Кочки 142100Z 22004MPS 9999 FEW033 08/06 Q1005 RMK QFE739/0985 CLD:8SCAC
(60/84KM)


NOWCAST.SU UNCN 142300Z 23010G18MPS 9999 BKN019 09/08 Q1005 NOSIG
AUTOTAF.ME UNCN 141900Z 1420/1505 21009G17MPS 9999 BKN040 TX10/1420Z TN05/1504Z
BECMG 1421/1422 -RA
FM142300 23010G18MPS 9999 BKN015
BECMG 1423/1500 BKN025
FM150200 25012G18MPS 5000 -RA BR BKN025
BECMG 1503/1504 27013G18MPS
FM150500 28013G18MPS 9999 BKN025TCU
 
Карасук
SYNAR 36058 Чемал 142100Z 16001MPS CAVOK 06/M02 Q1014 RMK QFE723/0964 CLD:8CI
(160/21KM)


NOWCAST.SU UNCX 142300Z 15003MPS 9999 BKN088 03/M02 Q1015 NOSIG
AUTOTAF.ME UNCX 141900Z 1420/1505 16003MPS CAVOK TX15/1505Z TN03/1422Z
 
Кемерово (Имени Алексея Леонова)
METAR UNEE 142300Z 21005MPS 9999 SCT033 08/07 Q1005 R23/290155 NOSIG RMK QFE731


NOWCAST.SU UNEE 142300Z 21004MPS 9999 -RA BKN028 08/07 Q1005 NOSIG
RMK TURB: MOD SFC/FL30
AUTOTAF.ME UNEE 141900Z 1420/1505 22005G13MPS 9999 -SHRA BKN025CB TX12/1504Z TN08/1423Z
BECMG 1421/1422 -RA
FM150100 20004MPS 9999 -SHRA BKN002 BKN010CB
BECMG 1501/1502 BKN025CB
TAF UNEE 142000Z 1421/1521 18003G08MPS 8000 -SHRA BKN033CB
TEMPO 1421/1503 22008G16MPS BKN011CB
BECMG 1503/1506 25009G18MPS BKN020CB
BECMG 1509/1512 32007G15MPS=
Тура МВЛ
SYNAR 24507 Тура 142100Z 07002MPS //// -SHSN OVC020CB M00/M00 Q1050 RMK QFE730/0974 CLD:8CB
(60/11KM)


NOWCAST.SU UNHT 142300Z 20003MPS 1100 SN BR BKN003 M01/M02 Q0996 NOSIG
RMK TURB: MOD FL40/FL50
AUTOTAF.ME UNHT 141900Z 1420/1505 17003MPS 1200 SN BR BKN004 TX01/1503Z TNM03/1420Z
FM142200 19003MPS 2500 -SN BR OVC004
FM142300 20003MPS 1200 SN BR BKN004
FM150000 21003MPS 2500 BR BKN004
FM150100 24003MPS 5000 BR BKN015
FM150200 25005G11MPS 9999 BKN025
BECMG 1502/1503 NSC
BECMG 1504/1505 BKN040TCU
 
Байкит
SYNAR 23891 Байкит 142100Z 00000MPS 0500 FZFG OVC020CB M00/M00 Q1000 RMK QFE727/0970 CLD:8CB


NOWCAST.SU UNIB 142300Z VRB02MPS 5000 BR OVC012 00/M01 Q1001 NOSIG
AUTOTAF.ME UNIB 141900Z 1420/1505 VRB02MPS 2500 -SN BR OVC004 TX02/1503Z TN00/1420Z
FM142100 VRB02MPS 5000 BR OVC015
BECMG 1502/1503 1200
FM150400 22003MPS 0500 VCSH FG BKN015CB
BECMG 1504/1505 +SHRASN FG
 
Эконда
 


NOWCAST.SU UNIH 142300Z 16008G14MPS 0200 SN BLSN OVC013 M04/M06 Q0996 NOSIG
AUTOTAF.ME UNIH 141900Z 1420/1505 15009G14MPS 0500 SN BLSN OVC004 TXM01/1504Z TNM05/1420Z
BECMG 1422/1423 OVC015
FM150200 18007MPS 1200 SN BR OVC015
BECMG 1502/1503 SN BLSN
FM150400 19008MPS 2500 SN BLSN OVC004
BECMG 1504/1505 SN BR
 
Енисейск
SYNAR 29263 Енисейск 142100Z 11001MPS //// BR OVC020CB 04/04 Q1003 RMK QFE745/0993 CLD:8CB


NOWCAST.SU UNII 142300Z VRB02MPS 0200 DZ FG VV001 02/02 Q1004 NOSIG
AUTOTAF.ME UNII 141900Z 1420/1505 VRB02MPS 0500 FG VV004 TX05/1504Z TN02/1420Z
FM142200 VRB02MPS 0500 DZ FG VV002
FM150000 VRB02MPS 0200 RA FG VV004
BECMG 1500/1501 RA FG
BECMG 1502/1503 OVC015
BECMG 1504/1505 OVC025
 
Мотыгино
SYNAR 29276 Мотыгино 142100Z 16001MPS //// //// 04/04 Q1005 RMK QFE738/0985 CLD:NO_OBSERVATIONS


NOWCAST.SU UNIM 142300Z VRB02MPS 0200 RA FG VV004 02/02 Q1005 NOSIG
AUTOTAF.ME UNIM 141900Z 1420/1505 VRB02MPS 0200 FG VV004 TX05/1505Z TN02/1422Z
BECMG 1421/1422 DZ FG
BECMG 1422/1423 RA FG
BECMG 1500/1501 OVC008
FM150200 VRB02MPS 0500 RA FG VV004
FM150400 VRB02MPS 2500 -RA BR OVC004
FM150500 22003MPS 5000 -RA BR OVC004
 
Подкаменная Тунгуска
SYNAR 23884 Бор 142100Z 00000MPS //// SCT020 M02/M02 Q1001 RMK QFE745/0994 CLD:6SCCI


NOWCAST.SU UNIP 142300Z VRB02MPS 9999 -SN BKN029 M04/M05 Q1003 NOSIG
AUTOTAF.ME UNIP 141900Z 1420/1505 VRB02MPS 9999 -SN BKN025 TXM02/1420Z TNM04/1421Z
BECMG 1420/1421 -SN BR
BECMG 1421/1422 -SN
 
Ярцево
SYNAR 23987 Ярцево 142100Z 13002MPS 4000 OVC020CB 03/02 Q1002 RMK QFE746/0994 CLD:8CB


NOWCAST.SU UNIQ 142300Z VRB02MPS 0200 +SN FG VV002 00/00 Q1003 NOSIG
AUTOTAF.ME UNIQ 141900Z 1420/1505 VRB02MPS 0200 FG VV002 TX00/1420Z TN00/1420Z
BECMG 1420/1421 OVC004
BECMG 1421/1422 +SN FG
FM150400 33004MPS 1200 SN BR OVC002
 
Северо-Енисейск
SYNAR 23986 Северо-Енисейский 142100Z 26003MPS //// BKN010CB M01/M01 Q1000 RMK QFE705/0940 CLD:8CBAS


NOWCAST.SU UNIS 142300Z VRB02MPS 0600 FG VV026 00/M01 Q1002 NOSIG
AUTOTAF.ME UNIS 141900Z 1420/1505 22003MPS 0500 FG VV015 TX03/1505Z TN00/1420Z
BECMG 1422/1423 OVC025
BECMG 1423/1500 NSC
BECMG 1501/1502 BKN008 BKN020TCU
FM150300 VRB02MPS 0500 +SN FG VV015
 
Тура-Горный
SYNAR 24507 Тура 142100Z 07002MPS //// -SHSN OVC020CB M00/M00 Q1050 RMK QFE730/0974 CLD:8CB


NOWCAST.SU UNIT 142300Z 19004MPS 0500 SN FZFG BKN002 M01/M02 Q0996 NOSIG
AUTOTAF.ME UNIT 141900Z 1420/1505 16003MPS 1200 SN BR OVC025 TX01/1504Z TNM02/1420Z
FM142200 18003MPS 0500 SN FZFG BKN004
FM150000 20004MPS 1200 SN BR BKN004
BECMG 1500/1501 SN BLSN
FM150200 26005G12MPS 2500 SN BLSN BKN025
FM150300 27008G13MPS 2500 -SN BLSN BKN025CB
FM150400 27009G14MPS 7000 -SHSN BR BKN025CB
BECMG 1504/1505 -SHSN
 
Ванавара
SYNAR 24908 Ванавара 142100Z 19001MPS 4000 -SHSN OVC020CB 00/00 Q1001 RMK QFE728/0970 CLD:8CB


NOWCAST.SU UNIW 142300Z 22003MPS 0500 +SN FG VV005 01/00 Q1003 NOSIG
AUTOTAF.ME UNIW 141900Z 1420/1505 18003MPS 0500 +SN FG VV004 TX04/1505Z TN00/1420Z
BECMG 1423/1500 OVC015
BECMG 1500/1501 FG
BECMG 1502/1503 BKN004
FM150400 24003MPS 5000 BR BKN015 BKN020TCU
FM150500 24003MPS 9999 BKN015 BKN020TCU
 
Осиновый Мыс
SYNAR 29282 Богучаны 142100Z 24002MPS //// OVC020CB 06/03 Q1005 RMK QFE742/0989 CLD:8CB
(20/97KM)


NOWCAST.SU UNJS 142300Z VRB02MPS 0200 FG VV001 04/04 Q1006 NOSIG
AUTOTAF.ME UNJS 141900Z 1420/1505 VRB02MPS 0200 DZ FG VV002 TX07/1505Z TN04/1420Z
BECMG 1420/1421 FG
FM150100 VRB02MPS 1200 DZ BR OVC004
FM150200 20003MPS 2500 -RA BR OVC004
FM150300 21004MPS 5000 -RA BR OVC008
BECMG 1504/1505 OVC015
 
Богучаны
SYNAR 29282 Богучаны 142100Z 24002MPS //// OVC020CB 06/03 Q1005 RMK QFE742/0989 CLD:8CB


NOWCAST.SU UNKB 142300Z VRB02MPS 0200 FG VV001 03/02 Q1006 NOSIG
AUTOTAF.ME UNKB 141900Z 1420/1505 23003MPS 0500 FG VV004 TX04/1503Z TN03/1420Z
BECMG 1420/1421 OVC002
FM150100 VRB02MPS 0500 DZ FG NSC
FM150200 VRB02MPS 0500 RA FG VV004
BECMG 1503/1504 OVC008
BECMG 1504/1505 OVC015
 
Кодинск
SYNAR 29393 Червянка 142100Z 21003MPS //// OVC020CB 05/05 Q1006 RMK QFE735/0980 CLD:8CB
(160/96KM)


NOWCAST.SU UNKI 142300Z 23003MPS 0200 FG VV001 03/03 Q1005 NOSIG
AUTOTAF.ME UNKI 141900Z 1420/1505 24003MPS 0200 +DZ FG VV002 TX04/1502Z TN03/1420Z
BECMG 1420/1421 FG
BECMG 1500/1501 OVC004
FM150200 VRB02MPS 0500 RA FG VV015
 
Красноярск (Северный)
SYNAR 29571 Минино 142100Z 22002MPS 9999 BKN020CB 08/04 Q1006 RMK QFE733/0977 CLD:7CBACCI
(220/22KM)


NOWCAST.SU UNKK 142300Z 22010G18MPS 9999 BKN020 09/02 Q1006 NOSIG
RMK TURB: MOD SFC/FL40
AUTOTAF.ME UNKK 141900Z 1420/1505 21009G17MPS 9999 BKN015 TX12/1503Z TN07/1420Z
BECMG 1421/1422 BKN025
BECMG 1503/1504 -RA
 
Красноярск (Емельяново)
METAR UNKL 142300Z 17002MPS 9999 SCT048 09/04 Q1004 R29/290250 TEMPO 22011G16MPS RMK QFE728


NOWCAST.SU UNKL 142300Z 22010G18MPS 9999 BKN056 07/03 Q1006 NOSIG
RMK TURB: MOD SFC/FL40
AUTOTAF.ME UNKL 141900Z 1420/1505 21005G13MPS 9999 BKN015 TX10/1503Z TN06/1420Z
FM142100 21005G13MPS 9999 VCSH OVC015CB
FM142300 22010G18MPS CAVOK
BECMG 1501/1502 BKN025
BECMG 1503/1504 -RA
TAF UNKL 141953Z 1421/1521 23003G08MPS 9999 BKN016CB
TEMPO 1421/1424 20008G18MPS
BECMG 1500/1503 23008G16MPS
BECMG 1512/1515 28008G16MPS
TEMPO 1518/1521 2000 SHSN BKN010 BKN016CB=
Красноярск (Черемшанка)
SYNAR 29571 Минино 142100Z 22002MPS 9999 BKN020CB 08/04 Q1006 RMK QFE733/0977 CLD:7CBACCI
(140/16KM)


NOWCAST.SU UNKM 142300Z 22010G18MPS 9999 SCT120 07/03 Q1006 NOSIG
RMK TURB: MOD SFC/FL40
AUTOTAF.ME UNKM 141900Z 1420/1505 21005G13MPS 9999 BKN015 TX10/1503Z TN06/1420Z
FM142100 21005G13MPS 9999 VCSH OVC015CB
FM142300 22010G18MPS CAVOK
BECMG 1501/1502 BKN025
BECMG 1503/1504 -RA
 
Канск (Восточный)
SYNAR 29581 Канск 142100Z 11002MPS //// SCT020CB 05/03 Q1007 RMK QFE737/0983 CLD:7CBAC


NOWCAST.SU UNKN 142300Z 22009G17MPS 9999 BKN030 07/03 Q1008 NOSIG
AUTOTAF.ME UNKN 141900Z 1420/1505 24009G17MPS 9999 BKN025 TX14/1505Z TN07/1420Z
FM150500 25014G19MPS 9999 VCSH OVC025CB
 
Шарыпово
SYNAR 29558 Шарыпово 142100Z 15002MPS 9999 BKN020CB 09/03 Q1005 RMK QFE725/0967 CLD:8CBAC


NOWCAST.SU UNKO 142300Z 24009G17MPS 9999 BKN035 09/03 Q1006 NOSIG
RMK TURB: MOD SFC/FL40
AUTOTAF.ME UNKO 141900Z 1420/1505 23010G18MPS 9999 VCSH BKN025CB TX12/1505Z TN09/1420Z
FM150200 23009G17MPS 9999 -RA BKN015
BECMG 1502/1503 BKN025
 
Красноярск (Бобровый Лог)
SYNAR 29571 Минино 142100Z 22002MPS 9999 BKN020CB 08/04 Q1006 RMK QFE733/0977 CLD:7CBACCI
(340/13KM)


NOWCAST.SU UNKP 142300Z 22010G18MPS 9999 BKN024 09/03 Q1006 NOSIG
RMK TURB: MOD SFC/FL40
AUTOTAF.ME UNKP 141900Z 1420/1505 21009G17MPS 9999 BKN025 TX12/1503Z TN08/1420Z
BECMG 1503/1504 -RA
 
Ачинск
SYNAR 29467 Ачинск 142100Z 19004MPS 9999 -SHRA OVC020CB 08/04 Q1004 RMK QFE730/0974 CLD:8CB


NOWCAST.SU UNKS 142300Z 24009G17MPS 6000 -RA HZ OVC016 08/04 Q1004 NOSIG
RMK TURB: MOD SFC/FL40
AUTOTAF.ME UNKS 141900Z 1420/1505 21005G13MPS 5000 -RA BR OVC015 TX11/1505Z TN07/1420Z
BECMG 1422/1423 -RA HZ
FM150000 24010G17MPS 5000 -RA HZ BKN025
FM150200 24010G16MPS 2500 HZ BKN015 BKN020TCU
BECMG 1502/1503 5000
FM150500 22005G13MPS 9999 -RA OVC015
 
Вознесенка
SYNAR 29571 Минино 142100Z 22002MPS 9999 BKN020CB 08/04 Q1006 RMK QFE733/0977 CLD:7CBACCI
(280/33KM)


NOWCAST.SU UNKW 142300Z 22009G17MPS 9999 BKN037 09/03 Q1007 NOSIG
AUTOTAF.ME UNKW 141900Z 1420/1505 22005G13MPS 9999 -RA OVC015 TX12/1503Z TN08/1420Z
FM142100 22009G17MPS 9999 BKN025
BECMG 1501/1502 24010G18MPS
BECMG 1504/1505 -RA
 
Кызыл
SYNAR 36096 Кызыл 142100Z 05001MPS CAVOK 03/M04 Q1016 RMK QFE706/0941 CLD:2CI


NOWCAST.SU UNKY 142300Z VRB02MPS 9999 SCT230 M01/M06 Q1017 NOSIG
AUTOTAF.ME UNKY 141900Z 1420/1505 VRB02MPS CAVOK TX11/1505Z TNM01/1420Z
 
Колпашево
SYNAR 29231 Колпашево 142100Z 32003MPS 9999 OVC008CB 01/M01 Q1003 RMK QFE745/0993 CLD:8CB


NOWCAST.SU UNLL 142300Z 35003MPS 0400 +SN FZFG VV001 M01/M02 Q1006 NOSIG
AUTOTAF.ME UNLL 141900Z 1420/1505 35003MPS 1200 SN BR OVC004 TX01/1420Z TNM02/1502Z
FM142100 35003MPS 0500 +SN FG VV004
BECMG 1421/1422 BKN002
BECMG 1422/1423 +SN FZFG
BECMG 1423/1500 OVC004
FM150100 36004MPS 1200 FZFG BKN004 BKN020TCU
FM150200 36004MPS 1200 SN BR OVC025
FM150300 36005MPS 2500 -SN BR OVC025
FM150400 36005MPS 5000 -SN HZ OVC025
FM150500 35005MPS 7000 HZ BKN025TCU
 
Парабель
SYNAR 29122 Каргасок 142100Z 32003MPS CAVOK M03/M05 Q1005 RMK QFE748/0998 CLD:7AC
(320/54KM)


NOWCAST.SU UNLP 142300Z 34004MPS 0500 +SN FZFG VV001 M02/M04 Q1007 NOSIG
AUTOTAF.ME UNLP 141900Z 1420/1505 34003MPS 0200 +SN FZFG VV002 TXM01/1420Z TNM04/1502Z
BECMG 1420/1421 OVC004
BECMG 1421/1422 OVC002
FM150000 34004MPS 2500 BR OVC008
FM150100 35004MPS 9000 BR NSC
FM150200 35005MPS 9999 OVC015
BECMG 1502/1503 NSC
FM150400 35005G10MPS 9999 BKN015 BKN020TCU
FM150500 35005G11MPS 9999 BKN025TCU
 
Новосибирск (Ельцовка)
SYNAR 29638 Новосибирск 142100Z 21003MPS 9999 SCT020CB 08/07 Q1004 RMK QFE741/0988 CLD:6CBCI
(190/22KM)


NOWCAST.SU UNNE 142300Z 20004MPS 7000 -SHRA BR BKN014CB 08/07 Q1005 NOSIG
RMK TURB: MOD SFC/FL30
AUTOTAF.ME UNNE 141900Z 1420/1505 20004MPS 9999 -SHRA BKN002 OVC010CB TX11/1505Z TN08/1421Z
BECMG 1420/1421 OVC015CB
BECMG 1421/1422 -SHRA BR
BECMG 1422/1423 7000
FM150000 21005G13MPS 5000 -SHRA BR SCT015CB
FM150100 21009G17MPS 5000 -SHRA BR BKN002 BKN010CB
FM150300 22010G17MPS 9999 -SHRA BKN015CB
FM150400 23012G17MPS 9999 -SHRA BKN025CB
 
Новосибирск (Городской Аэропорт)
SYNAR 29638 Новосибирск 142100Z 21003MPS 9999 SCT020CB 08/07 Q1004 RMK QFE741/0988 CLD:6CBCI
(170/22KM)


NOWCAST.SU UNNG 142300Z 20004MPS 6000 -SHRA BR BKN014CB 08/07 Q1005 NOSIG
RMK TURB: MOD SFC/FL30
AUTOTAF.ME UNNG 141900Z 1420/1505 20004MPS 9000 -SHRA BR BKN002 OVC010CB TX11/1505Z TN08/1421Z
FM142100 19004MPS 9999 -SHRA OVC015CB
BECMG 1421/1422 -SHRA BR
BECMG 1422/1423 5000
FM150100 21009G17MPS 7000 -SHRA BR BKN002 BKN010CB
FM150200 22010G17MPS 9999 -SHRA BKN002 BKN010CB
BECMG 1502/1503 BKN015CB
FM150400 23012G17MPS 9999 -SHRA BKN025CB
 
Мочище
SYNAR 29631 Колывань 142100Z 21003MPS 9999 FEW033 08/06 Q1004 RMK QFE739/0986 CLD:2SC
(300/31KM)


NOWCAST.SU UNNM 142300Z 20004MPS 0200 +SHRA FG BKN005 BKN010CB 08/07 Q1005 NOSIG
RMK TURB: MOD SFC/FL30
AUTOTAF.ME UNNM 141900Z 1420/1505 20004MPS 1200 +SHRA FG BKN002 OVC010CB TX11/1505Z TN08/1421Z
BECMG 1420/1421 0200
FM142200 19004MPS 0200 VCSH FG BKN004 BKN010CB
BECMG 1422/1423 +SHRA FG
BECMG 1423/1500 BKN002 BKN010CB
FM150100 21009G17MPS 2500 SHRA BR BKN004 BKN010CB
FM150200 22010G17MPS 5000 -SHRA BR BKN004 BKN010CB
FM150300 22010G17MPS 5000 -SHRA BR BKN015CB
FM150400 23012G17MPS 5000 -SHRA BR BKN025CB
 
Северное
SYNAR 29418 Северное 142100Z 36004MPS 1000 REFG OVC006 02/02 Q1003 RMK QFE741/0988 CLD:8ST


NOWCAST.SU UNNS 142300Z 03004MPS 0800 +RASN FG VV006 01/01 Q1004 NOSIG
AUTOTAF.ME UNNS 141900Z 1420/1505 VRB02MPS 0200 FG VV004 TX02/1420Z TNM02/1503Z
BECMG 1420/1421 +DZ FG
FM142200 03004MPS 1200 RA BR OVC008
FM142300 03004MPS 0500 +RASN FG VV008
FM150000 02005G13MPS 1200 SN BLSN OVC004
FM150200 36009G17MPS 0500 SN BLSN OVC004
BECMG 1504/1505 BKN025
 
Новосибирск (Толмачёво)
METAR UNNT 142300Z 19003MPS 9999 SCT020 08/07 Q1004 R25/290150 R16/////// NOSIG RMK QFE743/0991


NOWCAST.SU UNNT 142300Z 20004MPS 7000 VCSH BKN013CB 09/07 Q1004 NOSIG
AUTOTAF.ME UNNT 141900Z 1420/1505 20003MPS 9999 VCSH SCT015CB TX11/1503Z TN09/1421Z
FM142100 19004MPS 9999 BKN040
FM142200 19004MPS 9999 VCSH BKN008 BKN010CB
FM142300 20004MPS 7000 VCSH BKN015CB
FM150000 21005G13MPS 5000 -SHRA BR BKN015CB
FM150100 22009G17MPS 5000 -SHRA SCT015CB
FM150200 23010G16MPS 9000 -SHRA BR BKN002 BKN010CB
FM150300 23011G16MPS 9999 -SHRA BKN025CB
TAF UNNT 142000Z 1421/1521 20003G08MPS 8000 BKN040CB
TEMPO 1421/1501 BKN005 BKN011CB
BECMG 1501/1503 23009G18MPS
TEMPO 1501/1515 -SHRA BKN011CB
BECMG 1508/1511 31005G13MPS
TEMPO 1515/1521 -SHSNRA BKN016CB=
Усть-Ишим
SYNAR 28382 Усть-Ишим 142100Z 32003MPS CAVOK M03/M09 Q1013 RMK QFE754/1005 CLD:SKC


NOWCAST.SU UNOI 142300Z VRB02MPS 9999 BKN015 M04/M09 Q1015 NOSIG
RMK TURB: MOD SFC/FL20
AUTOTAF.ME UNOI 141900Z 1420/1505 34003MPS 9999 BKN015 BKN020TCU TXM01/1505Z TNM04/1423Z
BECMG 1421/1422 BKN025
BECMG 1422/1423 BKN015
BECMG 1423/1500 HZ
FM150300 VRB02MPS 9999 BKN025TCU
 
Омск (Калачево)
SYNAR 28698 Омск 142100Z 35003MPS CAVOK 00/M02 Q1009 RMK QFE745/0994 CLD:8AC
(10/29KM)


NOWCAST.SU UNOL 142300Z 32010G15MPS 6000 -SN BR OVC013 01/M02 Q1011 NOSIG
RMK TURB: MOD SFC/FL30
AUTOTAF.ME UNOL 141900Z 1420/1505 32009MPS 2500 -RA BR OVC004 TX02/1420Z TN00/1500Z
BECMG 1420/1421 SN BR
BECMG 1421/1422 1200
FM142300 32010G15MPS 5000 -SN BR OVC015
FM150000 32009G14MPS 9999 BKN015 BKN020TCU
BECMG 1501/1502 BKN025TCU
 
Омск Центральный
METAR UNOO 142300Z 33006MPS 9999 BKN017 BKN033CB 00/M03 Q1011 R25/290050 NOSIG RMK QFE750


NOWCAST.SU UNOO 142300Z 32010G15MPS 6000 -SN BR OVC013 00/M02 Q1011 NOSIG
RMK TURB: MOD SFC/FL30
AUTOTAF.ME UNOO 141900Z 1420/1505 32009MPS 2500 -RA BR OVC004 TX02/1420Z TN00/1423Z
BECMG 1420/1421 SN BR
FM142200 32011G17MPS 1200 SN BR OVC015
FM142300 32010G15MPS 5000 -SN BR OVC015
FM150000 32009G14MPS 9999 BKN015 BKN020TCU
BECMG 1502/1503 BKN025TCU
TAF UNOO 141955Z 1421/1521 32007G12MPS 6000 -SHRASN BKN007 BKN020CB
TEMPO 1421/1504 32014MPS 1000 SHRASN VV004
FM150400 31005G12MPS 9999 BKN020CB=
Омск (Северный)
SYNAR 28698 Омск 142100Z 35003MPS CAVOK 00/M02 Q1009 RMK QFE745/0994 CLD:8AC
(300/12KM)


NOWCAST.SU UNOS 142300Z 32010G15MPS 6000 -SN BR OVC012 00/M02 Q1011 NOSIG
RMK TURB: MOD SFC/FL30
AUTOTAF.ME UNOS 141900Z 1420/1505 32009MPS 2500 -RA BR OVC004 TX02/1420Z TNM01/1501Z
BECMG 1420/1421 SN BR
FM142200 32011G17MPS 1200 SN BR OVC015
FM142300 32010G15MPS 5000 -SN BR OVC015
FM150000 32009G14MPS 9999 BKN015 BKN020TCU
BECMG 1501/1502 BKN025TCU
 
Тара
SYNAR 28493 Тара 142100Z 35004MPS 9999 OVC020CB M01/M05 Q1009 RMK QFE750/1000 CLD:8CB


NOWCAST.SU UNOT 142300Z 36005G13MPS 9999 -SN BKN013 M03/M07 Q1011 NOSIG
RMK TURB: MOD SFC/FL30
AUTOTAF.ME UNOT 141900Z 1420/1505 36009G15MPS 0500 SN BLSN OVC015 TXM01/1420Z TNM03/1423Z
FM142200 36005G13MPS 8000 -SN HZ OVC015
BECMG 1422/1423 -SN
FM150200 35005G11MPS 9999 BKN025TCU
BECMG 1502/1503 35004MPS
 
Омск (Поповка)
SYNAR 28698 Омск 142100Z 35003MPS CAVOK 00/M02 Q1009 RMK QFE745/0994 CLD:8AC
(50/25KM)


NOWCAST.SU UNOY 142300Z 32009MPS 9999 BKN013 00/M03 Q1012 NOSIG
RMK TURB: MOD SFC/FL30
AUTOTAF.ME UNOY 141900Z 1420/1505 33010MPS 1200 SN BR OVC004 TX02/1420Z TNM01/1501Z
BECMG 1420/1421 2500
FM142200 32010MPS 7000 -SN BR OVC015
BECMG 1501/1502 BKN025TCU
BECMG 1504/1505 33005MPS
 
Красноярск (Кузнецово)
SYNAR 29571 Минино 142100Z 22002MPS 9999 BKN020CB 08/04 Q1006 RMK QFE733/0977 CLD:7CBACCI
(300/21KM)


NOWCAST.SU UNQK 142300Z 22010G18MPS 9999 BKN021 09/02 Q1006 NOSIG
RMK TURB: MOD SFC/FL40
AUTOTAF.ME UNQK 141900Z 1420/1505 21009G17MPS 9999 BKN015 TX12/1503Z TN08/1420Z
BECMG 1420/1421 BKN025
BECMG 1504/1505 -RA
 
Манский
SYNAR 29578 Шалинское 142100Z 21004MPS 9999 BKN020CB 08/M00 Q1007 RMK QFE719/0959 CLD:7CBCI


NOWCAST.SU UNQM 142300Z 23009G17MPS 9999 BKN034 09/03 Q1007 NOSIG
RMK TURB: MOD SFC/FL40
AUTOTAF.ME UNQM 141900Z 1420/1505 23005G13MPS 9999 BKN040 TX12/1503Z TN08/1420Z
BECMG 1501/1502 24010G18MPS
 
Назарово
SYNAR 29561 Назарово 142100Z 22002MPS //// -SHRA OVC020CB 07/04 Q1005 RMK QFE731/0974 CLD:8CB
(300/12KM)


NOWCAST.SU UNQN 142300Z 23009G17MPS 9999 -RA BKN014 08/04 Q1006 NOSIG
RMK TURB: MOD SFC/FL40
AUTOTAF.ME UNQN 141900Z 1420/1505 20005G13MPS 9999 -RA OVC040 TX11/1504Z TN07/1420Z
BECMG 1421/1422 BKN015
FM150000 23010G18MPS 9999 BKN015
FM150300 22005G13MPS 9999 BKN025TCU
BECMG 1503/1504 -RA
 
Красноярск (Солнечный)
SYNAR 29571 Минино 142100Z 22002MPS 9999 BKN020CB 08/04 Q1006 RMK QFE733/0977 CLD:7CBACCI
(250/13KM)


NOWCAST.SU UNQS 142300Z 22010G18MPS 9999 BKN020 09/02 Q1006 NOSIG
RMK TURB: MOD SFC/FL40
AUTOTAF.ME UNQS 141900Z 1420/1505 21009G17MPS 9999 BKN015 TX12/1502Z TN08/1420Z
BECMG 1421/1422 BKN025
BECMG 1504/1505 -RA
 
Тасеево
SYNAR 29379 Тасеево 142100Z 12001MPS //// //// 05/04 Q1006 RMK QFE740/0986 CLD:NO_OBSERVATIONS
(280/21KM)


NOWCAST.SU UNQT 142300Z 20003MPS 3000 -DZ BR OVC005 05/05 Q1005 NOSIG
AUTOTAF.ME UNQT 141900Z 1420/1505 VRB02MPS 5000 BR OVC002 TX11/1505Z TN05/1420Z
FM142100 VRB02MPS 5000 -DZ BR NSC
FM142200 VRB02MPS 2500 -DZ BR OVC004
FM150100 22003MPS 9999 -DZ OVC008
FM150200 23004MPS 9999 -RA OVC015
FM150300 24004MPS 9000 -RA BR OVC025
 
Долгий Мост
SYNAR 29485 Абан 142100Z 14001MPS //// OVC020CB 07/04 Q1007 RMK QFE733/0978 CLD:8CB
(260/48KM)


NOWCAST.SU UNQX 142300Z VRB02MPS 0200 FG BKN001 04/04 Q1007 NOSIG
RMK TURB: MOD SFC/FL30
AUTOTAF.ME UNQX 141900Z 1420/1505 23003MPS 7000 BR BKN040 TX10/1504Z TN04/1423Z
FM142100 VRB02MPS 2500 BR OVC004
FM142300 VRB02MPS 0200 FG BKN002
FM150100 20003MPS 2500 -RA BR OVC015
FM150200 22004MPS 8000 -RA HZ OVC015
FM150300 22005G13MPS 9999 -RA OVC025
 
Барабинск
SYNAR 29612 Барабинск 142100Z 20002MPS CAVOK 06/03 Q1003 RMK QFE741/0988 CLD:7AC


NOWCAST.SU UNRR 142300Z 15004MPS 1000 SHRA BR BKN003 OVC010CB 06/06 Q1001 NOSIG
AUTOTAF.ME UNRR 141900Z 1420/1505 VRB02MPS 2500 -DZ BR BKN004 TX07/1420Z TN01/1503Z
FM142100 VRB02MPS 2500 -RA BR OVC008
FM142200 VRB02MPS 2500 -SHRA BR BKN008 OVC010CB
FM142300 15004MPS 1200 SHRA BR BKN004 OVC010CB
BECMG 1423/1500 15005MPS
BECMG 1500/1501 03006MPS
BECMG 1502/1503 SHSN BR
FM150400 35010G15MPS 2500 SHSN BR BKN004 OVC010CB
FM150500 34010MPS 2500 SN BR OVC025
 
Игол (Центральный)
SYNAR 29203 Новый Васюган 142100Z 35004MPS CAVOK M05/M09 Q1009 RMK QFE749/0999 CLD:6ACCI
(0/93KM)


NOWCAST.SU UNSG 142300Z 35005G11MPS 1200 SN HZ OVC013 M04/M08 Q1009 NOSIG
RMK TURB: MOD SFC/FL30
AUTOTAF.ME UNSG 141900Z 1420/1505 01005G12MPS 0500 SN BLSN OVC008 TXM02/1420Z TNM05/1500Z
BECMG 1421/1422 OVC015
FM142300 35005G11MPS 1200 SN HZ OVC015
FM150000 35005G11MPS 2500 -SN HZ OVC015
FM150100 35005G11MPS 9999 HZ BKN015 BKN020TCU
BECMG 1502/1503 BKN025TCU
 
Шингинская
SYNAR 29313 Пудино 142100Z 34004MPS 9999 -SHSN OVC020CB M01/M01 Q1005 RMK QFE745/0993 CLD:8CB
(150/100KM)


NOWCAST.SU UNSI 142300Z 35004MPS 9999 BKN015 BKN020TCU M05/M08 Q1009 NOSIG
AUTOTAF.ME UNSI 141900Z 1420/1505 36004MPS 9999 -SN BKN015 TXM03/1420Z TNM06/1500Z
BECMG 1423/1500 DRSN
BECMG 1502/1503 BKN025TCU
 
Стрежевой
SYNAR 23955 Александровское 142100Z 32003MPS 9999 FEW020 M08/M12 Q1010 RMK QFE752/1003 CLD:8SCCI
(160/33KM)


NOWCAST.SU UNSS 142300Z 32004MPS 9999 BKN018 M10/M13 Q1012 NOSIG
AUTOTAF.ME UNSS 141900Z 1420/1505 32003MPS 9999 BKN015 TXM08/1420Z TNM10/1421Z
BECMG 1420/1421 BKN008
BECMG 1422/1423 BKN015
BECMG 1423/1500 BKN025
 
Бакчар
SYNAR 29328 Бакчар 142100Z 29001MPS 2000 BR OVC010 05/04 Q1002 RMK QFE741/0988 CLD:8ST


NOWCAST.SU UNTB 142300Z 01003MPS 2200 BR OVC004 01/01 Q1004 NOSIG
AUTOTAF.ME UNTB 141900Z 1420/1505 VRB02MPS 0500 FG BKN004 TX03/1420Z TNM01/1505Z
FM142200 VRB02MPS 1200 BR OVC004
BECMG 1422/1423 2500
BECMG 1423/1500 OVC008
FM150100 02004MPS 2500 -SN BR OVC004
FM150200 02004MPS 1200 SN BR OVC004
FM150300 02004MPS 0200 SN BLSN OVC004
 
Березкино
SYNAR 29430 Томск 142100Z 00000MPS 9999 RESHRA OVC005 05/05 Q1001 RMK QFE738/0984 CLD:8SC
(90/14KM)


NOWCAST.SU UNTR 142300Z VRB02MPS 0500 RA FG VV005 05/05 Q1004 NOSIG
AUTOTAF.ME UNTR 141900Z 1420/1505 23003MPS 1200 SHRA BR BKN008 BKN010CB TX05/1420Z TN05/1420Z
FM142100 24003MPS 0500 SHRA FG BKN004 BKN010CB
BECMG 1422/1423 RA FG
BECMG 1423/1500 DZ FG
BECMG 1500/1501 OVC008
FM150200 VRB02MPS 0500 SHRA FG BKN004 OVC010CB
FM150400 VRB02MPS 0500 +SHRA BKN004 OVC010CB
FM150500 VRB02MPS 0500 +SHRA FG VV008CB
 
Томск (Богашёво)
METAR UNTT 142300Z 24004MPS 9999 SCT006 BKN023CB 07/07 Q1002 R21/290150 NOSIG RMK QFE736


NOWCAST.SU UNTT 142300Z VRB02MPS 0700 RA FG VV005 04/04 Q1004 NOSIG
AUTOTAF.ME UNTT 141900Z 1420/1505 22003MPS 1200 VCSH BR BKN004 BKN010CB TX04/1420Z TN03/1500Z
BECMG 1420/1421 SHRA BR
FM142200 VRB02MPS 2500 -SHRA BR BKN008 OVC010CB
FM142300 VRB02MPS 0500 RA FG VV004
BECMG 1500/1501 OVC002
FM150500 VRB02MPS 0500 SHRA FG BKN004 OVC010CB
TAF UNTT 142000Z 1421/1506 22003G08MPS 6000 -SHRA BKN009 BKN016CB
TEMPO 1421/1504 18003G08MPS 0300 -TSRA FG BKN001 BKN016CB=
Таштагол
SYNAR 36061 Турочак 142100Z 00000MPS CAVOK 02/M00 Q1013 RMK QFE730/0973 CLD:8AC
(220/74KM)


NOWCAST.SU UNWI 142300Z VRB02MPS 9999 OVC065 04/01 Q1012 NOSIG
RMK TURB: MOD FL50/FL90
AUTOTAF.ME UNWI 141900Z 1420/1505 VRB02MPS CAVOK TX14/1505Z TN04/1420Z
 
Новокузнецк (Спиченково)
METAR UNWW 142300Z 19005MPS 9999 BKN033CB 11/M02 Q1009 R19/09//55 NOSIG RMK QFE729


NOWCAST.SU UNWW 142300Z 21005G13MPS 9999 VCSH OVC053CB 10/01 Q1009 NOSIG
RMK TURB: MOD SFC/FL70
AUTOTAF.ME UNWW 141900Z 1420/1505 21009G17MPS CAVOK TX12/1504Z TN10/1420Z
FM142300 21005G13MPS 9999 VCSH OVC060CB
BECMG 1500/1501 -RA
FM150200 21009G17MPS 7000 -RA HZ BKN025
BECMG 1502/1503 2500
BECMG 1503/1504 BKN015
FM150500 22010G18MPS 2500 -RA HZ BKN040
TAF UNWW 142000Z 1421/1521 17006G15MPS 8000 BKN040CB
TEMPO 1421/1503 22010G18MPS -SHRA
BECMG 1503/1504 21008G18MPS
TEMPO 1504/1513 25012G20MPS -TSRA BKN016CB
BECMG 1513/1514 26007G16MPS BKN016CB
BECMG 1517/1519 30003G08MPS -SHRASN=
Диксон
SYNAR 20674 Остров Диксон 142100Z 02006MPS 9999 DRSN NSC M22/M24 Q1007 RMK QFE750/1000 CLD:1CI


NOWCAST.SU UODD 142300Z 02004MPS 9999 OVC039 M19/M20 Q1008 NOSIG
AUTOTAF.ME UODD 141900Z 1420/1505 02004MPS 1200 BR OVC002 TXM18/1504Z TNM19/1420Z
FM142100 02004MPS 2500 BR BKN025
BECMG 1421/1422 5000
FM142300 02004MPS 9999 OVC040
BECMG 1500/1501 OVC002
BECMG 1502/1503 BKN040
 
Нагурское
SYNAR 20046 Остров Хейса 142100Z 09009MPS 9999 DRSN NSC M27/M30 Q1019 RMK QFE762/1016 CLD:8CI
(90/191KM)


NOWCAST.SU UODN 142300Z 04003MPS 9999 FEW200 M27/M29 Q1022 NOSIG
AUTOTAF.ME UODN 141900Z 1420/1505 04003MPS CAVOK TXM26/1420Z TNM27/1421Z
FM142100 04003MPS 7000 BR NSC
 
Остров Средний
SYNAR 20087 Остров Голомянный 142100Z 06003MPS CAVOK M32/M35 Q1016 RMK QFE761/1015 CLD:SKC


NOWCAST.SU UODS 142300Z VRB02MPS 9999 FEW170 M32/M33 Q1017 NOSIG
AUTOTAF.ME UODS 141900Z 1420/1505 VRB02MPS CAVOK TXM26/1505Z TNM32/1420Z
FM142100 VRB02MPS 7000 BR NSC
 
Хатанга
SYNAR 20891 Хатанга 142100Z 04005MPS 9999 -SHSN BKN033CB M21/M23 Q998 RMK QFE745/0994 CLD:7CBAC


NOWCAST.SU UOHH 142300Z 05006G11MPS 1800 BR OVC001 M15/M16 Q0999 NOSIG
RMK TURB: MOD SFC/FL30
AUTOTAF.ME UOHH 141900Z 1420/1505 05006G11MPS 1200 BR OVC002 TXM10/1505Z TNM15/1420Z
BECMG 1420/1421 OVC004
BECMG 1421/1422 OVC002
BECMG 1422/1423 2500
FM150200 05006G11MPS 1200 BR OVC002
FM150300 05007MPS 1200 FZFG VV002
FM150400 05007MPS 1200 BR OVC002
 
Новая
SYNAR 20891 Хатанга 142100Z 04005MPS 9999 -SHSN BKN033CB M21/M23 Q998 RMK QFE745/0994 CLD:7CBAC
(60/50KM)


NOWCAST.SU UOHN 142300Z 04005MPS 1900 BR OVC001 M14/M15 Q0997 NOSIG
AUTOTAF.ME UOHN 141900Z 1420/1505 04005MPS 2500 BR OVC008 TXM08/1505Z TNM16/1420Z
BECMG 1420/1421 OVC015
BECMG 1421/1422 OVC002
BECMG 1423/1500 OVC004
FM150100 04004MPS 2500 BR OVC002
FM150200 04004MPS 2500 BR OVC004
FM150300 04004MPS 2500 BR OVC040
FM150400 03004MPS 1200 BR BKN040
FM150500 03004MPS 0500 +SN FZFG VV008
 
Светлогорск
SYNAR 23376 Светлогорск 142100Z 21004MPS //// //// M05/M06 Q994 RMK QFE736/0982 CLD:NO_OBSERVATIONS
(0/12KM)


NOWCAST.SU UOIG 142300Z VRB02MPS 0500 +SN FZFG VV003 M08/M09 Q0994 NOSIG
AUTOTAF.ME UOIG 141900Z 1420/1505 VRB02MPS 0500 SN FZFG BKN004 TXM07/1420Z TNM08/1421Z
BECMG 1422/1423 +SN FZFG
 
Хантайское озеро
 


NOWCAST.SU UOIH 142300Z VRB02MPS 0500 +SN FZFG BKN005 M06/M08 Q0990 NOSIG
AUTOTAF.ME UOIH 141900Z 1420/1505 VRB02MPS 0500 SN FZFG BKN004 TXM05/1505Z TNM07/1420Z
FM142200 VRB02MPS 2500 SN BR OVC004
FM142300 VRB02MPS 0500 +SN FZFG BKN004
BECMG 1423/1500 OVC008
BECMG 1500/1501 OVC004
BECMG 1501/1502 OVC015
 
Игарка
SYNAR 23274 Игарка 142100Z 25002MPS 9999 -SHSN BKN010CB M04/M05 Q993 RMK QFE742/0989 CLD:7CB


NOWCAST.SU UOII 142300Z 19003MPS 0600 FZFG VV001 M07/M07 Q0993 NOSIG
AUTOTAF.ME UOII 141900Z 1420/1505 18003MPS 1200 BR OVC002 TXM07/1421Z TNM10/1505Z
FM142100 18003MPS 0200 FZFG VV002
BECMG 1500/1501 +SN FZFG
BECMG 1503/1504 34005MPS
BECMG 1504/1505 OVC008
 
Снежногорск
SYNAR 23179 Снежногорск 142100Z 24002MPS 9999 -SHSN OVC020CB M03/M03 Q991 RMK QFE734/0979 CLD:8CB


NOWCAST.SU UOIS 142300Z 18003MPS 0400 +SN FZFG VV002 M07/M08 Q0993 NOSIG
AUTOTAF.ME UOIS 141900Z 1420/1505 20004MPS 0200 +SN FZFG VV004 TXM06/1420Z TNM09/1505Z
BECMG 1504/1505 30005MPS
 
Дудинка
SYNAR 23078 Норильск 142100Z 30006G10MPS 4000 -SN OVC020 M14/M17 Q992 RMK QFE738/0984 CLD:8SC
(90/84KM)


NOWCAST.SU UOOD 142300Z 36004MPS 0700 +SN FZFG VV001 M13/M14 Q0996 NOSIG
AUTOTAF.ME UOOD 141900Z 1420/1505 01004MPS 0500 +SN FZFG VV002 TXM11/1420Z TNM14/1501Z
BECMG 1423/1500 1200
BECMG 1500/1501 SN BR
BECMG 1501/1502 OVC025
FM150300 36005MPS 2500 SN BR OVC025
FM150500 35006MPS 2500 BR BKN025TCU
 
Ванкор
SYNAR 23274 Игарка 142100Z 25002MPS 9999 -SHSN BKN010CB M04/M05 Q993 RMK QFE742/0989 CLD:7CB
(110/129KM)


NOWCAST.SU UOOG 142300Z 34005G11MPS 2000 SN BR OVC001 M11/M13 Q0996 NOSIG
AUTOTAF.ME UOOG 141900Z 1420/1505 34005G10MPS 0500 +SN FZFG BKN002 TXM08/1420Z TNM13/1502Z
FM142300 34005G11MPS 2500 SN BR OVC002
FM150000 34006G12MPS 0500 SN BLSN OVC002
BECMG 1502/1503 OVC015
FM150400 33007G13MPS 5000 -SN DRSN OVC015
BECMG 1504/1505 DRSN
 
Северо-Соленое
SYNAR 20978 Караул 142100Z 35011G16MPS 4000 BLSN SCT066 M19/M22 Q999 RMK QFE746/0995 CLD:3AC
(30/120KM)


NOWCAST.SU UOOI 142300Z 35006G12MPS 9999 -SN DRSN OVC087 M15/M17 Q1000 NOSIG
AUTOTAF.ME UOOI 141900Z 1420/1505 36006G12MPS 0500 SN BLSN OVC004 TXM13/1420Z TNM16/1502Z
FM142200 35007G14MPS 7000 -SN BR BKN004
FM142300 35006G12MPS 9999 -SN DRSN NSC
FM150000 35006G13MPS 9999 DRSN OVC004
BECMG 1500/1501 NSC
 
Южно-Соленое
SYNAR 20978 Караул 142100Z 35011G16MPS 4000 BLSN SCT066 M19/M22 Q999 RMK QFE746/0995 CLD:3AC
(30/127KM)


NOWCAST.SU UOOJ 142300Z 35006G12MPS 5000 -SN BR OVC088 M15/M17 Q1000 NOSIG
AUTOTAF.ME UOOJ 141900Z 1420/1505 36007G13MPS 0500 SN BLSN OVC002 TXM13/1420Z TNM16/1502Z
FM142200 35007G14MPS 5000 -SN BLSN BKN002
FM142300 35006G12MPS 5000 -SN BR NSC
BECMG 1423/1500 BR
FM150200 34006G12MPS 9999 DRSN NSC
 
Факел
SYNAR 20978 Караул 142100Z 35011G16MPS 4000 BLSN SCT066 M19/M22 Q999 RMK QFE746/0995 CLD:3AC
(330/98KM)


NOWCAST.SU UOOK 142300Z 36005G10MPS 0500 +SN FZFG VV001 M13/M15 Q0998 NOSIG
AUTOTAF.ME UOOK 141900Z 1420/1505 01005G10MPS 0500 +SN FZFG BKN002 TXM12/1420Z TNM14/1500Z
FM150000 35005G11MPS 1200 SN BR OVC002
FM150100 35005G11MPS 2500 -SN BR OVC002
FM150200 35005G10MPS 5000 BR OVC002
BECMG 1503/1504 OVC015
 
Пелятка Норильская
SYNAR 20978 Караул 142100Z 35011G16MPS 4000 BLSN SCT066 M19/M22 Q999 RMK QFE746/0995 CLD:3AC
(40/73KM)


NOWCAST.SU UOOL 142300Z 35006G12MPS 6000 BR OVC001 M15/M17 Q1000 NOSIG
AUTOTAF.ME UOOL 141900Z 1420/1505 36006G12MPS 2500 -SN BLSN BKN002 TXM14/1420Z TNM16/1500Z
FM142100 36006G13MPS 5000 BLSN BKN002
BECMG 1421/1422 BR
BECMG 1500/1501 DRSN
FM150200 34005G11MPS 9000 BR OVC002
FM150300 33005G10MPS 9999 OVC004
BECMG 1503/1504 NSC
 
Мессояха
SYNAR 20978 Караул 142100Z 35011G16MPS 4000 BLSN SCT066 M19/M22 Q999 RMK QFE746/0995 CLD:3AC
(10/109KM)


NOWCAST.SU UOOM 142300Z 35006G12MPS 0500 SN BLSN OVC002 M14/M16 Q0998 NOSIG
AUTOTAF.ME UOOM 141900Z 1420/1505 36007G13MPS 0500 SN BLSN OVC004 TXM13/1420Z TNM16/1503Z
FM150000 35006G12MPS 1200 BLSN OVC008
BECMG 1500/1501 2500
FM150200 34006G12MPS 5000 BR NSC
FM150400 33005G11MPS CAVOK
 
Волочанка
 


NOWCAST.SU UOON 142300Z 05005MPS 2300 BR OVC023 M15/M16 Q0998 NOSIG
AUTOTAF.ME UOON 141900Z 1420/1505 05005G10MPS 5000 BR OVC015 TXM12/1504Z TNM15/1420Z
BECMG 1420/1421 2500
BECMG 1421/1422 OVC025
BECMG 1423/1500 1200
FM150200 04005MPS 1200 +SN FZFG VV025
FM150300 04004MPS 0500 +SN FZFG VV025
 
Норильск (Алыкель)
METAR UOOO 142300Z 35006MPS 8000 -SN DRSN NSC M17/M19 Q0992 R01/491060 NOSIG RMK QFE729/0973


NOWCAST.SU UOOO 142300Z 01004MPS 0500 +SN FZFG VV005 M13/M14 Q0994 NOSIG
RMK TURB: MOD FL170/FL180
AUTOTAF.ME UOOO 141900Z 1420/1505 01004MPS 0500 +SN FZFG BKN004 TXM10/1420Z TNM14/1501Z
BECMG 1504/1505 OVC025
TAF UOOO 141955Z 1421/1521 02010G18MPS 2700 -SN BLSN BKN016
TEMPO 1421/1501 0500 -SN BLSN BKN004 BKN011
BECMG 1501/1503 34007G16MPS 6000 -SN BLSN
BECMG 1513/1515 27006G13MPS=
Усть-Порт
SYNAR 20978 Караул 142100Z 35011G16MPS 4000 BLSN SCT066 M19/M22 Q999 RMK QFE746/0995 CLD:3AC
(310/66KM)


NOWCAST.SU UOOP 142300Z 36005G10MPS 0500 +SN FZFG VV013 M14/M16 Q0998 NOSIG
AUTOTAF.ME UOOP 141900Z 1420/1505 01005G10MPS 0500 +SN FZFG BKN004 TXM12/1420Z TNM14/1423Z
BECMG 1422/1423 OVC015
FM150000 35005G11MPS 1200 SN BR OVC015
FM150100 35005G11MPS 2500 -SN BR OVC015
FM150200 35005G10MPS 5000 BR OVC015
BECMG 1503/1504 9000
 
Караул
SYNAR 20978 Караул 142100Z 35011G16MPS 4000 BLSN SCT066 M19/M22 Q999 RMK QFE746/0995 CLD:3AC


NOWCAST.SU UOOR 142300Z 35006G11MPS 6000 BR BKN014 M15/M17 Q1000 NOSIG
AUTOTAF.ME UOOR 141900Z 1420/1505 36006G11MPS 8000 BR BKN002 TXM14/1420Z TNM16/1501Z
BECMG 1421/1422 BKN015
BECMG 1422/1423 5000
BECMG 1500/1501 9000
 
Усть-Тарея
 


NOWCAST.SU UOOU 142300Z 05005G11MPS 5000 BR BKN017 M19/M21 Q1004 NOSIG
AUTOTAF.ME UOOU 141900Z 1420/1505 06006G13MPS 9999 BKN015 TXM16/1505Z TNM19/1420Z
BECMG 1420/1421 DRSN
FM142300 05005G11MPS 5000 BR BKN015
FM150000 05005G11MPS 2500 BR BKN004
FM150100 05005G11MPS 1200 FG IC BKN015
BECMG 1501/1502 0500
BECMG 1504/1505 1200
 
Валек
SYNAR 23078 Норильск 142100Z 30006G10MPS 4000 -SN OVC020 M14/M17 Q992 RMK QFE738/0984 CLD:8SC


NOWCAST.SU UOOW 142300Z VRB02MPS 0500 SN FZFG VV004 M09/M10 Q0992 NOSIG
RMK TURB: MOD FL170/FL180
AUTOTAF.ME UOOW 141900Z 1420/1505 VRB02MPS 2500 SN BR OVC004 TXM07/1420Z TNM12/1503Z
FM142300 VRB02MPS 0500 SN FZFG VV004
BECMG 1501/1502 +SN FZFG
 
Туруханск
SYNAR 23472 Туруханск 142100Z 23004MPS //// //// M06/M08 Q997 RMK QFE744/0992 CLD:NO_OBSERVATIONS


NOWCAST.SU UOTT 142300Z 22004MPS 0500 +SN FZFG VV001 M08/M09 Q0997 NOSIG
AUTOTAF.ME UOTT 141900Z 1420/1505 20004MPS 0500 +SN FZFG VV002 TXM07/1420Z TNM09/1500Z
BECMG 1503/1504 OVC015
 
Севастополь (Бельбек)
SYNAR 33998 Ай-Петри 142100Z 32008G12MPS CAVOK 09/02 Q//// RMK CLD:2CI
(120/47KM)


NOWCAST.SU URFB 142300Z VRB02MPS 9999 SCT250 14/09 Q1019 NOSIG
AUTOTAF.ME URFB 141900Z 1420/1505 VRB02MPS CAVOK TX16/1505Z TN14/1420Z
 
Симферополь
SYNAR 33946 Симферополь 142100Z 19005MPS CAVOK 11/09 Q1019 RMK QFE747/0996 CLD:3CI


NOWCAST.SU URFF 142300Z 20004MPS 9999 BKN250 13/07 Q1019 NOSIG
AUTOTAF.ME URFF 141900Z 1420/1505 20003MPS CAVOK TX16/1505Z TN13/1420Z
FM150200 19004MPS 9999 VCSH SCT080CB
FM150300 19004MPS CAVOK
BECMG 1504/1505 21009G14MPS
 
Саки
SYNAR 33946 Симферополь 142100Z 19005MPS CAVOK 11/09 Q1019 RMK QFE747/0996 CLD:3CI
(100/29KM)


NOWCAST.SU URFI 142300Z 19005MPS 9999 FEW180 14/11 Q1019 NOSIG
AUTOTAF.ME URFI 141900Z 1420/1505 20005MPS CAVOK TX15/1505Z TN13/1420Z
 
Симферополь (Заводское)
SYNAR 33946 Симферополь 142100Z 19005MPS CAVOK 11/09 Q1019 RMK QFE747/0996 CLD:3CI
(330/14KM)


NOWCAST.SU URFW 142300Z 20004MPS 9999 BKN240 13/07 Q1019 NOSIG
AUTOTAF.ME URFW 141900Z 1420/1505 20003MPS CAVOK TX16/1505Z TN13/1420Z
FM150200 19004MPS 9999 VCSH SCT080CB
FM150300 19004MPS CAVOK
BECMG 1504/1505 21009G14MPS
 
Анапа (Витязево)
METAR URKA 142300Z 17006MPS CAVOK 11/10 Q1018 R22/010070 TEMPO 2000 BR SCT004 RMK QFE758/1011


NOWCAST.SU URKA 142300Z 18004MPS 9999 SCT260 12/10 Q1019 NOSIG
RMK TURB: MOD FL50/FL60
AUTOTAF.ME URKA 141900Z 1420/1505 18004MPS CAVOK TX14/1505Z TN12/1420Z
TAF URKA 141956Z 1421/1521 16007G14MPS 6000 SCT016
FM150000 17009G15MPS 9999 SCT016
TEMPO 1506/1521 19010G19MPS BKN016=
 


NOSIG
 
Геленджик
SYNAR 37001 Анапа 142100Z 18009G12MPS CAVOK 13/11 Q1019 RMK QFE761/1014 CLD:6AC
(300/67KM)


NOWCAST.SU URKG 142300Z 13005MPS 9999 SCT015 12/11 Q1020 NOSIG
RMK TURB: MOD FL70/FL80
AUTOTAF.ME URKG 141900Z 1420/1505 13005MPS CAVOK TX13/1505Z TN12/1420Z
BECMG 1422/1423 SCT015
 
Краснодар (Пашковский)
METAR URKK 142300Z 22005MPS CAVOK 12/09 Q1018 R23L/CLRD70 NOSIG RMK QFE760


NOWCAST.SU URKK 142300Z 21004MPS 9999 BKN093 13/09 Q1019 NOSIG
RMK TURB: MOD FL40/FL70
AUTOTAF.ME URKK 141900Z 1420/1505 22003MPS 9999 SCT040 TX15/1505Z TN13/1420Z
BECMG 1420/1421 NSC
BECMG 1423/1500 SCT040
BECMG 1501/1502 NSC
FM150400 21008G15MPS CAVOK
TAF URKK 141951Z 1421/1521 22003G08MPS 9999 SCT030
BECMG 1501/1503 22007G14MPS
TEMPO 1506/1518 20010G18MPS=
Майкоп
SYNAR 37021 Майкоп 142100Z 19001MPS CAVOK 12/07 Q1019 RMK QFE745/0993 CLD:SKC


NOWCAST.SU URKM 142300Z VRB02MPS 9999 SCT043 12/06 Q1020 NOSIG
RMK TURB: MOD FL40/FL70
AUTOTAF.ME URKM 141900Z 1420/1505 VRB02MPS 9999 SCT040 TX15/1505Z TN11/1500Z
BECMG 1502/1503 NSC
 
Геленджик Бухта
SYNAR 37001 Анапа 142100Z 18009G12MPS CAVOK 13/11 Q1019 RMK QFE761/1014 CLD:6AC
(300/69KM)


NOWCAST.SU URKN 142300Z 13005MPS 9999 SCT013 12/11 Q1020 NOSIG
RMK TURB: MOD FL70/FL80
AUTOTAF.ME URKN 141900Z 1420/1505 13005MPS CAVOK TX12/1420Z TN11/1422Z
BECMG 1422/1423 SCT015
 
Армавир (Центральный)
SYNAR 37031 Армавир 142100Z 16001MPS CAVOK 11/07 Q1019 RMK QFE749/0999 CLD:SKC


NOWCAST.SU URKR 142300Z 22003MPS 9999 SCT043 11/07 Q1019 NOSIG
RMK TURB: MOD FL50/FL60
AUTOTAF.ME URKR 141900Z 1420/1505 23003MPS 9999 SCT040 TX15/1505Z TN11/1423Z
BECMG 1500/1501 NSC
BECMG 1504/1505 BKN040
 
Энем-АС
SYNAR 37018 Туапсе 142100Z 00000MPS 9999 BKN033 13/11 Q1022 RMK QFE760/1014 CLD:5SC
(170/95KM)


NOWCAST.SU URKS 142300Z 21004MPS 9999 FEW280 13/09 Q1019 NOSIG
RMK TURB: MOD FL40/FL70
AUTOTAF.ME URKS 141900Z 1420/1505 22003MPS 9999 SCT040 TX15/1505Z TN13/1420Z
BECMG 1420/1421 NSC
BECMG 1423/1500 SCT040
BECMG 1501/1502 NSC
FM150400 21008G15MPS CAVOK
 
Тихорецк
SYNAR 34838 Тихорецк 142100Z 20002MPS CAVOK 12/07 Q1017 RMK QFE756/1008 CLD:SKC


NOWCAST.SU URKT 142300Z 22005G13MPS 9999 BKN063 13/07 Q1017 NOSIG
RMK TURB: MOD SFC/FL70
AUTOTAF.ME URKT 141900Z 1420/1505 24003MPS CAVOK TX14/1420Z TN12/1500Z
FM150100 22008G16MPS 9999 BKN040
 
Краснодар (Белевцы)
SYNAR 34838 Тихорецк 142100Z 20002MPS CAVOK 12/07 Q1017 RMK QFE756/1008 CLD:SKC
(50/102KM)


NOWCAST.SU URKY 142300Z 21004MPS 9999 FEW280 12/08 Q1019 NOSIG
RMK TURB: MOD FL40/FL70
AUTOTAF.ME URKY 141900Z 1420/1505 22003MPS 9999 SCT040 TX15/1505Z TN12/1422Z
BECMG 1420/1421 NSC
BECMG 1423/1500 SCT040
BECMG 1501/1502 NSC
FM150400 21008G15MPS CAVOK
 
Новотитаровская (Азимут)
SYNAR 34824 Приморско-Ахтарск 142100Z 23002MPS CAVOK 14/11 Q1017 RMK QFE762/1016 CLD:7AC
(330/105KM)


NOWCAST.SU URKZ 142300Z 22004MPS 9999 FEW290 12/08 Q1018 NOSIG
RMK TURB: MOD FL50/FL70
AUTOTAF.ME URKZ 141900Z 1420/1505 23003MPS CAVOK TX15/1505Z TN12/1421Z
BECMG 1500/1501 BKN040
BECMG 1503/1504 22008G16MPS
BECMG 1504/1505 NSC
 
Ессентуки
SYNAR 37054 Минеральные Воды 142100Z 23003MPS 9999 OVC033 14/08 Q1019 RMK QFE736/0981 CLD:8SC
(50/28KM)


NOWCAST.SU URME 142300Z 24003MPS 9999 SKC 09/05 Q1020 NOSIG
AUTOTAF.ME URME 141900Z 1420/1505 27003MPS CAVOK TX13/1505Z TN08/1502Z
 
Грозный (Северный)
METAR URMG 142230Z 31002MPS 9999 SCT059 12/09 Q1017 R26/190060 NOSIG RMK QFE748/0998


NOWCAST.SU URMG 142300Z 23003MPS 9999 BKN044 13/08 Q1019 NOSIG
RMK TURB: MOD FL40/FL50
AUTOTAF.ME URMG 141900Z 1420/1505 23005G11MPS 9999 VCSH BKN040CB TX16/1505Z TN11/1501Z
BECMG 1500/1501 NSC
TAF URMG 142000Z 1421/1506 28003G08MPS 9999 BKN016
TEMPO 1421/1506 24006G13MPS 6000 -SHRA BKN016 BKN030CB=
Кисловодск
SYNAR 37126 Шаджатмаз 142100Z 29005MPS 0200 -SHRASN VV/// 00/00 Q//// RMK CLD:OBSC
(170/25KM)


NOWCAST.SU URMK 142300Z 25003MPS 9999 SKC 07/04 Q1022 NOSIG
RMK TURB: MOD FL70/FL80
AUTOTAF.ME URMK 141900Z 1420/1505 26003MPS CAVOK TX10/1505Z TN05/1502Z
 
Махачкала (Уйташ)
METAR URML 142300Z VRB01MPS 9999 NSC 14/09 Q1016 R14/01//70 NOSIG RMK QFE762/1016


NOWCAST.SU URML 142300Z VRB02MPS 9999 VCSH BKN050CB 12/09 Q1018 NOSIG
RMK TURB: MOD FL40/FL50
AUTOTAF.ME URML 141900Z 1420/1505 VRB02MPS 9999 VCSH SCT060CB TX17/1505Z TN11/1501Z
FM150000 VRB02MPS CAVOK
TAF URML 142000Z 1421/1506 28003G08MPS 6000 SCT016
TEMPO 1421/1424 24003G08MPS BKN016 SCT040CB=
Минеральные Воды
METAR URMM 142300Z 30003MPS 9999 NSC 08/07 Q1018 R29/090070 NOSIG RMK QFE735/0981


NOWCAST.SU URMM 142300Z 24003MPS 9999 SKC 11/06 Q1020 NOSIG
AUTOTAF.ME URMM 141900Z 1420/1505 27003MPS CAVOK TX15/1505Z TN10/1500Z
TAF URMM 142000Z 1421/1521 26003G08MPS 6000 BKN016 TX22/1511Z TN09/1502Z
BECMG 1506/1508 28007G14MPS
BECMG 1517/1518 24003G08MPS=
Нальчик
METAR URMN 142300Z 21003MPS 9999 BKN054CB OVC083 12/09 Q1017 R24/////// NOSIG RMK QFE727


NOWCAST.SU URMN 142300Z VRB02MPS 9999 SCT130 10/07 Q1021 NOSIG
RMK TURB: MOD FL50/FL60
AUTOTAF.ME URMN 141900Z 1420/1505 22003MPS 9999 -RA OVC025 TX13/1505Z TN09/1501Z
FM142100 22003MPS 9999 -SHRA BKN025CB
BECMG 1421/1422 -RA
FM142300 VRB02MPS CAVOK
TAF URMN 142000Z 1421/1506 24003G09MPS 6000 BKN016=
Владикавказ (Беслан)
METAR URMO 142300Z 23003MPS 8000 -SHRA SCT/// BKN061CB 10/10 Q1019 R27/290150 TEMPO 1000 SHRA BKN003 BKN020CB RMK QFE719/0959


NOWCAST.SU URMO 142300Z VRB02MPS 9999 BKN089 09/08 Q1022 NOSIG
AUTOTAF.ME URMO 141900Z 1420/1505 VRB02MPS 9999 -RA OVC025 TX13/1505Z TN08/1502Z
FM142300 VRB02MPS CAVOK
TAF URMO 142000Z 1421/1506 25003G08MPS 9999 BKN016
TEMPO 1421/1506 22005G13MPS 6000 -SHRA BKN016 BKN030CB=
Магас
SYNAR 37218 Назрань 142100Z 21002MPS CAVOK 12/05 Q1020 RMK QFE705/0941 CLD:8AC
(210/23KM)


NOWCAST.SU URMS 142300Z 23003MPS 9999 BKN045 11/07 Q1019 NOSIG
AUTOTAF.ME URMS 141900Z 1420/1505 24004MPS 9999 VCSH BKN040CB TX15/1505Z TN10/1501Z
BECMG 1423/1500 NSC
 
Ставрополь (Шпаковское)
METAR URMT 142300Z 29006MPS CAVOK 11/06 Q1018 R25/010070 NOSIG RMK QFE724


NOWCAST.SU URMT 142300Z 23003MPS 9999 SKC 11/07 Q1019 NOSIG
RMK TURB: MOD FL50/FL60
AUTOTAF.ME URMT 141900Z 1420/1505 24004MPS CAVOK TX14/1505Z TN10/1500Z
TAF URMT 142000Z 1421/1506 28004G10MPS 9999 SCT020
TEMPO 1421/1503 24003G09MPS=
Грачевка
SYNAR 34949 Ставрополь 142100Z 26005MPS CAVOK 11/07 Q1019 RMK QFE723/0965 CLD:2CI
(250/29KM)


NOWCAST.SU URMX 142300Z 24003MPS 9999 SCT070 11/07 Q1019 NOSIG
RMK TURB: MOD FL50/FL60
AUTOTAF.ME URMX 141900Z 1420/1505 24003MPS CAVOK TX15/1505Z TN11/1422Z
 
Казачья
SYNAR 34949 Ставрополь 142100Z 26005MPS CAVOK 11/07 Q1019 RMK QFE723/0965 CLD:2CI
(60/38KM)


NOWCAST.SU URMZ 142300Z VRB02MPS 9999 SCT041 07/05 Q1019 NOSIG
RMK TURB: MOD FL50/FL60
AUTOTAF.ME URMZ 141900Z 1420/1505 23003MPS 9999 SCT040 TX14/1505Z TN06/1500Z
BECMG 1420/1421 NSC
BECMG 1422/1423 SCT040
BECMG 1502/1503 NSC
 
Шахты
SYNAR 34644 Константиновск 142100Z 23002MPS CAVOK 12/07 Q1014 RMK QFE755/1006 CLD:SKC
(100/63KM)


NOWCAST.SU URRH 142300Z 24005G13MPS 9999 SKC 13/09 Q1014 NOSIG
RMK TURB: MOD FL50/FL70
AUTOTAF.ME URRH 141900Z 1420/1505 25004MPS CAVOK TX15/1420Z TN13/1423Z
BECMG 1501/1502 BKN040
FM150400 23009G17MPS CAVOK
FM150500 23010G18MPS 9999 VCSH BKN025CB
 
Миллерово
SYNAR 34438 Миллерово 142100Z 18001MPS CAVOK 13/05 Q1012 RMK QFE744/0993 CLD:7AC


NOWCAST.SU URRI 142300Z 21005G13MPS 9999 BKN060 13/06 Q1011 NOSIG
RMK TURB: MOD FL50/FL70
AUTOTAF.ME URRI 141900Z 1420/1505 23003MPS CAVOK TX15/1420Z TN13/1422Z
BECMG 1500/1501 22009G17MPS
FM150400 25012G19MPS 7000 -SHRA BKN040CB
BECMG 1504/1505 OVC015CB
 
Ростов-на-Дону (Платов)
METAR URRP 142300Z 25006MPS CAVOK 13/12 Q1013 R23/CLRD70 TEMPO 1000 BR BKN002 RMK QFE752/1003


NOWCAST.SU URRP 142300Z 24005G13MPS 9999 BKN094 14/09 Q1014 NOSIG
RMK TURB: MOD FL50/FL70
AUTOTAF.ME URRP 141900Z 1420/1505 24008G15MPS CAVOK TX16/1505Z TN13/1501Z
BECMG 1501/1502 BKN040
FM150500 23011G19MPS 9999 VCSH BKN040CB
TAF URRP 141955Z 1421/1521 24008G14MPS 9999 SCT030CB
TEMPO 1503/1515 25012G20MPS 6000 -TSRA FEW007 SCT016 BKN030CB=
Волгодонск
SYNAR 34646 Цимлянск 142100Z 25002MPS CAVOK 12/07 Q1014 RMK QFE754/1006 CLD:6AC


NOWCAST.SU URRQ 142300Z 23004MPS 9999 BKN085 14/08 Q1014 NOSIG
RMK TURB: MOD FL70/FL90
AUTOTAF.ME URRQ 141900Z 1420/1505 25003MPS CAVOK TX15/1420Z TN13/1501Z
BECMG 1501/1502 22008G15MPS
BECMG 1504/1505 BKN040
 
Ростов-на-Дону
SYNAR 34720 Таганрог 142100Z 24004MPS CAVOK 15/12 Q1015 RMK QFE758/1010 CLD:SKC
(260/70KM)


NOWCAST.SU URRR 142300Z 24005G13MPS 9999 BKN270 14/09 Q1014 NOSIG
RMK TURB: MOD FL50/FL70
AUTOTAF.ME URRR 141900Z 1420/1505 24008G15MPS CAVOK TX15/1420Z TN13/1500Z
BECMG 1501/1502 BKN040
FM150500 23011G19MPS 9999 VCSH BKN040CB
 
Таганрог (Южный)
SYNAR 34720 Таганрог 142100Z 24004MPS CAVOK 15/12 Q1015 RMK QFE758/1010 CLD:SKC


NOWCAST.SU URRT 142300Z 22007G12MPS 9999 BKN270 14/11 Q1015 NOSIG
AUTOTAF.ME URRT 141900Z 1420/1505 23007G13MPS CAVOK TX14/1420Z TN14/1420Z
BECMG 1501/1502 BKN040
FM150500 22010G17MPS 9999 VCSH BKN040CB
 
Лазаревское
SYNAR 37018 Туапсе 142100Z 00000MPS 9999 BKN033 13/11 Q1022 RMK QFE760/1014 CLD:5SC
(310/30KM)


NOWCAST.SU URSA 142300Z VRB02MPS 9999 FEW270 09/08 Q1022 NOSIG
AUTOTAF.ME URSA 141900Z 1420/1505 VRB02MPS CAVOK TX12/1505Z TN08/1501Z
BECMG 1423/1500 BR
 
Сочи
METAR URSS 142300Z 00000MPS 9999 NSC 10/08 Q1021 R06/010070 R02/////// NOSIG RMK R02/04003MPS QFE765


NOWCAST.SU URSS 142300Z VRB02MPS 9999 BKN026 10/08 Q1022 NOSIG
AUTOTAF.ME URSS 141900Z 1420/1505 VRB02MPS 9999 BKN040 TX12/1505Z TN09/1501Z
BECMG 1420/1421 BR
BECMG 1421/1422 BKN015
FM142300 VRB02MPS 9999 BKN025
BECMG 1423/1500 NSC
FM150500 VRB02MPS 9999 BKN015
TAF URSS 141955Z 1421/1521 05003G08MPS 9999 SCT010
TEMPO 1421/1506 VRB01MPS BKN007 BKN016
FM150600 16004G09MPS 9999 SCT016 SCT100
BECMG 1516/1518 05003G08MPS=
Вертолетчик
SYNAR 37171 Сочи (Адлер) 142100Z 08001MPS 4000 FEW013 10/10 Q1022 RMK QFE764/1019 CLD:2ST
(160/30KM)


NOWCAST.SU URSW 142300Z VRB02MPS 9999 SKC 10/08 Q1022 NOSIG
AUTOTAF.ME URSW 141900Z 1420/1505 VRB02MPS 9999 BKN025 TX12/1505Z TN08/1502Z
BECMG 1421/1422 BKN015
BECMG 1422/1423 NSC
BECMG 1504/1505 BKN015
 
Астрахань
METAR URWA 142300Z 22005MPS CAVOK 12/11 Q1014 R27/010070 NOSIG RMK QFE762/1016


NOWCAST.SU URWA 142300Z 25003MPS 9999 VCSH BKN070CB 13/11 Q1014 NOSIG
RMK TURB: MOD FL40/FL70
AUTOTAF.ME URWA 141900Z 1420/1505 VRB02MPS CAVOK TX15/1505Z TN12/1501Z
FM142300 25003MPS 9999 VCSH BKN080CB
FM150100 26003MPS CAVOK
TAF URWA 141959Z 1421/1506 25003G11MPS 9999 SCT016
TEMPO 1421/1424 20003G10MPS
PROB40 TEMPO 1500/1504 2000 BR MIFG FEW005 SCT016=
Элиста
METAR URWI 142300Z AUTO 27007MPS 9999 // ///081/// 12/08 Q1014


NOWCAST.SU URWI 142300Z 25004MPS 9999 BKN078 13/07 Q1015 NOSIG
RMK TURB: MOD FL40/FL90
AUTOTAF.ME URWI 141900Z 1420/1505 25004MPS CAVOK TX15/1505Z TN13/1423Z
BECMG 1502/1503 DRDU
BECMG 1504/1505 25010G15MPS
TAF AMD URWI 141355Z 1412/1421 CNL=
Камышин
SYNAR 34363 Камышин 142100Z 19005MPS 9999 BKN010 11/08 Q1011 RMK QFE747/0996 CLD:7SC


NOWCAST.SU URWK 142300Z VRB02MPS 1000 BR OVC003 10/08 Q1011 NOSIG
RMK TURB: MOD FL90/FL100
AUTOTAF.ME URWK 141900Z 1420/1505 VRB02MPS CAVOK TX14/1505Z TN10/1420Z
FM142200 VRB02MPS 0500 FG VV004
FM142300 VRB02MPS 1200 BR OVC004
FM150000 VRB02MPS 5000 BR NSC
FM150100 20003MPS CAVOK
BECMG 1503/1504 20005G13MPS
 
МЛСК им. В.Филановского
SYNAR 34984 Лагань 142100Z 20002MPS CAVOK 13/10 Q1015 RMK QFE763/1018 CLD:7ACCI
(300/99KM)


NOWCAST.SU URWO 142300Z 25005MPS 9999 SKC 14/13 Q1016 NOSIG
RMK TURB: MOD FL50/FL70
AUTOTAF.ME URWO 141900Z 1420/1505 22005MPS 9999 VCSH BKN060CB TX14/1420Z TN14/1420Z
FM142100 22005MPS CAVOK
 
Волгоград (Гумрак)
METAR URWW 142300Z 24003MPS CAVOK 10/07 Q1011 R05/010070 TEMPO 1000 BR BKN004 SCT020CB


NOWCAST.SU URWW 142300Z 25003MPS 9999 SCT060 12/06 Q1012 NOSIG
RMK TURB: MOD FL40/FL90
AUTOTAF.ME URWW 141900Z 1420/1505 27003MPS CAVOK TX15/1505Z TN12/1423Z
BECMG 1502/1503 23008G14MPS
TAF URWW 141957Z 1421/1506 23005G12MPS 6000 BKN016 BKN020CB
TEMPO 1502/1506 23009G16MPS=
Челябинск (Баландино)
METAR USCC 142300Z 28001MPS CAVOK M03/M09 Q1014 R27/000060 NOSIG RMK QFE741


NOWCAST.SU USCC 142300Z VRB02MPS 9999 SKC M01/M04 Q1016 NOSIG
RMK TURB: MOD FL40/FL50
AUTOTAF.ME USCC 141900Z 1420/1505 VRB02MPS CAVOK TX05/1505Z TNM01/1423Z
TAF USCC 141955Z 1421/1521 28003G08MPS 9999 SCT030
BECMG 1500/1503 20003G12MPS=
Устиново
SYNAR 28645 Челябинск 142100Z 15001MPS CAVOK M03/M04 Q1015 RMK QFE739/0986 CLD:SKC
(70/89KM)


NOWCAST.SU USCD 142300Z VRB02MPS 9999 SKC M02/M05 Q1016 NOSIG
AUTOTAF.ME USCD 141900Z 1420/1505 VRB02MPS CAVOK TX05/1505Z TNM03/1500Z
BECMG 1504/1505 SCT040TCU
 
Челябинск (Шагол)
SYNAR 28645 Челябинск 142100Z 15001MPS CAVOK M03/M04 Q1015 RMK QFE739/0986 CLD:SKC
(180/12KM)


NOWCAST.SU USCG 142300Z VRB02MPS 9999 SKC M01/M05 Q1016 NOSIG
RMK TURB: MOD FL40/FL50
AUTOTAF.ME USCG 141900Z 1420/1505 VRB02MPS CAVOK TX05/1505Z TNM02/1500Z
 
Магнитогорск
METAR USCM 142300Z 30001MPS 9999 BKN040 01/M04 Q1014 R36/090060 NOSIG RMK QFE722


NOWCAST.SU USCM 142300Z VRB02MPS 9999 SCT045 02/M02 Q1016 NOSIG
AUTOTAF.ME USCM 141900Z 1420/1505 VRB02MPS 9999 FEW040 TX05/1505Z TN02/1422Z
BECMG 1500/1501 NSC
BECMG 1501/1502 BKN040
TAF USCM 141956Z 1421/1506 30003G12MPS 6000 BKN030=
Сабетта
METAR USDA 142300Z 32004MPS CAVOK M28/M31 Q1010 R04/410256 NOSIG RMK QFE757/1009


NOWCAST.SU USDA 142300Z 33004MPS 1000 BR SKC M26/M28 Q1011 NOSIG
AUTOTAF.ME USDA 141900Z 1420/1505 34004MPS 1200 BR NSC TXM22/1505Z TNM27/1500Z
BECMG 1502/1503 OVC004
FM150500 32003MPS CAVOK
TAF AMD USDA 141355Z 1412/1421 CNL=
Бованенково
SYNAR 20967 Сеяха 142100Z 32005MPS //// //// M27/M29 Q1010 RMK QFE756/1008 CLD:NO_OBSERVATIONS
(90/158KM)


NOWCAST.SU USDB 142300Z VRB02MPS 6000 BR SKC M28/M29 Q1012 NOSIG
AUTOTAF.ME USDB 141900Z 1420/1505 VRB02MPS 2500 BR NSC TXM21/1505Z TNM28/1422Z
FM142100 VRB02MPS 0200 FG IC NSC
FM142200 VRB02MPS 2500 BR NSC
BECMG 1422/1423 5000
FM150100 VRB02MPS 0500 FG IC NSC
BECMG 1502/1503 OVC002
BECMG 1503/1504 OVC004
FM150500 VRB02MPS CAVOK
 
Салехард
SYNAR 23330 Салехард 142100Z 02001MPS CAVOK M27/M31 Q1014 RMK QFE758/1011 CLD:SKC


NOWCAST.SU USDD 142300Z VRB02MPS 0200 FG IC VV149 M26/M28 Q1014 NOSIG
AUTOTAF.ME USDD 141900Z 1420/1505 VRB02MPS 0200 FG IC SCT008 TXM18/1505Z TNM26/1422Z
BECMG 1420/1421 NSC
BECMG 1501/1502 OVC002
BECMG 1502/1503 OVC004
FM150500 VRB02MPS CAVOK
 
Сеяха-1
SYNAR 20967 Сеяха 142100Z 32005MPS //// //// M27/M29 Q1010 RMK QFE756/1008 CLD:NO_OBSERVATIONS


NOWCAST.SU USDE 142300Z 32004MPS 1000 BR OVC003 M25/M26 Q1011 NOSIG
AUTOTAF.ME USDE 141900Z 1420/1505 33005MPS 2500 BR OVC008 TXM21/1505Z TNM25/1423Z
FM142200 33004MPS 1200 BR BKN015
BECMG 1422/1423 OVC004
BECMG 1423/1500 NSC
BECMG 1500/1501 OVC004
FM150300 32004MPS CAVOK
 
Гыда
SYNAR 20871 Сопочная Карга 142100Z 36002MPS CAVOK M22/M24 Q1004 RMK QFE752/1003 CLD:2CI
(50/184KM)


NOWCAST.SU USDG 142300Z 34004MPS 1000 BR BKN003 M21/M23 Q1006 NOSIG
AUTOTAF.ME USDG 141900Z 1420/1505 35005MPS 1200 BR BKN002 TXM16/1505Z TNM21/1421Z
BECMG 1420/1421 BKN004
FM150200 34004MPS 5000 BR BKN015
FM150500 34005MPS CAVOK
 
Харасавей
 


NOWCAST.SU USDH 142300Z VRB02MPS 0200 FG IC SKC M25/M26 Q1013 NOSIG
AUTOTAF.ME USDH 141900Z 1420/1505 VRB02MPS 1200 BR OVC004 TXM20/1505Z TNM25/1423Z
FM142100 VRB02MPS 0500 FG IC VV002
BECMG 1421/1422 NSC
BECMG 1501/1502 OVC002
BECMG 1502/1503 OVC004
FM150400 VRB02MPS 5000 BR NSC
FM150500 VRB02MPS CAVOK
 
Антипаюта
SYNAR 23058 Антипаюта 142100Z 30005MPS CAVOK M22/M25 Q1006 RMK QFE754/1005 CLD:2CI


NOWCAST.SU USDI 142300Z 33005G10MPS 9999 BKN020 M19/M21 Q1006 NOSIG
RMK TURB: MOD SFC/FL20
AUTOTAF.ME USDI 141900Z 1420/1505 34006G12MPS 5000 BR OVC002 TXM15/1420Z TNM20/1500Z
FM142200 34005G11MPS 9999 BKN025
BECMG 1423/1500 NSC
BECMG 1503/1504 BKN015
 
Мыс Каменный
SYNAR 23058 Антипаюта 142100Z 30005MPS CAVOK M22/M25 Q1006 RMK QFE754/1005 CLD:2CI
(60/148KM)


NOWCAST.SU USDK 142300Z 32005G10MPS 8000 BR SKC M20/M22 Q1010 NOSIG
AUTOTAF.ME USDK 141900Z 1420/1505 32006G12MPS 5000 BLSN OVC025 TXM19/1420Z TNM21/1500Z
BECMG 1420/1421 BR
BECMG 1422/1423 NSC
BECMG 1423/1500 9999
FM150200 32005MPS 9999 BKN015
FM150300 32005MPS CAVOK
 
Лабытнанги
SYNAR 23330 Салехард 142100Z 02001MPS CAVOK M27/M31 Q1014 RMK QFE758/1011 CLD:SKC
(150/19KM)


NOWCAST.SU USDL 142300Z VRB02MPS 0200 FG IC VV149 M25/M27 Q1014 NOSIG
AUTOTAF.ME USDL 141900Z 1420/1505 VRB02MPS 0200 FG IC SCT008 TXM17/1505Z TNM25/1422Z
BECMG 1421/1422 NSC
BECMG 1500/1501 OVC002
FM150300 VRB02MPS CAVOK
BECMG 1503/1504 OVC002
FM150500 VRB02MPS CAVOK
 
Утренний
 


NOWCAST.SU USDM 142300Z 33004MPS 1000 BR OVC003 M23/M25 Q1009 NOSIG
AUTOTAF.ME USDM 141900Z 1420/1505 34004MPS 1200 BR OVC004 TXM19/1505Z TNM23/1422Z
BECMG 1423/1500 OVC008
BECMG 1501/1502 OVC004
 
Толька
SYNAR 23662 Толька 142100Z 28003MPS 4000 -SHSN OVC009CB M14/M17 Q1004 RMK QFE750/1000 CLD:8CB


NOWCAST.SU USDO 142300Z 28005G13MPS 2100 BLSN BKN001 M14/M16 Q1005 NOSIG
AUTOTAF.ME USDO 141900Z 1420/1505 28005G13MPS 1200 BLSN OVC002 TXM11/1420Z TNM15/1500Z
BECMG 1422/1423 2500
BECMG 1500/1501 BKN025
BECMG 1504/1505 1200
 
Красноселькуп
SYNAR 23465 Красноселькуп 142100Z 28004MPS 9999 RESN NSC M14/M18 Q1001 RMK QFE748/0998 CLD:8AS


NOWCAST.SU USDP 142300Z 28006MPS 0500 +SN FZFG VV001 M13/M14 Q1001 NOSIG
RMK TURB: MOD FL170/FL180
AUTOTAF.ME USDP 141900Z 1420/1505 29006MPS 0500 FZFG BKN002 TXM11/1420Z TNM13/1423Z
BECMG 1421/1422 +SN FZFG
BECMG 1500/1501 BKN025
FM150400 30010G15MPS 0500 SN BLSN OVC015
 
Яр-Сале
SYNAR 23345 Ныда 142100Z 32004MPS CAVOK M23/M25 Q1012 RMK QFE758/1010 CLD:SKC
(110/96KM)


NOWCAST.SU USDR 142300Z 31004MPS 9999 SKC M24/M25 Q1013 NOSIG
AUTOTAF.ME USDR 141900Z 1420/1505 32005G10MPS CAVOK TXM18/1505Z TNM24/1423Z
 
Тарко-Сале
SYNAR 23552 Тарко-Сале 142100Z 29004MPS 9999 -SN NSC M18/M21 Q1007 RMK QFE753/1004 CLD:8CS


NOWCAST.SU USDS 142300Z 30006G12MPS 9999 DRSN OVC001 M18/M19 Q1007 NOSIG
RMK TURB: MOD SFC/FL20
AUTOTAF.ME USDS 141900Z 1420/1505 30007G12MPS 7000 DRSN OVC002 TXM13/1505Z TNM18/1423Z
BECMG 1420/1421 OVC004
BECMG 1421/1422 OVC002
BECMG 1423/1500 OVC004
FM150100 30007G13MPS 9999 OVC025
FM150300 31008MPS 9999 DRSN BKN025
FM150400 31008MPS 9999 BKN015
FM150500 31009MPS 9999 DRSN BKN015
 
Тазовский
SYNAR 23256 Тазовский 142100Z 31006G10MPS 9999 -SN NSC M16/M18 Q1003 RMK QFE749/0999 CLD:8CS


NOWCAST.SU USDT 142300Z 32008G14MPS 0500 BLSN OVC001 M14/M16 Q1003 NOSIG
RMK TURB: MOD SFC/FL20
AUTOTAF.ME USDT 141900Z 1420/1505 31007G13MPS 0500 SN BLSN OVC002 TXM13/1420Z TNM17/1502Z
BECMG 1421/1422 BLSN
BECMG 1423/1500 1200
FM150100 32006G12MPS 5000 BR OVC008
BECMG 1501/1502 9000
FM150300 32006G12MPS 9999 DRSN NSC
FM150500 32006G11MPS 9999 BKN015
 
Уренгой
SYNAR 23453 Уренгой 142100Z 00004MPS 2900 ///003 M17/M20 Q1005 RMK QFE751/1002 CLD:


NOWCAST.SU USDU 142300Z 30008G16MPS 2000 BLSN BKN001 M16/M18 Q1005 NOSIG
RMK TURB: MOD SFC/FL20
AUTOTAF.ME USDU 141900Z 1420/1505 30006G12MPS 1200 BLSN OVC002 TXM14/1505Z TNM16/1422Z
BECMG 1420/1421 2500
BECMG 1500/1501 BKN004
BECMG 1501/1502 1200
FM150300 31007G12MPS 2500 BLSN BKN015
FM150400 32007MPS 9000 BR BKN015
 
Новый Порт
SYNAR 23345 Ныда 142100Z 32004MPS CAVOK M23/M25 Q1012 RMK QFE758/1010 CLD:SKC
(180/118KM)


NOWCAST.SU USDW 142300Z 32005G11MPS 9999 SKC M21/M22 Q1011 NOSIG
RMK TURB: MOD SFC/FL20
AUTOTAF.ME USDW 141900Z 1420/1505 32006G13MPS CAVOK TXM19/1420Z TNM21/1423Z
BECMG 1423/1500 BKN025
BECMG 1500/1501 SCT015
BECMG 1503/1504 NSC
 
Березово
SYNAR 23631 Березово 142100Z 00001MPS CAVOK M18/M19 Q1014 RMK QFE757/1009 CLD:SKC


NOWCAST.SU USHB 142300Z VRB02MPS 1000 BR BKN003 M14/M16 Q1013 NOSIG
AUTOTAF.ME USHB 141900Z 1420/1505 VRB02MPS 1200 BR BKN004 TXM05/1505Z TNM15/1420Z
FM150000 VRB02MPS 0500 FZFG VV004
FM150100 VRB02MPS 1200 BR BKN004
FM150300 19003MPS 9999 BR OVC008
 
Ханты-Мансийск
METAR USHH 142300Z 00000MPS CAVOK M09/M15 Q1015 R06/010060 NOSIG


NOWCAST.SU USHH 142300Z VRB02MPS 9999 FEW210 M12/M14 Q1017 NOSIG
AUTOTAF.ME USHH 141900Z 1420/1505 VRB02MPS CAVOK TXM04/1505Z TNM12/1421Z
BECMG 1423/1500 BKN025
FM150100 VRB02MPS 1200 BR BKN004
FM150200 20003MPS 9999 BKN015
BECMG 1502/1503 NSC
BECMG 1503/1504 BKN015 BKN020TCU
FM150500 21003MPS 9999 BKN025TCU
TAF USHH 141940Z 1421/1521 36003MPS 9999 BKN030
TEMPO 1421/1503 VRB01MPS 5000 BR FEW004 SCT016
BECMG 1503/1504 22003G10MPS
BECMG 1517/1519 16005G14MPS=
Игрим
SYNAR 23631 Березово 142100Z 00001MPS CAVOK M18/M19 Q1014 RMK QFE757/1009 CLD:SKC
(20/85KM)


NOWCAST.SU USHI 142300Z VRB02MPS 1000 BR BKN003 M10/M12 Q1014 NOSIG
AUTOTAF.ME USHI 141900Z 1420/1505 VRB02MPS CAVOK TXM03/1505Z TNM10/1420Z
BECMG 1420/1421 BKN008
FM142200 18003MPS 1200 BR BKN004
FM150100 VRB02MPS 9999 BKN008
BECMG 1503/1504 BKN025
 
Междуреченский
SYNAR 28064 Леуши 142100Z 20001MPS CAVOK M05/M09 Q1015 RMK QFE754/1006 CLD:SKC
(300/11KM)


NOWCAST.SU USHM 142300Z VRB02MPS 9999 FEW210 M06/M08 Q1017 NOSIG
AUTOTAF.ME USHM 141900Z 1420/1505 VRB02MPS CAVOK TXM00/1505Z TNM06/1421Z
BECMG 1503/1504 SCT025TCU
 
Нягань
SYNAR 23823 Вонъеган 142100Z 00000MPS CAVOK M13/M14 Q1014 RMK QFE750/1000 CLD:5CI
(240/41KM)


NOWCAST.SU USHN 142300Z VRB02MPS 0200 FZFG BKN019 M12/M13 Q1015 NOSIG
AUTOTAF.ME USHN 141900Z 1420/1505 VRB02MPS 5000 BR NSC TXM02/1505Z TNM13/1420Z
FM142100 VRB02MPS 0200 FZFG BKN025
BECMG 1421/1422 BKN015
BECMG 1423/1500 NSC
FM150100 VRB02MPS 7000 BR BKN015
FM150200 19003MPS 9999 BKN025
BECMG 1502/1503 NSC
FM150400 20004MPS 9999 BKN025
FM150500 21004MPS 9999 BKN015 BKN020TCU
 
Горноправдинск
SYNAR 23939 Алтай 142100Z 00000MPS CAVOK M10/M11 Q1015 RMK QFE758/1011 CLD:SKC
(300/59KM)


NOWCAST.SU USHP 142300Z VRB02MPS 9999 SKC M11/M13 Q1016 NOSIG
AUTOTAF.ME USHP 141900Z 1420/1505 VRB02MPS CAVOK TXM03/1505Z TNM11/1423Z
FM142100 VRB02MPS 0200 FZFG NSC
FM142200 VRB02MPS CAVOK
BECMG 1423/1500 BR
BECMG 1503/1504 BKN040TCU
 
Белоярский
SYNAR 23734 Октябрьское 142100Z 01001MPS CAVOK M13/M16 Q1014 RMK QFE753/1005 CLD:8CI
(190/141KM)


NOWCAST.SU USHQ 142300Z VRB02MPS 3000 BR FEW110 M16/M17 Q1014 NOSIG
AUTOTAF.ME USHQ 141900Z 1420/1505 VRB02MPS 9999 BKN015 TXM05/1505Z TNM16/1420Z
BECMG 1421/1422 NSC
FM142300 VRB02MPS 2500 BR NSC
FM150000 VRB02MPS 0200 FG IC NSC
FM150100 VRB02MPS 5000 BR NSC
FM150200 19003MPS CAVOK
BECMG 1502/1503 OVC008
BECMG 1503/1504 BKN015
 
Советский
SYNAR 23823 Вонъеган 142100Z 00000MPS CAVOK M13/M14 Q1014 RMK QFE750/1000 CLD:5CI
(40/98KM)


NOWCAST.SU USHS 142300Z VRB02MPS 1700 BR BKN001 M10/M11 Q1014 NOSIG
AUTOTAF.ME USHS 141900Z 1420/1505 VRB02MPS 9999 SCT015 TXM01/1505Z TNM10/1423Z
FM142200 VRB02MPS 7000 BR BKN002
BECMG 1422/1423 1200
FM150000 VRB02MPS 0200 FZFG NSC
FM150100 VRB02MPS 5000 BR NSC
FM150200 20003MPS 9999 BKN008
BECMG 1502/1503 SCT015
BECMG 1504/1505 SCT025TCU
 
Урай
SYNAR 23929 Шаим 142100Z 18002MPS CAVOK M06/M09 Q1015 RMK QFE756/1008 CLD:SKC
(310/41KM)


NOWCAST.SU USHU 142300Z VRB02MPS 9999 SCT044 M08/M10 Q1016 NOSIG
AUTOTAF.ME USHU 141900Z 1420/1505 VRB02MPS 9999 BKN015 TX01/1505Z TNM08/1422Z
BECMG 1422/1423 SCT040
BECMG 1500/1501 BKN015
BECMG 1503/1504 NSC
FM150500 19003MPS 9999 SCT040TCU
 
Няксимволь
SYNAR 23724 Няксимволь 142100Z 00000MPS CAVOK M03/M11 Q1012 RMK QFE754/1005 CLD:8AS


NOWCAST.SU USHW 142300Z VRB02MPS 1800 BR OVC004 M12/M13 Q1013 NOSIG
AUTOTAF.ME USHW 141900Z 1420/1505 VRB02MPS 1200 BR OVC002 TXM01/1505Z TNM12/1421Z
FM142100 VRB02MPS 0200 FZFG VV002
FM142300 VRB02MPS 2500 BR OVC004
BECMG 1423/1500 1200
FM150200 VRB02MPS CAVOK
 
Ижевск
SYNAR 28411 Ижевск 142100Z 15002MPS CAVOK 01/M06 Q1012 RMK QFE744/0993 CLD:SKC


NOWCAST.SU USII 142300Z VRB02MPS 9999 SKC 00/M04 Q1013 NOSIG
AUTOTAF.ME USII 141900Z 1420/1505 VRB02MPS CAVOK TX05/1505Z TN00/1422Z
BECMG 1503/1504 SCT025
 
Киров (Победилово)
SYNAR 27199 Киров 142100Z 18002MPS CAVOK 03/M03 Q1008 RMK QFE741/0989 CLD:SKC
(60/20KM)


NOWCAST.SU USKK 142300Z 16004MPS 9999 FEW290 02/M01 Q1008 NOSIG
AUTOTAF.ME USKK 141900Z 1420/1505 17004MPS CAVOK TX05/1505Z TN02/1421Z
FM150400 15009G17MPS 9999 BKN040
BECMG 1504/1505 BKN015
 
Котельнич
SYNAR 27283 Котельнич 142100Z 16002MPS CAVOK 02/M02 Q1007 RMK QFE744/0992 CLD:SKC


NOWCAST.SU USKO 142300Z 16005G13MPS 9999 BKN041 02/M01 Q1007 NOSIG
RMK TURB: MOD SFC/FL30
AUTOTAF.ME USKO 141900Z 1420/1505 16004MPS 9999 SCT040 TX05/1505Z TN02/1421Z
BECMG 1500/1501 NSC
FM150500 14010G18MPS 9999 BKN015
 
КС Лонг-Юганская
SYNAR 23445 Надым 142100Z 31003MPS CAVOK M19/M21 Q1012 RMK QFE757/1010 CLD:SKC
(40/112KM)


NOWCAST.SU USML 142300Z 33003MPS 9999 SKC M23/M25 Q1014 NOSIG
AUTOTAF.ME USML 141900Z 1420/1505 33005MPS CAVOK TXM13/1505Z TNM23/1423Z
BECMG 1502/1503 VRB02MPS
 
Надым
SYNAR 23445 Надым 142100Z 31003MPS CAVOK M19/M21 Q1012 RMK QFE757/1010 CLD:SKC


NOWCAST.SU USMM 142300Z 31005MPS 9999 SKC M22/M24 Q1013 NOSIG
AUTOTAF.ME USMM 141900Z 1420/1505 30005G10MPS CAVOK TXM15/1505Z TNM22/1423Z
 
Ямбург
SYNAR 23058 Антипаюта 142100Z 30005MPS CAVOK M22/M25 Q1006 RMK QFE754/1005 CLD:2CI
(30/141KM)


NOWCAST.SU USMQ 142300Z 32005G11MPS 8000 BR OVC016 M18/M20 Q1008 NOSIG
RMK TURB: MOD SFC/FL20
AUTOTAF.ME USMQ 141900Z 1420/1505 32006G12MPS 5000 DRSN BKN015 TXM17/1420Z TNM19/1501Z
BECMG 1421/1422 BR
BECMG 1501/1502 BKN025
BECMG 1503/1504 9000
FM150500 31005MPS 9000 BR OVC015
 
Новый Уренгой
SYNAR 23358 Новый Уренгой 142100Z 31007MPS 9999 DRSN SCT020 M20/M22 Q1007 RMK QFE749/0999 CLD:8SCCI
(70/12KM)


NOWCAST.SU USMU 142300Z 31007G14MPS 8000 DRSN SKC M18/M20 Q1007 NOSIG
AUTOTAF.ME USMU 141900Z 1420/1505 31007G14MPS 8000 DRSN OVC002 TXM16/1505Z TNM18/1422Z
BECMG 1420/1421 OVC004
BECMG 1421/1422 NSC
 
Нижневартовск
METAR USNN 142300Z 32002MPS CAVOK M13/M15 Q1012 R03/0///65 NOSIG RMK QFE755


NOWCAST.SU USNN 142300Z 32004MPS 9999 SKC M13/M15 Q1013 NOSIG
AUTOTAF.ME USNN 141900Z 1420/1505 32004MPS CAVOK TXM09/1505Z TNM13/1423Z
BECMG 1500/1501 BKN025
BECMG 1502/1503 NSC
BECMG 1504/1505 SCT040TCU
TAF USNN 141935Z 1421/1521 31003G10MPS 9999 BKN025
TEMPO 1421/1506 FEW002=
Радужный
SYNAR 23758 Радужный 142100Z 30002MPS CAVOK M15/M18 Q1010 RMK QFE751/1001 CLD:SKC


NOWCAST.SU USNR 142300Z 31003MPS 9999 BKN024 M16/M17 Q1012 NOSIG
RMK TURB: MOD SFC/FL20
AUTOTAF.ME USNR 141900Z 1420/1505 31003MPS 9999 BKN015 TXM11/1505Z TNM16/1423Z
BECMG 1421/1422 BKN025
BECMG 1503/1504 NSC
BECMG 1504/1505 SCT040TCU
 
Пермь (Бахаревка)
SYNAR 28224 Пермь 142100Z 14002MPS CAVOK M02/M11 Q1013 RMK QFE744/0992 CLD:SKC
(80/29KM)


NOWCAST.SU USPB 142300Z VRB02MPS 9999 FEW200 M02/M07 Q1014 NOSIG
RMK TURB: MOD FL40/FL50
AUTOTAF.ME USPB 141900Z 1420/1505 VRB02MPS CAVOK TX04/1505Z TNM02/1423Z
 
Пермь (Большое Савино)
METAR USPP 142300Z VRB01MPS CAVOK M04/M09 Q1013 R21/090060 NOSIG RMK QFE749


NOWCAST.SU USPP 142300Z VRB02MPS 9999 FEW200 M02/M07 Q1014 NOSIG
RMK TURB: MOD FL40/FL50
AUTOTAF.ME USPP 141900Z 1420/1505 VRB02MPS CAVOK TX05/1505Z TNM02/1420Z
TAF USPP 141954Z 1421/1521 17003G14MPS CAVOK
BECMG 1511/1512 BKN020=
Березники
SYNAR 23914 Чердынь 142100Z 18003MPS CAVOK M02/M14 Q1011 RMK QFE739/0986 CLD:SKC
(350/93KM)


NOWCAST.SU USPT 142300Z VRB02MPS 9999 FEW160 M04/M08 Q1013 NOSIG
AUTOTAF.ME USPT 141900Z 1420/1505 VRB02MPS CAVOK TX02/1505Z TNM04/1420Z
 
Когалым
SYNAR 23748 Когалым 142100Z 31003MPS CAVOK M15/M18 Q1012 RMK QFE752/1003 CLD:2CI


NOWCAST.SU USRK 142300Z 32004MPS 3000 BR OVC005 M18/M20 Q1014 NOSIG
AUTOTAF.ME USRK 141900Z 1420/1505 33005MPS CAVOK TXM12/1505Z TNM19/1500Z
FM142300 32004MPS 2500 BR OVC004
FM150200 32005MPS CAVOK
 
Нефтеюганск
SYNAR 23849 Сургут 142100Z 32003MPS CAVOK M14/M17 Q1014 RMK QFE754/1006 CLD:2CI
(60/48KM)


NOWCAST.SU USRN 142300Z 34003MPS 9999 SKC M15/M17 Q1016 NOSIG
AUTOTAF.ME USRN 141900Z 1420/1505 34003MPS 9999 BKN015 TXM08/1505Z TNM15/1423Z
BECMG 1421/1422 NSC
 
Ноябрьск
SYNAR 23657 Ноябрьск 142100Z 31003MPS CAVOK M16/M18 Q1010 RMK QFE745/0994 CLD:SKC


NOWCAST.SU USRO 142300Z 31005G10MPS 9999 SKC M18/M20 Q1012 NOSIG
AUTOTAF.ME USRO 141900Z 1420/1505 32005G11MPS CAVOK TXM12/1505Z TNM18/1422Z
 
Сургут
METAR USRR 142300Z 31003MPS CAVOK M16/M18 Q1014 R25/CLRD60 NOSIG RMK QFE755


NOWCAST.SU USRR 142300Z 33003MPS 9999 OVC001 M18/M19 Q1015 NOSIG
AUTOTAF.ME USRR 141900Z 1420/1505 33003MPS 2500 BR OVC004 TXM10/1505Z TNM18/1423Z
FM142100 33003MPS 9999 BKN025
BECMG 1421/1422 OVC002
BECMG 1423/1500 NSC
TAF USRR 141941Z 1421/1521 32003G10MPS 9999 SCT020
TEMPO 1421/1503 FEW003
BECMG 1506/1509 19005G12MPS=
Североуральск
SYNAR 23921 Ивдель 142100Z 00000MPS CAVOK M08/M10 Q1013 RMK QFE751/1001 CLD:2CI
(30/47KM)


NOWCAST.SU USSE 142300Z VRB02MPS 9999 OVC108 M06/M08 Q1013 NOSIG
AUTOTAF.ME USSE 141900Z 1420/1505 VRB02MPS CAVOK TX02/1505Z TNM06/1423Z
BECMG 1502/1503 BKN015
BECMG 1503/1504 NSC
 
Грань
SYNAR 28240 Нижний Тагил 142100Z 10001MPS CAVOK M06/M08 Q1013 RMK QFE736/0982 CLD:SKC
(350/17KM)


NOWCAST.SU USSG 142300Z VRB02MPS 9999 FEW230 M04/M07 Q1015 NOSIG
AUTOTAF.ME USSG 141900Z 1420/1505 VRB02MPS CAVOK TX03/1505Z TNM04/1422Z
 
Ивдель
SYNAR 23921 Ивдель 142100Z 00000MPS CAVOK M08/M10 Q1013 RMK QFE751/1001 CLD:2CI


NOWCAST.SU USSI 142300Z VRB02MPS 9999 SCT120 M08/M09 Q1014 NOSIG
AUTOTAF.ME USSI 141900Z 1420/1505 VRB02MPS CAVOK TXM00/1505Z TNM08/1423Z
FM150000 VRB02MPS 0200 FZFG VV002
FM150100 VRB02MPS CAVOK
 
Екатеринбург (Арамиль)
SYNAR 28440 Екатеринбург 142100Z 13001MPS CAVOK M01/M07 Q1014 RMK QFE735/0980 CLD:SKC
(330/17KM)


NOWCAST.SU USSK 142300Z VRB02MPS 9999 FEW160 M02/M05 Q1015 NOSIG
AUTOTAF.ME USSK 141900Z 1420/1505 VRB02MPS 9999 BKN040 TX04/1505Z TNM03/1500Z
BECMG 1421/1422 NSC
 
Алапаевск
SYNAR 28144 Верхотурье 142100Z 11001MPS CAVOK M06/M08 Q1014 RMK QFE749/0999 CLD:SKC
(330/125KM)


NOWCAST.SU USSQ 142300Z VRB02MPS 9999 FEW160 M04/M06 Q1015 NOSIG
AUTOTAF.ME USSQ 141900Z 1420/1505 VRB02MPS CAVOK TX04/1505Z TNM04/1423Z
BECMG 1423/1500 BKN040
BECMG 1501/1502 BKN015
BECMG 1502/1503 NSC
 
Екатеринбург (Кольцово)
METAR USSS 142300Z 00000MPS CAVOK M07/M07 Q1015 R08R/010060 NOSIG RMK QFE741/0988


NOWCAST.SU USSS 142300Z VRB02MPS 9999 FEW160 M02/M05 Q1015 NOSIG
AUTOTAF.ME USSS 141900Z 1420/1505 VRB02MPS 9999 BKN040 TX04/1505Z TNM03/1500Z
BECMG 1421/1422 NSC
TAF USSS 141952Z 1421/1521 30003MPS 6000 SCT020
TEMPO 1421/1503 0300 FZFG
FM150400 20003G12MPS 9999 SCT040
BECMG 1513/1515 15003G12MPS=
Тавда
SYNAR 28158 Таборы 142100Z 14001MPS CAVOK M06/M08 Q1015 RMK QFE755/1007 CLD:2AC
(320/64KM)


NOWCAST.SU USSW 142300Z VRB02MPS 9999 BKN030 M03/M06 Q1016 NOSIG
AUTOTAF.ME USSW 141900Z 1420/1505 VRB02MPS 9999 BKN025 TX03/1505Z TNM04/1500Z
BECMG 1501/1502 NSC
 
Сосьва
SYNAR 28049 Гари 142100Z 12003MPS CAVOK M02/M11 Q1014 RMK QFE748/0998 CLD:2AC
(50/39KM)


NOWCAST.SU USSX 142300Z VRB02MPS 9999 FEW150 M04/M07 Q1015 NOSIG
AUTOTAF.ME USSX 141900Z 1420/1505 VRB02MPS 9999 FEW040 TX03/1505Z TNM04/1420Z
BECMG 1421/1422 NSC
 
Уват
SYNAR 28076 Демьянское 142100Z 00000MPS CAVOK M09/M11 Q1015 RMK QFE755/1007 CLD:SKC
(20/54KM)


NOWCAST.SU USTA 142300Z VRB02MPS 9999 BKN009 M08/M10 Q1017 NOSIG
AUTOTAF.ME USTA 141900Z 1420/1505 VRB02MPS 9999 BKN025 TXM02/1505Z TNM08/1422Z
BECMG 1420/1421 SCT015
BECMG 1422/1423 BKN008
BECMG 1423/1500 HZ
FM150200 VRB02MPS 9999 BKN015
FM150400 VRB02MPS 9999 BKN025TCU
 
Тобольск (Ремезов)
SYNAR 28275 Тобольск 142100Z 32001MPS CAVOK M06/M08 Q1015 RMK QFE756/1008 CLD:SKC
(330/12KM)


NOWCAST.SU USTJ 142300Z VRB02MPS 9999 SKC M05/M08 Q1016 NOSIG
RMK TURB: MOD SFC/FL20
AUTOTAF.ME USTJ 141900Z 1420/1505 VRB02MPS CAVOK TXM00/1505Z TNM05/1423Z
 
Тюмень (Плеханово)
SYNAR 28367 Тюмень 142100Z 00000MPS CAVOK M04/M07 Q1015 RMK QFE751/1002 CLD:SKC


NOWCAST.SU USTL 142300Z VRB02MPS 9999 BKN048 M01/M05 Q1017 NOSIG
RMK TURB: MOD FL40/FL50
AUTOTAF.ME USTL 141900Z 1420/1505 VRB02MPS 9999 BKN040 TX04/1505Z TNM02/1500Z
BECMG 1420/1421 NSC
BECMG 1421/1422 BKN040
BECMG 1501/1502 NSC
FM150300 VRB02MPS 9999 BKN040
 
Тобольск
SYNAR 28275 Тобольск 142100Z 32001MPS CAVOK M06/M08 Q1015 RMK QFE756/1008 CLD:SKC


NOWCAST.SU USTO 142300Z VRB02MPS 9999 SKC M05/M08 Q1017 NOSIG
RMK TURB: MOD SFC/FL20
AUTOTAF.ME USTO 141900Z 1420/1505 VRB02MPS 9999 BKN015 BKN020TCU TXM00/1505Z TNM05/1423Z
BECMG 1420/1421 NSC
 
Тюмень (Рощино)
METAR USTR 142300Z 14001MPS CAVOK M04/M08 Q1015 R03/090065 R30/090065 NOSIG


NOWCAST.SU USTR 142300Z VRB02MPS 9999 FEW240 M02/M04 Q1017 NOSIG
RMK TURB: MOD FL40/FL50
AUTOTAF.ME USTR 141900Z 1420/1505 VRB02MPS 9999 BKN040 TX04/1505Z TNM02/1423Z
BECMG 1420/1421 NSC
BECMG 1421/1422 BKN040
BECMG 1422/1423 NSC
FM150000 VRB02MPS 9999 SCT040
FM150500 VRB02MPS CAVOK
TAF USTR 141930Z 1421/1521 VRB01MPS 9999 SCT020
TEMPO 1421/1503 34003MPS
BECMG 1503/1504 19003G08MPS
BECMG 1512/1515 14005G10MPS=
Курган
SYNAR 28661 Курган 142100Z 00000MPS 0200 FZFG VV/// M02/M02 Q1014 RMK QFE754/1005 CLD:OBSC


NOWCAST.SU USUU 142300Z VRB02MPS 9999 BKN049 00/M02 Q1017 NOSIG
AUTOTAF.ME USUU 141900Z 1420/1505 VRB02MPS 9999 BKN040 TX05/1505Z TN00/1423Z
BECMG 1421/1422 NSC
BECMG 1422/1423 BKN040
FM150000 VRB02MPS 2500 BR OVC004
FM150200 VRB02MPS CAVOK
 
Ashgabat
METAR UTAA 142300Z 21004KT 9999 FEW050 SCT100 11/07 Q1016 R88/CLRD70 NOSIG


NOWCAST.SU UTAA 142300Z VRB02KT 9999 FEW140 13/05 Q1017 NOSIG
RMK TURB: MOD FL40/FL90
AUTOTAF.ME UTAA 141900Z 1420/1505 22004KT CAVOK TX17/1505Z TN13/1421Z
TAF UTAA 141655Z 1418/1518 28012KT 4000 BR BKN010 SCT050CB
TEMPO 1420/1503 22012KT
BECMG 1505/1507 34016KT 6000 SCT050=
Turkmenbashi
METAR UTAK 142300Z 15002KT CAVOK 09/04 Q1017 R16R/CLRD70 NOSIG


NOWCAST.SU UTAK 142300Z 32004KT 9999 FEW240 11/05 Q1018 NOSIG
AUTOTAF.ME UTAK 141900Z 1420/1505 30006KT CAVOK TX16/1505Z TN10/1500Z
TAF UTAK 141630Z 1418/1518 27008KT 4000 BR SCT005 SCT100
TEMPO 1418/1421 34010KT 2000 BR BKN004
TEMPO 1421/1504 23008KT 0500 FG VV001
BECMG 1504/1505 23014KT 9999 NSW SCT020 SCT100
TEMPO 1505/1508 16014KT BKN010=
Mary
METAR UTAM 142300Z 26008KT 6000 -SHRA BR SCT026CB BKN026 13/12 Q1017 R88/29//55 NOSIG


NOWCAST.SU UTAM 142300Z 21010KT 9999 BKN045 13/09 Q1017 NOSIG
AUTOTAF.ME UTAM 141900Z 1420/1505 20010KT 9999 -RA BKN040 TX17/1505Z TN13/1422Z
BECMG 1423/1500 NSC
BECMG 1502/1503 BKN040
FM150400 26008KT 9999 VCSH BKN040CB
TAF UTAM 141635Z 1418/1518 27014KT 3000 BR -SHRA BKN010 SCT020CB
TEMPO 1418/1424 23012KT 1500 SHRA BKN007
PROB40 TEMPO 1418/1424 -TSSHRA
TEMPO 1500/1505 0600 FG VV003
BECMG 1506/1507 5000 BKN007=
Dashoguz
METAR UTAT 142300Z 31004KT CAVOK 10/M02 Q1014 R26/CLRD70 NOSIG


NOWCAST.SU UTAT 142300Z 35004KT 9999 BKN063 12/03 Q1016 NOSIG
RMK TURB: MOD FL40/FL70
AUTOTAF.ME UTAT 141900Z 1420/1505 04004KT CAVOK TX19/1505Z TN12/1423Z
TAF UTAT 141633Z 1418/1518 VRB04KT CAVOK
TEMPO 1418/1424 26010KT=
Dushanbe
METAR UTDD 142300Z VRB02MPS 9999 -TSRA FEW006 SCT029CB OVC057 13/12 Q1013 R09/29//50 NOSIG RMK QBB180 QFE691/0922


NOWCAST.SU UTDD 142300Z VRB02MPS 9999 -SHRA BKN039CB 09/07 Q1017 NOSIG
AUTOTAF.ME UTDD 141900Z 1420/1505 VRB02MPS 9999 VCSH SCT025CB TX11/1503Z TN09/1423Z
BECMG 1420/1421 -SHRA BR
BECMG 1421/1422 -SHRA
TAF UTDD 141700Z 1418/1518 VRB02MPS 8000 SCT040CB BKN080
TEMPO 1418/1423 27008G13MPS -TSRA
TEMPO 1423/1518 3100 -SHRA BR=
METAR UTDK 142300Z VRB01MPS 9999 BKN039CB OVC072 17/14 Q1012 R01/09//70 RMK QFE702/0936


NOSIG
TAF UTDK 142100Z 1422/1510 VRB02MPS 8000 SCT020CB BKN060
TEMPO 1422/1510 20008MPS 3100 -SHRA BR
PROB40 TEMPO 1422/1510 -TSRA=
Khudzhand
METAR UTDL 142300Z 25004MPS 9999 OVC086 17/11 Q1010 R26/CLRD70 NOSIG RMK QFE720/0960


NOWCAST.SU UTDL 142300Z VRB02MPS 9999 BKN034 12/09 Q1015 NOSIG
AUTOTAF.ME UTDL 141900Z 1420/1505 VRB02MPS 9999 BKN040 TX14/1503Z TN12/1421Z
BECMG 1501/1502 SCT015
FM150400 29003MPS 9999 VCSH BKN025CB
FM150500 28003MPS 5000 -SHRA BR BKN025CB
TAF UTDL 141700Z 1418/1518 24007MPS 9999 FEW060CB BKN080
TEMPO 1420/1518 27011G16MPS -SHRA BKN040CB
PROB40 TEMPO 1420/1518 -TSRA BKN030CB=
Namangan
METAR UTFN 142300Z 33004KT 9999 NSC 17/11 Q1009 R28/CLRD70 NOSIG


NOWCAST.SU UTFN 142300Z VRB02KT 9999 VCSH BKN067CB 15/07 Q1011 NOSIG
RMK TURB: MOD FL70/FL80
AUTOTAF.ME UTFN 141900Z 1420/1505 VRB02KT CAVOK TX20/1505Z TN14/1500Z
FM142200 04004KT 9999 VCSH BKN080CB
TEMPO 1424/1501 VCTS
BECMG 1500/1501 VCSH
TAF UTFN 141700Z 1418/1518 33010KT 9999 NSC
TEMPO 1418/1503 24014KT 5000 BR SCT050CB=
Nukus Karakalpak
METAR UTNN 142300Z 27004KT CAVOK 13/M00 Q1014 R33/CLRD60 NOSIG


NOWCAST.SU UTNN 142300Z VRB02KT 9999 BKN170 12/02 Q1016 NOSIG
RMK TURB: MOD SFC/FL70
AUTOTAF.ME UTNN 141900Z 1420/1505 VRB02KT CAVOK TX19/1505Z TN11/1501Z
BECMG 1504/1505 29006KT
TAF UTNN 141700Z 1418/1518 VRB04KT 9999 SCT040 BKN100
TEMPO 1504/1512 26008G18KT=
Urgench
METAR UTNU 142300Z 29006KT CAVOK 14/M02 Q1014 R31/CLRD70 NOSIG


NOWCAST.SU UTNU 142300Z 33004KT 9999 BKN110 13/M02 Q1015 NOSIG
RMK TURB: MOD FL30/FL50
AUTOTAF.ME UTNU 141900Z 1420/1505 04004KT CAVOK TX18/1505Z TN13/1423Z
TAF UTNU 141700Z 1418/1518 VRB04KT 9999 SCT040 BKN100
TEMPO 1418/1424 26008KT=
Navoi
METAR UTSA 142300Z 28002KT 9999 NSC 15/11 Q1012 R07/CLRD70 NOSIG


NOWCAST.SU UTSA 142300Z 06004KT 9999 -RA OVC045 14/10 Q1014 NOSIG
AUTOTAF.ME UTSA 141900Z 1420/1505 36006KT CAVOK TX16/1420Z TN12/1503Z
FM142200 01004KT 9999 -RA OVC040
BECMG 1422/1423 06004KT
BECMG 1501/1502 OVC008
FM150300 35006KT 9999 -RA NSC
BECMG 1503/1504 OVC040
FM150500 31008KT 9999 -RA OVC015
TAF UTSA 141701Z 1418/1518 VRB03KT 7000 NSC
TEMPO 1418/1421 09010KT 4500 FU
TEMPO 1421/1506 35010KT 5000 -TSRA SCT040CB=
Bukhara
METAR UTSB 142300Z VRB02KT 9999 FEW050CB 15/08 Q1012 R01/CLRD70 NOSIG


NOWCAST.SU UTSB 142300Z 27018KT 9999 -RA OVC041 15/08 Q1015 NOSIG
AUTOTAF.ME UTSB 141900Z 1420/1505 29010KT CAVOK TX17/1420Z TN15/1423Z
BECMG 1421/1422 SCT040
FM142300 27018KT 9999 -RA OVC040
BECMG 1423/1500 -RA DRDU
FM150200 28012KT 9999 -RA OVC025
TAF UTSB 141700Z 1418/1518 VRB05KT 7000 FEW050CB
TEMPO 1418/1505 31012KT 5000 -TSRA BKN030CB=
Karshi Khanabad
METAR UTSK 142300Z 00000KT 9999 OVC046CB 14/13 Q1012 R16/CLRD70


NOWCAST.SU UTSK 142300Z 25006KT 5000 -RA BR OVC020 13/12 Q1015 NOSIG
AUTOTAF.ME UTSK 141900Z 1420/1505 24006KT 5000 -RA BR BKN025 TX14/1420Z TN12/1500Z
FM150200 28006KT 9999 -RA OVC025
TAF UTSK 142058Z 1422/1507 30010KT 9999 BKN050CB BKN100
TEMPO 1422/1501 VRB16G26KT 2000 TSRA BR BKN007 BKN050CB
TEMPO 1501/1507 2000 SHRA BR BKN006 BKN050CB=
Samarkand
METAR UTSS 142300Z 29006KT 230V310 6000 -SHRA OVC053CB 13/12 Q1012 R27/19//60 NOSIG


NOWCAST.SU UTSS 142300Z VRB02KT 4500 -RA BR OVC018 11/10 Q1016 NOSIG
AUTOTAF.ME UTSS 141900Z 1420/1505 VRB02KT 9999 BKN025 TX12/1504Z TN11/1420Z
BECMG 1420/1421 -RA
BECMG 1421/1422 -RA BR
FM142300 VRB02KT 5000 -RA BR OVC015
FM150000 24004KT 2500 -RA BR OVC025
FM150100 24004KT 5000 -SHRA BR BKN015CB
BECMG 1502/1503 BKN025CB
FM150400 VRB02KT 9999 -SHRA BKN025CB
TAF UTSS 141655Z 1418/1518 31010KT 9999 BKN066CB BKN100
TEMPO 1418/1424 VRB18G28KT 2000 TSRA BR BKN007 BKN040CB
TEMPO 1500/1509 27012G22KT 2000 SHRA BR BKN006 BKN040CB=
Termez
METAR UTST 142300Z 23010KT 9999 BKN060CB 14/12 Q1012 R25/290257 NOSIG


NOWCAST.SU UTST 142300Z 26016KT 9999 -RA BKN024 14/11 Q1016 NOSIG
RMK TURB: MOD SFC/FL30
AUTOTAF.ME UTST 141900Z 1420/1505 26018KT 9999 -RA OVC008 TX14/1420Z TN13/1500Z
BECMG 1421/1422 BKN015
BECMG 1422/1423 BKN025
TAF UTST 141700Z 1418/1518 23012G22KT 5000 HZ BKN050CB OVC100
TEMPO 1418/1504 26026G36KT 1000 TSRA DS BKN003 OVC033CB=
Tashkent-vostoch
SYNAR 38457 Ташкент 142100Z 30001MPS 9999 BKN020 16/13 Q1009 RMK QFE715/0954 CLD:7SCAC
(240/11KM)


NOWCAST.SU UTTP 142300Z 04004KT 9999 VCSH BKN086CB 13/09 Q1012 NOSIG
AUTOTAF.ME UTTP 141900Z 1420/1505 03004KT CAVOK TX16/1505Z TN13/1423Z
FM142100 02004KT 9999 BKN080CB
TEMPO 1421/1423 VCTS
BECMG 1422/1423 VCSH
FM150000 06004KT CAVOK
BECMG 1503/1504 BKN040
 
Taskent Yuzni
METAR UTTT 142300Z 27004KT CAVOK 15/12 Q1010 R08R/CLRD70 NOSIG


NOWCAST.SU UTTT 142300Z 04004KT 9999 VCSH BKN085CB 14/08 Q1012 NOSIG
AUTOTAF.ME UTTT 141900Z 1420/1505 03004KT CAVOK TX16/1505Z TN14/1423Z
FM142100 02004KT 9999 BKN080CB
TEMPO 1421/1423 VCTS
BECMG 1422/1423 VCSH
FM150000 06004KT CAVOK
BECMG 1503/1504 BKN025
TAF UTTT 141700Z 1418/1518 34010KT 7000 SCT050CB BKN100
TEMPO 1418/1506 30015KT 3000 -TSRA BR BKN040CB OVC100=
Ржев (Компрессорная)
SYNAR 26499 Старица 142100Z 30006G11MPS 9999 RESHRA OVC010CB 08/04 Q997 RMK QFE731/0975 CLD:8CB
(60/50KM)


NOWCAST.SU UUAK 142300Z 27005G13MPS 9999 BKN040 06/03 Q0997 NOSIG
RMK TURB: MOD SFC/FL40
AUTOTAF.ME UUAK 141900Z 1420/1505 27009MPS CAVOK TX08/1420Z TN05/1501Z
BECMG 1422/1423 BKN040
 
Охотактив
SYNAR 27333 Кострома 142100Z 15004MPS //// //// 09/06 Q998 RMK QFE737/0982 CLD:NO_OBSERVATIONS
(270/11KM)


NOWCAST.SU UUAO 142300Z 15011G17MPS 4000 -SHRA BR BKN005 BKN010CB 08/07 Q0995 NOSIG
RMK TURB: MOD SFC/FL30
AUTOTAF.ME UUAO 141900Z 1420/1505 17010G17MPS 9999 OVC040 TX09/1420Z TN06/1505Z
FM142200 16010G17MPS 2500 -RA BR BKN004
FM142300 15011G17MPS 5000 -SHRA BR BKN004 BKN010CB
BECMG 1423/1500 2500
BECMG 1500/1501 SHRA BR
BECMG 1501/1502 RA BR
FM150400 24005G13MPS 2500 RA BR OVC004
FM150500 27005G13MPS 2500 SHRA BR BKN004 OVC010CB
 
Кострома (Сокеркино)
SYNAR 27333 Кострома 142100Z 15004MPS //// //// 09/06 Q998 RMK QFE737/0982 CLD:NO_OBSERVATIONS
(240/16KM)


NOWCAST.SU UUBA 142300Z 16009G17MPS 4000 -SHRA BR BKN005 BKN010CB 08/07 Q0995 NOSIG
RMK TURB: MOD SFC/FL30
AUTOTAF.ME UUBA 141900Z 1420/1505 17005G13MPS 9999 VCSH BKN025CB TX09/1420Z TN06/1505Z
FM142100 16009G17MPS 9999 -SHRA BKN015CB
FM142200 16009G17MPS 2500 -SHRA BR BKN004 BKN010CB
BECMG 1422/1423 5000
BECMG 1423/1500 2500
BECMG 1500/1501 SHRA BR
FM150300 22005G13MPS 2500 RA BR OVC004
FM150400 24004MPS 2500 -RA BR OVC004
FM150500 26004MPS 2500 RA BR OVC004
 
Москва (Быково)
SYNAR 27612 Москва (ВДНХ) 142100Z 18001MPS 9000 -SHRA OVC019CB 10/09 Q998 RMK QFE734/0979 CLD:8CB
(310/36KM)


NOWCAST.SU UUBB 142300Z 25009G16MPS 3000 BKN005 BKN010CB 10/09 Q0996 TEMPO TL0000 -SHRA
RMK TURB: MOD SFC/FL30
AUTOTAF.ME UUBB 141900Z 1420/1505 19010G16MPS 2500 -RA BR OVC004 TX11/1421Z TN06/1503Z
FM142200 21005G13MPS 2500 BKN004 BKN010CB
TEMPO 1422/1424 -TSRA
FM150000 27010G16MPS 9999 -SHRA OVC015CB
FM150100 28011G16MPS CAVOK
BECMG 1503/1504 BKN040TCU
 
Калуга (Грабцево)
METAR UUBC 142300Z 29007MPS CAVOK 10/07 Q0999 R31/290150 NOSIG RMK QFE732/0977


NOWCAST.SU UUBC 142300Z 27009G16MPS 9999 -SHRA BKN026CB 10/08 Q0999 NOSIG
RMK TURB: MOD SFC/FL40
AUTOTAF.ME UUBC 141900Z 1420/1505 22009G17MPS 7000 -SHRA BR OVC015CB TX11/1420Z TN05/1503Z
FM142100 24009G16MPS 9999 BKN025CB
TEMPO 1421/1422 -TSRA
BECMG 1421/1422 -SHRA
BECMG 1423/1500 28010G16MPS
BECMG 1502/1503 BKN015
FM150400 27009G15MPS 9999 BKN025TCU
TAF UUBC 141952Z 1421/1506 20006G14MPS 6000 -RA BKN016
TEMPO 1421/1501 3000 -SHRA BKN007 BKN015CB
BECMG 1501/1503 26006MPS
TEMPO 1503/1506 26011G16MPS=
Рязань (Дягилево)
SYNAR 27730 Рязань 142100Z 20003MPS //// //// 11/07 Q1001 RMK QFE737/0982 CLD:NO_OBSERVATIONS


NOWCAST.SU UUBD 142300Z 21010G17MPS 2000 BKN005 OVC010CB 11/10 Q0998 TEMPO TL0000 SHRA
RMK TURB: MOD SFC/FL30
AUTOTAF.ME UUBD 141900Z 1420/1505 19010G16MPS 5000 -RA BR OVC025 TX11/1420Z TN08/1504Z
BECMG 1421/1422 OVC015
FM142300 21010G17MPS 2500 BKN004 OVC010CB
TEMPO 1423/1501 TSRA
FM150100 25010G16MPS 2500 SHRA BR BKN004 BKN010CB
FM150300 29011MPS 9999 -SHRA BKN015CB
BECMG 1503/1504 BKN025CB
 
Сасово
SYNAR 27745 Сасово 142100Z 18003MPS 9999 SCT033CB 12/09 Q1003 RMK QFE742/0989 CLD:8CBAC


NOWCAST.SU UUBG 142300Z 19009G16MPS 9999 OVC040 11/08 Q1000 NOSIG
RMK TURB: MOD FL50/FL60
AUTOTAF.ME UUBG 141900Z 1420/1505 18005G13MPS 9999 OVC040 TX11/1420Z TN10/1500Z
FM150000 19010G17MPS 9000 -RA BR OVC025
FM150100 20010G17MPS 2500 RA BR OVC004
FM150300 21009G16MPS 2500 BKN004 BKN010CB
TEMPO 1503/1504 TSRA
BECMG 1503/1504 -SHRA BR
FM150500 26009G14MPS 2500 SHRA BR BKN004 OVC010CB
 
Иваново (Южный)
SYNAR 27347 Иваново 142100Z 15003MPS 9999 BKN036 09/06 Q999 RMK QFE738/0984 CLD:8SCAC


NOWCAST.SU UUBI 142300Z 16009G16MPS 3000 -RA BR BKN005 09/08 Q0995 TEMPO FM0100 -SHRA
RMK TURB: MOD SFC/FL30
AUTOTAF.ME UUBI 141900Z 1420/1505 17009G16MPS 9999 SCT040 TX10/1420Z TN07/1505Z
FM142100 17009G16MPS 5000 -RA BR BKN040
FM142200 16009G16MPS 2500 -RA BR BKN004
FM150000 16009G16MPS 2500 -SHRA BKN004 OVC010CB
FM150100 17005G13MPS 2500 OVC008CB
TEMPO 1501/1502 -TSRA
FM150200 18004MPS 5000 -RA BR OVC004
BECMG 1502/1503 OVC008
BECMG 1503/1504 24010MPS
FM150500 27007MPS 9999 -RA BKN015
 
Рыбинск (Староселье)
SYNAR 27225 Рыбинск 142100Z 16002MPS 9999 OVC066 09/08 Q995 RMK QFE736/0982 CLD:8NS
(270/15KM)


NOWCAST.SU UUBK 142300Z 15003MPS 4000 -SHRA BR BKN005 OVC010CB 08/08 Q0992 NOSIG
AUTOTAF.ME UUBK 141900Z 1420/1505 17005G13MPS 2500 SHRA BR BKN004 BKN010CB TX09/1420Z TN06/1503Z
BECMG 1421/1422 -SHRA BR
BECMG 1422/1423 5000
BECMG 1423/1500 OVC040CB
FM150100 VRB02MPS 5000 -SHRA BR BKN004 BKN010CB
FM150200 27008MPS 2500 SHRA BR BKN004 BKN010CB
FM150300 27005G12MPS 2500 -RA BR BKN015
FM150400 28009G14MPS 9999 -RA BKN025
 
Владимир (Семязино)
SYNAR 27532 Владимир 142100Z 20003MPS 9999 -SHRA BKN029CB 10/07 Q999 RMK QFE734/0978 CLD:8CBAC


NOWCAST.SU UUBL 142300Z 17005G13MPS 4000 -SHRA OVC015CB 09/09 Q0996 NOSIG
RMK TURB: MOD SFC/FL30
AUTOTAF.ME UUBL 141900Z 1420/1505 18004MPS 2500 -RA BR BKN025 TX10/1420Z TN07/1505Z
BECMG 1421/1422 OVC015
FM142300 17005G13MPS 5000 -SHRA OVC015CB
BECMG 1501/1502 9999
FM150300 27009G14MPS 2500 -SHRA BR BKN004 OVC010CB
FM150400 28009G14MPS 9999 -SHRA BKN015CB
 
Мячково
SYNAR 27612 Москва (ВДНХ) 142100Z 18001MPS 9000 -SHRA OVC019CB 10/09 Q998 RMK QFE734/0979 CLD:8CB
(320/38KM)


NOWCAST.SU UUBM 142300Z 25009G16MPS 5000 BKN014CB 10/09 Q0996 TEMPO TL0000 -SHRA
RMK TURB: MOD SFC/FL30
AUTOTAF.ME UUBM 141900Z 1420/1505 19010G16MPS 2500 -RA BR OVC004 TX10/1420Z TN06/1503Z
FM142200 21005G13MPS 5000 BKN015CB
TEMPO 1422/1424 -TSRA
FM150000 27010G16MPS 9999 -SHRA OVC015CB
FM150100 28011G16MPS CAVOK
BECMG 1502/1503 BKN040
BECMG 1503/1504 NSC
BECMG 1504/1505 SCT040TCU
 
Тверь (Змеево)
SYNAR 27402 Тверь 142100Z 26002MPS 9999 SCT033 10/08 Q995 RMK QFE733/0977 CLD:7SCAC


NOWCAST.SU UUBN 142300Z 27005G13MPS 9999 -RA BKN033 07/04 Q0995 NOSIG
RMK TURB: MOD SFC/FL40
AUTOTAF.ME UUBN 141900Z 1420/1505 22004MPS 9999 -SHRA BKN008CB TX10/1420Z TN05/1501Z
FM142100 24004MPS 2500 -SHRA BKN015CB
FM142200 25008MPS 5000 -SHRA BR BKN015CB
FM142300 27005G13MPS 9999 -RA BKN040
FM150000 28005G13MPS 9999 BKN040
 
Брянск
METAR UUBP 200930Z 33003MPS 280V020 CAVOK 25/10 Q1015 R34/////// NOSIG RMK QFE743/0991


NOWCAST.SU UUBP 142300Z 29010G17MPS 9999 SKC 09/06 Q1005 NOSIG
RMK TURB: MOD SFC/FL170
AUTOTAF.ME UUBP 141900Z 1420/1505 27010G18MPS 9999 -SHRA BKN025CB TX12/1420Z TN05/1502Z
FM142300 29010G17MPS CAVOK
BECMG 1503/1504 BKN040
TAF UUBP 121357Z 1215/1224 CNL=
Шарья
SYNAR 27271 Шарья 142100Z 14002MPS CAVOK 05/M02 Q1005 RMK QFE742/0989 CLD:1CI


NOWCAST.SU UUBQ 142300Z 15004MPS 9999 BKN040 05/00 Q1002 NOSIG
RMK TURB: MOD SFC/FL30
AUTOTAF.ME UUBQ 141900Z 1420/1505 16004MPS 9999 BKN040 TX06/1505Z TN05/1420Z
BECMG 1501/1502 BKN015
BECMG 1502/1503 14009G17MPS
BECMG 1503/1504 -RA
FM150500 14009G17MPS 9999 -DZ OVC008
 
Рязань (Турлатово)
SYNAR 27730 Рязань 142100Z 20003MPS //// //// 11/07 Q1001 RMK QFE737/0982 CLD:NO_OBSERVATIONS
(310/13KM)


NOWCAST.SU UUBR 142300Z 20010G17MPS 2700 -SHRA BR BKN005 OVC010CB 11/09 Q0998 TEMPO FM0100 -SHRA
AUTOTAF.ME UUBR 141900Z 1420/1505 18005G13MPS 9999 OVC040 TX11/1420Z TN09/1503Z
FM142100 18009G16MPS 5000 -RA BR OVC025
FM142200 19010G17MPS 9999 -RA OVC025
FM142300 20010G17MPS 2500 -SHRA BR BKN004 OVC010CB
BECMG 1500/1501 NSW
TEMPO 1501/1502 -TSRA
FM150200 25010G16MPS 2500 SHRA BR BKN004 BKN010CB
FM150300 27010G16MPS 9999 -SHRA BKN008 BKN010CB
BECMG 1504/1505 BKN015CB
 
Смоленск (Южный)
SYNAR 26781 Смоленск 142100Z 28002MPS CAVOK 07/02 Q1003 RMK QFE731/0974 CLD:SKC


NOWCAST.SU UUBS 142300Z 27010G17MPS 9999 BKN052 06/01 Q1004 NOSIG
RMK TURB: MOD SFC/FL170
AUTOTAF.ME UUBS 141900Z 1420/1505 28011G17MPS CAVOK TX08/1420Z TN04/1502Z
BECMG 1421/1422 SCT025TCU
BECMG 1422/1423 NSC
BECMG 1423/1500 BKN015 BKN020TCU
FM150400 26011G18MPS 9999 BKN025TCU
 
 


NOSIG
 
Раменское (Жуковский)
METAR UUBW 142300Z 22002MPS 9999 BKN015 10/10 Q0996 R30/290350 NOSIG RMK QFE737


NOWCAST.SU UUBW 142300Z 25009G16MPS 5000 BKN014CB 10/09 Q0996 TEMPO TL0000 -SHRA
RMK TURB: MOD SFC/FL30
AUTOTAF.ME UUBW 141900Z 1420/1505 19010G16MPS 2500 -RA BR OVC004 TX11/1421Z TN06/1503Z
FM142200 21005G13MPS 5000 BKN015CB
TEMPO 1422/1424 -TSRA
FM150000 27010G16MPS 9999 -SHRA OVC015CB
FM150100 28011G16MPS CAVOK
BECMG 1502/1503 BKN040
TAF UUBW 141958Z 1421/1521 20005MPS 9000 BKN016 TX09/1510Z TN06/1504Z
TEMPO 1421/1424 19008G15MPS 3500 -SHRA BKN007 BKN016CB
PROB40 TEMPO 1421/1424 -TSRA BKN013CB
BECMG 1500/1502 26007G13MPS
TEMPO 1506/1518 25010G18MPS=
Ярославль (Левцово)
SYNAR 27333 Кострома 142100Z 15004MPS //// //// 09/06 Q998 RMK QFE737/0982 CLD:NO_OBSERVATIONS
(90/44KM)


NOWCAST.SU UUBX 142300Z 17011G18MPS 2000 SHRA BR BKN005 BKN010CB 09/08 Q0993 NOSIG
RMK TURB: MOD SFC/FL30
AUTOTAF.ME UUBX 141900Z 1420/1505 17009G16MPS 9999 VCSH BKN015CB TX09/1420Z TN06/1504Z
FM142100 17009G17MPS 2500 SHRA BR BKN004 BKN010CB
BECMG 1423/1500 RA BR
FM150200 25005G13MPS 2500 -SHRA BR BKN004 OVC010CB
FM150300 28010MPS 5000 -SHRA BR OVC040CB
FM150400 29011MPS 9999 -SHRA BKN040CB
 
Листвянка
SYNAR 27730 Рязань 142100Z 20003MPS //// //// 11/07 Q1001 RMK QFE737/0982 CLD:NO_OBSERVATIONS
(310/21KM)


NOWCAST.SU UUBZ 142300Z 20010G17MPS 2700 -SHRA BR BKN005 OVC010CB 11/09 Q0998 TEMPO FM0100 -SHRA
AUTOTAF.ME UUBZ 141900Z 1420/1505 18005G13MPS 9999 OVC040 TX11/1420Z TN09/1503Z
FM142100 18009G16MPS 5000 -RA BR OVC025
FM142200 19010G17MPS 9999 -RA OVC025
FM142300 20010G17MPS 2500 -SHRA BR BKN004 OVC010CB
BECMG 1500/1501 NSW
TEMPO 1501/1502 -TSRA
FM150200 25010G16MPS 2500 SHRA BR BKN004 BKN010CB
FM150300 27010G16MPS 9999 -SHRA BKN008 BKN010CB
BECMG 1504/1505 BKN015CB
 
Белоомут
SYNAR 27730 Рязань 142100Z 20003MPS //// //// 11/07 Q1001 RMK QFE737/0982 CLD:NO_OBSERVATIONS
(140/44KM)


NOWCAST.SU UUCB 142300Z 21009G16MPS 2000 BKN005 OVC010CB 11/10 Q0997 TEMPO TL0000 SHRA
RMK TURB: MOD SFC/FL30
AUTOTAF.ME UUCB 141900Z 1420/1505 18005G13MPS 5000 -RA BR BKN025 TX11/1420Z TN08/1503Z
FM142200 20005G13MPS 2500 SHRA BR BKN004 OVC010CB
TEMPO 1423/1501 TSRA
FM150100 25005G13MPS 2500 SHRA BR BKN004 BKN010CB
FM150200 27009G15MPS 9999 -SHRA BKN008 BKN010CB
BECMG 1502/1503 BKN015CB
FM150500 29009G14MPS 9999 VCSH BKN025CB
 
Дорожный
SYNAR 27417 Клин 142100Z 20002MPS //// //// 10/09 Q996 RMK QFE732/0976 CLD:NO_OBSERVATIONS


NOWCAST.SU UUCD 142300Z 27009G15MPS 9999 -SHRA BKN022CB 08/06 Q0995 NOSIG
RMK TURB: MOD SFC/FL40
AUTOTAF.ME UUCD 141900Z 1420/1505 22009G15MPS 5000 BKN015CB TX10/1420Z TN05/1503Z
TEMPO 1420/1422 -TSRA
BECMG 1420/1421 9000
FM142200 25009G15MPS 5000 -SHRA BR BKN015CB
FM142300 27009G15MPS 9999 -SHRA BKN025CB
BECMG 1423/1500 29009G15MPS
BECMG 1500/1501 -RA
FM150200 28005G13MPS 9999 VCSH NSC
FM150300 27005G13MPS 9999 BKN015 BKN020TCU
FM150400 26005G13MPS 9999 BKN025TCU
 
Хоругвино
SYNAR 27511 Ново-Йерусалим 142100Z 21003MPS 9999 -RA OVC010 10/10 Q997 RMK QFE733/0977 CLD:8ST
(220/35KM)


NOWCAST.SU UUCH 142300Z 28008MPS 9999 -SHRA BKN015CB 08/06 Q0996 NOSIG
RMK TURB: MOD FL170/FL180
AUTOTAF.ME UUCH 141900Z 1420/1505 20005G13MPS 2500 BKN004 OVC010CB TX10/1421Z TN05/1503Z
TEMPO 1420/1422 -TSRA
FM142200 25004MPS 5000 -SHRA BR BKN015CB
FM142300 28008MPS 9999 -SHRA BKN015CB
BECMG 1503/1504 BKN025TCU
 
Ильясово
SYNAR 27627 Кашира 142100Z 21003MPS 9999 //// 10/09 Q1000 RMK QFE730/0973 CLD:NO_OBSERVATIONS
(260/44KM)


NOWCAST.SU UUCI 142300Z 22010G16MPS 3000 BKN005 OVC010CB 11/10 Q0997 TEMPO TL0000 -SHRA
RMK TURB: MOD SFC/FL30
AUTOTAF.ME UUCI 141900Z 1420/1505 19009G16MPS 2500 -RA BR BKN004 TX11/1420Z TN07/1503Z
FM142200 21010G17MPS 2500 -SHRA BR BKN004 OVC010CB
BECMG 1422/1423 NSW
TEMPO 1423/1501 -TSRA
FM150100 26010G16MPS 2500 -SHRA BR BKN004 BKN010CB
FM150200 28010G16MPS 9999 -SHRA BKN040CB
FM150300 29010G16MPS CAVOK
BECMG 1503/1504 BKN040
FM150500 28010G15MPS 9999 VCSH SCT025CB
 
Кузнечково
SYNAR 27417 Клин 142100Z 20002MPS //// //// 10/09 Q996 RMK QFE732/0976 CLD:NO_OBSERVATIONS
(40/19KM)


NOWCAST.SU UUCJ 142300Z 28009G14MPS 9999 -SHRA BKN020CB 07/05 Q0996 NOSIG
RMK TURB: MOD SFC/FL40
AUTOTAF.ME UUCJ 141900Z 1420/1505 22004MPS 5000 -SHRA BKN015CB TX09/1420Z TN05/1502Z
FM142200 27009MPS 9999 -SHRA BKN015CB
BECMG 1422/1423 BKN025CB
BECMG 1500/1501 VCSH
FM150200 27009G15MPS CAVOK
BECMG 1502/1503 BKN015 BKN020TCU
FM150400 26005G13MPS 9999 BKN025TCU
 
Горка
SYNAR 27511 Ново-Йерусалим 142100Z 21003MPS 9999 -RA OVC010 10/10 Q997 RMK QFE733/0977 CLD:8ST
(330/21KM)


NOWCAST.SU UUCK 142300Z 27005G13MPS 9999 -SHRA BKN016CB 09/07 Q0996 NOSIG
RMK TURB: MOD FL30/FL170
AUTOTAF.ME UUCK 141900Z 1420/1505 21005G13MPS 5000 -SHRA BR BKN008 BKN010CB TX10/1420Z TN06/1502Z
FM142200 25005G13MPS 9999 -SHRA BKN015CB
BECMG 1422/1423 27005G13MPS
FM150000 29009G16MPS CAVOK
BECMG 1501/1502 BKN040
 
Нудоль
SYNAR 27511 Ново-Йерусалим 142100Z 21003MPS 9999 -RA OVC010 10/10 Q997 RMK QFE733/0977 CLD:8ST
(140/27KM)


NOWCAST.SU UUCN 142300Z 28009G14MPS 9999 -SHRA BKN020CB 07/05 Q0996 NOSIG
RMK TURB: MOD SFC/FL40
AUTOTAF.ME UUCN 141900Z 1420/1505 22004MPS 5000 -SHRA BKN015CB TX10/1420Z TN05/1502Z
FM142200 27009MPS 9999 -SHRA BKN015CB
BECMG 1422/1423 BKN025CB
BECMG 1500/1501 VCSH
FM150200 27009G15MPS CAVOK
BECMG 1502/1503 BKN040
FM150400 26005G13MPS 9999 BKN015 BKN020TCU
FM150500 26008MPS 9999 BKN025TCU
 
Павлово
SYNAR 27511 Ново-Йерусалим 142100Z 21003MPS 9999 -RA OVC010 10/10 Q997 RMK QFE733/0977 CLD:8ST
(290/22KM)


NOWCAST.SU UUCO 142300Z 28008MPS 9999 -SHRA BKN019CB 09/07 Q0996 NOSIG
RMK TURB: MOD FL170/FL180
AUTOTAF.ME UUCO 141900Z 1420/1505 20005G13MPS 5000 BKN004 OVC010CB TX10/1420Z TN06/1502Z
TEMPO 1420/1422 -TSRA
BECMG 1420/1421 OVC015CB
FM142200 25004MPS 9999 -SHRA BKN015CB
BECMG 1422/1423 28008MPS
BECMG 1423/1500 BKN025CB
FM150100 29009G15MPS 9999 -SHRA BKN015CB
FM150400 27005G13MPS 9999 -RA BKN025
 
Янино
SYNAR 27730 Рязань 142100Z 20003MPS //// //// 11/07 Q1001 RMK QFE737/0982 CLD:NO_OBSERVATIONS
(160/67KM)


NOWCAST.SU UUCQ 142300Z 21009G16MPS 2000 BKN005 OVC010CB 10/10 Q0997 TEMPO TL0000 SHRA
RMK TURB: MOD SFC/FL30
AUTOTAF.ME UUCQ 141900Z 1420/1505 18005G13MPS 5000 -RA BR BKN025 TX11/1420Z TN08/1503Z
FM142100 18005G13MPS 2500 -RA BR OVC015
FM142200 20005G13MPS 2500 SHRA BR BKN004 OVC010CB
TEMPO 1423/1501 TSRA
FM150100 25005G13MPS 2500 SHRA BR BKN004 BKN010CB
FM150300 29009G14MPS 9999 -SHRA BKN015CB
FM150500 29009G14MPS 9999 VCSH BKN025CB
 
Торбеево
SYNAR 27627 Кашира 142100Z 21003MPS 9999 //// 10/09 Q1000 RMK QFE730/0973 CLD:NO_OBSERVATIONS
(150/31KM)


NOWCAST.SU UUCT 142300Z 25009G16MPS 3000 BKN005 BKN010CB 10/09 Q0997 TEMPO TL0000 -SHRA
RMK TURB: MOD SFC/FL30
AUTOTAF.ME UUCT 141900Z 1420/1505 20010G17MPS 2500 -RA BR OVC004 TX11/1421Z TN07/1502Z
FM142100 21010G17MPS 2500 BKN004 OVC010CB
TEMPO 1421/1424 -TSRA
FM150000 27010G15MPS 9999 OVC015CB
TEMPO 1424/1501 VCTS
BECMG 1500/1501 -SHRA
BECMG 1502/1503 VCSH
BECMG 1503/1504 BKN025CB
 
Гринвуд
SYNAR 27612 Москва (ВДНХ) 142100Z 18001MPS 9000 -SHRA OVC019CB 10/09 Q998 RMK QFE734/0979 CLD:8CB
(110/14KM)


NOWCAST.SU UUCU 142300Z 28008MPS 9999 -SHRA BKN053CB 09/07 Q0995 NOSIG
RMK TURB: MOD FL170/FL180
AUTOTAF.ME UUCU 141900Z 1420/1505 20009G16MPS 5000 OVC008CB TX10/1420Z TN06/1502Z
TEMPO 1420/1421 -TSRA
FM142100 21009G15MPS 9999 -SHRA OVC015CB
FM142300 28008MPS 9999 -SHRA BKN060CB
BECMG 1423/1500 BKN015CB
FM150100 30010G15MPS CAVOK
FM150200 29009G15MPS 9999 VCSH BKN040
BECMG 1503/1504 -RA BR
 
Вихрево
SYNAR 27612 Москва (ВДНХ) 142100Z 18001MPS 9000 -SHRA OVC019CB 10/09 Q998 RMK QFE734/0979 CLD:8CB
(220/57KM)


NOWCAST.SU UUCW 142300Z 26005G13MPS 5000 OVC012CB 09/08 Q0995 TEMPO TL0000 -SHRA
RMK TURB: MOD SFC/FL30
AUTOTAF.ME UUCW 141900Z 1420/1505 19009G15MPS 2500 -SHRA BR BKN004 OVC010CB TX10/1420Z TN05/1503Z
BECMG 1421/1422 NSW
TEMPO 1422/1424 -TSRA
FM142300 26005G13MPS 5000 OVC015CB
BECMG 1423/1500 -SHRA BR
FM150100 28009G14MPS 9999 -SHRA BKN015CB
BECMG 1501/1502 VCSH
FM150300 28005G13MPS CAVOK
FM150400 28009G14MPS 9999 BKN025TCU
 
Университет Сбербанка
SYNAR 27511 Ново-Йерусалим 142100Z 21003MPS 9999 -RA OVC010 10/10 Q997 RMK QFE733/0977 CLD:8ST
(300/13KM)


NOWCAST.SU UUCX 142300Z 28008MPS 9999 -SHRA BKN017CB 08/06 Q0996 NOSIG
RMK TURB: MOD FL170/FL180
AUTOTAF.ME UUCX 141900Z 1420/1505 20005G13MPS 5000 BKN004 OVC010CB TX10/1420Z TN06/1501Z
TEMPO 1420/1422 -TSRA
BECMG 1420/1421 BKN008 OVC010CB
FM142200 25004MPS 9999 -SHRA BKN015CB
BECMG 1422/1423 28008MPS
FM150400 27005G13MPS 9999 -RA BKN025
 
Дубна
SYNAR 27417 Клин 142100Z 20002MPS //// //// 10/09 Q996 RMK QFE732/0976 CLD:NO_OBSERVATIONS
(210/44KM)


NOWCAST.SU UUDB 142300Z 27010MPS 9999 -SHRA BKN025CB 08/06 Q0995 NOSIG
RMK TURB: MOD SFC/FL40
AUTOTAF.ME UUDB 141900Z 1420/1505 22009G15MPS 5000 BKN008CB TX10/1420Z TN05/1503Z
TEMPO 1420/1422 -TSRA
BECMG 1420/1421 BKN015CB
BECMG 1421/1422 -SHRA BR
FM142300 27010MPS 9999 -SHRA BKN025CB
BECMG 1423/1500 29009G15MPS
FM150100 29009G15MPS 9999 -RA BKN040
FM150200 28005G13MPS 9999 VCSH BKN040
 
Сонино
SYNAR 27719 Тула 142100Z 17004MPS 2000 SHRA OVC020CB 10/09 Q1000 RMK QFE732/0976 CLD:8CB
(160/48KM)


NOWCAST.SU UUDC 142300Z 26011G17MPS 3000 -SHRA BR BKN005 BKN010CB 10/09 Q0998 NOSIG
RMK TURB: MOD SFC/FL40
AUTOTAF.ME UUDC 141900Z 1420/1505 22010G17MPS 2500 -SHRA BR OVC015CB TX11/1420Z TN06/1503Z
BECMG 1420/1421 9000
FM142200 24011G17MPS 2500 -SHRA BR BKN004 BKN010CB
FM150100 28011G16MPS 9999 -SHRA BKN015CB
BECMG 1501/1502 VCSH
BECMG 1503/1504 BKN025TCU
 
Москва (Домодедово)
METAR UUDD 142300Z 25005MPS 9999 SCT016 10/08 Q0996 R32L/290045 NOSIG


NOWCAST.SU UUDD 150000Z 28011G17MPS 9999 -SHRA BKN021CB 09/07 Q0996 NOSIG
RMK TURB: MOD SFC/FL170
AUTOTAF.ME UUDD 142200Z 1423/1508 26009G17MPS 5000 BKN015CB TX10/1423Z TN06/1503Z
TEMPO 1423/1424 -TSRA
FM150000 28011G17MPS 9999 -SHRA BKN025CB
FM150100 28011G16MPS CAVOK
BECMG 1502/1503 BKN040
TAF UUDD 141954Z 1421/1603 20006MPS 9999 BKN007 TX11/1510Z TN06/1504Z
TEMPO 1421/1501 26009G16MPS 2500 -SHRA BKN005 BKN016CB
PROB40 TEMPO 1421/1501 -TSRA BKN010CB
BECMG 1501/1502 26008G13MPS FEW006 BKN016
TEMPO 1502/1518 26012G19MPS=
Большое Грызлово
SYNAR 27627 Кашира 142100Z 21003MPS 9999 //// 10/09 Q1000 RMK QFE730/0973 CLD:NO_OBSERVATIONS
(80/33KM)


NOWCAST.SU UUDG 142300Z 27009G15MPS 2000 BKN005 OVC010CB 10/09 Q0997 TEMPO TL0000 VRB17G22MPS SHRA
RMK TURB: MOD SFC/FL170
AUTOTAF.ME UUDG 141900Z 1420/1505 21008MPS 2500 SHRA BR BKN004 BKN010CB TX11/1420Z TN07/1502Z
TEMPO 1421/1423 TSRA
BECMG 1422/1423 27009G15MPS
TEMPO 1423/1424 VRB17G22MPS TSRA
BECMG 1423/1500 SHRA BR
FM150200 28009G15MPS 9999 -SHRA BKN015CB
BECMG 1503/1504 BKN025TCU
 
Ярославль (Туношна)
METAR UUDL 142300Z 16004MPS 8000 -RA OVC030 09/08 Q0994 R23/190055 NOSIG RMK QFE737


NOWCAST.SU UUDL 142300Z 17011G18MPS 2000 SHRA BR BKN005 BKN010CB 09/08 Q0993 NOSIG
RMK TURB: MOD SFC/FL30
AUTOTAF.ME UUDL 141900Z 1420/1505 17009G16MPS 9999 VCSH BKN015CB TX09/1420Z TN06/1504Z
FM142100 17009G17MPS 2500 -SHRA BR BKN015CB
FM142200 17010G17MPS 2500 SHRA BR BKN004 BKN010CB
BECMG 1423/1500 RA BR
FM150200 25005G13MPS 2500 SHRA BR BKN004 OVC010CB
FM150300 28010G15MPS 8000 -SHRA BR OVC040CB
BECMG 1503/1504 VCSH
TAF UUDL 142000Z 1421/1521 19003G08MPS 8000 BKN040 TX11/1512Z TN06/1506Z
TEMPO 1421/1506 3000 -RA BKN010
BECMG 1500/1502 26007G12MPS=
Новинки
SYNAR 27627 Кашира 142100Z 21003MPS 9999 //// 10/09 Q1000 RMK QFE730/0973 CLD:NO_OBSERVATIONS
(120/36KM)


NOWCAST.SU UUDN 142300Z 27009G15MPS 5000 OVC014CB 10/09 Q0997 TEMPO TL0000 -SHRA
RMK TURB: MOD SFC/FL170
AUTOTAF.ME UUDN 141900Z 1420/1505 21005G13MPS 2500 -SHRA BR BKN004 OVC010CB TX11/1421Z TN07/1502Z
FM142100 23005G13MPS 5000 BKN008 OVC010CB
TEMPO 1421/1424 -TSRA
BECMG 1421/1422 BKN015CB
BECMG 1422/1423 27009G15MPS
BECMG 1423/1500 -SHRA BR
FM150100 28009G15MPS 9999 -SHRA BKN015CB
FM150200 28009G15MPS 5000 -SHRA BR BKN025CB
FM150300 28009G14MPS 9999 -RA BKN025
 
Пахомово
SYNAR 27627 Кашира 142100Z 21003MPS 9999 //// 10/09 Q1000 RMK QFE730/0973 CLD:NO_OBSERVATIONS
(60/43KM)


NOWCAST.SU UUDP 142300Z 26011G17MPS 3000 -SHRA BR BKN005 BKN010CB 10/09 Q0998 NOSIG
RMK TURB: MOD SFC/FL40
AUTOTAF.ME UUDP 141900Z 1420/1505 22010G17MPS 2500 -SHRA BR OVC015CB TX11/1422Z TN06/1503Z
BECMG 1420/1421 5000
FM142200 24011G17MPS 2500 -SHRA BR BKN004 BKN010CB
FM150100 28011G16MPS 9999 -SHRA BKN015CB
BECMG 1501/1502 VCSH
BECMG 1503/1504 BKN025TCU
 
Хелипорт Реутов
SYNAR 27612 Москва (ВДНХ) 142100Z 18001MPS 9000 -SHRA OVC019CB 10/09 Q998 RMK QFE734/0979 CLD:8CB
(290/15KM)


NOWCAST.SU UUDR 142300Z 26005G13MPS 5000 OVC013CB 10/08 Q0995 TEMPO TL0000 -SHRA
RMK TURB: MOD SFC/FL30
AUTOTAF.ME UUDR 141900Z 1420/1505 19009G15MPS 2500 -SHRA BR BKN004 OVC010CB TX10/1420Z TN06/1503Z
FM142100 20009G15MPS 5000 -SHRA BR OVC015CB
BECMG 1421/1422 NSW
TEMPO 1422/1424 -TSRA
BECMG 1422/1423 26005G13MPS
FM150000 27009G15MPS 9999 -SHRA BKN008 BKN010CB
FM150200 28009G14MPS 9999 VCSH BKN015CB
FM150300 28005G13MPS CAVOK
BECMG 1503/1504 BKN025TCU
 
Чулпаново
SYNAR 27612 Москва (ВДНХ) 142100Z 18001MPS 9000 -SHRA OVC019CB 10/09 Q998 RMK QFE734/0979 CLD:8CB
(360/48KM)


NOWCAST.SU UUDU 142300Z 27009G16MPS 9999 -SHRA OVC022CB 10/08 Q0996 NOSIG
RMK TURB: MOD SFC/FL30
AUTOTAF.ME UUDU 141900Z 1420/1505 21009G16MPS 2500 -SHRA BR BKN004 OVC010CB TX11/1421Z TN06/1503Z
FM142100 21009G16MPS 5000 BKN004 OVC010CB
TEMPO 1421/1422 -TSRA
BECMG 1421/1422 -SHRA BR
FM142300 27009G16MPS 9999 -SHRA OVC025CB
FM150100 28010G15MPS 9999 -RA NSC
BECMG 1503/1504 BKN025TCU
 
Взлетная
SYNAR 27612 Москва (ВДНХ) 142100Z 18001MPS 9000 -SHRA OVC019CB 10/09 Q998 RMK QFE734/0979 CLD:8CB
(350/50KM)


NOWCAST.SU UUDW 142300Z 27009G16MPS 9999 -SHRA OVC023CB 10/08 Q0996 NOSIG
RMK TURB: MOD SFC/FL30
AUTOTAF.ME UUDW 141900Z 1420/1505 21009G16MPS 2500 -SHRA BR BKN004 OVC010CB TX10/1420Z TN06/1503Z
FM142100 21009G16MPS 5000 BKN004 OVC010CB
TEMPO 1421/1422 -TSRA
FM142200 24009G16MPS 2500 -SHRA BR BKN004 OVC010CB
FM142300 27009G16MPS 9999 -SHRA OVC025CB
FM150100 28010G15MPS CAVOK
BECMG 1502/1503 BKN040
 
Киверичи (Запад)
SYNAR 27316 Кашин 142100Z 17002MPS 9999 BKN020 09/08 Q994 RMK QFE733/0977 CLD:7AC
(90/60KM)


NOWCAST.SU UUEC 142300Z 27004MPS 4000 -SHRA BR BKN019CB 07/06 Q0993 NOSIG
RMK TURB: MOD FL30/FL40
AUTOTAF.ME UUEC 141900Z 1420/1505 20003MPS 5000 BKN004 OVC010CB TX09/1420Z TN05/1501Z
TEMPO 1420/1422 -TSRA
FM142100 21003MPS 9999 OVC015CB
FM142200 24003MPS 2500 -SHRA BR OVC015CB
BECMG 1422/1423 5000
FM150000 27009G14MPS 9999 -SHRA BKN025CB
BECMG 1500/1501 VCSH
BECMG 1504/1505 24004MPS
 
Москва (Шереметьево)
METAR UUEE 142300Z 27008MPS 9999 -SHRA SCT014 BKN020CB 09/07 Q0996 R24L/290251 R24C/290251 NOSIG


NOWCAST.SU UUEE 142300Z 28008MPS 9999 -SHRA BKN052CB 09/07 Q0995 NOSIG
RMK TURB: MOD FL170/FL180
AUTOTAF.ME UUEE 141900Z 1420/1505 20009G16MPS 2500 BKN004 OVC010CB TX10/1420Z TN06/1502Z
TEMPO 1420/1421 -TSRA
FM142100 21009G15MPS 5000 -SHRA BR OVC015CB
FM142200 24005G13MPS 9999 -SHRA BKN015CB
FM142300 28008MPS 9999 -SHRA BKN060CB
BECMG 1423/1500 BKN015CB
FM150100 30010G15MPS 9999 -RA BKN040
FM150200 29009G15MPS CAVOK
BECMG 1503/1504 BKN025TCU
TAF UUEE 141951Z 1421/1521 20006MPS 9000 FEW007 BKN016 TX09/1511Z TN06/1504Z
TEMPO 1421/1424 25009G16MPS 4000 -SHRA BKN006 BKN016CB
BECMG 1500/1501 26008G13MPS
TEMPO 1501/1509 23011G18MPS
TEMPO 1509/1521 23011G18MPS 4900 -SHRA SCT018CB=
 


NOSIG
 
Кимры (Борки)
SYNAR 27316 Кашин 142100Z 17002MPS 9999 BKN020 09/08 Q994 RMK QFE733/0977 CLD:7AC
(10/61KM)


NOWCAST.SU UUEI 142300Z 27010MPS 9000 -SHRA BR BKN023CB 08/07 Q0993 NOSIG
RMK TURB: MOD SFC/FL30
AUTOTAF.ME UUEI 141900Z 1420/1505 20010G16MPS 5000 -SHRA BR BKN008 OVC010CB TX10/1420Z TN05/1502Z
FM142100 21010G16MPS 2500 -SHRA BR BKN004 OVC010CB
BECMG 1421/1422 BKN015CB
FM142300 27010MPS 9000 -SHRA BR BKN025CB
FM150000 29008MPS 9999 -SHRA OVC015CB
FM150100 29005G13MPS 9999 VCSH BKN060CB
 
Волен (Хелипорт)
SYNAR 27417 Клин 142100Z 20002MPS //// //// 10/09 Q996 RMK QFE732/0976 CLD:NO_OBSERVATIONS
(280/45KM)


NOWCAST.SU UUEJ 142300Z 28009G16MPS 9999 -SHRA BKN028CB 09/06 Q0994 NOSIG
RMK TURB: MOD SFC/FL30
AUTOTAF.ME UUEJ 141900Z 1420/1505 21010G16MPS 2500 -RA BR OVC004 TX10/1420Z TN05/1503Z
FM142100 22010G16MPS 5000 OVC015CB
TEMPO 1421/1422 -TSRA
FM142200 24009G16MPS 9999 -SHRA BKN015CB
FM142300 28009G16MPS 9999 -SHRA BKN025CB
BECMG 1423/1500 BKN015CB
FM150100 29009G16MPS 9999 -RA BKN040
FM150200 28005G13MPS 9999 VCSH BKN015CB
BECMG 1504/1505 BKN025TCU
 
Конаково
SYNAR 27417 Клин 142100Z 20002MPS //// //// 10/09 Q996 RMK QFE732/0976 CLD:NO_OBSERVATIONS
(190/33KM)


NOWCAST.SU UUEL 142300Z 27009G15MPS 9999 -SHRA BKN024CB 08/06 Q0995 NOSIG
RMK TURB: MOD SFC/FL40
AUTOTAF.ME UUEL 141900Z 1420/1505 22009G15MPS 5000 BKN008 BKN010CB TX10/1420Z TN05/1502Z
TEMPO 1420/1422 -TSRA
BECMG 1420/1421 BKN015CB
BECMG 1421/1422 -SHRA BR
FM142300 27009G15MPS 9999 -SHRA BKN025CB
BECMG 1423/1500 29009G15MPS
FM150100 29009G15MPS 9999 -RA BKN040
FM150200 28005G13MPS 9999 VCSH BKN040
FM150300 27005G13MPS CAVOK
FM150400 26005G13MPS 9999 BKN025
 
Тверь (Мигалово)
SYNAR 27402 Тверь 142100Z 26002MPS 9999 SCT033 10/08 Q995 RMK QFE733/0977 CLD:7SCAC


NOWCAST.SU UUEM 142300Z 27005G13MPS 9999 -RA BKN038 07/04 Q0995 NOSIG
RMK TURB: MOD SFC/FL40
AUTOTAF.ME UUEM 141900Z 1420/1505 22004MPS 5000 -SHRA BR BKN008 BKN010CB TX09/1420Z TN05/1502Z
FM142100 24004MPS 2500 -SHRA BKN015CB
FM142200 25009MPS 9999 -SHRA BKN015CB
FM142300 27005G13MPS 9999 -RA BKN040
BECMG 1501/1502 NSC
FM150300 26004MPS 9999 BKN015 BKN020TCU
BECMG 1503/1504 BKN025
 
Завидово (Русь)
SYNAR 27417 Клин 142100Z 20002MPS //// //// 10/09 Q996 RMK QFE732/0976 CLD:NO_OBSERVATIONS
(120/36KM)


NOWCAST.SU UUEP 142300Z 28009G14MPS 9999 -SHRA BKN013CB 07/05 Q0996 NOSIG
RMK TURB: MOD SFC/FL30
AUTOTAF.ME UUEP 141900Z 1420/1505 22004MPS 9999 BKN008CB TX10/1420Z TN05/1503Z
TEMPO 1420/1421 -TSRA
FM142100 25005G13MPS 5000 -SHRA BKN015CB
FM142200 27009MPS 9999 -SHRA BKN008CB
BECMG 1422/1423 BKN015CB
BECMG 1501/1502 VCSH
BECMG 1503/1504 BKN025
 
Гурбан
SYNAR 27612 Москва (ВДНХ) 142100Z 18001MPS 9000 -SHRA OVC019CB 10/09 Q998 RMK QFE734/0979 CLD:8CB
(170/37KM)


NOWCAST.SU UUEQ 142300Z 28009MPS 8000 -SHRA BR BKN053CB 09/07 Q0995 NOSIG
RMK TURB: MOD FL170/FL180
AUTOTAF.ME UUEQ 141900Z 1420/1505 20009G16MPS 2500 BKN004 OVC010CB TX10/1420Z TN05/1503Z
TEMPO 1420/1421 -TSRA
FM142100 21009G15MPS 5000 -SHRA BR BKN004 OVC010CB
BECMG 1421/1422 BKN015CB
FM142300 28009MPS 8000 -SHRA BR BKN060CB
FM150000 30010G15MPS 9999 -SHRA BKN015CB
FM150100 30010G15MPS 9999 -RA BKN040
FM150200 29009G15MPS CAVOK
BECMG 1503/1504 BKN025TCU
 
Талдом (Юркино)
SYNAR 27316 Кашин 142100Z 17002MPS 9999 BKN020 09/08 Q994 RMK QFE733/0977 CLD:7AC
(360/66KM)


NOWCAST.SU UUET 142300Z 28009G16MPS 5000 -SHRA BR BKN035CB 09/07 Q0994 NOSIG
RMK TURB: MOD SFC/FL30
AUTOTAF.ME UUET 141900Z 1420/1505 21010G16MPS 5000 -RA BR OVC008 TX10/1420Z TN05/1503Z
FM142100 22010G16MPS 5000 OVC008CB
TEMPO 1421/1422 -TSRA
FM142200 24009G16MPS 9999 -SHRA BKN025CB
FM142300 28009G16MPS 5000 -SHRA BR BKN040CB
FM150000 30009G16MPS 9999 -SHRA BKN015CB
BECMG 1500/1501 BKN025CB
FM150200 28005G13MPS 9999 VCSH BKN015CB
BECMG 1503/1504 BKN025
 
Залесье
SYNAR 26499 Старица 142100Z 30006G11MPS 9999 RESHRA OVC010CB 08/04 Q997 RMK QFE731/0975 CLD:8CB
(200/35KM)


NOWCAST.SU UUEX 142300Z 28009G16MPS 9999 FEW220 06/04 Q0996 NOSIG
RMK TURB: MOD SFC/FL30
AUTOTAF.ME UUEX 141900Z 1420/1505 28005G13MPS 2500 -SHRA BR BKN004 BKN010CB TX09/1420Z TN05/1501Z
FM142100 29009G16MPS 9999 -SHRA BKN015CB
FM142200 29010G16MPS 9999 -SHRA BKN080CB
FM142300 28009G16MPS CAVOK
BECMG 1423/1500 27005G13MPS
BECMG 1502/1503 BKN025TCU
 
Юрьевское (Волжанка)
SYNAR 27402 Тверь 142100Z 26002MPS 9999 SCT033 10/08 Q995 RMK QFE733/0977 CLD:7SCAC
(290/27KM)


NOWCAST.SU UUEY 142300Z 28009G15MPS 9999 -RA BKN033 07/05 Q0994 NOSIG
RMK TURB: MOD SFC/FL40
AUTOTAF.ME UUEY 141900Z 1420/1505 VRB02MPS 5000 -SHRA BR BKN015CB TX10/1420Z TN05/1502Z
BECMG 1420/1421 2500
FM142200 28011MPS 9999 -SHRA BKN015CB
FM142300 28009G15MPS 9999 -RA BKN040
FM150300 26005G13MPS 9999 BKN015
BECMG 1503/1504 BKN025
 
Хатенки
SYNAR 27707 Сухиничи 142100Z 26002MPS 4000 BR BKN020CB 10/09 Q1001 RMK QFE729/0972 CLD:7CB
(270/25KM)


NOWCAST.SU UUFH 142300Z 28010G17MPS 9999 SKC 09/07 Q1001 NOSIG
RMK TURB: MOD SFC/FL170
AUTOTAF.ME UUFH 141900Z 1420/1505 24009G17MPS 5000 OVC025CB TX11/1420Z TN05/1503Z
TEMPO 1420/1421 -TSRA
FM142100 25009G17MPS 2500 -SHRA BR BKN025CB
FM142200 27009G17MPS 9999 -SHRA BKN025CB
FM142300 28010G17MPS CAVOK
FM150000 28010G16MPS 9999 -SHRA BKN025CB
FM150200 27010G16MPS 9999 BKN015 BKN020TCU
BECMG 1503/1504 BKN025TCU
 
Михеево
SYNAR 27606 Малоярославец 142100Z 22003MPS 9999 RERA BKN010 10/09 Q998 RMK QFE731/0975 CLD:6SC
(70/40KM)


NOWCAST.SU UUFM 142300Z 28009G16MPS 9999 -SHRA BKN018CB 09/06 Q0998 NOSIG
RMK TURB: MOD SFC/FL170
AUTOTAF.ME UUFM 141900Z 1420/1505 24005G13MPS 9000 BKN015CB TX11/1420Z TN05/1503Z
TEMPO 1420/1422 -TSRA
BECMG 1420/1421 26010G15MPS
FM142200 27010G16MPS 5000 -SHRA BR BKN025CB
FM142300 28009G16MPS 9999 -SHRA BKN015CB
FM150000 28009G15MPS CAVOK
FM150100 28009G15MPS 9999 VCSH BKN025CB
FM150200 27005G13MPS CAVOK
BECMG 1503/1504 BKN015 BKN020TCU
BECMG 1504/1505 BKN025TCU
 
Недельное
SYNAR 27606 Малоярославец 142100Z 22003MPS 9999 RERA BKN010 10/09 Q998 RMK QFE731/0975 CLD:6SC
(330/24KM)


NOWCAST.SU UUFN 142300Z 27009G15MPS 8000 -SHRA BR BKN016CB 09/07 Q0998 NOSIG
RMK TURB: MOD SFC/FL30
AUTOTAF.ME UUFN 141900Z 1420/1505 23005G13MPS 7000 -SHRA BR BKN015CB TX11/1420Z TN06/1502Z
BECMG 1420/1421 -SHRA
BECMG 1422/1423 -SHRA BR
BECMG 1423/1500 -SHRA
FM150200 28009G15MPS 9999 VCSH BKN015CB
FM150500 27009G14MPS 9999 BKN025TCU
 
Калуга (Орешково)
SYNAR 27707 Сухиничи 142100Z 26002MPS 4000 BR BKN020CB 10/09 Q1001 RMK QFE729/0972 CLD:7CB
(230/62KM)


NOWCAST.SU UUFO 142300Z 28010G17MPS 9999 -SHRA BKN026CB 09/07 Q1000 NOSIG
RMK TURB: MOD SFC/FL30
AUTOTAF.ME UUFO 141900Z 1420/1505 23009G17MPS 5000 OVC015CB TX11/1420Z TN05/1503Z
TEMPO 1420/1422 -TSRA
BECMG 1420/1421 BKN025CB
FM142200 26010G17MPS 9999 -SHRA BKN025CB
FM150000 28011G17MPS CAVOK
BECMG 1502/1503 BKN025
 
Стародуб
SYNAR 26997 Трубчевск 142100Z 26004MPS 4000 BR BKN020CB 13/10 Q1005 RMK QFE737/0983 CLD:6CB
(90/65KM)


NOWCAST.SU UUFS 142300Z 29011G18MPS 9999 SKC 09/05 Q1007 NOSIG
RMK TURB: MOD SFC/FL170
AUTOTAF.ME UUFS 141900Z 1420/1505 28011G18MPS 9999 -SHRA SCT025CB TX13/1420Z TN05/1502Z
FM142100 29011G17MPS CAVOK
 
Иваньково
SYNAR 27627 Кашира 142100Z 21003MPS 9999 //// 10/09 Q1000 RMK QFE730/0973 CLD:NO_OBSERVATIONS
(50/18KM)


NOWCAST.SU UUGI 142300Z 24011G17MPS 9999 OVC018CB 11/09 Q0998 TEMPO TL0000 -SHRA
RMK TURB: MOD SFC/FL40
AUTOTAF.ME UUGI 141900Z 1420/1505 21011G17MPS 5000 -SHRA BR OVC040CB TX11/1420Z TN07/1503Z
FM142100 22011G17MPS 9999 -SHRA OVC025CB
BECMG 1421/1422 BKN015CB
BECMG 1422/1423 NSW
TEMPO 1423/1424 -TSRA
TEMPO 1424/1501 VCTS
FM150100 27010G16MPS 9999 -SHRA OVC015CB
FM150200 28010G16MPS 9999 -RA BKN025
FM150300 28011MPS 9999 BKN015 BKN020TCU
BECMG 1503/1504 BKN025TCU
 
Макариха ДНС
SYNAR 23324 Петрунь 142100Z 03001MPS CAVOK M22/M24 Q1010 RMK QFE752/1003 CLD:2AC
(110/104KM)


NOWCAST.SU UUHH 142300Z 15004MPS 7000 BR OVC017 M11/M13 Q1008 NOSIG
AUTOTAF.ME UUHH 141900Z 1420/1505 14004MPS 9999 BKN008 TXM03/1505Z TNM13/1420Z
FM142300 15004MPS 7000 BR OVC015
FM150000 15004MPS 0500 FZFG BKN004
BECMG 1501/1502 OVC040
BECMG 1502/1503 BLSN
BECMG 1503/1504 BKN008
FM150500 18008G13MPS 0500 SN BLSN OVC008
 
Уса-38
SYNAR 23412 Усть-Уса 142100Z 14003MPS CAVOK M06/M14 Q1008 RMK QFE748/0998 CLD:8AC
(260/32KM)


NOWCAST.SU UUHM 142300Z 17006G11MPS 0700 FZFG VV002 M07/M09 Q1008 NOSIG
AUTOTAF.ME UUHM 141900Z 1420/1505 16005MPS 9999 OVC015 TXM03/1505Z TNM09/1420Z
FM142100 17005G12MPS 5000 BLSN OVC004
BECMG 1421/1422 1200
FM142300 17006G11MPS 0500 FZFG VV004
BECMG 1423/1500 BLSN
BECMG 1500/1501 SN BLSN
 
Дарьино
SYNAR 27523 Павловский Посад 142100Z 18003MPS 9999 -SHRA OVC010CB 10/09 Q998 RMK QFE736/0982 CLD:8CB
(180/63KM)


NOWCAST.SU UUID 142300Z 23004MPS 3000 -SHRA BR BKN005 OVC010CB 10/09 Q0994 NOSIG
AUTOTAF.ME UUID 141900Z 1420/1505 18009G17MPS 2500 -RA BR OVC004 TX10/1420Z TN05/1503Z
FM142100 18009G17MPS 2500 -SHRA BR BKN004 OVC010CB
BECMG 1422/1423 23004MPS
FM150200 28009G15MPS CAVOK
BECMG 1503/1504 BKN025TCU
 
Плес (Спасское)
SYNAR 27333 Кострома 142100Z 15004MPS //// //// 09/06 Q998 RMK QFE737/0982 CLD:NO_OBSERVATIONS
(310/53KM)


NOWCAST.SU UUIE 142300Z 16010G17MPS 4000 -RA BR OVC005 08/07 Q0996 NOSIG
RMK TURB: MOD SFC/FL30
AUTOTAF.ME UUIE 141900Z 1420/1505 17009G17MPS 9999 VCSH BKN025CB TX09/1420Z TN07/1505Z
FM142100 17009G17MPS 9999 -SHRA BKN015CB
FM142200 16010G17MPS 5000 -SHRA BR BKN015CB
FM142300 16010G17MPS 5000 -RA BR OVC004
BECMG 1423/1500 2500
BECMG 1500/1501 OVC008
BECMG 1501/1502 OVC004
FM150400 21005G13MPS 5000 -RA BR OVC015
FM150500 25009MPS 5000 -RA BR OVC015
 
Аэродром Доброград
SYNAR 27532 Владимир 142100Z 20003MPS 9999 -SHRA BKN029CB 10/07 Q999 RMK QFE734/0978 CLD:8CBAC
(260/56KM)


NOWCAST.SU UUIG 142300Z 16005G13MPS 4000 -SHRA BR BKN014CB 09/08 Q0997 NOSIG
RMK TURB: MOD SFC/FL30
AUTOTAF.ME UUIG 141900Z 1420/1505 17004MPS 9999 BKN025 TX10/1420Z TN08/1505Z
FM142200 17005G13MPS 2500 -RA BR BKN025
FM142300 16005G13MPS 5000 -SHRA BR BKN015CB
FM150000 17005G13MPS 2500 -SHRA OVC015CB
BECMG 1500/1501 5000
BECMG 1501/1502 -SHRA BR
FM150300 25003MPS 9999 -SHRA BKN040CB
FM150400 27004MPS 5000 -SHRA BR BKN015CB
FM150500 27005G13MPS 9999 -SHRA BKN025CB
 
Палех
SYNAR 27347 Иваново 142100Z 15003MPS 9999 BKN036 09/06 Q999 RMK QFE738/0984 CLD:8SCAC
(290/56KM)


NOWCAST.SU UUIH 142300Z 16009G16MPS 2800 -RA BR OVC005 09/07 Q0997 NOSIG
AUTOTAF.ME UUIH 141900Z 1420/1505 16009G16MPS 9999 BKN025 TX09/1420Z TN07/1505Z
BECMG 1420/1421 BKN015
FM142300 16009G16MPS 2500 -RA BR OVC004
BECMG 1423/1500 5000
BECMG 1500/1501 OVC025
FM150200 17009G15MPS 2500 -SHRA OVC008CB
FM150300 17005G13MPS 5000 -SHRA BKN004 OVC010CB
FM150400 21003MPS 8000 -SHRA OVC015CB
FM150500 29008MPS 5000 -SHRA BR BKN008 OVC010CB
 
Мордыш
SYNAR 27532 Владимир 142100Z 20003MPS 9999 -SHRA BKN029CB 10/07 Q999 RMK QFE734/0978 CLD:8CBAC
(220/26KM)


NOWCAST.SU UUIM 142300Z 17010G16MPS 3000 -RA BR OVC005 09/08 Q0996 NOSIG
RMK TURB: MOD SFC/FL30
AUTOTAF.ME UUIM 141900Z 1420/1505 17009G16MPS 5000 BR BKN015 TX10/1420Z TN07/1505Z
BECMG 1420/1421 -RA BR
FM142300 17010G16MPS 2500 -RA BR OVC004
FM150000 17009G16MPS 5000 -RA BR OVC015
FM150100 20005G13MPS 5000 -SHRA BR OVC015CB
BECMG 1501/1502 25005G13MPS
FM150300 27010G15MPS 5000 -SHRA BR BKN008 OVC010CB
FM150400 28011MPS 9999 -SHRA BKN015CB
BECMG 1504/1505 -RA
 
Небылое
SYNAR 27532 Владимир 142100Z 20003MPS 9999 -SHRA BKN029CB 10/07 Q999 RMK QFE734/0978 CLD:8CBAC
(140/40KM)


NOWCAST.SU UUIN 142300Z 17010G15MPS 2900 -RA BR OVC036 09/09 Q0995 NOSIG
RMK TURB: MOD SFC/FL30
AUTOTAF.ME UUIN 141900Z 1420/1505 17009G17MPS 2500 -RA BR NSC TX09/1420Z TN06/1504Z
BECMG 1420/1421 OVC004
BECMG 1421/1422 NSC
BECMG 1422/1423 OVC040
FM150000 17009G15MPS 5000 -RA BR OVC040
FM150100 21004MPS 9000 -SHRA BR OVC040CB
FM150200 29009MPS 5000 -SHRA BR OVC040CB
FM150300 30011G17MPS 9999 -SHRA BKN015CB
FM150400 30012MPS 9999 -RA BKN025
 
Павловское
SYNAR 27532 Владимир 142100Z 20003MPS 9999 -SHRA BKN029CB 10/07 Q999 RMK QFE734/0978 CLD:8CBAC
(200/23KM)


NOWCAST.SU UUIP 142300Z 17010G16MPS 2700 -RA BR OVC005 09/08 Q0996 NOSIG
RMK TURB: MOD SFC/FL30
AUTOTAF.ME UUIP 141900Z 1420/1505 17009G16MPS 2500 -RA BR BKN015 TX10/1420Z TN07/1505Z
BECMG 1420/1421 5000
FM142300 17010G16MPS 2500 -RA BR OVC004
FM150000 17009G16MPS 5000 -RA BR OVC015
FM150100 20005G13MPS 5000 -SHRA BR OVC015CB
BECMG 1501/1502 25005G13MPS
FM150300 27010G15MPS 2500 -SHRA BR BKN004 OVC010CB
FM150400 28011MPS 9999 -SHRA BKN015CB
BECMG 1504/1505 -RA
 
Сновицы
SYNAR 27532 Владимир 142100Z 20003MPS 9999 -SHRA BKN029CB 10/07 Q999 RMK QFE734/0978 CLD:8CBAC


NOWCAST.SU UUIS 142300Z 17005G13MPS 3000 -SHRA BR BKN005 OVC010CB 09/08 Q0996 NOSIG
RMK TURB: MOD SFC/FL30
AUTOTAF.ME UUIS 141900Z 1420/1505 18004MPS 2500 -RA BR BKN015 TX10/1420Z TN07/1505Z
BECMG 1420/1421 BKN004
FM142300 17005G13MPS 2500 -SHRA BR BKN004 OVC010CB
BECMG 1502/1503 27009G14MPS
FM150400 28009G14MPS 9999 -SHRA BKN015CB
 
Почаевский проезд
SYNAR 27532 Владимир 142100Z 20003MPS 9999 -SHRA BKN029CB 10/07 Q999 RMK QFE734/0978 CLD:8CBAC


NOWCAST.SU UUIX 142300Z 17005G13MPS 3000 -SHRA OVC014CB 09/09 Q0996 NOSIG
RMK TURB: MOD SFC/FL30
AUTOTAF.ME UUIX 141900Z 1420/1505 18004MPS 2500 -RA BR BKN015 TX10/1420Z TN07/1505Z
FM142100 18005G13MPS 5000 -RA BR BKN025
FM142200 18005G13MPS 2500 -RA BR OVC015
FM142300 17005G13MPS 2500 -SHRA OVC015CB
BECMG 1423/1500 5000
FM150200 26004MPS 9999 OVC008CB
TEMPO 1502/1503 -TSRA
FM150300 27009G14MPS 5000 -SHRA BR BKN008 BKN010CB
FM150400 28009G14MPS 9999 -SHRA BKN008 BKN010CB
BECMG 1504/1505 BKN015CB
 
Шилово (Крутицы)
SYNAR 27745 Сасово 142100Z 18003MPS 9999 SCT033CB 12/09 Q1003 RMK QFE742/0989 CLD:8CBAC
(80/76KM)


NOWCAST.SU UUJK 142300Z 19010G18MPS 9999 -RA BKN013 11/08 Q0999 NOSIG
AUTOTAF.ME UUJK 141900Z 1420/1505 18005G13MPS 9999 BKN040 TX11/1420Z TN09/1505Z
FM142200 19009G17MPS 5000 -RA BR BKN025
FM142300 19010G18MPS 9999 -RA BKN015
FM150000 20011G18MPS 5000 -RA BR OVC004
FM150200 23010G16MPS 2500 BKN004 BKN010CB
TEMPO 1502/1504 -TSRA
BECMG 1502/1503 25010G16MPS
BECMG 1503/1504 -SHRA BR
FM150500 28010MPS 9999 -SHRA BKN025CB
 
Кубинка
SYNAR 27611 Наро-Фоминск 142100Z 22003MPS 9999 RESHRA BKN020CB 09/09 Q998 RMK QFE731/0975 CLD:7CB
(170/26KM)


NOWCAST.SU UUMB 142300Z 28009G15MPS 9999 -SHRA BKN016CB 08/06 Q0997 NOSIG
RMK TURB: MOD FL30/FL170
AUTOTAF.ME UUMB 141900Z 1420/1505 23005G13MPS 9999 OVC015CB TX10/1420Z TN05/1503Z
TEMPO 1420/1422 -TSRA
BECMG 1421/1422 -SHRA
FM150000 29005G13MPS 9999 VCSH BKN025CB
FM150100 28005G13MPS CAVOK
BECMG 1502/1503 BKN015
BECMG 1503/1504 BKN025
 
Черноголовка
SYNAR 27523 Павловский Посад 142100Z 18003MPS 9999 -SHRA OVC010CB 10/09 Q998 RMK QFE736/0982 CLD:8CB
(140/36KM)


NOWCAST.SU UUMC 142300Z 24004MPS 3000 BKN005 BKN010CB 10/09 Q0995 TEMPO TL0000 -SHRA
RMK TURB: MOD SFC/FL30
AUTOTAF.ME UUMC 141900Z 1420/1505 19009G16MPS 2500 -RA BR OVC004 TX10/1420Z TN06/1503Z
FM142100 19009G16MPS 2500 -SHRA BR BKN004 OVC010CB
BECMG 1421/1422 NSW
TEMPO 1422/1424 -TSRA
BECMG 1422/1423 24004MPS
FM150000 27009MPS 2500 -SHRA BR BKN004 BKN010CB
FM150100 28007MPS 9999 -SHRA BKN015CB
FM150300 29005G13MPS CAVOK
BECMG 1503/1504 BKN025TCU
 
Сельниково
SYNAR 27730 Рязань 142100Z 20003MPS //// //// 11/07 Q1001 RMK QFE737/0982 CLD:NO_OBSERVATIONS
(150/66KM)


NOWCAST.SU UUMD 142300Z 22010G16MPS 3000 BKN005 OVC010CB 11/10 Q0997 TEMPO TL0000 -SHRA
RMK TURB: MOD SFC/FL30
AUTOTAF.ME UUMD 141900Z 1420/1505 19009G16MPS 2500 -RA BR BKN004 TX11/1420Z TN07/1503Z
FM142200 21010G17MPS 2500 -SHRA BR BKN004 OVC010CB
BECMG 1422/1423 NSW
TEMPO 1423/1501 -TSRA
FM150100 26010G16MPS 2500 -SHRA BR BKN004 BKN010CB
FM150200 28010G16MPS 9999 -SHRA BKN040CB
FM150300 29010G16MPS CAVOK
FM150500 28010G15MPS 9999 VCSH SCT025CB
 
Северка
SYNAR 27627 Кашира 142100Z 21003MPS 9999 //// 10/09 Q1000 RMK QFE730/0973 CLD:NO_OBSERVATIONS
(220/54KM)


NOWCAST.SU UUML 142300Z 24010G17MPS 3000 BKN005 OVC010CB 11/10 Q0996 TEMPO TL0000 -SHRA
RMK TURB: MOD SFC/FL30
AUTOTAF.ME UUML 141900Z 1420/1505 19011G17MPS 2500 -RA BR OVC004 TX11/1421Z TN07/1503Z
FM142200 22010G17MPS 2500 BKN004 OVC010CB
TEMPO 1422/1501 -TSRA
BECMG 1423/1500 26011G17MPS
BECMG 1500/1501 -SHRA BR
FM150200 28010G16MPS CAVOK
BECMG 1503/1504 BKN040
 
КС-18 Мышкин
SYNAR 27225 Рыбинск 142100Z 16002MPS 9999 OVC066 09/08 Q995 RMK QFE736/0982 CLD:8NS
(30/34KM)


NOWCAST.SU UUMN 142300Z 19004MPS 3000 -SHRA BR BKN005 OVC010CB 09/08 Q0992 NOSIG
RMK TURB: MOD SFC/FL30
AUTOTAF.ME UUMN 141900Z 1420/1505 17009G15MPS 2500 -SHRA BR BKN004 OVC010CB TX09/1420Z TN05/1503Z
BECMG 1422/1423 19004MPS
BECMG 1500/1501 24010MPS
BECMG 1501/1502 26004MPS
FM150300 27005G13MPS 9999 BKN015 BKN020TCU
FM150400 28005G13MPS 9999 BKN025TCU
 
Москва (Остафьево)
METAR UUMO 142300Z 26007MPS 9999 -RA SCT012 10/08 Q0996 R25/CLRD60 NOSIG RMK QFE732/0976


NOWCAST.SU UUMO 142300Z 27009G16MPS 9999 -SHRA OVC022CB 09/08 Q0996 NOSIG
RMK TURB: MOD SFC/FL30
AUTOTAF.ME UUMO 141900Z 1420/1505 21009G16MPS 5000 -SHRA BR OVC008CB TX10/1420Z TN06/1502Z
BECMG 1420/1421 NSW
TEMPO 1421/1422 -TSRA
FM142200 24009G16MPS 8000 -SHRA BR OVC015CB
FM142300 27009G16MPS 9999 -SHRA OVC025CB
FM150100 28010G15MPS CAVOK
BECMG 1503/1504 BKN025TCU
TAF UUMO 141959Z 1421/1506 20005MPS 9999 BKN016
TEMPO 1421/1501 26008G14MPS 5000 -SHRA BKN009 BKN020CB
PROB40 TEMPO 1421/1501 -TSRA BKN013CB
BECMG 1501/1503 26007G13MPS=
Буньково
SYNAR 27511 Ново-Йерусалим 142100Z 21003MPS 9999 -RA OVC010 10/10 Q997 RMK QFE733/0977 CLD:8ST


NOWCAST.SU UUMR 142300Z 28005G13MPS 9999 -SHRA BKN013CB 08/06 Q0996 NOSIG
RMK TURB: MOD FL170/FL180
AUTOTAF.ME UUMR 141900Z 1420/1505 20005G13MPS 5000 BKN004 OVC010CB TX10/1420Z TN05/1503Z
TEMPO 1420/1422 -TSRA
BECMG 1420/1421 OVC015CB
FM142200 25007MPS 9999 -SHRA BKN015CB
BECMG 1422/1423 28005G13MPS
BECMG 1503/1504 BKN025TCU
 
Чкаловский
SYNAR 27612 Москва (ВДНХ) 142100Z 18001MPS 9000 -SHRA OVC019CB 10/09 Q998 RMK QFE734/0979 CLD:8CB
(260/28KM)


NOWCAST.SU UUMU 142300Z 26005G13MPS 3000 BKN005 OVC010CB 10/08 Q0995 TEMPO TL0000 -SHRA
RMK TURB: MOD SFC/FL30
AUTOTAF.ME UUMU 141900Z 1420/1505 19009G15MPS 2500 -SHRA BR BKN004 OVC010CB TX10/1420Z TN06/1504Z
BECMG 1421/1422 NSW
TEMPO 1422/1424 -TSRA
BECMG 1422/1423 26005G13MPS
FM150000 27009G15MPS 9999 -SHRA BKN008 BKN010CB
FM150200 28009G14MPS 9999 VCSH BKN015CB
BECMG 1503/1504 BKN025TCU
FM150500 27009G14MPS 7000 -RA BR BKN025
 
Воскресенск
SYNAR 27523 Павловский Посад 142100Z 18003MPS 9999 -SHRA OVC010CB 10/09 Q998 RMK QFE736/0982 CLD:8CB
(10/52KM)


NOWCAST.SU UUMV 142300Z 26005G13MPS 9999 -SHRA BKN022CB 11/09 Q0996 NOSIG
RMK TURB: MOD SFC/FL40
AUTOTAF.ME UUMV 141900Z 1420/1505 18009G15MPS 2500 -RA BR OVC004 TX11/1422Z TN07/1503Z
FM142100 19005G13MPS 2500 -SHRA BR BKN004 OVC010CB
FM142200 21004MPS 9999 -SHRA BKN015CB
BECMG 1422/1423 BKN025CB
FM150000 28010G16MPS 9999 -SHRA BKN015CB
FM150100 28010G16MPS CAVOK
BECMG 1503/1504 BKN025TCU
 
Аэродром Ватулино
SYNAR 27611 Наро-Фоминск 142100Z 22003MPS 9999 RESHRA BKN020CB 09/09 Q998 RMK QFE731/0975 CLD:7CB
(130/47KM)


NOWCAST.SU UUMW 142300Z 29009G15MPS 9999 -SHRA BKN021CB 08/05 Q0997 NOSIG
RMK TURB: MOD FL40/FL170
AUTOTAF.ME UUMW 141900Z 1420/1505 25004MPS 9999 -SHRA BKN040CB TX10/1420Z TN05/1503Z
BECMG 1421/1422 29009G15MPS
BECMG 1423/1500 VCSH
BECMG 1501/1502 BKN015 BKN020TCU
FM150400 26009G14MPS 9999 BKN025TCU
 
Благовещенье
SYNAR 27612 Москва (ВДНХ) 142100Z 18001MPS 9000 -SHRA OVC019CB 10/09 Q998 RMK QFE734/0979 CLD:8CB
(210/63KM)


NOWCAST.SU UUMX 142300Z 27010G16MPS 3000 -SHRA BR BKN005 OVC010CB 09/08 Q0994 NOSIG
RMK TURB: MOD SFC/FL40
AUTOTAF.ME UUMX 141900Z 1420/1505 20011G17MPS 2500 -RA BR OVC004 TX10/1420Z TN05/1503Z
FM142100 21011G17MPS 2500 -SHRA BR BKN004 OVC010CB
BECMG 1422/1423 27010G16MPS
FM150100 29011G16MPS 9999 -SHRA BKN015CB
FM150200 29009G16MPS 9999 VCSH BKN008CB
FM150300 28005G13MPS 9999 BKN015
BECMG 1504/1505 BKN025TCU
 
Озеры
SYNAR 27627 Кашира 142100Z 21003MPS 9999 //// 10/09 Q1000 RMK QFE730/0973 CLD:NO_OBSERVATIONS
(270/31KM)


NOWCAST.SU UUMY 142300Z 24010G17MPS 3000 BKN005 OVC010CB 11/10 Q0996 TEMPO TL0000 -SHRA
RMK TURB: MOD SFC/FL30
AUTOTAF.ME UUMY 141900Z 1420/1505 19011G17MPS 7000 -RA BR OVC025 TX11/1420Z TN07/1503Z
FM142100 20011G18MPS 2500 -RA BR OVC004
FM142200 22010G17MPS 2500 BKN004 OVC010CB
TEMPO 1422/1501 -TSRA
BECMG 1423/1500 26011G17MPS
FM150100 27011G17MPS 9999 -SHRA BKN015CB
FM150200 28010G16MPS CAVOK
BECMG 1502/1503 BKN040
 
Белгород
METAR UUOB 142300Z 28007G12MPS 9000 -SHRA OVC011CB 14/09 Q1006 R29/010070 NOSIG


NOWCAST.SU UUOB 142300Z 24011G18MPS 3000 BKN016CB 14/09 Q1006 TEMPO TL0000 -SHRA
RMK TURB: MOD SFC/FL30
AUTOTAF.ME UUOB 141900Z 1420/1505 22009G17MPS CAVOK TX15/1420Z TN11/1504Z
BECMG 1420/1421 BKN040
FM142200 23010G18MPS 9999 VCSH SCT025CB
FM142300 24011G18MPS 2500 BKN015CB
TEMPO 1423/1501 -TSRA
BECMG 1423/1500 5000
FM150100 27010G17MPS 9999 -SHRA OVC015CB
FM150200 29010G17MPS 9999 VCSH OVC025CB
BECMG 1502/1503 -RA
FM150400 31011G16MPS CAVOK
TAF UUOB 141955Z 1421/1506 24005MPS 9999 BKN016CB
TEMPO 1421/1503 3000 -SHRA=
Воронеж (Придача)
SYNAR 34123 Воронеж 142100Z 21001MPS CAVOK 14/05 Q1007 RMK QFE741/0988 CLD:6AC


NOWCAST.SU UUOD 142300Z 22010G18MPS 9999 VCSH BKN024CB 13/07 Q1005 TEMPO FM0100 -SHRA
AUTOTAF.ME UUOD 141900Z 1420/1505 19005G13MPS CAVOK TX13/1420Z TN11/1505Z
BECMG 1421/1422 SCT040
FM142300 22010G18MPS 9999 VCSH BKN025CB
FM150000 23011G19MPS 5000 -SHRA OVC025CB
FM150100 24011G19MPS 2500 OVC015CB
TEMPO 1501/1503 -TSRA
FM150200 24011G18MPS 9999 OVC008CB
FM150300 25011G17MPS 5000 -SHRA BR BKN008CB
FM150400 26010G16MPS 9999 -SHRA BKN025CB
BECMG 1504/1505 28011G16MPS
 
Курск (Восточный)
METAR UUOK 142300Z AUTO 25005MPS 9999 // ///023/// 12/10 Q1004 RMK QFE734/0979


NOWCAST.SU UUOK 142300Z 27010G17MPS 9000 -SHRA BR BKN015CB 13/10 Q1003 NOSIG
RMK TURB: MOD SFC/FL30
AUTOTAF.ME UUOK 141900Z 1420/1505 23011G18MPS 9000 -SHRA BKN025CB TX14/1420Z TN08/1503Z
FM142100 24012G19MPS 5000 -SHRA HZ OVC015CB
FM142200 25011G18MPS 2500 -SHRA BKN040CB
FM142300 27010G17MPS 9000 -SHRA BR BKN015CB
FM150000 28010G16MPS 2500 SHRA BR BKN004 BKN010CB
FM150100 29010G16MPS 9999 -SHRA BKN025CB
FM150300 29010G16MPS CAVOK
TAF AMD UUOK 141910Z 1418/1503 CNL=
Липецк
METAR UUOL 142300Z AUTO 21005MPS 9999 -RA NCD 10/09 Q1002


NOWCAST.SU UUOL 142300Z 20010G18MPS 5000 -RA HZ OVC030 12/08 Q1002 NOSIG
RMK TURB: MOD FL70/FL80
AUTOTAF.ME UUOL 141900Z 1420/1505 19005G13MPS 9999 BKN040 TX13/1420Z TN10/1505Z
FM142200 19010G17MPS 9999 -RA OVC040
FM142300 20010G18MPS 5000 -RA HZ OVC025
FM150000 21010G18MPS 2500 -RA BR OVC025
FM150100 23010G18MPS 2500 -SHRA BR BKN004 BKN010CB
FM150200 26010G17MPS 7000 BKN008CB
TEMPO 1502/1503 -TSRA
FM150300 28011G17MPS 2500 BKN025CB
TEMPO 1503/1504 VCTS
FM150400 28012G17MPS 5000 -SHRA BR BKN025CB
FM150500 29012G17MPS CAVOK
TAF UUOL 142000Z 1421/1506 21003G08MPS 6000 BKN020
BECMG 1501/1503 30008G16MPS=
Воронеж (Чертовицкое)
METAR UUOO 142300Z 21004MPS CAVOK 14/06 Q1003 R30/010070 NOSIG RMK QFE739


NOWCAST.SU UUOO 142300Z 21010G18MPS 9999 -SHRA OVC020CB 13/07 Q1003 NOSIG
RMK TURB: MOD SFC/FL30
AUTOTAF.ME UUOO 141900Z 1420/1505 19005G13MPS 9999 BKN040 TX13/1420Z TN11/1504Z
FM142200 20010G18MPS 9999 -RA BKN040
FM142300 21010G18MPS 9999 -SHRA OVC025CB
BECMG 1423/1500 OVC015CB
FM150100 25010G18MPS 2500 -SHRA BR BKN008 OVC010CB
FM150200 27010G17MPS 9999 -SHRA BKN040CB
FM150300 29011G16MPS 7000 -SHRA BR BKN015CB
FM150400 29012G17MPS 9999 -SHRA BKN080CB
FM150500 29012G17MPS CAVOK
TAF UUOO 142000Z 1421/1506 25006G13MPS 6000 -RA BKN020
TEMPO 1423/1506 25010G15MPS BKN010=
Орел (Южный)
SYNAR 27906 Орел 142100Z 23003MPS 4000 -SHRA OVC010CB 11/10 Q1004 RMK QFE735/0980 CLD:8CB


NOWCAST.SU UUOR 142300Z 28011G17MPS 3000 -SHRA BR BKN026CB 11/10 Q1002 NOSIG
RMK TURB: MOD SFC/FL30
AUTOTAF.ME UUOR 141900Z 1420/1505 23010G17MPS 2500 -SHRA BR BKN008CB TX12/1420Z TN06/1503Z
FM142100 25010G16MPS 5000 -SHRA BR BKN004 BKN010CB
BECMG 1421/1422 BKN015CB
FM142300 28011G17MPS 2500 -SHRA BR BKN025CB
BECMG 1423/1500 29012G17MPS
FM150100 29011G17MPS 9999 -RA BKN025
BECMG 1503/1504 NSC
FM150500 27010G15MPS 9999 BKN040TCU
 
Старый Оскол
SYNAR 34110 Богородицкое 142100Z 23002MPS 9999 SCT020CB 13/06 Q1007 RMK QFE734/0979 CLD:8CBAC
(240/34KM)


NOWCAST.SU UUOS 142300Z 23011G18MPS 9999 -SHRA OVC045CB 14/09 Q1004 NOSIG
RMK TURB: MOD SFC/FL30
AUTOTAF.ME UUOS 141900Z 1420/1505 21005G13MPS 9999 BKN040 TX14/1420Z TN11/1503Z
BECMG 1420/1421 NSC
FM142200 22010G18MPS 9999 VCSH BKN025CB
BECMG 1422/1423 -SHRA
FM150000 24011G18MPS 9000 -SHRA BR BKN008 BKN010CB
BECMG 1500/1501 -SHRA
FM150200 28010G17MPS 9999 -SHRA OVC015CB
FM150400 30011G16MPS CAVOK
 
Тамбов (Донское)
SYNAR 27947 Тамбов 142100Z 17003MPS 9999 BKN050 12/05 Q1006 RMK QFE743/0990 CLD:7SCAC


NOWCAST.SU UUOT 142300Z 19009G17MPS 9999 OVC041 12/07 Q1003 NOSIG
AUTOTAF.ME UUOT 141900Z 1420/1505 20003MPS 9999 SCT040 TX12/1420Z TN10/1503Z
BECMG 1422/1423 19009G17MPS
FM150000 19009G17MPS 7000 -RA HZ OVC040
FM150100 20010G18MPS 9999 -RA BKN015
FM150200 21010G18MPS 2500 -RA BR OVC008
FM150300 22010G17MPS 2500 BKN004 BKN010CB
TEMPO 1503/1504 -TSRA
BECMG 1503/1504 -SHRA BR
BECMG 1504/1505 27009MPS
 
Усмань (Чистоозерская)
SYNAR 34123 Воронеж 142100Z 21001MPS CAVOK 14/05 Q1007 RMK QFE741/0988 CLD:6AC
(220/49KM)


NOWCAST.SU UUOU 142300Z 21009G17MPS 9999 -SHRA HZ OVC017CB 13/07 Q1004 NOSIG
AUTOTAF.ME UUOU 141900Z 1420/1505 18004MPS CAVOK TX13/1423Z TN11/1505Z
BECMG 1420/1421 OVC040
FM142300 21009G17MPS 9999 -SHRA HZ OVC015CB
BECMG 1423/1500 5000
FM150100 24009G16MPS 2500 -SHRA BR BKN008 BKN010CB
FM150200 26009G16MPS 2500 SHRA BR BKN004 BKN010CB
BECMG 1502/1503 27009G15MPS
FM150400 28011MPS 5000 -SHRA BR BKN025CB
FM150500 29010G15MPS 9999 -SHRA BKN040CB
 
Валуйки
SYNAR 34321 Валуйки 142100Z 13001MPS CAVOK 12/05 Q1009 RMK QFE746/0995 CLD:6AC


NOWCAST.SU UUOW 142300Z 22011G19MPS 9999 BKN093 14/07 Q1008 TEMPO FM0100 TS
AUTOTAF.ME UUOW 141900Z 1420/1505 20005G11MPS CAVOK TX14/1420Z TN13/1502Z
BECMG 1422/1423 22011G19MPS
BECMG 1423/1500 OVC040
FM150100 24011G19MPS 2500 BKN015CB
TEMPO 1501/1502 TS
FM150200 25011G18MPS 9999 SCT008CB
TEMPO 1502/1503 -TSRA
BECMG 1502/1503 -SHRA
FM150400 27011G17MPS 9999 -SHRA BKN025CB
FM150500 29011G16MPS CAVOK
 
Воронеж (Солнечная)
SYNAR 34123 Воронеж 142100Z 21001MPS CAVOK 14/05 Q1007 RMK QFE741/0988 CLD:6AC


NOWCAST.SU UUOZ 142300Z 21010G18MPS 9999 -SHRA OVC020CB 13/07 Q1003 NOSIG
RMK TURB: MOD SFC/FL30
AUTOTAF.ME UUOZ 141900Z 1420/1505 19005G13MPS 9999 BKN040 TX13/1420Z TN11/1505Z
FM142200 20010G18MPS 9999 -RA BKN040
FM142300 21010G18MPS 9999 -SHRA OVC025CB
BECMG 1423/1500 OVC015CB
FM150100 25010G18MPS 2500 -SHRA BR BKN008 OVC010CB
FM150200 27010G17MPS 9999 -SHRA BKN040CB
FM150300 29011G16MPS 7000 -SHRA BR BKN015CB
FM150400 29012G17MPS 9999 -SHRA BKN080CB
FM150500 29012G17MPS CAVOK
 
Гаврилов Ям (Агат)
SYNAR 27329 Ростов Великий 142100Z 18003MPS 4000 -SHRA OVC020CB 09/08 Q997 RMK QFE738/0984 CLD:8CB
(240/28KM)


NOWCAST.SU UUQA 142300Z 17011G18MPS 3000 -SHRA BR BKN005 BKN010CB 09/08 Q0993 NOSIG
RMK TURB: MOD SFC/FL30
AUTOTAF.ME UUQA 141900Z 1420/1505 17009G16MPS 9999 -SHRA BKN015CB TX09/1420Z TN06/1503Z
FM142100 17009G17MPS 2500 -SHRA BR BKN004 BKN010CB
BECMG 1423/1500 -RA BR
FM150200 25005G13MPS 2500 -SHRA BR BKN004 OVC010CB
FM150300 28010G15MPS 9999 -SHRA OVC040CB
BECMG 1503/1504 VCSH
 
Ярославль (Любим)
SYNAR 27329 Ростов Великий 142100Z 18003MPS 4000 -SHRA OVC020CB 09/08 Q997 RMK QFE738/0984 CLD:8CB
(210/54KM)


NOWCAST.SU UUQL 142300Z 17011G18MPS 3000 -SHRA BR BKN005 BKN010CB 09/08 Q0993 NOSIG
RMK TURB: MOD SFC/FL30
AUTOTAF.ME UUQL 141900Z 1420/1505 17009G16MPS 5000 -SHRA BR BKN015CB TX09/1420Z TN06/1504Z
BECMG 1420/1421 2500
BECMG 1421/1422 BKN004 BKN010CB
BECMG 1423/1500 -RA BR
FM150200 25005G13MPS 2500 -SHRA BR BKN004 OVC010CB
FM150300 28010G15MPS 9999 -SHRA OVC040CB
FM150400 29011MPS 9999 VCSH BKN040CB
 
Попов Луг
SYNAR 27329 Ростов Великий 142100Z 18003MPS 4000 -SHRA OVC020CB 09/08 Q997 RMK QFE738/0984 CLD:8CB
(40/66KM)


NOWCAST.SU UUQP 142300Z 23004MPS 5000 -SHRA BR OVC010CB 09/09 Q0994 NOSIG
AUTOTAF.ME UUQP 141900Z 1420/1505 18009G17MPS 5000 -RA BR OVC008 TX09/1420Z TN05/1503Z
FM142100 18009G17MPS 5000 -SHRA BR BKN008 OVC010CB
BECMG 1421/1422 BKN004 OVC010CB
FM142300 23004MPS 5000 -SHRA BR OVC008CB
FM150000 26005G13MPS 2500 -SHRA BR BKN015CB
FM150100 28011MPS 9999 -SHRA BKN015CB
FM150200 28009G15MPS 9999 -RA BKN025
 
Рыбинск-Аксон
SYNAR 27225 Рыбинск 142100Z 16002MPS 9999 OVC066 09/08 Q995 RMK QFE736/0982 CLD:8NS


NOWCAST.SU UUQR 142300Z 15003MPS 5000 -SHRA BR BKN005 OVC010CB 08/08 Q0992 NOSIG
AUTOTAF.ME UUQR 141900Z 1420/1505 17005G13MPS 2500 SHRA BR BKN004 BKN010CB TX09/1420Z TN05/1504Z
BECMG 1421/1422 -SHRA BR
BECMG 1422/1423 5000
BECMG 1423/1500 OVC040CB
FM150100 25004MPS 5000 -SHRA BR BKN004 BKN010CB
FM150200 27007MPS 2500 SHRA BR BKN004 BKN010CB
FM150300 27005G12MPS 5000 -RA BR BKN015
FM150400 28009MPS 9999 BKN025
 
Лось
SYNAR 27316 Кашин 142100Z 17002MPS 9999 BKN020 09/08 Q994 RMK QFE733/0977 CLD:7AC
(320/73KM)


NOWCAST.SU UUQX 142300Z 22003MPS 5000 BKN008 OVC010CB 09/08 Q0993 TEMPO -SHRA TEMPO TL0000 -SHRA
AUTOTAF.ME UUQX 141900Z 1420/1505 17009G17MPS 2500 -RA BR OVC004 TX09/1420Z TN05/1503Z
FM142100 16009G17MPS 5000 -SHRA BR BKN004 OVC010CB
FM142200 18004MPS 5000 -SHRA BR OVC008CB
BECMG 1422/1423 NSW
TEMPO 1423/1424 -TSRA
FM150000 26007MPS 5000 -SHRA BR BKN008 BKN010CB
FM150100 27005G13MPS 9999 -SHRA BKN008 BKN010CB
FM150300 28009G14MPS 9999 -RA BKN015
FM150400 28009G14MPS 9999 BKN025
 
Строгановка
SYNAR 23412 Усть-Уса 142100Z 14003MPS CAVOK M06/M14 Q1008 RMK QFE748/0998 CLD:8AC
(170/106KM)


NOWCAST.SU UURA 142300Z 15005G11MPS 0500 FZFG BKN002 M08/M10 Q1006 NOSIG
AUTOTAF.ME UURA 141900Z 1420/1505 15004MPS 9000 BR OVC015 TXM03/1505Z TNM10/1420Z
FM142100 15004MPS 2500 BR OVC004
FM142200 15005MPS 0500 FZFG VV004
BECMG 1504/1505 +SN FZFG
 
Сандивей ДНС
SYNAR 23324 Петрунь 142100Z 03001MPS CAVOK M22/M24 Q1010 RMK QFE752/1003 CLD:2AC
(120/126KM)


NOWCAST.SU UURD 142300Z 15004MPS 7000 BR OVC012 M11/M13 Q1008 NOSIG
AUTOTAF.ME UURD 141900Z 1420/1505 15005MPS 9999 BKN015 TXM04/1505Z TNM13/1420Z
FM142300 15004MPS 7000 BR OVC015
FM150000 15005MPS 0500 FZFG VV004
BECMG 1503/1504 BKN015
 
Кипиево
SYNAR 23503 Ижма 142100Z 17003MPS //// //// M00/M13 Q1006 RMK QFE750/1001 CLD:NO_OBSERVATIONS
(200/80KM)


NOWCAST.SU UURK 142300Z 17004MPS 0400 SN BLSN BKN001 M03/M04 Q1005 NOSIG
AUTOTAF.ME UURK 141900Z 1420/1505 17004MPS 0500 SN BLSN OVC004 TXM00/1505Z TNM03/1420Z
BECMG 1420/1421 OVC002
FM150400 17004MPS 2500 -SN BLSN OVC002
 
Приуральское
SYNAR 23418 Печора 142100Z 14002MPS CAVOK M04/M12 Q1009 RMK QFE751/1001 CLD:8AC
(320/56KM)


NOWCAST.SU UURP 142300Z 15004MPS 7000 BR BKN028 M06/M09 Q1010 NOSIG
AUTOTAF.ME UURP 141900Z 1420/1505 15003MPS 9999 BKN025 TXM02/1505Z TNM07/1420Z
FM142300 15004MPS 7000 BR BKN025
BECMG 1423/1500 1200
FM150100 15004MPS 0500 BLSN OVC025
BECMG 1502/1503 BKN015
FM150400 16005G13MPS 8000 DRSN OVC025
 
Аржаники
SYNAR 27507 Гагарин 142100Z 28004MPS 9999 BKN019CB 09/06 Q999 RMK QFE732/0976 CLD:8CBAC
(180/44KM)


NOWCAST.SU UUSA 142300Z 28005G13MPS 9999 VCSH BKN016CB 06/04 Q0998 NOSIG
RMK TURB: MOD SFC/FL170
AUTOTAF.ME UUSA 141900Z 1420/1505 27009G15MPS 9999 -SHRA BKN015CB TX09/1420Z TN05/1501Z
BECMG 1422/1423 VCSH
FM150000 27005G13MPS 9999 BKN025
 
Горовидка
SYNAR 26695 Вязьма 142100Z 29004MPS 9999 BKN020 08/05 Q1001 RMK QFE728/0971 CLD:6SC
(200/14KM)


NOWCAST.SU UUSG 142300Z 28011G17MPS 9999 VCSH BKN020CB 07/04 Q0999 NOSIG
RMK TURB: MOD SFC/FL170
AUTOTAF.ME UUSG 141900Z 1420/1505 28009G15MPS 9999 -SHRA BKN015CB TX09/1420Z TN04/1502Z
BECMG 1420/1421 BKN040CB
BECMG 1421/1422 -RA
FM142300 28011G17MPS 9999 VCSH BKN025CB
FM150000 27010G16MPS 9999 BKN015 BKN020TCU
BECMG 1504/1505 BKN025TCU
 
Кирилловка
SYNAR 27402 Тверь 142100Z 26002MPS 9999 SCT033 10/08 Q995 RMK QFE733/0977 CLD:7SCAC
(350/34KM)


NOWCAST.SU UUTA 142300Z 28009G14MPS 9999 -SHRA BKN009 BKN010CB 07/04 Q0996 NOSIG
RMK TURB: MOD SFC/FL30
AUTOTAF.ME UUTA 141900Z 1420/1505 22004MPS 5000 BKN008CB TX10/1420Z TN05/1502Z
TEMPO 1420/1421 -TSRA
FM142100 25005G13MPS 5000 -SHRA BKN015CB
FM142200 27009MPS 5000 -SHRA BR BKN008 BKN010CB
FM142300 28009G14MPS 9999 -SHRA BKN008 BKN010CB
BECMG 1423/1500 BKN015CB
BECMG 1500/1501 VCSH
BECMG 1503/1504 BKN025
 
Адмиральская Бухта
SYNAR 27402 Тверь 142100Z 26002MPS 9999 SCT033 10/08 Q995 RMK QFE733/0977 CLD:7SCAC
(290/22KM)


NOWCAST.SU UUTB 142300Z 27008MPS 9999 -RA BKN033 07/05 Q0995 NOSIG
RMK TURB: MOD SFC/FL40
AUTOTAF.ME UUTB 141900Z 1420/1505 22004MPS 5000 -SHRA BKN008CB TX10/1420Z TN05/1502Z
FM142100 24004MPS 2500 -SHRA BKN015CB
FM142200 25011MPS 9999 -SHRA BKN015CB
FM142300 27008MPS 9999 -RA BKN040
FM150000 28005G13MPS 9999 BKN040
 
Серебряный Бор
SYNAR 27417 Клин 142100Z 20002MPS //// //// 10/09 Q996 RMK QFE732/0976 CLD:NO_OBSERVATIONS
(30/28KM)


NOWCAST.SU UUTF 142300Z 28009G14MPS 9999 -SHRA BKN020CB 07/05 Q0996 NOSIG
RMK TURB: MOD SFC/FL40
AUTOTAF.ME UUTF 141900Z 1420/1505 22004MPS 5000 -SHRA BKN015CB TX10/1420Z TN05/1502Z
FM142200 27009MPS 9999 -SHRA BKN015CB
BECMG 1422/1423 BKN025CB
FM150100 28009G15MPS 9999 VCSH BKN015CB
FM150200 27009G15MPS CAVOK
BECMG 1502/1503 BKN015 BKN020TCU
BECMG 1504/1505 BKN025TCU
 
Большая Волга
SYNAR 27417 Клин 142100Z 20002MPS //// //// 10/09 Q996 RMK QFE732/0976 CLD:NO_OBSERVATIONS
(210/47KM)


NOWCAST.SU UUTG 142300Z 27011MPS 9999 -SHRA BKN025CB 08/06 Q0995 NOSIG
RMK TURB: MOD SFC/FL40
AUTOTAF.ME UUTG 141900Z 1420/1505 22009G15MPS 5000 BKN008 BKN010CB TX10/1420Z TN06/1501Z
TEMPO 1420/1422 -TSRA
FM142200 25009G15MPS 2500 -SHRA BR BKN015CB
FM142300 27011MPS 9999 -SHRA BKN025CB
BECMG 1423/1500 29009G15MPS
FM150100 29009G15MPS CAVOK
FM150200 28005G13MPS 9999 VCSH BKN040
 
Вараксино
SYNAR 26499 Старица 142100Z 30006G11MPS 9999 RESHRA OVC010CB 08/04 Q997 RMK QFE731/0975 CLD:8CB
(40/66KM)


NOWCAST.SU UUTH 142300Z 27009G15MPS 9999 VCSH BKN022CB 07/04 Q0998 NOSIG
RMK TURB: MOD SFC/FL40
AUTOTAF.ME UUTH 141900Z 1420/1505 28008MPS 9999 -SHRA BKN025CB TX09/1420Z TN05/1502Z
BECMG 1420/1421 SCT015CB
FM142200 28009G15MPS 9999 -RA BKN040
FM142300 27009G15MPS 9999 VCSH BKN025CB
 
Завидово (Треуголка)
SYNAR 27417 Клин 142100Z 20002MPS //// //// 10/09 Q996 RMK QFE732/0976 CLD:NO_OBSERVATIONS
(150/29KM)


NOWCAST.SU UUTJ 142300Z 28008MPS 9999 -SHRA BKN022CB 08/05 Q0995 NOSIG
RMK TURB: MOD SFC/FL30
AUTOTAF.ME UUTJ 141900Z 1420/1505 23004MPS 5000 -SHRA BR BKN008 OVC010CB TX10/1420Z TN05/1503Z
FM142100 25005G13MPS 2500 BKN004 OVC010CB
TEMPO 1421/1422 -TSRA
FM142200 27010MPS 9999 -SHRA BKN025CB
BECMG 1500/1501 29005G13MPS
FM150200 27005G13MPS 9999 VCSH BKN015CB
BECMG 1503/1504 BKN025
 
Калязин
SYNAR 27316 Кашин 142100Z 17002MPS 9999 BKN020 09/08 Q994 RMK QFE733/0977 CLD:7AC
(300/21KM)


NOWCAST.SU UUTK 142300Z 26005G13MPS 2000 SHRA BR BKN005 OVC010CB 08/08 Q0993 NOSIG
RMK TURB: MOD SFC/FL30
AUTOTAF.ME UUTK 141900Z 1420/1505 18011G18MPS 2500 SHRA BR BKN004 OVC010CB TX09/1420Z TN05/1503Z
BECMG 1422/1423 26005G13MPS
FM150000 28010G15MPS 2500 -SHRA BR BKN004 OVC010CB
BECMG 1500/1501 SHRA BR
FM150200 28010G15MPS 9999 BKN015
BECMG 1502/1503 BKN025
 
Александровская Слобода
SYNAR 27402 Тверь 142100Z 26002MPS 9999 SCT033 10/08 Q995 RMK QFE733/0977 CLD:7SCAC
(280/48KM)


NOWCAST.SU UUTL 142300Z 28009G15MPS 9999 SKC 07/06 Q0994 NOSIG
RMK TURB: MOD SFC/FL40
AUTOTAF.ME UUTL 141900Z 1420/1505 VRB02MPS 7000 -SHRA BR BKN015CB TX10/1420Z TN05/1502Z
BECMG 1420/1421 2500
FM142200 28007MPS 2500 -SHRA BR BKN025CB
FM142300 28009G15MPS CAVOK
BECMG 1500/1501 BKN040
BECMG 1501/1502 NSC
FM150300 26005G13MPS 9999 BKN025
 
Орловка
SYNAR 26499 Старица 142100Z 30006G11MPS 9999 RESHRA OVC010CB 08/04 Q997 RMK QFE731/0975 CLD:8CB
(350/38KM)


NOWCAST.SU UUTO 142300Z 28005G13MPS 9999 VCSH BKN013CB 06/04 Q0998 NOSIG
RMK TURB: MOD SFC/FL170
AUTOTAF.ME UUTO 141900Z 1420/1505 27009G15MPS 9999 -SHRA BKN015CB TX09/1420Z TN05/1501Z
BECMG 1422/1423 VCSH
FM150000 27005G13MPS 9999 BKN025
 
Поповка
SYNAR 27316 Кашин 142100Z 17002MPS 9999 BKN020 09/08 Q994 RMK QFE733/0977 CLD:7AC
(290/19KM)


NOWCAST.SU UUTP 142300Z 28008G13MPS 2000 SHRA BR BKN005 OVC010CB 09/07 Q0993 NOSIG
RMK TURB: MOD SFC/FL30
AUTOTAF.ME UUTP 141900Z 1420/1505 17004MPS 2500 SHRA BR BKN004 OVC010CB TX09/1420Z TN05/1503Z
BECMG 1422/1423 28008G13MPS
BECMG 1423/1500 -SHRA BR
BECMG 1500/1501 RA BR
FM150200 28010G15MPS 9999 -RA BKN025
 
Свердловка
SYNAR 27417 Клин 142100Z 20002MPS //// //// 10/09 Q996 RMK QFE732/0976 CLD:NO_OBSERVATIONS
(160/32KM)


NOWCAST.SU UUTQ 142300Z 28008MPS 9999 -SHRA BKN023CB 08/05 Q0995 NOSIG
RMK TURB: MOD SFC/FL30
AUTOTAF.ME UUTQ 141900Z 1420/1505 23004MPS 2500 -SHRA BR BKN004 OVC010CB TX10/1420Z TN05/1503Z
BECMG 1420/1421 NSW
TEMPO 1421/1422 -TSRA
FM142200 27009MPS 5000 -SHRA BR BKN025CB
FM142300 28008MPS 9999 -SHRA BKN025CB
FM150200 27005G13MPS 9999 VCSH BKN015CB
FM150300 26004MPS 9999 BKN015
BECMG 1503/1504 BKN025
 
Старица
SYNAR 26499 Старица 142100Z 30006G11MPS 9999 RESHRA OVC010CB 08/04 Q997 RMK QFE731/0975 CLD:8CB


NOWCAST.SU UUTS 142300Z 28009G16MPS 9999 BKN034 06/04 Q0997 NOSIG
RMK TURB: MOD SFC/FL30
AUTOTAF.ME UUTS 141900Z 1420/1505 28010G16MPS 9000 -SHRA BR BKN040CB TX09/1420Z TN05/1501Z
FM142100 29010G16MPS 9999 -SHRA OVC015CB
BECMG 1421/1422 BKN080CB
BECMG 1423/1500 28005G13MPS
BECMG 1502/1503 26010G15MPS
 
Волжская 7
SYNAR 27417 Клин 142100Z 20002MPS //// //// 10/09 Q996 RMK QFE732/0976 CLD:NO_OBSERVATIONS
(160/32KM)


NOWCAST.SU UUTV 142300Z 28008MPS 9999 -SHRA BKN023CB 08/05 Q0995 NOSIG
RMK TURB: MOD SFC/FL30
AUTOTAF.ME UUTV 141900Z 1420/1505 23004MPS 5000 -SHRA BR BKN008 OVC010CB TX10/1420Z TN05/1503Z
FM142100 25005G13MPS 2500 BKN004 OVC010CB
TEMPO 1421/1422 -TSRA
FM142200 27010MPS 5000 -SHRA BR BKN025CB
FM142300 28008MPS 9999 -SHRA BKN025CB
BECMG 1500/1501 29005G13MPS
FM150200 27005G13MPS 9999 VCSH BKN015CB
BECMG 1503/1504 BKN025
 
Волга Кантри Клаб
SYNAR 26499 Старица 142100Z 30006G11MPS 9999 RESHRA OVC010CB 08/04 Q997 RMK QFE731/0975 CLD:8CB
(30/34KM)


NOWCAST.SU UUTW 142300Z 28009G16MPS 9999 VCSH BKN023CB 06/04 Q0998 NOSIG
RMK TURB: MOD FL30/FL40
AUTOTAF.ME UUTW 141900Z 1420/1505 28009G16MPS 9999 -SHRA BKN060CB TX09/1420Z TN05/1501Z
BECMG 1420/1421 SCT015CB
FM142300 28009G16MPS 9999 VCSH BKN025CB
 
Завидово (Большое)
SYNAR 27417 Клин 142100Z 20002MPS //// //// 10/09 Q996 RMK QFE732/0976 CLD:NO_OBSERVATIONS
(150/25KM)


NOWCAST.SU UUTZ 142300Z 28008MPS 9999 -SHRA BKN022CB 08/05 Q0995 NOSIG
RMK TURB: MOD SFC/FL30
AUTOTAF.ME UUTZ 141900Z 1420/1505 23004MPS 5000 -SHRA BR BKN008 OVC010CB TX10/1420Z TN05/1503Z
FM142100 25005G13MPS 2500 BKN004 OVC010CB
TEMPO 1421/1422 -TSRA
FM142200 27010MPS 5000 -SHRA BR BKN025CB
FM142300 28008MPS 9999 -SHRA BKN025CB
BECMG 1500/1501 29005G13MPS
FM150200 27005G13MPS 9999 VCSH BKN015CB
BECMG 1503/1504 BKN025
 
Москва (Кремль)
SYNAR 27612 Москва (ВДНХ) 142100Z 18001MPS 9000 -SHRA OVC019CB 10/09 Q998 RMK QFE734/0979 CLD:8CB


NOWCAST.SU UUUC 142300Z 27009G16MPS 9999 -SHRA OVC023CB 10/08 Q0996 NOSIG
RMK TURB: MOD SFC/FL30
AUTOTAF.ME UUUC 141900Z 1420/1505 21009G16MPS 5000 -SHRA BR BKN004 OVC010CB TX11/1421Z TN06/1503Z
FM142100 21009G16MPS 5000 BKN008 OVC010CB
TEMPO 1421/1422 -TSRA
FM142200 24009G16MPS 9999 -SHRA OVC015CB
FM142300 27009G16MPS 9999 -SHRA OVC025CB
FM150100 28010G15MPS CAVOK
BECMG 1501/1502 BKN040
BECMG 1502/1503 NSC
BECMG 1503/1504 BKN025TCU
 
ГКБ №15
SYNAR 27612 Москва (ВДНХ) 142100Z 18001MPS 9000 -SHRA OVC019CB 10/09 Q998 RMK QFE734/0979 CLD:8CB
(310/17KM)


NOWCAST.SU UUUN 142300Z 25009G16MPS 5000 -SHRA BR BKN011CB 10/08 Q0996 NOSIG
RMK TURB: MOD SFC/FL30
AUTOTAF.ME UUUN 141900Z 1420/1505 19010G16MPS 2500 -RA BR OVC004 TX10/1420Z TN06/1503Z
FM142100 19009G16MPS 5000 -RA BR OVC008
FM142200 21005G13MPS 5000 BKN008CB
TEMPO 1422/1423 -TSRA
BECMG 1422/1423 -SHRA BR
FM150000 27010G16MPS 9999 -SHRA OVC015CB
FM150100 28011G16MPS CAVOK
BECMG 1503/1504 BKN040
 
 


NOSIG
 
Хелипорт-Москва
SYNAR 27612 Москва (ВДНХ) 142100Z 18001MPS 9000 -SHRA OVC019CB 10/09 Q998 RMK QFE734/0979 CLD:8CB
(80/17KM)


NOWCAST.SU UUUZ 142300Z 28008MPS 9999 -SHRA BKN055CB 09/07 Q0995 NOSIG
RMK TURB: MOD FL170/FL180
AUTOTAF.ME UUUZ 141900Z 1420/1505 20009G16MPS 5000 OVC008CB TX10/1420Z TN06/1502Z
TEMPO 1420/1421 -TSRA
FM142100 21009G15MPS 9999 -SHRA OVC008CB
BECMG 1421/1422 BKN015CB
FM142300 28008MPS 9999 -SHRA BKN060CB
BECMG 1423/1500 BKN015CB
FM150100 30010G15MPS CAVOK
FM150200 29009G15MPS 9999 VCSH BKN040
BECMG 1503/1504 -RA BR
 
Ермолино
SYNAR 27611 Наро-Фоминск 142100Z 22003MPS 9999 RESHRA BKN020CB 09/09 Q998 RMK QFE731/0975 CLD:7CB
(20/18KM)


NOWCAST.SU UUWE 142300Z 27009G15MPS 9999 -SHRA BKN014CB 09/07 Q0998 NOSIG
RMK TURB: MOD SFC/FL30
AUTOTAF.ME UUWE 141900Z 1420/1505 23005G13MPS 5000 -SHRA BR BKN015CB TX11/1420Z TN05/1503Z
FM142100 24009G15MPS 9999 -SHRA BKN015CB
FM142200 26009G15MPS 5000 -SHRA BR OVC015CB
FM142300 27009G15MPS 9999 -SHRA BKN015CB
FM150000 28009G15MPS 5000 -SHRA BR BKN015CB
FM150100 28009G15MPS 9999 -SHRA BKN025CB
BECMG 1501/1502 VCSH
FM150300 27005G13MPS 9999 BKN015 BKN020TCU
BECMG 1503/1504 BKN025
 
Аэроград Можайский
SYNAR 27611 Наро-Фоминск 142100Z 22003MPS 9999 RESHRA BKN020CB 09/09 Q998 RMK QFE731/0975 CLD:7CB
(110/34KM)


NOWCAST.SU UUWH 142300Z 29009G15MPS 9999 -SHRA BKN021CB 08/06 Q0997 NOSIG
RMK TURB: MOD FL40/FL170
AUTOTAF.ME UUWH 141900Z 1420/1505 25004MPS 2500 -SHRA BKN040CB TX10/1420Z TN05/1503Z
BECMG 1420/1421 5000
FM142200 29009G15MPS 9999 -SHRA BKN025CB
FM150000 28009G15MPS 5000 -SHRA BR BKN025CB
FM150100 28009G15MPS 9999 BKN025
BECMG 1501/1502 NSC
BECMG 1502/1503 BKN015 BKN020TCU
FM150400 26009G14MPS 9999 BKN025TCU
 
Кудиново
SYNAR 27606 Малоярославец 142100Z 22003MPS 9999 RERA BKN010 10/09 Q998 RMK QFE731/0975 CLD:6SC
(90/15KM)


NOWCAST.SU UUWK 142300Z 28009G16MPS 9999 -SHRA BKN015CB 09/06 Q0998 NOSIG
RMK TURB: MOD SFC/FL170
AUTOTAF.ME UUWK 141900Z 1420/1505 24005G13MPS 8000 BKN015CB TX11/1420Z TN05/1503Z
TEMPO 1420/1422 -TSRA
BECMG 1420/1421 26010G15MPS
BECMG 1421/1422 -SHRA
FM150000 28009G15MPS CAVOK
FM150100 28009G15MPS 9999 VCSH BKN015CB
FM150200 27005G13MPS 9999 BKN015 BKN020TCU
BECMG 1504/1505 BKN025TCU
 
Лужки
SYNAR 27611 Наро-Фоминск 142100Z 22003MPS 9999 RESHRA BKN020CB 09/09 Q998 RMK QFE731/0975 CLD:7CB
(260/28KM)


NOWCAST.SU UUWL 142300Z 27005G13MPS 9999 -SHRA BKN020CB 09/07 Q0996 NOSIG
RMK TURB: MOD FL30/FL170
AUTOTAF.ME UUWL 141900Z 1420/1505 21005G13MPS 2500 -SHRA BR BKN004 BKN010CB TX10/1420Z TN06/1502Z
FM142100 22005G13MPS 5000 -SHRA BR OVC008CB
BECMG 1421/1422 BKN015CB
FM142300 27005G13MPS 9999 -SHRA BKN025CB
FM150000 29009G16MPS CAVOK
BECMG 1503/1504 BKN025
 
Народное Небо
SYNAR 27611 Наро-Фоминск 142100Z 22003MPS 9999 RESHRA BKN020CB 09/09 Q998 RMK QFE731/0975 CLD:7CB
(110/35KM)


NOWCAST.SU UUWN 142300Z 29009G15MPS 9999 -SHRA BKN021CB 08/06 Q0997 NOSIG
RMK TURB: MOD FL40/FL170
AUTOTAF.ME UUWN 141900Z 1420/1505 25004MPS 2500 -SHRA BKN040CB TX10/1420Z TN05/1503Z
BECMG 1420/1421 5000
FM142200 29009G15MPS 9999 -SHRA BKN025CB
FM150000 28009G15MPS 5000 -SHRA BR BKN025CB
FM150100 28009G15MPS 9999 BKN025
BECMG 1501/1502 NSC
BECMG 1502/1503 BKN015 BKN020TCU
FM150400 26009G14MPS 9999 BKN025TCU
 
ГБУ Областной аэропорт Протасово
SYNAR 27730 Рязань 142100Z 20003MPS //// //// 11/07 Q1001 RMK QFE737/0982 CLD:NO_OBSERVATIONS
(320/21KM)


NOWCAST.SU UUWP 142300Z 20010G17MPS 2700 -SHRA BR BKN005 OVC010CB 11/09 Q0998 TEMPO FM0100 -SHRA
AUTOTAF.ME UUWP 141900Z 1420/1505 18005G13MPS 9999 OVC040 TX11/1420Z TN09/1503Z
FM142100 18009G16MPS 5000 -RA BR OVC025
FM142200 19010G17MPS 9999 -RA OVC025
FM142300 20010G17MPS 2500 -SHRA BR BKN004 OVC010CB
BECMG 1500/1501 NSW
TEMPO 1501/1502 -TSRA
FM150200 25010G16MPS 2500 SHRA BR BKN004 BKN010CB
FM150300 27010G16MPS 9999 -SHRA BKN008 BKN010CB
BECMG 1504/1505 BKN015CB
 
Шишкин Лес
SYNAR 27611 Наро-Фоминск 142100Z 22003MPS 9999 RESHRA BKN020CB 09/09 Q998 RMK QFE731/0975 CLD:7CB
(260/31KM)


NOWCAST.SU UUWQ 142300Z 27005G13MPS 9999 -SHRA BKN019CB 09/07 Q0996 NOSIG
RMK TURB: MOD FL30/FL170
AUTOTAF.ME UUWQ 141900Z 1420/1505 21005G13MPS 2500 -SHRA BR BKN004 BKN010CB TX10/1420Z TN06/1502Z
FM142100 22005G13MPS 5000 -SHRA BR OVC008CB
BECMG 1421/1422 BKN015CB
FM142300 27005G13MPS 9999 -SHRA BKN015CB
FM150000 29009G16MPS CAVOK
BECMG 1502/1503 BKN025TCU
 
Аэросоюз-Ясенево
SYNAR 27612 Москва (ВДНХ) 142100Z 18001MPS 9000 -SHRA OVC019CB 10/09 Q998 RMK QFE734/0979 CLD:8CB
(20/27KM)


NOWCAST.SU UUWR 142300Z 27009G16MPS 9999 -SHRA OVC021CB 10/08 Q0996 NOSIG
RMK TURB: MOD SFC/FL30
AUTOTAF.ME UUWR 141900Z 1420/1505 21009G16MPS 5000 -SHRA BR BKN004 OVC010CB TX10/1420Z TN06/1503Z
FM142100 21009G16MPS 5000 OVC015CB
TEMPO 1421/1422 -TSRA
FM142200 24009G16MPS 9999 -SHRA OVC015CB
FM142300 27009G16MPS 9999 -SHRA OVC025CB
FM150100 28010G15MPS CAVOK
BECMG 1501/1502 BKN040
BECMG 1502/1503 BKN015 BKN020TCU
BECMG 1503/1504 BKN025TCU
 
Москва (Внуково)
METAR UUWW 142300Z 27008G14MPS 9999 BKN011 BKN030 10/07 Q0996 R24/290050 NOSIG


NOWCAST.SU UUWW 142300Z 27009G16MPS 9999 -SHRA OVC021CB 09/07 Q0996 NOSIG
RMK TURB: MOD SFC/FL30
AUTOTAF.ME UUWW 141900Z 1420/1505 21009G16MPS 5000 -SHRA BR OVC015CB TX10/1420Z TN06/1502Z
BECMG 1420/1421 NSW
TEMPO 1421/1422 -TSRA
FM142200 24009G16MPS 9999 -SHRA OVC015CB
FM142300 27009G16MPS 9999 -SHRA OVC025CB
FM150100 28010G15MPS CAVOK
BECMG 1501/1502 BKN040
BECMG 1502/1503 BKN015 BKN020TCU
FM150400 27009G14MPS 9999 BKN025TCU
TAF UUWW 141957Z 1421/1521 21005G10MPS 9999 FEW006 BKN016 TX09/1421Z TN05/1503Z
TEMPO 1421/1424 24009G15MPS 2100 -TSRA BKN004 BKN020CB
BECMG 1500/1501 27007G13MPS
TEMPO 1501/1507 BKN003
TEMPO 1507/1518 25012G19MPS 4900 -SHRA BKN020CB=
Аносино-2
SYNAR 27511 Ново-Йерусалим 142100Z 21003MPS 9999 -RA OVC010 10/10 Q997 RMK QFE733/0977 CLD:8ST
(310/13KM)


NOWCAST.SU UUWY 142300Z 28005G13MPS 9999 -SHRA BKN015CB 08/06 Q0996 NOSIG
RMK TURB: MOD FL170/FL180
AUTOTAF.ME UUWY 141900Z 1420/1505 20005G13MPS 5000 BKN004 OVC010CB TX10/1420Z TN06/1501Z
TEMPO 1420/1422 -TSRA
BECMG 1420/1421 OVC015CB
FM142200 25004MPS 9000 -SHRA BR BKN015CB
FM142300 28005G13MPS 9999 -SHRA BKN015CB
BECMG 1500/1501 VCSH
BECMG 1502/1503 -RA
FM150400 27005G13MPS 9999 BKN025
 
Знаменское
SYNAR 27511 Ново-Йерусалим 142100Z 21003MPS 9999 -RA OVC010 10/10 Q997 RMK QFE733/0977 CLD:8ST
(310/27KM)


NOWCAST.SU UUWZ 142300Z 27005G13MPS 9999 -SHRA BKN018CB 09/07 Q0996 NOSIG
RMK TURB: MOD FL30/FL170
AUTOTAF.ME UUWZ 141900Z 1420/1505 21005G13MPS 5000 -SHRA BR BKN008 BKN010CB TX10/1420Z TN06/1502Z
FM142200 25005G13MPS 9999 -SHRA BKN015CB
BECMG 1422/1423 27005G13MPS
FM150000 29009G16MPS CAVOK
BECMG 1501/1502 BKN040
 
ПЭК Ущелье
SYNAR 23527 Саранпауль 142100Z 27002MPS CAVOK M15/M17 Q1011 RMK QFE755/1007 CLD:SKC
(90/87KM)


NOWCAST.SU UUXE 142300Z VRB02MPS 8000 BR OVC040 M09/M11 Q1009 NOSIG
AUTOTAF.ME UUXE 141900Z 1420/1505 VRB02MPS CAVOK TXM04/1505Z TNM11/1420Z
BECMG 1421/1422 OVC040
BECMG 1422/1423 BR
FM150000 VRB02MPS 0500 FZFG VV040
BECMG 1502/1503 +SN FZFG
 
Черпаю (ДНС)
SYNAR 23324 Петрунь 142100Z 03001MPS CAVOK M22/M24 Q1010 RMK QFE752/1003 CLD:2AC
(170/114KM)


NOWCAST.SU UUXZ 142300Z 15004MPS 9999 BKN016 M16/M18 Q1010 NOSIG
AUTOTAF.ME UUXZ 141900Z 1420/1505 15003MPS 1200 BR OVC002 TXM09/1505Z TNM19/1420Z
FM142100 15004MPS CAVOK
BECMG 1422/1423 BKN015
BECMG 1423/1500 OVC025
BECMG 1501/1502 BR
FM150300 15005G10MPS 0500 FZFG NSC
 
Ухта
SYNAR 23606 Ухта 142100Z 19003MPS CAVOK M01/M11 Q1007 RMK QFE742/0990 CLD:2AC


NOWCAST.SU UUYH 142300Z 16003MPS 9999 BKN040 M04/M06 Q1007 NOSIG
RMK TURB: MOD SFC/FL30
AUTOTAF.ME UUYH 141900Z 1420/1505 16003MPS 9999 OVC025 TX01/1505Z TNM04/1423Z
BECMG 1503/1504 NSC
BECMG 1504/1505 BKN040
 
Инта
SYNAR 23324 Петрунь 142100Z 03001MPS CAVOK M22/M24 Q1010 RMK QFE752/1003 CLD:2AC
(40/51KM)


NOWCAST.SU UUYI 142300Z VRB02MPS 9999 BKN014 M12/M14 Q1010 NOSIG
AUTOTAF.ME UUYI 141900Z 1420/1505 VRB02MPS 1200 BR BKN004 TXM03/1505Z TNM14/1420Z
BECMG 1421/1422 BKN002
FM142300 VRB02MPS 9999 BKN015
BECMG 1500/1501 OVC025
BECMG 1502/1503 HZ
FM150400 16004MPS 5000 HZ OVC025
FM150500 17004MPS 2500 HZ OVC025
 
Вуктыл
SYNAR 23711 Троицко-Печорское 142100Z 17002MPS CAVOK M04/M12 Q1009 RMK QFE744/0992 CLD:6ACCS
(200/136KM)


NOWCAST.SU UUYK 142300Z 16004MPS 9999 BKN013 M05/M09 Q1010 NOSIG
AUTOTAF.ME UUYK 141900Z 1420/1505 16003MPS 9999 BKN015 TXM01/1505Z TNM06/1420Z
BECMG 1500/1501 BKN025
BECMG 1504/1505 OVC015
 
Емва
SYNAR 23708 Лунь 142100Z 16003MPS //// //// M01/M12 Q1007 RMK QFE744/0992 CLD:NO_OBSERVATIONS
(120/90KM)


NOWCAST.SU UUYM 142300Z 17004MPS 9999 BKN045 M01/M04 Q1005 NOSIG
RMK TURB: MOD SFC/FL30
AUTOTAF.ME UUYM 141900Z 1420/1505 17003MPS CAVOK TX03/1505Z TNM01/1420Z
BECMG 1420/1421 BKN040
BECMG 1423/1500 NSC
 
Печора
SYNAR 23418 Печора 142100Z 14002MPS CAVOK M04/M12 Q1009 RMK QFE751/1001 CLD:8AC


NOWCAST.SU UUYP 142300Z 16004MPS 0500 BLSN SKC M05/M07 Q1009 NOSIG
RMK TURB: MOD SFC/FL30
AUTOTAF.ME UUYP 141900Z 1420/1505 17004MPS 8000 BR BKN040 TXM02/1505Z TNM06/1420Z
FM142100 17004MPS 1200 BLSN OVC040
BECMG 1421/1422 0500
BECMG 1422/1423 NSC
BECMG 1423/1500 BKN004
FM150200 16005G13MPS 0500 SN BLSN OVC004
FM150300 16005G13MPS 0500 SN BLSN OVC025
FM150400 17005G13MPS 2500 -SN BLSN OVC025
FM150500 17005G13MPS 5000 DRSN OVC025
 
Троицко-Печорск
SYNAR 23711 Троицко-Печорское 142100Z 17002MPS CAVOK M04/M12 Q1009 RMK QFE744/0992 CLD:6ACCS


NOWCAST.SU UUYR 142300Z VRB02MPS 9999 BKN041 M08/M11 Q1010 NOSIG
AUTOTAF.ME UUYR 141900Z 1420/1505 VRB02MPS 9999 BKN025 TXM01/1505Z TNM08/1420Z
 
Усинск
SYNAR 23412 Усть-Уса 142100Z 14003MPS CAVOK M06/M14 Q1008 RMK QFE748/0998 CLD:8AC
(260/21KM)


NOWCAST.SU UUYS 142300Z 17006G11MPS 0700 FZFG VV002 M07/M08 Q1008 NOSIG
AUTOTAF.ME UUYS 141900Z 1420/1505 16005MPS 9999 OVC015 TXM03/1505Z TNM09/1420Z
FM142100 17005G12MPS 5000 BLSN OVC004
BECMG 1421/1422 1200
FM142300 17006G11MPS 0500 FZFG VV004
BECMG 1423/1500 BLSN
BECMG 1500/1501 OVC002
FM150200 17007G13MPS 0500 SN BLSN OVC002
FM150300 17007G13MPS 0500 SN BLSN OVC004
FM150500 18008G13MPS 2500 SN BLSN OVC004
 
Усть-Кулом
SYNAR 23803 Усть-Кулом 142100Z 12003MPS CAVOK M01/M12 Q1009 RMK QFE743/0991 CLD:8ACCI


NOWCAST.SU UUYT 142300Z 18003MPS 9999 BKN041 M03/M07 Q1009 NOSIG
RMK TURB: MOD SFC/FL30
AUTOTAF.ME UUYT 141900Z 1420/1505 18003MPS CAVOK TX03/1505Z TNM03/1420Z
BECMG 1420/1421 BKN040
 
Ижма
SYNAR 23503 Ижма 142100Z 17003MPS //// //// M00/M13 Q1006 RMK QFE750/1001 CLD:NO_OBSERVATIONS


NOWCAST.SU UUYV 142300Z 17004MPS 0500 SN BLSN OVC001 M03/M04 Q1005 NOSIG
RMK TURB: MOD SFC/FL30
AUTOTAF.ME UUYV 141900Z 1420/1505 17004MPS 0500 SN BLSN OVC015 TX01/1505Z TNM03/1420Z
BECMG 1420/1421 OVC004
BECMG 1421/1422 BKN002
BECMG 1423/1500 OVC004
FM150100 17004MPS 1200 SN BLSN OVC025
FM150300 17004MPS 2500 BLSN OVC040
FM150400 17004MPS 5000 BR NSC
FM150500 17004MPS CAVOK
 
Воркута
SYNAR 23226 Воркута 142100Z 08001MPS CAVOK M21/M25 Q1010 RMK QFE742/0989 CLD:SKC


NOWCAST.SU UUYW 142300Z VRB02MPS 9999 BKN099 M24/M26 Q1011 NOSIG
AUTOTAF.ME UUYW 141900Z 1420/1505 VRB02MPS 0200 FG IC NSC TXM13/1505Z TNM26/1421Z
FM142200 VRB02MPS 5000 BR NSC
FM142300 VRB02MPS CAVOK
BECMG 1500/1501 OVC015
BECMG 1501/1502 OVC040
BECMG 1502/1503 NSC
 
Усть-Цильма
SYNAR 23405 Усть-Цильма 142100Z 13003MPS CAVOK 00/M08 Q1004 RMK QFE745/0994 CLD:8AC


NOWCAST.SU UUYX 142300Z 17004MPS 0500 SN BLSN OVC004 M01/M02 Q1003 NOSIG
AUTOTAF.ME UUYX 141900Z 1420/1505 16004MPS 0500 SN BLSN BKN004 TX02/1505Z TNM01/1420Z
BECMG 1421/1422 OVC008
BECMG 1422/1423 OVC004
BECMG 1502/1503 1200
FM150400 17004MPS 2500 -SN BR OVC002
FM150500 17004MPS 2500 -SN BR BKN008
 
Сыктывкар
METAR UUYY 142300Z 19002MPS CAVOK M01/M07 Q1005 R18/CLRD61 NOSIG RMK QFE746/0994


NOWCAST.SU UUYY 142300Z 17004MPS 9999 BKN026 M01/M04 Q1007 NOSIG
RMK TURB: MOD SFC/FL30
AUTOTAF.ME UUYY 141900Z 1420/1505 17003MPS 9999 BKN025 TX04/1505Z TNM01/1420Z
BECMG 1502/1503 NSC
BECMG 1503/1504 BKN040
TAF UUYY 142000Z 1421/1521 17003G10MPS 6000 BKN017
FM150600 15006G16MPS 9999 BKN017 SCT020CB
TEMPO 1515/1521 6000 -SHRA BKN016CB=
Большое Болдино
SYNAR 27665 Лукоянов 142100Z 14003G06MPS CAVOK 09/04 Q1005 RMK QFE734/0979 CLD:8
(270/52KM)


NOWCAST.SU UWGB 142300Z 17008G16MPS 9999 OVC045 08/05 Q1005 NOSIG
RMK TURB: MOD SFC/FL50
AUTOTAF.ME UWGB 141900Z 1420/1505 17004MPS 9999 BKN040 TX09/1504Z TN08/1420Z
FM142200 17009G16MPS 9999 BKN015
BECMG 1422/1423 OVC040
BECMG 1423/1500 BKN008
BECMG 1500/1501 -DZ
FM150200 17009G17MPS 9999 VCSH BKN008 BKN010CB
FM150300 17011G19MPS 9999 -SHRA BKN008 OVC010CB
FM150400 17011G19MPS 9999 -SHRA BKN015CB
FM150500 17012G19MPS 5000 -SHRA BR BKN004 BKN010CB
 
Нижний Новгород (Стригино)
METAR UWGG 142300Z 16005MPS 9999 BKN041 10/03 Q1000 R18L/090070 NOSIG


NOWCAST.SU UWGG 142300Z 16009G17MPS 9999 VCSH BKN045CB 08/05 Q1001 NOSIG
AUTOTAF.ME UWGG 141900Z 1420/1505 17005G13MPS 9999 BKN040 TX09/1420Z TN08/1423Z
BECMG 1421/1422 NSC
FM142300 16009G17MPS 9999 VCSH BKN040CB
FM150100 17010G18MPS 9999 -SHRA SCT040CB
FM150200 17010G18MPS 7000 -RA BR BKN040
FM150300 17011G18MPS 2500 -RA BR OVC015
FM150400 18011G18MPS 2500 -SHRA BR BKN004 OVC010CB
BECMG 1504/1505 NSW
TAF UWGG 141957Z 1421/1521 16003G09MPS 8000 BKN020 TX11/1512Z TN07/1501Z
TEMPO 1421/1509 19008G14MPS 3000 -SHRA BKN011CB=
Бабино
SYNAR 27459 Нижний Новгород 142100Z 15002MPS CAVOK 09/00 Q1003 RMK QFE738/0984 CLD:6AC
(80/26KM)


NOWCAST.SU UWGI 142300Z 17009G16MPS 9999 SCT055 09/05 Q1001 NOSIG
RMK TURB: MOD SFC/FL30
AUTOTAF.ME UWGI 141900Z 1420/1505 17009G16MPS CAVOK TX09/1420Z TN09/1420Z
BECMG 1420/1421 BKN040
BECMG 1422/1423 NSC
FM150100 17010G17MPS 9999 -RA BKN040
FM150200 17011G18MPS 2500 -SHRA BR BKN004 BKN010CB
BECMG 1504/1505 -RA BR
 
Охлопково
SYNAR 27459 Нижний Новгород 142100Z 15002MPS CAVOK 09/00 Q1003 RMK QFE738/0984 CLD:6AC
(80/57KM)


NOWCAST.SU UWGO 142300Z 16008G16MPS 9999 SCT055 08/06 Q1000 NOSIG
AUTOTAF.ME UWGO 141900Z 1420/1505 17005G13MPS CAVOK TX09/1420Z TN08/1423Z
BECMG 1423/1500 BKN040
FM150100 17010G17MPS 9000 -RA BR BKN015
FM150200 17012G18MPS 2500 -RA BR BKN008
FM150300 17012G19MPS 2500 -SHRA OVC008CB
FM150500 22005G13MPS 2500 -SHRA BR BKN015CB
 
Вознесенское
SYNAR 27752 Темников 142100Z 16003G06MPS 9999 RERA OVC020 11/06 Q1005 RMK QFE741/0988 CLD:8SC
(140/40KM)


NOWCAST.SU UWGV 142300Z 17005G13MPS 9999 BKN018 10/07 Q1001 NOSIG
RMK TURB: MOD SFC/FL30
AUTOTAF.ME UWGV 141900Z 1420/1505 17004MPS 9999 BKN025 TX10/1421Z TN09/1420Z
BECMG 1420/1421 BKN015
BECMG 1500/1501 -RA
FM150200 17009G17MPS 2500 -SHRA BR OVC008CB
FM150500 23004MPS 2500 -SHRA BR BKN004 BKN010CB
 
Бугульма
SYNAR 28711 Бугульма 142100Z 21003MPS CAVOK 00/M04 Q1013 RMK QFE732/0977 CLD:3CI


NOWCAST.SU UWKB 142300Z 17003MPS 9999 FEW210 02/M01 Q1014 NOSIG
AUTOTAF.ME UWKB 141900Z 1420/1505 18003MPS 9999 BKN040 TX06/1505Z TN02/1423Z
BECMG 1420/1421 NSC
BECMG 1502/1503 SCT025
 
Казань
METAR UWKD 142300Z 13006MPS CAVOK 04/M01 Q1009 R11/CLRD60 NOSIG RMK QFE746/0995


NOWCAST.SU UWKD 142300Z 15004MPS 9999 BKN019 04/M01 Q1010 NOSIG
RMK TURB: MOD SFC/FL20
AUTOTAF.ME UWKD 141900Z 1420/1505 15003MPS 9999 SCT040 TX08/1505Z TN03/1420Z
BECMG 1422/1423 BKN015
BECMG 1501/1502 16009G17MPS
BECMG 1502/1503 BKN008
FM150400 16010G18MPS 9999 BKN015
TAF UWKD 142000Z 1421/1521 15005MPS 9999 SCT020 TX11/1512Z TN03/1503Z
BECMG 1500/1502 17006G12MPS
TEMPO 1503/1518 3100 -SHRA BKN016CB=
Нижнекамск (Бегишево)
METAR UWKE 142300Z 19004MPS CAVOK 03/M04 Q1012 R21/090070 NOSIG RMK QFE742/0990


NOWCAST.SU UWKE 142300Z 16003MPS 9999 SCT040 01/M02 Q1013 NOSIG
AUTOTAF.ME UWKE 141900Z 1420/1505 VRB02MPS 9999 SCT025 TX07/1505Z TN01/1422Z
FM150400 17008G15MPS CAVOK
TAF UWKE 141955Z 1421/1521 17003G10MPS 9999 SCT040
TEMPO 1421/1506 21005G12MPS SCT016
TEMPO 1506/1521 19007G15MPS 6000 -SHRA BKN020CB=
Балтаси
SYNAR 27593 Арск 142100Z 14003MPS CAVOK 04/M04 Q1011 RMK QFE744/0992 CLD:SKC
(210/38KM)


NOWCAST.SU UWKF 142300Z 16004MPS 9999 FEW290 02/M03 Q1010 NOSIG
AUTOTAF.ME UWKF 141900Z 1420/1505 17004MPS CAVOK TX07/1505Z TN02/1421Z
BECMG 1503/1504 16009G17MPS
BECMG 1504/1505 OVC040
 
Казань (Борисоглебское)
SYNAR 27595 Казань 142100Z 11001MPS CAVOK 04/M03 Q1010 RMK QFE747/0996 CLD:SKC
(160/16KM)


NOWCAST.SU UWKG 142300Z 15005G12MPS 9999 BKN044 04/M01 Q1009 NOSIG
RMK TURB: MOD FL40/FL50
AUTOTAF.ME UWKG 141900Z 1420/1505 15004MPS CAVOK TX07/1504Z TN04/1421Z
BECMG 1422/1423 BKN040
BECMG 1501/1502 NSC
FM150300 16009G17MPS 9999 BKN040
BECMG 1504/1505 BKN015
 
Йошкар-Ола
SYNAR 27485 Йошкар-Ола 142100Z 15002MPS CAVOK 04/M02 Q1008 RMK QFE745/0993 CLD:SKC
(220/11KM)


NOWCAST.SU UWKJ 142300Z 15004MPS 9999 BKN250 04/M01 Q1008 NOSIG
AUTOTAF.ME UWKJ 141900Z 1420/1505 15004MPS CAVOK TX07/1505Z TN04/1420Z
BECMG 1423/1500 BKN040
BECMG 1501/1502 BKN015
FM150300 15009G17MPS 9999 BKN008
BECMG 1504/1505 -RA
 
Елабуга (Северный)
SYNAR 28506 Елабуга 142100Z 33001MPS CAVOK M00/M05 Q1013 RMK QFE751/1001 CLD:SKC


NOWCAST.SU UWKL 142300Z 16003MPS 9999 SCT026 01/M03 Q1012 NOSIG
RMK TURB: MOD FL40/FL50
AUTOTAF.ME UWKL 141900Z 1420/1505 16003MPS CAVOK TX06/1505Z TN01/1421Z
BECMG 1422/1423 SCT025
BECMG 1500/1501 NSC
BECMG 1501/1502 SCT040
 
Мензелинск
SYNAR 28517 Мензелинск 142100Z 18001MPS CAVOK 02/M06 Q1013 RMK QFE749/0999 CLD:SKC


NOWCAST.SU UWKP 142300Z 16003MPS 9999 FEW210 02/M03 Q1013 NOSIG
RMK TURB: MOD FL40/FL50
AUTOTAF.ME UWKP 141900Z 1420/1505 VRB02MPS 9999 SCT040 TX07/1505Z TN02/1421Z
BECMG 1421/1422 NSC
BECMG 1502/1503 BKN040
BECMG 1504/1505 17008MPS
 
Куралово
SYNAR 27595 Казань 142100Z 11001MPS CAVOK 04/M03 Q1010 RMK QFE747/0996 CLD:SKC
(70/27KM)


NOWCAST.SU UWKQ 142300Z 16004MPS 9999 BKN039 04/00 Q1009 NOSIG
RMK TURB: MOD FL70/FL80
AUTOTAF.ME UWKQ 141900Z 1420/1505 16004MPS 9999 BKN040 TX07/1504Z TN04/1420Z
BECMG 1423/1500 BKN015
BECMG 1500/1501 BKN025
BECMG 1502/1503 17010G18MPS
FM150500 17012G19MPS CAVOK
 
Сарманово
SYNAR 28612 Муслюмово 142100Z 17001MPS CAVOK M00/M04 Q1014 RMK QFE753/1004 CLD:SKC
(80/40KM)


NOWCAST.SU UWKR 142300Z 17003MPS 9999 FEW210 02/M02 Q1013 NOSIG
RMK TURB: MOD FL40/FL50
AUTOTAF.ME UWKR 141900Z 1420/1505 VRB02MPS CAVOK TX07/1505Z TN02/1420Z
BECMG 1420/1421 SCT040
BECMG 1422/1423 NSC
BECMG 1423/1500 SCT040
FM150400 17007G13MPS 9999 BKN040
 
Чебоксары
METAR UWKS 142300Z 15003MPS 9999 FEW033 03/M01 Q1006 R24/090060 NOSIG RMK QFE740


NOWCAST.SU UWKS 142300Z 16005G13MPS 9999 BKN040 05/00 Q1007 NOSIG
RMK TURB: MOD FL50/FL60
AUTOTAF.ME UWKS 141900Z 1420/1505 16004MPS CAVOK TX08/1505Z TN05/1420Z
BECMG 1420/1421 BKN040
BECMG 1421/1422 NSC
BECMG 1422/1423 BKN040
FM150200 16009G17MPS 9999 BKN008
FM150500 16012G20MPS 9999 -DZ OVC008
TAF UWKS 141933Z 1421/1506 17006G12MPS 9999 SCT031 TX08/1506Z TN03/1503Z=
Казань (Юдино)
SYNAR 27595 Казань 142100Z 11001MPS CAVOK 04/M03 Q1010 RMK QFE747/0996 CLD:SKC
(140/18KM)


NOWCAST.SU UWKW 142300Z 15005G12MPS 9999 BKN042 04/M01 Q1009 NOSIG
RMK TURB: MOD FL40/FL50
AUTOTAF.ME UWKW 141900Z 1420/1505 15004MPS CAVOK TX07/1505Z TN04/1420Z
BECMG 1422/1423 BKN040
BECMG 1501/1502 NSC
FM150300 16009G17MPS 9999 BKN040
BECMG 1504/1505 BKN015
 
Ульяновск (Баратаевка)
METAR UWLL 142300Z 15002MPS 080V180 9999 BKN047 07/03 Q1008 R20/090065 NOSIG RMK QFE746/0995


NOWCAST.SU UWLL 142300Z 18008G14MPS 9999 BKN026 08/04 Q1009 NOSIG
AUTOTAF.ME UWLL 141900Z 1420/1505 16005G11MPS CAVOK TX10/1505Z TN07/1420Z
BECMG 1420/1421 BKN015
BECMG 1422/1423 BKN025
BECMG 1501/1502 18010G18MPS
FM150400 17011G19MPS 9999 -RA OVC040
FM150500 17012G20MPS 9999 -RA BKN015
TAF UWLL 141953Z 1421/1521 14006G13MPS 9999 BKN020 TX14/1512Z TN05/1503Z
TEMPO 1421/1515 18011G18MPS 3000 -SHRA BKN016CB
BECMG 1515/1517 22003G08MPS=
Новоселки
SYNAR 27799 Димитровград 142100Z 11002MPS 9999 BKN029 04/M00 Q1012 RMK QFE752/1003 CLD:5SC
(350/36KM)


NOWCAST.SU UWLN 142300Z 16005G13MPS 9999 BKN087 07/01 Q1011 NOSIG
RMK TURB: MOD SFC/FL70
AUTOTAF.ME UWLN 141900Z 1420/1505 16004MPS 9999 BKN040 TX08/1504Z TN07/1420Z
BECMG 1422/1423 NSC
BECMG 1423/1500 BKN025
BECMG 1500/1501 BKN015
FM150200 16009G16MPS 9999 BKN015
FM150300 16009G15MPS 2500 -RA BR BKN025
FM150500 17011G18MPS 9999 -RA BKN015
 
Солдатская Ташла
SYNAR 27785 Ульяновск 142100Z 14001MPS //// //// 05/M01 Q1010 RMK QFE746/0994 CLD:NO_OBSERVATIONS
(350/29KM)


NOWCAST.SU UWLS 142300Z 18009G15MPS 9999 OVC030 08/04 Q1010 NOSIG
RMK TURB: MOD SFC/FL30
AUTOTAF.ME UWLS 141900Z 1420/1505 17005G13MPS 9999 BKN040 TX09/1505Z TN07/1502Z
BECMG 1502/1503 18010G17MPS
BECMG 1504/1505 BKN015 BKN020TCU
 
Ульяновск (Восточный)
METAR UWLW 142300Z 15006MPS CAVOK 06/02 Q1009 R02/CLRD60 NOSIG RMK QFE750/1000


NOWCAST.SU UWLW 142300Z 16007G13MPS 9999 BKN029 07/02 Q1010 NOSIG
RMK TURB: MOD SFC/FL20
AUTOTAF.ME UWLW 141900Z 1420/1505 15005G10MPS CAVOK TX08/1504Z TN06/1420Z
BECMG 1422/1423 BKN025
BECMG 1500/1501 BKN015
BECMG 1501/1502 17010G18MPS
FM150400 17010G17MPS 9999 BKN025
TAF UWLW 142000Z 1421/1521 16006G12MPS 9999 BKN020 TX12/1512Z TN03/1502Z
TEMPO 1503/1515 19008G16MPS 6000 -SHRA BKN016CB
TEMPO 1515/1521 23003G09MPS=
Зилаир
SYNAR 35026 Зилаир 142100Z 00000MPS 9999 BKN020 M01/M01 Q1013 RMK QFE713/0951 CLD:5SC


NOWCAST.SU UWOI 142300Z VRB02MPS 9999 BKN046 00/M01 Q1016 NOSIG
AUTOTAF.ME UWOI 141900Z 1420/1505 VRB02MPS 9999 BKN040 TX04/1505Z TN00/1423Z
BECMG 1500/1501 NSC
BECMG 1502/1503 BKN040
 
Оренбург
METAR UWOO 142300Z 29002MPS 9999 SCT049 03/00 Q1015 R26/CLRD60 NOSIG RMK QFE751/1001


NOWCAST.SU UWOO 142300Z VRB02MPS 9999 BKN044 06/03 Q1016 NOSIG
RMK TURB: MOD FL50/FL60
AUTOTAF.ME UWOO 141900Z 1420/1505 VRB02MPS 9999 BKN040 TX08/1505Z TN05/1500Z
BECMG 1420/1421 NSC
BECMG 1422/1423 BKN040
BECMG 1500/1501 NSC
FM150200 VRB02MPS 9999 SCT040
FM150400 15003MPS CAVOK
FM150500 17004MPS 9999 BKN040
TAF UWOO 141945Z 1421/1521 30003G08MPS 9999 BKN016 TX15/1509Z TN02/1503Z
TEMPO 1421/1503 VRB01MPS 0500 FG VV002
BECMG 1503/1504 16005G12MPS
TEMPO 1504/1521 18008G17MPS -SHRA BKN016CB=
Первомайский
SYNAR 35106 Январцево 142100Z 19002MPS //// NSC 07/03 Q1016 RMK QFE757/1010 CLD:2AC
(210/56KM)


NOWCAST.SU UWOP 142300Z 14003MPS 9999 BKN040 06/01 Q1014 NOSIG
AUTOTAF.ME UWOP 141900Z 1420/1505 VRB02MPS CAVOK TX09/1505Z TN06/1420Z
BECMG 1422/1423 BKN040
BECMG 1502/1503 BKN015
BECMG 1504/1505 15008MPS
 
Орск
METAR UWOR 142300Z 29005MPS CAVOK 02/01 Q1014 R25/CLRD60 NOSIG RMK QFE737/0983


NOWCAST.SU UWOR 142300Z VRB02MPS 9999 BKN068 05/01 Q1017 NOSIG
RMK TURB: MOD FL40/FL50
AUTOTAF.ME UWOR 141900Z 1420/1505 VRB02MPS CAVOK TX08/1505Z TN04/1500Z
BECMG 1420/1421 SCT040
BECMG 1422/1423 NSC
BECMG 1423/1500 SCT040
TAF UWOR 141944Z 1421/1506 26005G10MPS 9999 BKN016 TX05/1506Z TN01/1501Z
TEMPO 1421/1506 VRB01MPS 0300 FG VV002=
Бузулук
SYNAR 28908 Авангард Зерносовхоз 142100Z 17003MPS 9999 BKN018 06/01 Q1015 RMK QFE753/1004 CLD:7SC
(250/67KM)


NOWCAST.SU UWOX 142300Z VRB02MPS 9999 FEW190 03/00 Q1014 NOSIG
RMK TURB: MOD FL40/FL50
AUTOTAF.ME UWOX 141900Z 1420/1505 VRB02MPS CAVOK TX08/1505Z TN03/1421Z
BECMG 1501/1502 BKN040
BECMG 1504/1505 NSC
 
Кушкуль (Сакмара)
SYNAR 35121 Оренбург 142100Z 23001MPS CAVOK 05/00 Q1016 RMK QFE751/1002 CLD:7AC
(190/26KM)


NOWCAST.SU UWOY 142300Z VRB02MPS 9999 BKN044 05/03 Q1016 NOSIG
RMK TURB: MOD FL40/FL50
AUTOTAF.ME UWOY 141900Z 1420/1505 VRB02MPS 9999 BKN040 TX08/1505Z TN05/1423Z
BECMG 1420/1421 NSC
BECMG 1422/1423 BKN040
BECMG 1504/1505 NSC
 
Пенза (Терновка)
SYNAR 27962 Пенза 142100Z 16001MPS 9999 FEW020 09/05 Q1008 RMK QFE740/0987 CLD:8SCACCS


NOWCAST.SU UWPP 142300Z 18008G16MPS 9999 BKN010 09/07 Q1007 NOSIG
RMK TURB: MOD SFC/FL30
AUTOTAF.ME UWPP 141900Z 1420/1505 17005G12MPS 9999 BKN015 TX11/1505Z TN09/1420Z
BECMG 1421/1422 BKN008
BECMG 1423/1500 -DZ
BECMG 1501/1502 17010G18MPS
FM150300 17010G18MPS 9999 BKN015
FM150400 18010G18MPS 9999 -RA BKN015
FM150500 19010G18MPS 9000 -RA BR BKN015
 
Саранск
METAR UWPS 142300Z 18007MPS 9999 SCT033 08/04 Q1005 R20/CLRD60 NOSIG RMK QFE736


NOWCAST.SU UWPS 142300Z 17009G16MPS 9999 VCSH BKN038CB 09/06 Q1006 NOSIG
RMK TURB: MOD SFC/FL30
AUTOTAF.ME UWPS 141900Z 1420/1505 17005G13MPS 9999 BKN015 TX10/1504Z TN09/1420Z
BECMG 1420/1421 BKN025
FM142300 17009G16MPS 9999 VCSH BKN040CB
BECMG 1423/1500 18010G18MPS
BECMG 1500/1501 -SHRA
FM150200 17010G18MPS 9999 -SHRA BKN008 BKN010CB
FM150300 18011G19MPS 9999 -RA BKN015
FM150500 19012G19MPS 9000 -RA BR BKN015
TAF UWPS 141954Z 1421/1506 18008G14MPS 8000 -SHRA BKN040CB TX09/1506Z TN07/1503Z=
Балаково (Малая Быковка)
SYNAR 34186 Ершов 142100Z 18004MPS 6000 -RA OVC021 09/04 Q1012 RMK QFE749/0999 CLD:8SC
(140/66KM)


NOWCAST.SU UWSB 142300Z 18003MPS 9999 BKN016 10/05 Q1012 NOSIG
AUTOTAF.ME UWSB 141900Z 1420/1505 17003MPS 9999 BKN015 TX12/1505Z TN09/1501Z
BECMG 1423/1500 -RA
BECMG 1500/1501 HZ
FM150200 17005G13MPS 9999 -RA BKN025
BECMG 1502/1503 HZ
FM150400 16009G15MPS 9999 BKN025
 
Саратов (Гагарин)
METAR UWSG 142300Z 19002MPS 110V240 9999 BKN056CB 10/09 Q1009 R08/290158 NOSIG RMK QFE754/1005


NOWCAST.SU UWSG 142300Z 18003MPS 8000 BR BKN009 09/06 Q1011 NOSIG
AUTOTAF.ME UWSG 141900Z 1420/1505 18003MPS 9999 -DZ BKN008 TX11/1505Z TN09/1420Z
FM142100 18003MPS 8000 -DZ BR NSC
FM142300 18003MPS 8000 BR BKN008
BECMG 1500/1501 BR
BECMG 1501/1502 2500
BECMG 1503/1504 8000
FM150500 18009MPS 9999 BKN040
TAF UWSG 141952Z 1421/1506 18003G08MPS 9999 BKN030 TX11/1506Z TN08/1503Z
TEMPO 1421/1424 -SHRA FEW007 BKN040CB
TEMPO 1500/1503 2100 BR FEW003
TEMPO 1503/1506 18008MPS=
Красный Кут
SYNAR 34273 Красный Кут 142100Z 16003MPS 9999 OVC033CB 11/06 Q1012 RMK QFE754/1006 CLD:8CB


NOWCAST.SU UWSK 142300Z 15003MPS 9000 HZ BKN015 09/06 Q1012 NOSIG
AUTOTAF.ME UWSK 141900Z 1420/1505 15003MPS CAVOK TX12/1505Z TN09/1422Z
BECMG 1420/1421 BKN015
BECMG 1422/1423 HZ
FM150000 15003MPS 9999 BKN040
BECMG 1502/1503 NSC
FM150500 17008G14MPS CAVOK
 
Пугачев
SYNAR 34098 Пугачев 142100Z 19002MPS 9999 SCT020 09/05 Q1013 RMK QFE756/1008 CLD:4SC


NOWCAST.SU UWSP 142300Z 17005G11MPS 9999 BKN023 09/04 Q1013 NOSIG
RMK TURB: MOD SFC/FL20
AUTOTAF.ME UWSP 141900Z 1420/1505 16004MPS CAVOK TX11/1505Z TN08/1502Z
BECMG 1421/1422 BKN025
BECMG 1423/1500 -RA
BECMG 1500/1501 BKN015
FM150200 16009G15MPS 9999 -RA BKN015
FM150400 16010G15MPS 9999 BKN025
 
Саратов (Центральный)
SYNAR 34178 Саратов (ЮВ) 142100Z 18004MPS 9999 FEW020CB 12/06 Q1010 RMK QFE746/0994 CLD:6CBAC


NOWCAST.SU UWSS 142300Z 18004MPS 9000 BR BKN012 09/06 Q1011 NOSIG
AUTOTAF.ME UWSS 141900Z 1420/1505 18004MPS 9999 BKN040 TX11/1505Z TN09/1422Z
BECMG 1420/1421 NSC
FM142300 18004MPS 9000 BR BKN015
FM150000 17003MPS 9999 BKN008
BECMG 1500/1501 BR
FM150200 17004MPS 2500 BR BKN025
BECMG 1503/1504 8000
FM150500 18009MPS 9999 BKN040
 
Балашов (Репное)
SYNAR 34152 Балашов 142100Z 17001MPS CAVOK 10/06 Q1009 RMK QFE742/0989 CLD:6AC


NOWCAST.SU UWSW 142300Z 19004MPS 9999 BKN055 12/07 Q1008 NOSIG
RMK TURB: MOD FL70/FL80
AUTOTAF.ME UWSW 141900Z 1420/1505 17004MPS 9999 BKN040 TX12/1420Z TN11/1421Z
BECMG 1421/1422 NSC
BECMG 1500/1501 20009G17MPS
BECMG 1501/1502 BKN040
FM150400 21011G19MPS 9999 -RA OVC025
FM150500 22011G18MPS 5000 -SHRA BR OVC008CB
 
Караишево
SYNAR 27595 Казань 142100Z 11001MPS CAVOK 04/M03 Q1010 RMK QFE747/0996 CLD:SKC
(340/23KM)


NOWCAST.SU UWTK 142300Z 15004MPS 9999 BKN022 04/00 Q1010 NOSIG
RMK TURB: MOD SFC/FL20
AUTOTAF.ME UWTK 141900Z 1420/1505 15003MPS 9999 SCT040 TX08/1505Z TN03/1420Z
BECMG 1500/1501 BKN015
BECMG 1501/1502 16009G17MPS
 
Альметьевск (Пойма)
SYNAR 28711 Бугульма 142100Z 21003MPS CAVOK 00/M04 Q1013 RMK QFE732/0977 CLD:3CI
(130/52KM)


NOWCAST.SU UWTP 142300Z 16003MPS 9999 BKN044 01/M02 Q1013 NOSIG
RMK TURB: MOD FL40/FL50
AUTOTAF.ME UWTP 141900Z 1420/1505 17003MPS CAVOK TX07/1505Z TN01/1422Z
BECMG 1421/1422 BKN040
BECMG 1501/1502 NSC
BECMG 1502/1503 BKN040
FM150400 17008G15MPS CAVOK
FM150500 17010G16MPS 9999 BKN040
 
Казань (Автодром)
SYNAR 27595 Казань 142100Z 11001MPS CAVOK 04/M03 Q1010 RMK QFE747/0996 CLD:SKC
(190/16KM)


NOWCAST.SU UWTX 142300Z 14004MPS 9999 BKN056 04/M01 Q1010 NOSIG
AUTOTAF.ME UWTX 141900Z 1420/1505 16003MPS CAVOK TX08/1505Z TN03/1420Z
BECMG 1501/1502 16008G16MPS
BECMG 1503/1504 BKN015
 
Белорецк
SYNAR 28838 Магнитогорск 142100Z 28001MPS CAVOK M01/M05 Q1015 RMK QFE726/0969 CLD:SKC
(140/82KM)


NOWCAST.SU UWUB 142300Z VRB02MPS 9999 BKN062 M01/M03 Q1015 NOSIG
AUTOTAF.ME UWUB 141900Z 1420/1505 VRB02MPS CAVOK TX03/1505Z TNM02/1500Z
BECMG 1420/1421 FEW040
BECMG 1422/1423 NSC
BECMG 1500/1501 BR
FM150500 VRB02MPS 9999 SCT040TCU
 
Нефтекамск
SYNAR 28418 Сарапул 142100Z 14001MPS CAVOK 02/M06 Q1012 RMK QFE747/0996 CLD:8CI
(320/55KM)


NOWCAST.SU UWUF 142300Z 15003MPS 9999 FEW230 00/M05 Q1014 NOSIG
RMK TURB: MOD FL40/FL50
AUTOTAF.ME UWUF 141900Z 1420/1505 VRB02MPS CAVOK TX06/1505Z TN00/1423Z
BECMG 1502/1503 SCT025
BECMG 1504/1505 17008MPS
 
Октябрьский
SYNAR 28711 Бугульма 142100Z 21003MPS CAVOK 00/M04 Q1013 RMK QFE732/0977 CLD:3CI
(300/43KM)


NOWCAST.SU UWUK 142300Z VRB02MPS 9999 BKN051 02/M01 Q1014 NOSIG
RMK TURB: MOD FL50/FL60
AUTOTAF.ME UWUK 141900Z 1420/1505 VRB02MPS CAVOK TX06/1505Z TN02/1421Z
BECMG 1420/1421 SCT040
BECMG 1421/1422 NSC
 
Уфа (Максимовка)
SYNAR 28722 Уфа 142100Z 17001MPS CAVOK 04/M03 Q1015 RMK QFE751/1002 CLD:7AC
(240/25KM)


NOWCAST.SU UWUM 142300Z VRB02MPS 9999 BKN056 01/M03 Q1016 NOSIG
RMK TURB: MOD FL40/FL50
AUTOTAF.ME UWUM 141900Z 1420/1505 VRB02MPS CAVOK TX06/1505Z TN01/1422Z
 
Первушино
SYNAR 28722 Уфа 142100Z 17001MPS CAVOK 04/M03 Q1015 RMK QFE751/1002 CLD:7AC
(170/32KM)


NOWCAST.SU UWUO 142300Z VRB02MPS 9999 BKN055 01/M03 Q1016 NOSIG
RMK TURB: MOD FL40/FL50
AUTOTAF.ME UWUO 141900Z 1420/1505 VRB02MPS CAVOK TX07/1505Z TN01/1420Z
BECMG 1500/1501 BKN040
BECMG 1503/1504 NSC
 
Стерлитамак
SYNAR 28825 Стерлитамак 142100Z 26001MPS 9999 BKN020 05/M03 Q1016 RMK QFE749/0999 CLD:7SC
(70/16KM)


NOWCAST.SU UWUS 142300Z VRB02MPS 9999 SCT033 04/02 Q1016 NOSIG
RMK TURB: MOD FL40/FL50
AUTOTAF.ME UWUS 141900Z 1420/1505 VRB02MPS 9999 BKN025 TX07/1505Z TN03/1500Z
BECMG 1502/1503 NSC
BECMG 1504/1505 SCT040TCU
 
Уфа
METAR UWUU 142300Z 19004MPS CAVOK 01/M03 Q1015 R14R/1///60 NOSIG


NOWCAST.SU UWUU 142300Z VRB02MPS 9999 BKN056 02/M01 Q1016 NOSIG
RMK TURB: MOD FL30/FL40
AUTOTAF.ME UWUU 141900Z 1420/1505 VRB02MPS CAVOK TX07/1505Z TN02/1423Z
TAF UWUU 142000Z 1421/1521 20005G10MPS CAVOK TX10/1512Z TN00/1501Z
TEMPO 1421/1503 17003MPS
BECMG 1503/1505 19007G14MPS BKN020
TEMPO 1505/1521 15005G10MPS=
Старосубхангулово (Бурзян)
SYNAR 35026 Зилаир 142100Z 00000MPS 9999 BKN020 M01/M01 Q1013 RMK QFE713/0951 CLD:5SC
(180/97KM)


NOWCAST.SU UWUW 142300Z VRB02MPS 2000 BR BKN005 01/00 Q1016 NOSIG
RMK TURB: MOD FL40/FL50
AUTOTAF.ME UWUW 141900Z 1420/1505 VRB02MPS 9999 SCT025 TX05/1505Z TN01/1423Z
FM142300 VRB02MPS 2500 BR BKN004
FM150300 VRB02MPS CAVOK
BECMG 1504/1505 SCT040TCU
 
Бугуруслан (Главный)
SYNAR 28806 Бугуруслан 142100Z 12002MPS CAVOK 00/M03 Q1015 RMK QFE752/1003 CLD:5CI


NOWCAST.SU UWWB 142300Z VRB02MPS 9999 FEW170 03/M01 Q1014 NOSIG
AUTOTAF.ME UWWB 141900Z 1420/1505 VRB02MPS CAVOK TX07/1505Z TN03/1421Z
BECMG 1420/1421 SCT040
BECMG 1421/1422 NSC
BECMG 1501/1502 SCT040
FM150500 17008MPS 9999 BKN040
 
Самара (Безымянка)
SYNAR 28900 Самара (ОГМС) 142100Z 09002MPS CAVOK 07/01 Q1013 RMK QFE747/0996 CLD:8ACCI


NOWCAST.SU UWWG 142300Z 16003MPS 9999 BKN032 08/01 Q1013 NOSIG
RMK TURB: MOD FL40/FL50
AUTOTAF.ME UWWG 141900Z 1420/1505 16003MPS 9999 BKN040 TX08/1422Z TN07/1420Z
BECMG 1500/1501 -RA
FM150300 18008G15MPS 9999 -RA NSC
BECMG 1503/1504 OVC040
FM150500 17010G15MPS 5000 -RA HZ BKN015
 
Красный Яр
SYNAR 28900 Самара (ОГМС) 142100Z 09002MPS CAVOK 07/01 Q1013 RMK QFE747/0996 CLD:8ACCI
(210/32KM)


NOWCAST.SU UWWQ 142300Z 16005MPS 9999 BKN040 06/01 Q1013 NOSIG
RMK TURB: MOD SFC/FL40
AUTOTAF.ME UWWQ 141900Z 1420/1505 15003MPS 9999 BKN040 TX08/1505Z TN06/1420Z
BECMG 1500/1501 -RA
BECMG 1503/1504 16009G17MPS
BECMG 1504/1505 OVC015
 
Самара (Смышляевка)
SYNAR 28900 Самара (ОГМС) 142100Z 09002MPS CAVOK 07/01 Q1013 RMK QFE747/0996 CLD:8ACCI
(280/11KM)


NOWCAST.SU UWWS 142300Z 16003MPS 9000 HZ BKN033 07/02 Q1013 NOSIG
RMK TURB: MOD FL40/FL50
AUTOTAF.ME UWWS 141900Z 1420/1505 16003MPS 9999 BKN040 TX09/1505Z TN07/1420Z
BECMG 1422/1423 HZ
BECMG 1500/1501 -RA
FM150300 18008G15MPS 9999 -RA NSC
BECMG 1503/1504 OVC040
FM150500 17010G15MPS 5000 -RA HZ BKN015
 
Самара (Кряж)
SYNAR 28900 Самара (ОГМС) 142100Z 09002MPS CAVOK 07/01 Q1013 RMK QFE747/0996 CLD:8ACCI
(30/18KM)


NOWCAST.SU UWWV 142300Z 15003MPS 9999 BKN046 08/02 Q1013 NOSIG
RMK TURB: MOD FL40/FL50
AUTOTAF.ME UWWV 141900Z 1420/1505 15003MPS 9999 BKN040 TX09/1505Z TN07/1420Z
BECMG 1500/1501 -RA
BECMG 1501/1502 OVC015
BECMG 1502/1503 18009G14MPS
 
Самара (Курумоч)
METAR UWWW 142300Z 16005MPS 9999 SCT033 07/03 Q1011 R15/CLRD63 NOSIG RMK QFE747/0996


NOWCAST.SU UWWW 142300Z 17003MPS 9999 BKN030 07/01 Q1012 NOSIG
RMK TURB: MOD FL40/FL50
AUTOTAF.ME UWWW 141900Z 1420/1505 16003MPS CAVOK TX08/1505Z TN06/1420Z
BECMG 1422/1423 BKN025
BECMG 1500/1501 -RA
BECMG 1502/1503 BKN015
FM150400 17009G16MPS CAVOK
FM150500 17009G17MPS 9000 -RA HZ BKN015
TAF UWWW 141950Z 1421/1521 15005G12MPS 9999 BKN020 TX12/1511Z TN03/1423Z
TEMPO 1500/1517 19010G17MPS 2000 RA
BECMG 1517/1518 23005G12MPS=
Бугуруслан (Северный)
SYNAR 28806 Бугуруслан 142100Z 12002MPS CAVOK 00/M03 Q1015 RMK QFE752/1003 CLD:5CI
(150/12KM)


NOWCAST.SU UWWZ 142300Z VRB02MPS 9999 FEW160 03/M01 Q1014 NOSIG
AUTOTAF.ME UWWZ 141900Z 1420/1505 VRB02MPS CAVOK TX07/1505Z TN03/1422Z
BECMG 1420/1421 SCT040
BECMG 1421/1422 NSC
BECMG 1501/1502 SCT025
FM150500 17008MPS 9999 BKN040
 

Таблица обновляется в 12 и 42 минуты каждого часа круглосуточно.

Цвет рамки ячеек таблицы означает класс метеоусловий (высота нижней границы облаков* х видимость):
зелёный - VFR (выше 900х8000);
голубой - MVFR (ниже 900х8000, но не ниже 300х5000);
красный - IFR (ниже 300х5000, но не ниже 150х2000);
пурпурный - LIFR (ниже 150х2000, но не ниже 90х800);
фиолетовый - VLIFR (ниже 90х800).

*ВНГО - высота нижней границы самого нижнего слоя облаков, закрывающего более половины небосвода (BKN или OVC).